Wetterdaten: Montag, 28.10.2019
Datum Zeit Temp. A. Feuchte A. Luftdruck Regen Wind Richtung Richtung Sonnenschein ET UV Solar Taupunkt Windchill Windböen
28.10.2019 00:00 13,6 °C 79 % 1018,4 hPa 0,0 mm 2,6 km/h (1 Bft) W-NW 292 ° 0 min 0,000 mm 0,0 UV-I 0 W/m² 10,0 °C 13,6 °C 4,8 km/h (1 Bft)
28.10.2019 00:01 13,5 °C 80 % 1018,4 hPa 0,0 mm 2,7 km/h (1 Bft) W 268 ° 0 min 0,000 mm 0,0 UV-I 0 W/m² 10,1 °C 13,5 °C 4,8 km/h (1 Bft)
28.10.2019 00:02 13,5 °C 80 % 1018,4 hPa 0,0 mm 5,2 km/h (1 Bft) W-NW 288 ° 0 min 0,000 mm 0,0 UV-I 0 W/m² 10,1 °C 13,5 °C 9,7 km/h (2 Bft)
28.10.2019 00:03 13,4 °C 80 % 1018,4 hPa 0,0 mm 5,5 km/h (1 Bft) W-SW 242 ° 0 min 0,000 mm 0,0 UV-I 0 W/m² 10,0 °C 13,4 °C 8,0 km/h (2 Bft)
28.10.2019 00:04 13,4 °C 80 % 1018,4 hPa 0,0 mm 1,9 km/h (1 Bft) W-NW 301 ° 0 min 0,000 mm 0,0 UV-I 0 W/m² 10,0 °C 13,4 °C 6,4 km/h (2 Bft)
28.10.2019 00:05 13,4 °C 80 % 1018,5 hPa 0,0 mm 5,3 km/h (1 Bft) NW 308 ° 0 min 0,000 mm 0,0 UV-I 0 W/m² 10,0 °C 13,4 °C 9,7 km/h (2 Bft)
28.10.2019 00:06 13,4 °C 80 % 1018,5 hPa 0,0 mm 3,1 km/h (1 Bft) W-NW 297 ° 0 min 0,000 mm 0,0 UV-I 0 W/m² 10,0 °C 13,4 °C 4,8 km/h (1 Bft)
28.10.2019 00:07 13,3 °C 80 % 1018,4 hPa 0,0 mm 3,8 km/h (1 Bft) W-NW 301 ° 0 min 0,000 mm 0,0 UV-I 0 W/m² 9,9 °C 13,3 °C 6,4 km/h (2 Bft)
28.10.2019 00:08 13,3 °C 80 % 1018,4 hPa 0,0 mm 4,3 km/h (1 Bft) W-NW 284 ° 0 min 0,000 mm 0,0 UV-I 0 W/m² 9,9 °C 13,3 °C 6,4 km/h (2 Bft)
28.10.2019 00:09 13,3 °C 80 % 1018,4 hPa 0,0 mm 3,7 km/h (1 Bft) W-NW 284 ° 0 min 0,000 mm 0,0 UV-I 0 W/m² 9,9 °C 13,3 °C 4,8 km/h (1 Bft)
28.10.2019 00:10 13,3 °C 80 % 1018,3 hPa 0,0 mm 3,5 km/h (1 Bft) W 279 ° 0 min 0,000 mm 0,0 UV-I 0 W/m² 9,9 °C 13,3 °C 6,4 km/h (2 Bft)
28.10.2019 00:11 13,3 °C 81 % 1018,4 hPa 0,0 mm 1,1 km/h (1 Bft) W 279 ° 0 min 0,000 mm 0,0 UV-I 0 W/m² 10,1 °C 13,3 °C 3,2 km/h (1 Bft)
28.10.2019 00:12 13,2 °C 81 % 1018,4 hPa 0,0 mm 1,2 km/h (1 Bft) W 279 ° 0 min 0,000 mm 0,0 UV-I 0 W/m² 10,0 °C 13,2 °C 3,2 km/h (1 Bft)
28.10.2019 00:13 13,2 °C 81 % 1018,3 hPa 0,0 mm 1,1 km/h (1 Bft) W 279 ° 0 min 0,000 mm 0,0 UV-I 0 W/m² 10,0 °C 13,2 °C 1,6 km/h (1 Bft)
28.10.2019 00:14 13,2 °C 81 % 1018,4 hPa 0,0 mm 0,0 km/h (0 Bft) W 281 ° 0 min 0,000 mm 0,0 UV-I 0 W/m² 10,0 °C 13,2 °C 0,0 km/h (0 Bft)
28.10.2019 00:15 13,2 °C 81 % 1018,4 hPa 0,0 mm 0,0 km/h (0 Bft) W-NW 288 ° 0 min 0,000 mm 0,0 UV-I 0 W/m² 10,0 °C 13,2 °C 0,0 km/h (0 Bft)
28.10.2019 00:16 13,2 °C 81 % 1018,4 hPa 0,0 mm 0,0 km/h (0 Bft) W-NW 286 ° 0 min 0,000 mm 0,0 UV-I 0 W/m² 10,0 °C 13,2 °C 0,0 km/h (0 Bft)
28.10.2019 00:17 13,1 °C 81 % 1018,3 hPa 0,0 mm 0,0 km/h (0 Bft) W-NW 285 ° 0 min 0,000 mm 0,0 UV-I 0 W/m² 9,9 °C 13,1 °C 0,0 km/h (0 Bft)
28.10.2019 00:18 13,1 °C 81 % 1018,3 hPa 0,0 mm 0,0 km/h (0 Bft) W-NW 285 ° 0 min 0,000 mm 0,0 UV-I 0 W/m² 9,9 °C 13,1 °C 0,0 km/h (0 Bft)
28.10.2019 00:19 13,1 °C 81 % 1018,3 hPa 0,0 mm 0,0 km/h (0 Bft) W-NW 285 ° 0 min 0,000 mm 0,0 UV-I 0 W/m² 9,9 °C 13,1 °C 0,0 km/h (0 Bft)
28.10.2019 00:20 13,1 °C 82 % 1018,3 hPa 0,0 mm 0,0 km/h (0 Bft) W-NW 285 ° 0 min 0,000 mm 0,0 UV-I 0 W/m² 10,1 °C 13,1 °C 0,0 km/h (0 Bft)
28.10.2019 00:21 13,1 °C 82 % 1018,3 hPa 0,0 mm 0,0 km/h (0 Bft) W-NW 285 ° 0 min 0,000 mm 0,0 UV-I 0 W/m² 10,1 °C 13,1 °C 0,0 km/h (0 Bft)
28.10.2019 00:22 13,1 °C 82 % 1018,3 hPa 0,0 mm 0,0 km/h (0 Bft) W-NW 285 ° 0 min 0,000 mm 0,0 UV-I 0 W/m² 10,1 °C 13,1 °C 0,0 km/h (0 Bft)
28.10.2019 00:23 13,1 °C 82 % 1018,3 hPa 0,0 mm 0,0 km/h (0 Bft) W-NW 285 ° 0 min 0,000 mm 0,0 UV-I 0 W/m² 10,1 °C 13,1 °C 0,0 km/h (0 Bft)
28.10.2019 00:24 13,0 °C 82 % 1018,3 hPa 0,0 mm 0,0 km/h (0 Bft) W-NW 285 ° 0 min 0,000 mm 0,0 UV-I 0 W/m² 10,0 °C 13,0 °C 0,0 km/h (0 Bft)
28.10.2019 00:25 13,0 °C 82 % 1018,3 hPa 0,0 mm 0,0 km/h (0 Bft) W-NW 285 ° 0 min 0,000 mm 0,0 UV-I 0 W/m² 10,0 °C 13,0 °C 0,0 km/h (0 Bft)
28.10.2019 00:26 13,0 °C 82 % 1018,3 hPa 0,0 mm 0,0 km/h (0 Bft) W-NW 285 ° 0 min 0,000 mm 0,0 UV-I 0 W/m² 10,0 °C 13,0 °C 0,0 km/h (0 Bft)
28.10.2019 00:27 13,0 °C 82 % 1018,3 hPa 0,0 mm 0,0 km/h (0 Bft) W-NW 285 ° 0 min 0,000 mm 0,0 UV-I 0 W/m² 10,0 °C 13,0 °C 0,0 km/h (0 Bft)
28.10.2019 00:28 12,9 °C 82 % 1018,3 hPa 0,0 mm 0,0 km/h (0 Bft) W-NW 285 ° 0 min 0,000 mm 0,0 UV-I 0 W/m² 9,9 °C 12,9 °C 0,0 km/h (0 Bft)
28.10.2019 00:29 12,9 °C 82 % 1018,3 hPa 0,0 mm 0,0 km/h (0 Bft) W-NW 285 ° 0 min 0,000 mm 0,0 UV-I 0 W/m² 9,9 °C 12,9 °C 0,0 km/h (0 Bft)
28.10.2019 00:30 12,9 °C 82 % 1018,3 hPa 0,0 mm 0,0 km/h (0 Bft) W-NW 285 ° 0 min 0,000 mm 0,0 UV-I 0 W/m² 9,9 °C 12,9 °C 0,0 km/h (0 Bft)
28.10.2019 00:31 12,9 °C 82 % 1018,3 hPa 0,0 mm 0,0 km/h (0 Bft) W-NW 285 ° 0 min 0,000 mm 0,0 UV-I 0 W/m² 9,9 °C 12,9 °C 0,0 km/h (0 Bft)
28.10.2019 00:32 12,9 °C 82 % 1018,2 hPa 0,0 mm 0,0 km/h (0 Bft) W-NW 285 ° 0 min 0,000 mm 0,0 UV-I 0 W/m² 9,9 °C 12,9 °C 0,0 km/h (0 Bft)
28.10.2019 00:33 12,9 °C 83 % 1018,3 hPa 0,0 mm 0,0 km/h (0 Bft) W-NW 285 ° 0 min 0,000 mm 0,0 UV-I 0 W/m² 10,1 °C 12,9 °C 0,0 km/h (0 Bft)
28.10.2019 00:34 12,8 °C 83 % 1018,2 hPa 0,0 mm 0,0 km/h (0 Bft) W-NW 285 ° 0 min 0,000 mm 0,0 UV-I 0 W/m² 10,0 °C 12,8 °C 0,0 km/h (0 Bft)
28.10.2019 00:35 12,8 °C 83 % 1018,2 hPa 0,0 mm 0,0 km/h (0 Bft) W-NW 285 ° 0 min 0,000 mm 0,0 UV-I 0 W/m² 10,0 °C 12,8 °C 0,0 km/h (0 Bft)
28.10.2019 00:36 12,8 °C 83 % 1018,3 hPa 0,0 mm 0,0 km/h (0 Bft) W-NW 285 ° 0 min 0,000 mm 0,0 UV-I 0 W/m² 10,0 °C 12,8 °C 0,0 km/h (0 Bft)
28.10.2019 00:37 12,8 °C 83 % 1018,2 hPa 0,0 mm 0,0 km/h (0 Bft) W-NW 285 ° 0 min 0,000 mm 0,0 UV-I 0 W/m² 10,0 °C 12,8 °C 0,0 km/h (0 Bft)
28.10.2019 00:38 12,8 °C 84 % 1018,3 hPa 0,0 mm 0,0 km/h (0 Bft) W-NW 285 ° 0 min 0,000 mm 0,0 UV-I 0 W/m² 10,2 °C 12,8 °C 0,0 km/h (0 Bft)
28.10.2019 00:39 12,7 °C 84 % 1018,3 hPa 0,0 mm 0,0 km/h (0 Bft) W-NW 285 ° 0 min 0,000 mm 0,0 UV-I 0 W/m² 10,1 °C 12,7 °C 0,0 km/h (0 Bft)
28.10.2019 00:40 12,8 °C 84 % 1018,3 hPa 0,0 mm 0,0 km/h (0 Bft) W-NW 285 ° 0 min 0,000 mm 0,0 UV-I 0 W/m² 10,2 °C 12,8 °C 0,0 km/h (0 Bft)
28.10.2019 00:41 12,7 °C 84 % 1018,3 hPa 0,0 mm 0,0 km/h (0 Bft) W-NW 285 ° 0 min 0,000 mm 0,0 UV-I 0 W/m² 10,1 °C 12,7 °C 0,0 km/h (0 Bft)
28.10.2019 00:42 12,7 °C 84 % 1018,3 hPa 0,0 mm 0,0 km/h (0 Bft) W-NW 285 ° 0 min 0,000 mm 0,0 UV-I 0 W/m² 10,1 °C 12,7 °C 0,0 km/h (0 Bft)
28.10.2019 00:43 12,7 °C 84 % 1018,3 hPa 0,0 mm 0,0 km/h (0 Bft) W-NW 285 ° 0 min 0,000 mm 0,0 UV-I 0 W/m² 10,1 °C 12,7 °C 0,0 km/h (0 Bft)
28.10.2019 00:44 12,7 °C 84 % 1018,3 hPa 0,0 mm 0,0 km/h (0 Bft) W-NW 285 ° 0 min 0,000 mm 0,0 UV-I 0 W/m² 10,1 °C 12,7 °C 0,0 km/h (0 Bft)
28.10.2019 00:45 12,7 °C 84 % 1018,3 hPa 0,0 mm 0,0 km/h (0 Bft) W-NW 285 ° 0 min 0,000 mm 0,0 UV-I 0 W/m² 10,1 °C 12,7 °C 0,0 km/h (0 Bft)
28.10.2019 00:46 12,6 °C 84 % 1018,3 hPa 0,0 mm 0,0 km/h (0 Bft) W-NW 285 ° 0 min 0,000 mm 0,0 UV-I 0 W/m² 10,0 °C 12,6 °C 0,0 km/h (0 Bft)
28.10.2019 00:47 12,7 °C 84 % 1018,3 hPa 0,0 mm 0,0 km/h (0 Bft) W-NW 285 ° 0 min 0,000 mm 0,0 UV-I 0 W/m² 10,1 °C 12,7 °C 0,0 km/h (0 Bft)
28.10.2019 00:48 12,6 °C 84 % 1018,3 hPa 0,0 mm 0,0 km/h (0 Bft) W-NW 285 ° 0 min 0,000 mm 0,0 UV-I 0 W/m² 10,0 °C 12,6 °C 0,0 km/h (0 Bft)
28.10.2019 00:49 12,6 °C 84 % 1018,3 hPa 0,0 mm 0,0 km/h (0 Bft) W-NW 285 ° 0 min 0,000 mm 0,0 UV-I 0 W/m² 10,0 °C 12,6 °C 0,0 km/h (0 Bft)
28.10.2019 00:50 12,6 °C 85 % 1018,3 hPa 0,0 mm 0,0 km/h (0 Bft) W-NW 285 ° 0 min 0,000 mm 0,0 UV-I 0 W/m² 10,1 °C 12,6 °C 0,0 km/h (0 Bft)
28.10.2019 00:51 12,6 °C 85 % 1018,3 hPa 0,0 mm 0,0 km/h (0 Bft) W-NW 285 ° 0 min 0,000 mm 0,0 UV-I 0 W/m² 10,1 °C 12,6 °C 0,0 km/h (0 Bft)
28.10.2019 00:52 12,6 °C 85 % 1018,3 hPa 0,0 mm 0,0 km/h (0 Bft) W-NW 285 ° 0 min 0,000 mm 0,0 UV-I 0 W/m² 10,1 °C 12,6 °C 0,0 km/h (0 Bft)
28.10.2019 00:53 12,5 °C 85 % 1018,2 hPa 0,0 mm 0,0 km/h (0 Bft) W-NW 285 ° 0 min 0,000 mm 0,0 UV-I 0 W/m² 10,0 °C 12,5 °C 0,0 km/h (0 Bft)
28.10.2019 00:54 12,5 °C 85 % 1018,2 hPa 0,0 mm 0,0 km/h (0 Bft) W-NW 285 ° 0 min 0,000 mm 0,0 UV-I 0 W/m² 10,0 °C 12,5 °C 0,0 km/h (0 Bft)
28.10.2019 00:55 12,5 °C 85 % 1018,2 hPa 0,0 mm 0,0 km/h (0 Bft) W-NW 285 ° 0 min 0,000 mm 0,0 UV-I 0 W/m² 10,0 °C 12,5 °C 0,0 km/h (0 Bft)
28.10.2019 00:56 12,4 °C 85 % 1018,2 hPa 0,0 mm 0,0 km/h (0 Bft) W-NW 285 ° 0 min 0,000 mm 0,0 UV-I 0 W/m² 9,9 °C 12,4 °C 0,0 km/h (0 Bft)
28.10.2019 00:57 12,4 °C 86 % 1018,2 hPa 0,0 mm 0,0 km/h (0 Bft) W-NW 285 ° 0 min 0,000 mm 0,0 UV-I 0 W/m² 10,1 °C 12,4 °C 0,0 km/h (0 Bft)
28.10.2019 00:58 12,4 °C 86 % 1018,2 hPa 0,0 mm 0,0 km/h (0 Bft) W-NW 285 ° 0 min 0,000 mm 0,0 UV-I 0 W/m² 10,1 °C 12,4 °C 0,0 km/h (0 Bft)
28.10.2019 00:59 12,4 °C 86 % 1018,2 hPa 0,0 mm 0,0 km/h (0 Bft) W-NW 285 ° 0 min 0,000 mm 0,0 UV-I 0 W/m² 10,1 °C 12,4 °C 0,0 km/h (0 Bft)
28.10.2019 01:00 12,3 °C 86 % 1018,2 hPa 0,0 mm 0,0 km/h (0 Bft) W-NW 285 ° 0 min 0,025 mm 0,0 UV-I 0 W/m² 10,0 °C 12,3 °C 0,0 km/h (0 Bft)
28.10.2019 01:01 12,3 °C 86 % 1018,2 hPa 0,0 mm 0,0 km/h (0 Bft) W-NW 285 ° 0 min 0,000 mm 0,0 UV-I 0 W/m² 10,0 °C 12,3 °C 0,0 km/h (0 Bft)
28.10.2019 01:02 12,3 °C 87 % 1018,2 hPa 0,0 mm 0,0 km/h (0 Bft) W-NW 285 ° 0 min 0,000 mm 0,0 UV-I 0 W/m² 10,2 °C 12,3 °C 0,0 km/h (0 Bft)
28.10.2019 01:03 12,3 °C 87 % 1018,2 hPa 0,0 mm 0,0 km/h (0 Bft) W-NW 285 ° 0 min 0,000 mm 0,0 UV-I 0 W/m² 10,2 °C 12,3 °C 0,0 km/h (0 Bft)
28.10.2019 01:04 12,3 °C 87 % 1018,2 hPa 0,0 mm 0,0 km/h (0 Bft) W-NW 285 ° 0 min 0,000 mm 0,0 UV-I 0 W/m² 10,2 °C 12,3 °C 0,0 km/h (0 Bft)
28.10.2019 01:05 12,2 °C 87 % 1018,2 hPa 0,0 mm 0,0 km/h (0 Bft) W-NW 285 ° 0 min 0,000 mm 0,0 UV-I 0 W/m² 10,1 °C 12,2 °C 0,0 km/h (0 Bft)
28.10.2019 01:06 12,2 °C 87 % 1018,3 hPa 0,0 mm 0,0 km/h (0 Bft) W-NW 285 ° 0 min 0,000 mm 0,0 UV-I 0 W/m² 10,1 °C 12,2 °C 0,0 km/h (0 Bft)
28.10.2019 01:07 12,2 °C 87 % 1018,2 hPa 0,0 mm 0,0 km/h (0 Bft) W-NW 285 ° 0 min 0,000 mm 0,0 UV-I 0 W/m² 10,1 °C 12,2 °C 0,0 km/h (0 Bft)
28.10.2019 01:08 12,2 °C 87 % 1018,2 hPa 0,0 mm 0,0 km/h (0 Bft) W-NW 285 ° 0 min 0,000 mm 0,0 UV-I 0 W/m² 10,1 °C 12,2 °C 0,0 km/h (0 Bft)
28.10.2019 01:09 12,2 °C 87 % 1018,2 hPa 0,0 mm 0,0 km/h (0 Bft) W-NW 285 ° 0 min 0,000 mm 0,0 UV-I 0 W/m² 10,1 °C 12,2 °C 0,0 km/h (0 Bft)
28.10.2019 01:10 12,2 °C 87 % 1018,2 hPa 0,0 mm 0,0 km/h (0 Bft) W-NW 285 ° 0 min 0,000 mm 0,0 UV-I 0 W/m² 10,1 °C 12,2 °C 0,0 km/h (0 Bft)
28.10.2019 01:11 12,2 °C 87 % 1018,2 hPa 0,0 mm 0,0 km/h (0 Bft) W-NW 285 ° 0 min 0,000 mm 0,0 UV-I 0 W/m² 10,1 °C 12,2 °C 0,0 km/h (0 Bft)
28.10.2019 01:12 12,2 °C 87 % 1018,2 hPa 0,0 mm 0,0 km/h (0 Bft) W-NW 285 ° 0 min 0,000 mm 0,0 UV-I 0 W/m² 10,1 °C 12,2 °C 0,0 km/h (0 Bft)
28.10.2019 01:13 12,1 °C 88 % 1018,2 hPa 0,0 mm 0,0 km/h (0 Bft) W-NW 285 ° 0 min 0,000 mm 0,0 UV-I 0 W/m² 10,2 °C 12,1 °C 0,0 km/h (0 Bft)
28.10.2019 01:14 12,1 °C 88 % 1018,2 hPa 0,0 mm 0,0 km/h (0 Bft) W-NW 285 ° 0 min 0,000 mm 0,0 UV-I 0 W/m² 10,2 °C 12,1 °C 0,0 km/h (0 Bft)
28.10.2019 01:15 12,1 °C 88 % 1018,2 hPa 0,0 mm 0,0 km/h (0 Bft) W-NW 285 ° 0 min 0,000 mm 0,0 UV-I 0 W/m² 10,2 °C 12,1 °C 0,0 km/h (0 Bft)
28.10.2019 01:16 12,1 °C 88 % 1018,1 hPa 0,0 mm 0,0 km/h (0 Bft) W-NW 285 ° 0 min 0,000 mm 0,0 UV-I 0 W/m² 10,2 °C 12,1 °C 0,0 km/h (0 Bft)
28.10.2019 01:17 12,1 °C 88 % 1018,1 hPa 0,0 mm 0,0 km/h (0 Bft) W-NW 285 ° 0 min 0,000 mm 0,0 UV-I 0 W/m² 10,2 °C 12,1 °C 0,0 km/h (0 Bft)
28.10.2019 01:18 12,1 °C 88 % 1018,1 hPa 0,0 mm 0,0 km/h (0 Bft) W-NW 285 ° 0 min 0,000 mm 0,0 UV-I 0 W/m² 10,2 °C 12,1 °C 0,0 km/h (0 Bft)
28.10.2019 01:19 12,0 °C 88 % 1018,1 hPa 0,0 mm 0,0 km/h (0 Bft) W-NW 285 ° 0 min 0,000 mm 0,0 UV-I 0 W/m² 10,1 °C 12,0 °C 0,0 km/h (0 Bft)
28.10.2019 01:20 12,0 °C 88 % 1018,1 hPa 0,0 mm 0,0 km/h (0 Bft) W-NW 285 ° 0 min 0,000 mm 0,0 UV-I 0 W/m² 10,1 °C 12,0 °C 0,0 km/h (0 Bft)
28.10.2019 01:21 11,9 °C 88 % 1018,0 hPa 0,0 mm 0,0 km/h (0 Bft) W-NW 285 ° 0 min 0,000 mm 0,0 UV-I 0 W/m² 10,0 °C 11,9 °C 0,0 km/h (0 Bft)
28.10.2019 01:22 11,9 °C 88 % 1018,0 hPa 0,0 mm 0,0 km/h (0 Bft) W-NW 285 ° 0 min 0,000 mm 0,0 UV-I 0 W/m² 10,0 °C 11,9 °C 0,0 km/h (0 Bft)
28.10.2019 01:23 11,9 °C 88 % 1018,0 hPa 0,0 mm 0,0 km/h (0 Bft) W-NW 285 ° 0 min 0,000 mm 0,0 UV-I 0 W/m² 10,0 °C 11,9 °C 0,0 km/h (0 Bft)
28.10.2019 01:24 11,9 °C 88 % 1018,0 hPa 0,0 mm 0,0 km/h (0 Bft) W-NW 285 ° 0 min 0,000 mm 0,0 UV-I 0 W/m² 10,0 °C 11,9 °C 0,0 km/h (0 Bft)
28.10.2019 01:25 11,9 °C 88 % 1018,0 hPa 0,0 mm 0,0 km/h (0 Bft) W-NW 285 ° 0 min 0,000 mm 0,0 UV-I 0 W/m² 10,0 °C 11,9 °C 0,0 km/h (0 Bft)
28.10.2019 01:26 11,9 °C 89 % 1018,0 hPa 0,0 mm 0,0 km/h (0 Bft) W-NW 285 ° 0 min 0,000 mm 0,0 UV-I 0 W/m² 10,1 °C 11,9 °C 0,0 km/h (0 Bft)
28.10.2019 01:27 11,8 °C 89 % 1018,0 hPa 0,0 mm 0,0 km/h (0 Bft) W-NW 285 ° 0 min 0,000 mm 0,0 UV-I 0 W/m² 10,0 °C 11,8 °C 0,0 km/h (0 Bft)
28.10.2019 01:28 11,8 °C 89 % 1018,0 hPa 0,0 mm 0,0 km/h (0 Bft) W-NW 285 ° 0 min 0,000 mm 0,0 UV-I 0 W/m² 10,0 °C 11,8 °C 0,0 km/h (0 Bft)
28.10.2019 01:29 11,8 °C 89 % 1018,0 hPa 0,0 mm 0,0 km/h (0 Bft) W-NW 285 ° 0 min 0,000 mm 0,0 UV-I 0 W/m² 10,0 °C 11,8 °C 0,0 km/h (0 Bft)
28.10.2019 01:30 11,8 °C 89 % 1018,0 hPa 0,0 mm 0,0 km/h (0 Bft) W-NW 285 ° 0 min 0,000 mm 0,0 UV-I 0 W/m² 10,0 °C 11,8 °C 0,0 km/h (0 Bft)
28.10.2019 01:31 11,8 °C 89 % 1018,0 hPa 0,0 mm 0,0 km/h (0 Bft) W-NW 285 ° 0 min 0,000 mm 0,0 UV-I 0 W/m² 10,0 °C 11,8 °C 0,0 km/h (0 Bft)
28.10.2019 01:32 11,8 °C 89 % 1018,0 hPa 0,0 mm 0,0 km/h (0 Bft) W-NW 285 ° 0 min 0,000 mm 0,0 UV-I 0 W/m² 10,0 °C 11,8 °C 0,0 km/h (0 Bft)
28.10.2019 01:33 11,8 °C 89 % 1018,0 hPa 0,0 mm 0,0 km/h (0 Bft) W-NW 285 ° 0 min 0,000 mm 0,0 UV-I 0 W/m² 10,0 °C 11,8 °C 0,0 km/h (0 Bft)
28.10.2019 01:34 11,8 °C 89 % 1018,0 hPa 0,0 mm 0,0 km/h (0 Bft) W-NW 285 ° 0 min 0,000 mm 0,0 UV-I 0 W/m² 10,0 °C 11,8 °C 0,0 km/h (0 Bft)
28.10.2019 01:35 11,7 °C 89 % 1018,0 hPa 0,0 mm 0,0 km/h (0 Bft) W-NW 285 ° 0 min 0,000 mm 0,0 UV-I 0 W/m² 9,9 °C 11,7 °C 0,0 km/h (0 Bft)
28.10.2019 01:36 11,8 °C 89 % 1018,0 hPa 0,0 mm 0,0 km/h (0 Bft) W-NW 285 ° 0 min 0,000 mm 0,0 UV-I 0 W/m² 10,0 °C 11,8 °C 0,0 km/h (0 Bft)
28.10.2019 01:37 11,7 °C 89 % 1018,0 hPa 0,0 mm 0,0 km/h (0 Bft) W-NW 285 ° 0 min 0,000 mm 0,0 UV-I 0 W/m² 9,9 °C 11,7 °C 0,0 km/h (0 Bft)
28.10.2019 01:38 11,7 °C 89 % 1018,0 hPa 0,0 mm 0,0 km/h (0 Bft) W-NW 285 ° 0 min 0,000 mm 0,0 UV-I 0 W/m² 9,9 °C 11,7 °C 0,0 km/h (0 Bft)
28.10.2019 01:39 11,7 °C 89 % 1018,0 hPa 0,0 mm 0,0 km/h (0 Bft) W-NW 285 ° 0 min 0,000 mm 0,0 UV-I 0 W/m² 9,9 °C 11,7 °C 0,0 km/h (0 Bft)
28.10.2019 01:40 11,7 °C 90 % 1018,0 hPa 0,0 mm 0,0 km/h (0 Bft) W-NW 285 ° 0 min 0,000 mm 0,0 UV-I 0 W/m² 10,1 °C 11,7 °C 0,0 km/h (0 Bft)
28.10.2019 01:41 11,7 °C 90 % 1018,0 hPa 0,0 mm 0,0 km/h (0 Bft) W-NW 285 ° 0 min 0,000 mm 0,0 UV-I 0 W/m² 10,1 °C 11,7 °C 0,0 km/h (0 Bft)
28.10.2019 01:42 11,7 °C 90 % 1017,9 hPa 0,0 mm 0,0 km/h (0 Bft) W-NW 285 ° 0 min 0,000 mm 0,0 UV-I 0 W/m² 10,1 °C 11,7 °C 0,0 km/h (0 Bft)
28.10.2019 01:43 11,7 °C 90 % 1017,9 hPa 0,0 mm 0,0 km/h (0 Bft) W-NW 285 ° 0 min 0,000 mm 0,0 UV-I 0 W/m² 10,1 °C 11,7 °C 0,0 km/h (0 Bft)
28.10.2019 01:44 11,6 °C 90 % 1017,9 hPa 0,0 mm 0,0 km/h (0 Bft) W-NW 285 ° 0 min 0,000 mm 0,0 UV-I 0 W/m² 10,0 °C 11,6 °C 0,0 km/h (0 Bft)
28.10.2019 01:45 11,7 °C 90 % 1017,9 hPa 0,0 mm 0,0 km/h (0 Bft) W-NW 285 ° 0 min 0,000 mm 0,0 UV-I 0 W/m² 10,1 °C 11,7 °C 0,0 km/h (0 Bft)
28.10.2019 01:46 11,6 °C 90 % 1017,9 hPa 0,0 mm 0,0 km/h (0 Bft) W-NW 285 ° 0 min 0,000 mm 0,0 UV-I 0 W/m² 10,0 °C 11,6 °C 0,0 km/h (0 Bft)
28.10.2019 01:47 11,6 °C 90 % 1017,9 hPa 0,0 mm 0,0 km/h (0 Bft) W-NW 285 ° 0 min 0,000 mm 0,0 UV-I 0 W/m² 10,0 °C 11,6 °C 0,0 km/h (0 Bft)
28.10.2019 01:48 11,6 °C 90 % 1017,9 hPa 0,0 mm 0,0 km/h (0 Bft) W-NW 285 ° 0 min 0,000 mm 0,0 UV-I 0 W/m² 10,0 °C 11,6 °C 0,0 km/h (0 Bft)
28.10.2019 01:49 11,6 °C 90 % 1017,9 hPa 0,0 mm 0,0 km/h (0 Bft) W-NW 285 ° 0 min 0,000 mm 0,0 UV-I 0 W/m² 10,0 °C 11,6 °C 0,0 km/h (0 Bft)
28.10.2019 01:50 11,6 °C 90 % 1017,9 hPa 0,0 mm 0,0 km/h (0 Bft) W-NW 285 ° 0 min 0,000 mm 0,0 UV-I 0 W/m² 10,0 °C 11,6 °C 0,0 km/h (0 Bft)
28.10.2019 01:51 11,6 °C 90 % 1017,9 hPa 0,0 mm 0,0 km/h (0 Bft) W-NW 285 ° 0 min 0,000 mm 0,0 UV-I 0 W/m² 10,0 °C 11,6 °C 0,0 km/h (0 Bft)
28.10.2019 01:52 11,6 °C 90 % 1017,9 hPa 0,0 mm 0,0 km/h (0 Bft) W-NW 285 ° 0 min 0,000 mm 0,0 UV-I 0 W/m² 10,0 °C 11,6 °C 0,0 km/h (0 Bft)
28.10.2019 01:53 11,6 °C 90 % 1017,9 hPa 0,0 mm 0,0 km/h (0 Bft) W-NW 285 ° 0 min 0,000 mm 0,0 UV-I 0 W/m² 10,0 °C 11,6 °C 0,0 km/h (0 Bft)
28.10.2019 01:54 11,6 °C 90 % 1017,9 hPa 0,0 mm 0,0 km/h (0 Bft) W-NW 285 ° 0 min 0,000 mm 0,0 UV-I 0 W/m² 10,0 °C 11,6 °C 0,0 km/h (0 Bft)
28.10.2019 01:55 11,6 °C 90 % 1017,9 hPa 0,0 mm 0,0 km/h (0 Bft) W-NW 285 ° 0 min 0,000 mm 0,0 UV-I 0 W/m² 10,0 °C 11,6 °C 0,0 km/h (0 Bft)
28.10.2019 01:56 11,6 °C 90 % 1017,9 hPa 0,0 mm 0,0 km/h (0 Bft) W-NW 285 ° 0 min 0,000 mm 0,0 UV-I 0 W/m² 10,0 °C 11,6 °C 0,0 km/h (0 Bft)
28.10.2019 01:57 11,6 °C 90 % 1017,9 hPa 0,0 mm 0,0 km/h (0 Bft) W-NW 285 ° 0 min 0,000 mm 0,0 UV-I 0 W/m² 10,0 °C 11,6 °C 0,0 km/h (0 Bft)
28.10.2019 01:58 11,5 °C 90 % 1017,9 hPa 0,0 mm 0,0 km/h (0 Bft) W-NW 285 ° 0 min 0,000 mm 0,0 UV-I 0 W/m² 9,9 °C 11,5 °C 0,0 km/h (0 Bft)
28.10.2019 01:59 11,6 °C 90 % 1017,9 hPa 0,0 mm 0,0 km/h (0 Bft) W-NW 285 ° 0 min 0,000 mm 0,0 UV-I 0 W/m² 10,0 °C 11,6 °C 0,0 km/h (0 Bft)
28.10.2019 02:00 11,5 °C 90 % 1017,9 hPa 0,0 mm 0,0 km/h (0 Bft) W-NW 285 ° 0 min 0,000 mm 0,0 UV-I 0 W/m² 9,9 °C 11,5 °C 0,0 km/h (0 Bft)
28.10.2019 02:01 11,5 °C 90 % 1017,9 hPa 0,0 mm 0,0 km/h (0 Bft) W-NW 285 ° 0 min 0,000 mm 0,0 UV-I 0 W/m² 9,9 °C 11,5 °C 0,0 km/h (0 Bft)
28.10.2019 02:02 11,5 °C 90 % 1017,9 hPa 0,0 mm 0,0 km/h (0 Bft) W-NW 285 ° 0 min 0,000 mm 0,0 UV-I 0 W/m² 9,9 °C 11,5 °C 0,0 km/h (0 Bft)
28.10.2019 02:03 11,5 °C 90 % 1017,9 hPa 0,0 mm 0,0 km/h (0 Bft) W-NW 285 ° 0 min 0,000 mm 0,0 UV-I 0 W/m² 9,9 °C 11,5 °C 0,0 km/h (0 Bft)
28.10.2019 02:04 11,4 °C 90 % 1017,9 hPa 0,0 mm 0,0 km/h (0 Bft) W-NW 285 ° 0 min 0,000 mm 0,0 UV-I 0 W/m² 9,8 °C 11,4 °C 0,0 km/h (0 Bft)
28.10.2019 02:05 11,4 °C 90 % 1017,9 hPa 0,0 mm 0,0 km/h (0 Bft) W-NW 285 ° 0 min 0,000 mm 0,0 UV-I 0 W/m² 9,8 °C 11,4 °C 0,0 km/h (0 Bft)
28.10.2019 02:06 11,4 °C 91 % 1017,9 hPa 0,0 mm 0,0 km/h (0 Bft) W-NW 285 ° 0 min 0,000 mm 0,0 UV-I 0 W/m² 10,0 °C 11,4 °C 0,0 km/h (0 Bft)
28.10.2019 02:07 11,4 °C 91 % 1017,9 hPa 0,0 mm 0,0 km/h (0 Bft) W-NW 285 ° 0 min 0,000 mm 0,0 UV-I 0 W/m² 10,0 °C 11,4 °C 0,0 km/h (0 Bft)
28.10.2019 02:08 11,4 °C 91 % 1017,9 hPa 0,0 mm 0,0 km/h (0 Bft) W-NW 285 ° 0 min 0,000 mm 0,0 UV-I 0 W/m² 10,0 °C 11,4 °C 0,0 km/h (0 Bft)
28.10.2019 02:09 11,4 °C 91 % 1017,9 hPa 0,0 mm 0,0 km/h (0 Bft) W-NW 285 ° 0 min 0,000 mm 0,0 UV-I 0 W/m² 10,0 °C 11,4 °C 0,0 km/h (0 Bft)
28.10.2019 02:10 11,4 °C 91 % 1017,8 hPa 0,0 mm 0,0 km/h (0 Bft) W-NW 285 ° 0 min 0,000 mm 0,0 UV-I 0 W/m² 10,0 °C 11,4 °C 0,0 km/h (0 Bft)
28.10.2019 02:11 11,4 °C 91 % 1017,8 hPa 0,0 mm 0,0 km/h (0 Bft) W-NW 285 ° 0 min 0,000 mm 0,0 UV-I 0 W/m² 10,0 °C 11,4 °C 0,0 km/h (0 Bft)
28.10.2019 02:12 11,4 °C 91 % 1017,8 hPa 0,0 mm 0,0 km/h (0 Bft) W-NW 285 ° 0 min 0,000 mm 0,0 UV-I 0 W/m² 10,0 °C 11,4 °C 0,0 km/h (0 Bft)
28.10.2019 02:13 11,4 °C 91 % 1017,8 hPa 0,0 mm 0,0 km/h (0 Bft) W-NW 285 ° 0 min 0,000 mm 0,0 UV-I 0 W/m² 10,0 °C 11,4 °C 0,0 km/h (0 Bft)
28.10.2019 02:14 11,4 °C 91 % 1017,8 hPa 0,0 mm 0,0 km/h (0 Bft) W-NW 285 ° 0 min 0,000 mm 0,0 UV-I 0 W/m² 10,0 °C 11,4 °C 0,0 km/h (0 Bft)
28.10.2019 02:15 11,4 °C 91 % 1017,7 hPa 0,0 mm 0,0 km/h (0 Bft) W-NW 285 ° 0 min 0,000 mm 0,0 UV-I 0 W/m² 10,0 °C 11,4 °C 0,0 km/h (0 Bft)
28.10.2019 02:16 11,4 °C 91 % 1017,7 hPa 0,0 mm 0,0 km/h (0 Bft) W-NW 285 ° 0 min 0,000 mm 0,0 UV-I 0 W/m² 10,0 °C 11,4 °C 0,0 km/h (0 Bft)
28.10.2019 02:17 11,3 °C 91 % 1017,7 hPa 0,0 mm 0,0 km/h (0 Bft) W-NW 285 ° 0 min 0,000 mm 0,0 UV-I 0 W/m² 9,9 °C 11,3 °C 0,0 km/h (0 Bft)
28.10.2019 02:18 11,3 °C 91 % 1017,8 hPa 0,0 mm 0,0 km/h (0 Bft) W-NW 285 ° 0 min 0,000 mm 0,0 UV-I 0 W/m² 9,9 °C 11,3 °C 0,0 km/h (0 Bft)
28.10.2019 02:19 11,3 °C 91 % 1017,8 hPa 0,0 mm 0,0 km/h (0 Bft) W-NW 285 ° 0 min 0,000 mm 0,0 UV-I 0 W/m² 9,9 °C 11,3 °C 0,0 km/h (0 Bft)
28.10.2019 02:20 11,3 °C 91 % 1017,7 hPa 0,0 mm 0,0 km/h (0 Bft) W-NW 285 ° 0 min 0,000 mm 0,0 UV-I 0 W/m² 9,9 °C 11,3 °C 0,0 km/h (0 Bft)
28.10.2019 02:21 11,3 °C 91 % 1017,7 hPa 0,0 mm 0,0 km/h (0 Bft) W-NW 285 ° 0 min 0,000 mm 0,0 UV-I 0 W/m² 9,9 °C 11,3 °C 0,0 km/h (0 Bft)
28.10.2019 02:22 11,3 °C 91 % 1017,7 hPa 0,0 mm 0,0 km/h (0 Bft) W-NW 285 ° 0 min 0,000 mm 0,0 UV-I 0 W/m² 9,9 °C 11,3 °C 0,0 km/h (0 Bft)
28.10.2019 02:23 11,3 °C 91 % 1017,7 hPa 0,0 mm 0,0 km/h (0 Bft) W-NW 285 ° 0 min 0,000 mm 0,0 UV-I 0 W/m² 9,9 °C 11,3 °C 0,0 km/h (0 Bft)
28.10.2019 02:24 11,3 °C 91 % 1017,7 hPa 0,0 mm 0,0 km/h (0 Bft) W-NW 285 ° 0 min 0,000 mm 0,0 UV-I 0 W/m² 9,9 °C 11,3 °C 0,0 km/h (0 Bft)
28.10.2019 02:25 11,3 °C 91 % 1017,7 hPa 0,0 mm 0,0 km/h (0 Bft) W-NW 285 ° 0 min 0,000 mm 0,0 UV-I 0 W/m² 9,9 °C 11,3 °C 0,0 km/h (0 Bft)
28.10.2019 02:26 11,3 °C 91 % 1017,7 hPa 0,0 mm 0,0 km/h (0 Bft) W-NW 285 ° 0 min 0,000 mm 0,0 UV-I 0 W/m² 9,9 °C 11,3 °C 0,0 km/h (0 Bft)
28.10.2019 02:27 11,3 °C 91 % 1017,7 hPa 0,0 mm 0,0 km/h (0 Bft) W-NW 285 ° 0 min 0,000 mm 0,0 UV-I 0 W/m² 9,9 °C 11,3 °C 0,0 km/h (0 Bft)
28.10.2019 02:28 11,3 °C 91 % 1017,7 hPa 0,0 mm 0,0 km/h (0 Bft) W-NW 285 ° 0 min 0,000 mm 0,0 UV-I 0 W/m² 9,9 °C 11,3 °C 0,0 km/h (0 Bft)
28.10.2019 02:29 11,3 °C 91 % 1017,7 hPa 0,0 mm 0,0 km/h (0 Bft) W-NW 285 ° 0 min 0,000 mm 0,0 UV-I 0 W/m² 9,9 °C 11,3 °C 0,0 km/h (0 Bft)
28.10.2019 02:30 11,3 °C 91 % 1017,7 hPa 0,0 mm 0,0 km/h (0 Bft) W-NW 285 ° 0 min 0,000 mm 0,0 UV-I 0 W/m² 9,9 °C 11,3 °C 0,0 km/h (0 Bft)
28.10.2019 02:31 11,3 °C 91 % 1017,7 hPa 0,0 mm 0,0 km/h (0 Bft) W-NW 285 ° 0 min 0,000 mm 0,0 UV-I 0 W/m² 9,9 °C 11,3 °C 0,0 km/h (0 Bft)
28.10.2019 02:32 11,3 °C 91 % 1017,7 hPa 0,0 mm 0,0 km/h (0 Bft) W-NW 285 ° 0 min 0,000 mm 0,0 UV-I 0 W/m² 9,9 °C 11,3 °C 0,0 km/h (0 Bft)
28.10.2019 02:33 11,3 °C 91 % 1017,7 hPa 0,0 mm 0,0 km/h (0 Bft) W-NW 285 ° 0 min 0,000 mm 0,0 UV-I 0 W/m² 9,9 °C 11,3 °C 0,0 km/h (0 Bft)
28.10.2019 02:34 11,3 °C 91 % 1017,8 hPa 0,0 mm 0,0 km/h (0 Bft) W-NW 285 ° 0 min 0,000 mm 0,0 UV-I 0 W/m² 9,9 °C 11,3 °C 0,0 km/h (0 Bft)
28.10.2019 02:35 11,3 °C 91 % 1017,8 hPa 0,0 mm 0,0 km/h (0 Bft) W-NW 285 ° 0 min 0,000 mm 0,0 UV-I 0 W/m² 9,9 °C 11,3 °C 0,0 km/h (0 Bft)
28.10.2019 02:36 11,3 °C 91 % 1017,8 hPa 0,0 mm 0,0 km/h (0 Bft) W-NW 285 ° 0 min 0,000 mm 0,0 UV-I 0 W/m² 9,9 °C 11,3 °C 0,0 km/h (0 Bft)
28.10.2019 02:37 11,3 °C 91 % 1017,8 hPa 0,0 mm 0,0 km/h (0 Bft) W-NW 285 ° 0 min 0,000 mm 0,0 UV-I 0 W/m² 9,9 °C 11,3 °C 0,0 km/h (0 Bft)
28.10.2019 02:38 11,3 °C 91 % 1017,8 hPa 0,0 mm 1,5 km/h (1 Bft) W-NW 286 ° 0 min 0,000 mm 0,0 UV-I 0 W/m² 9,9 °C 11,3 °C 3,2 km/h (1 Bft)
28.10.2019 02:39 11,3 °C 92 % 1017,8 hPa 0,0 mm 0,0 km/h (0 Bft) W-NW 286 ° 0 min 0,000 mm 0,0 UV-I 0 W/m² 10,0 °C 11,3 °C 0,0 km/h (0 Bft)
28.10.2019 02:40 11,3 °C 92 % 1017,8 hPa 0,0 mm 1,8 km/h (1 Bft) W-NW 286 ° 0 min 0,000 mm 0,0 UV-I 0 W/m² 10,0 °C 11,3 °C 4,8 km/h (1 Bft)
28.10.2019 02:41 11,3 °C 92 % 1017,8 hPa 0,0 mm 2,7 km/h (1 Bft) W-NW 286 ° 0 min 0,000 mm 0,0 UV-I 0 W/m² 10,0 °C 11,3 °C 4,8 km/h (1 Bft)
28.10.2019 02:42 11,3 °C 92 % 1017,8 hPa 0,0 mm 0,9 km/h (0 Bft) W-NW 286 ° 0 min 0,000 mm 0,0 UV-I 0 W/m² 10,0 °C 11,3 °C 3,2 km/h (1 Bft)
28.10.2019 02:43 11,3 °C 92 % 1017,7 hPa 0,0 mm 0,4 km/h (0 Bft) W-NW 286 ° 0 min 0,000 mm 0,0 UV-I 0 W/m² 10,0 °C 11,3 °C 1,6 km/h (1 Bft)
28.10.2019 02:44 11,3 °C 92 % 1017,7 hPa 0,0 mm 0,0 km/h (0 Bft) W-NW 286 ° 0 min 0,000 mm 0,0 UV-I 0 W/m² 10,0 °C 11,3 °C 0,0 km/h (0 Bft)
28.10.2019 02:45 11,2 °C 92 % 1017,8 hPa 0,0 mm 0,7 km/h (0 Bft) W-NW 286 ° 0 min 0,000 mm 0,0 UV-I 0 W/m² 9,9 °C 11,2 °C 3,2 km/h (1 Bft)
28.10.2019 02:46 11,2 °C 92 % 1017,7 hPa 0,0 mm 0,0 km/h (0 Bft) W-NW 286 ° 0 min 0,000 mm 0,0 UV-I 0 W/m² 9,9 °C 11,2 °C 0,0 km/h (0 Bft)
28.10.2019 02:47 11,3 °C 92 % 1017,8 hPa 0,0 mm 0,0 km/h (0 Bft) W-NW 286 ° 0 min 0,000 mm 0,0 UV-I 0 W/m² 10,0 °C 11,3 °C 0,0 km/h (0 Bft)
28.10.2019 02:48 11,3 °C 92 % 1017,8 hPa 0,0 mm 0,0 km/h (0 Bft) W-NW 286 ° 0 min 0,000 mm 0,0 UV-I 0 W/m² 10,0 °C 11,3 °C 0,0 km/h (0 Bft)
28.10.2019 02:49 11,2 °C 92 % 1017,7 hPa 0,0 mm 0,0 km/h (0 Bft) W-NW 286 ° 0 min 0,000 mm 0,0 UV-I 0 W/m² 9,9 °C 11,2 °C 0,0 km/h (0 Bft)
28.10.2019 02:50 11,2 °C 92 % 1017,7 hPa 0,0 mm 0,0 km/h (0 Bft) W-NW 286 ° 0 min 0,000 mm 0,0 UV-I 0 W/m² 9,9 °C 11,2 °C 0,0 km/h (0 Bft)
28.10.2019 02:51 11,2 °C 92 % 1017,7 hPa 0,0 mm 0,0 km/h (0 Bft) W-NW 286 ° 0 min 0,000 mm 0,0 UV-I 0 W/m² 9,9 °C 11,2 °C 0,0 km/h (0 Bft)
28.10.2019 02:52 11,2 °C 92 % 1017,7 hPa 0,0 mm 0,0 km/h (0 Bft) W-NW 286 ° 0 min 0,000 mm 0,0 UV-I 0 W/m² 9,9 °C 11,2 °C 0,0 km/h (0 Bft)
28.10.2019 02:53 11,2 °C 92 % 1017,7 hPa 0,0 mm 0,0 km/h (0 Bft) W-NW 286 ° 0 min 0,000 mm 0,0 UV-I 0 W/m² 9,9 °C 11,2 °C 0,0 km/h (0 Bft)
28.10.2019 02:54 11,2 °C 92 % 1017,7 hPa 0,0 mm 0,0 km/h (0 Bft) W-NW 286 ° 0 min 0,000 mm 0,0 UV-I 0 W/m² 9,9 °C 11,2 °C 0,0 km/h (0 Bft)
28.10.2019 02:55 11,2 °C 92 % 1017,7 hPa 0,0 mm 0,0 km/h (0 Bft) W-NW 286 ° 0 min 0,000 mm 0,0 UV-I 0 W/m² 9,9 °C 11,2 °C 0,0 km/h (0 Bft)
28.10.2019 02:56 11,2 °C 92 % 1017,7 hPa 0,0 mm 0,0 km/h (0 Bft) W-NW 286 ° 0 min 0,000 mm 0,0 UV-I 0 W/m² 9,9 °C 11,2 °C 0,0 km/h (0 Bft)
28.10.2019 02:57 11,2 °C 92 % 1017,7 hPa 0,0 mm 0,0 km/h (0 Bft) W-NW 286 ° 0 min 0,000 mm 0,0 UV-I 0 W/m² 9,9 °C 11,2 °C 0,0 km/h (0 Bft)
28.10.2019 02:58 11,2 °C 92 % 1017,7 hPa 0,0 mm 0,0 km/h (0 Bft) W-NW 286 ° 0 min 0,000 mm 0,0 UV-I 0 W/m² 9,9 °C 11,2 °C 0,0 km/h (0 Bft)
28.10.2019 02:59 11,2 °C 92 % 1017,7 hPa 0,0 mm 0,0 km/h (0 Bft) W-NW 286 ° 0 min 0,000 mm 0,0 UV-I 0 W/m² 9,9 °C 11,2 °C 0,0 km/h (0 Bft)
28.10.2019 03:00 11,2 °C 92 % 1017,7 hPa 0,0 mm 0,0 km/h (0 Bft) W-NW 286 ° 0 min 0,000 mm 0,0 UV-I 0 W/m² 9,9 °C 11,2 °C 0,0 km/h (0 Bft)
28.10.2019 03:01 11,2 °C 92 % 1017,7 hPa 0,0 mm 0,0 km/h (0 Bft) W-NW 286 ° 0 min 0,000 mm 0,0 UV-I 0 W/m² 9,9 °C 11,2 °C 0,0 km/h (0 Bft)
28.10.2019 03:02 11,2 °C 92 % 1017,7 hPa 0,0 mm 0,0 km/h (0 Bft) W-NW 286 ° 0 min 0,000 mm 0,0 UV-I 0 W/m² 9,9 °C 11,2 °C 0,0 km/h (0 Bft)
28.10.2019 03:03 11,2 °C 92 % 1017,7 hPa 0,0 mm 0,0 km/h (0 Bft) W-NW 286 ° 0 min 0,000 mm 0,0 UV-I 0 W/m² 9,9 °C 11,2 °C 0,0 km/h (0 Bft)
28.10.2019 03:04 11,2 °C 92 % 1017,7 hPa 0,0 mm 0,0 km/h (0 Bft) W-NW 286 ° 0 min 0,000 mm 0,0 UV-I 0 W/m² 9,9 °C 11,2 °C 0,0 km/h (0 Bft)
28.10.2019 03:05 11,2 °C 92 % 1017,7 hPa 0,0 mm 0,1 km/h (0 Bft) W-NW 286 ° 0 min 0,000 mm 0,0 UV-I 0 W/m² 9,9 °C 11,2 °C 1,6 km/h (1 Bft)
28.10.2019 03:06 11,1 °C 92 % 1017,6 hPa 0,0 mm 0,0 km/h (0 Bft) W-NW 286 ° 0 min 0,000 mm 0,0 UV-I 0 W/m² 9,8 °C 11,1 °C 0,0 km/h (0 Bft)
28.10.2019 03:07 11,2 °C 92 % 1017,6 hPa 0,0 mm 0,0 km/h (0 Bft) W-NW 286 ° 0 min 0,000 mm 0,0 UV-I 0 W/m² 9,9 °C 11,2 °C 0,0 km/h (0 Bft)
28.10.2019 03:08 11,2 °C 92 % 1017,6 hPa 0,0 mm 0,0 km/h (0 Bft) W-NW 286 ° 0 min 0,000 mm 0,0 UV-I 0 W/m² 9,9 °C 11,2 °C 0,0 km/h (0 Bft)
28.10.2019 03:09 11,1 °C 92 % 1017,6 hPa 0,0 mm 0,5 km/h (0 Bft) W-NW 286 ° 0 min 0,000 mm 0,0 UV-I 0 W/m² 9,8 °C 11,1 °C 1,6 km/h (1 Bft)
28.10.2019 03:10 11,1 °C 92 % 1017,6 hPa 0,0 mm 1,4 km/h (1 Bft) W-NW 286 ° 0 min 0,000 mm 0,0 UV-I 0 W/m² 9,8 °C 11,1 °C 1,6 km/h (1 Bft)
28.10.2019 03:11 11,2 °C 92 % 1017,5 hPa 0,0 mm 0,1 km/h (0 Bft) W-NW 286 ° 0 min 0,000 mm 0,0 UV-I 0 W/m² 9,9 °C 11,2 °C 1,6 km/h (1 Bft)
28.10.2019 03:12 11,1 °C 92 % 1017,6 hPa 0,0 mm 0,0 km/h (0 Bft) W-NW 286 ° 0 min 0,000 mm 0,0 UV-I 0 W/m² 9,8 °C 11,1 °C 0,0 km/h (0 Bft)
28.10.2019 03:13 11,2 °C 92 % 1017,6 hPa 0,0 mm 0,0 km/h (0 Bft) W-NW 286 ° 0 min 0,000 mm 0,0 UV-I 0 W/m² 9,9 °C 11,2 °C 0,0 km/h (0 Bft)
28.10.2019 03:14 11,1 °C 92 % 1017,6 hPa 0,0 mm 0,0 km/h (0 Bft) W-NW 286 ° 0 min 0,000 mm 0,0 UV-I 0 W/m² 9,8 °C 11,1 °C 0,0 km/h (0 Bft)
28.10.2019 03:15 11,1 °C 92 % 1017,6 hPa 0,0 mm 0,1 km/h (0 Bft) W-NW 286 ° 0 min 0,000 mm 0,0 UV-I 0 W/m² 9,8 °C 11,1 °C 1,6 km/h (1 Bft)
28.10.2019 03:16 11,1 °C 92 % 1017,5 hPa 0,0 mm 0,0 km/h (0 Bft) W-NW 286 ° 0 min 0,000 mm 0,0 UV-I 0 W/m² 9,8 °C 11,1 °C 0,0 km/h (0 Bft)
28.10.2019 03:17 11,1 °C 92 % 1017,5 hPa 0,0 mm 0,0 km/h (0 Bft) W-NW 286 ° 0 min 0,000 mm 0,0 UV-I 0 W/m² 9,8 °C 11,1 °C 0,0 km/h (0 Bft)
28.10.2019 03:18 11,1 °C 92 % 1017,4 hPa 0,0 mm 0,0 km/h (0 Bft) W-NW 286 ° 0 min 0,000 mm 0,0 UV-I 0 W/m² 9,8 °C 11,1 °C 0,0 km/h (0 Bft)
28.10.2019 03:19 11,1 °C 92 % 1017,4 hPa 0,0 mm 0,0 km/h (0 Bft) W-NW 286 ° 0 min 0,000 mm 0,0 UV-I 0 W/m² 9,8 °C 11,1 °C 0,0 km/h (0 Bft)
28.10.2019 03:20 11,1 °C 92 % 1017,4 hPa 0,0 mm 0,0 km/h (0 Bft) W-NW 286 ° 0 min 0,000 mm 0,0 UV-I 0 W/m² 9,8 °C 11,1 °C 0,0 km/h (0 Bft)
28.10.2019 03:21 11,1 °C 92 % 1017,4 hPa 0,0 mm 0,0 km/h (0 Bft) W-NW 286 ° 0 min 0,000 mm 0,0 UV-I 0 W/m² 9,8 °C 11,1 °C 0,0 km/h (0 Bft)
28.10.2019 03:22 11,1 °C 92 % 1017,4 hPa 0,0 mm 0,3 km/h (0 Bft) W-NW 286 ° 0 min 0,000 mm 0,0 UV-I 0 W/m² 9,8 °C 11,1 °C 1,6 km/h (1 Bft)
28.10.2019 03:23 11,1 °C 92 % 1017,3 hPa 0,0 mm 0,3 km/h (0 Bft) W-NW 286 ° 0 min 0,000 mm 0,0 UV-I 0 W/m² 9,8 °C 11,1 °C 1,6 km/h (1 Bft)
28.10.2019 03:24 11,1 °C 92 % 1017,3 hPa 0,0 mm 0,0 km/h (0 Bft) W-NW 286 ° 0 min 0,000 mm 0,0 UV-I 0 W/m² 9,8 °C 11,1 °C 0,0 km/h (0 Bft)
28.10.2019 03:25 11,1 °C 92 % 1017,3 hPa 0,0 mm 0,0 km/h (0 Bft) W-NW 286 ° 0 min 0,000 mm 0,0 UV-I 0 W/m² 9,8 °C 11,1 °C 0,0 km/h (0 Bft)
28.10.2019 03:26 11,1 °C 92 % 1017,3 hPa 0,0 mm 0,0 km/h (0 Bft) W-NW 286 ° 0 min 0,000 mm 0,0 UV-I 0 W/m² 9,8 °C 11,1 °C 0,0 km/h (0 Bft)
28.10.2019 03:27 11,1 °C 93 % 1017,3 hPa 0,0 mm 0,0 km/h (0 Bft) W-NW 286 ° 0 min 0,000 mm 0,0 UV-I 0 W/m² 10,0 °C 11,1 °C 0,0 km/h (0 Bft)
28.10.2019 03:28 11,1 °C 93 % 1017,4 hPa 0,0 mm 0,0 km/h (0 Bft) W-NW 286 ° 0 min 0,000 mm 0,0 UV-I 0 W/m² 10,0 °C 11,1 °C 0,0 km/h (0 Bft)
28.10.2019 03:29 11,1 °C 93 % 1017,3 hPa 0,0 mm 0,2 km/h (0 Bft) W-NW 286 ° 0 min 0,000 mm 0,0 UV-I 0 W/m² 10,0 °C 11,1 °C 1,6 km/h (1 Bft)
28.10.2019 03:30 11,1 °C 93 % 1017,3 hPa 0,0 mm 0,0 km/h (0 Bft) W-NW 286 ° 0 min 0,000 mm 0,0 UV-I 0 W/m² 10,0 °C 11,1 °C 0,0 km/h (0 Bft)
28.10.2019 03:31 11,1 °C 93 % 1017,3 hPa 0,0 mm 0,0 km/h (0 Bft) W-NW 286 ° 0 min 0,000 mm 0,0 UV-I 0 W/m² 10,0 °C 11,1 °C 0,0 km/h (0 Bft)
28.10.2019 03:32 11,1 °C 93 % 1017,3 hPa 0,0 mm 0,0 km/h (0 Bft) W-NW 286 ° 0 min 0,000 mm 0,0 UV-I 0 W/m² 10,0 °C 11,1 °C 0,0 km/h (0 Bft)
28.10.2019 03:33 11,1 °C 93 % 1017,3 hPa 0,0 mm 1,6 km/h (1 Bft) W-NW 286 ° 0 min 0,000 mm 0,0 UV-I 0 W/m² 10,0 °C 11,1 °C 3,2 km/h (1 Bft)
28.10.2019 03:34 11,0 °C 93 % 1017,3 hPa 0,0 mm 1,2 km/h (1 Bft) W-NW 286 ° 0 min 0,000 mm 0,0 UV-I 0 W/m² 9,9 °C 11,0 °C 3,2 km/h (1 Bft)
28.10.2019 03:35 11,1 °C 93 % 1017,3 hPa 0,0 mm 0,1 km/h (0 Bft) W-NW 286 ° 0 min 0,000 mm 0,0 UV-I 0 W/m² 10,0 °C 11,1 °C 1,6 km/h (1 Bft)
28.10.2019 03:36 11,1 °C 93 % 1017,3 hPa 0,0 mm 0,5 km/h (0 Bft) W-NW 286 ° 0 min 0,000 mm 0,0 UV-I 0 W/m² 10,0 °C 11,1 °C 1,6 km/h (1 Bft)
28.10.2019 03:37 11,1 °C 93 % 1017,3 hPa 0,0 mm 0,0 km/h (0 Bft) W-NW 286 ° 0 min 0,000 mm 0,0 UV-I 0 W/m² 10,0 °C 11,1 °C 0,0 km/h (0 Bft)
28.10.2019 03:38 11,0 °C 93 % 1017,3 hPa 0,0 mm 0,0 km/h (0 Bft) W-NW 286 ° 0 min 0,000 mm 0,0 UV-I 0 W/m² 9,9 °C 11,0 °C 0,0 km/h (0 Bft)
28.10.2019 03:39 11,1 °C 93 % 1017,3 hPa 0,0 mm 0,0 km/h (0 Bft) W-NW 286 ° 0 min 0,000 mm 0,0 UV-I 0 W/m² 10,0 °C 11,1 °C 0,0 km/h (0 Bft)
28.10.2019 03:40 11,0 °C 93 % 1017,2 hPa 0,0 mm 0,0 km/h (0 Bft) W-NW 286 ° 0 min 0,000 mm 0,0 UV-I 0 W/m² 9,9 °C 11,0 °C 0,0 km/h (0 Bft)
28.10.2019 03:41 11,0 °C 93 % 1017,3 hPa 0,0 mm 0,0 km/h (0 Bft) W-NW 286 ° 0 min 0,000 mm 0,0 UV-I 0 W/m² 9,9 °C 11,0 °C 0,0 km/h (0 Bft)
28.10.2019 03:42 11,0 °C 93 % 1017,3 hPa 0,0 mm 0,0 km/h (0 Bft) W-NW 286 ° 0 min 0,000 mm 0,0 UV-I 0 W/m² 9,9 °C 11,0 °C 0,0 km/h (0 Bft)
28.10.2019 03:43 11,0 °C 93 % 1017,2 hPa 0,0 mm 0,0 km/h (0 Bft) W-NW 286 ° 0 min 0,000 mm 0,0 UV-I 0 W/m² 9,9 °C 11,0 °C 0,0 km/h (0 Bft)
28.10.2019 03:44 11,0 °C 93 % 1017,2 hPa 0,0 mm 0,0 km/h (0 Bft) W-NW 286 ° 0 min 0,000 mm 0,0 UV-I 0 W/m² 9,9 °C 11,0 °C 0,0 km/h (0 Bft)
28.10.2019 03:45 11,0 °C 93 % 1017,2 hPa 0,0 mm 0,0 km/h (0 Bft) W-NW 286 ° 0 min 0,000 mm 0,0 UV-I 0 W/m² 9,9 °C 11,0 °C 0,0 km/h (0 Bft)
28.10.2019 03:46 11,0 °C 93 % 1017,2 hPa 0,0 mm 0,0 km/h (0 Bft) W-NW 286 ° 0 min 0,000 mm 0,0 UV-I 0 W/m² 9,9 °C 11,0 °C 0,0 km/h (0 Bft)
28.10.2019 03:47 11,0 °C 93 % 1017,3 hPa 0,0 mm 0,0 km/h (0 Bft) W-NW 286 ° 0 min 0,000 mm 0,0 UV-I 0 W/m² 9,9 °C 11,0 °C 0,0 km/h (0 Bft)
28.10.2019 03:48 10,9 °C 93 % 1017,3 hPa 0,0 mm 0,0 km/h (0 Bft) W-NW 286 ° 0 min 0,000 mm 0,0 UV-I 0 W/m² 9,8 °C 10,9 °C 0,0 km/h (0 Bft)
28.10.2019 03:49 10,9 °C 93 % 1017,2 hPa 0,0 mm 0,0 km/h (0 Bft) W-NW 286 ° 0 min 0,000 mm 0,0 UV-I 0 W/m² 9,8 °C 10,9 °C 0,0 km/h (0 Bft)
28.10.2019 03:50 10,9 °C 93 % 1017,2 hPa 0,0 mm 0,0 km/h (0 Bft) W-NW 286 ° 0 min 0,000 mm 0,0 UV-I 0 W/m² 9,8 °C 10,9 °C 0,0 km/h (0 Bft)
28.10.2019 03:51 10,9 °C 93 % 1017,2 hPa 0,0 mm 0,0 km/h (0 Bft) W-NW 286 ° 0 min 0,000 mm 0,0 UV-I 0 W/m² 9,8 °C 10,9 °C 0,0 km/h (0 Bft)
28.10.2019 03:52 10,9 °C 93 % 1017,2 hPa 0,0 mm 0,0 km/h (0 Bft) W-NW 286 ° 0 min 0,000 mm 0,0 UV-I 0 W/m² 9,8 °C 10,9 °C 0,0 km/h (0 Bft)
28.10.2019 03:53 10,9 °C 93 % 1017,1 hPa 0,0 mm 0,0 km/h (0 Bft) W-NW 286 ° 0 min 0,000 mm 0,0 UV-I 0 W/m² 9,8 °C 10,9 °C 0,0 km/h (0 Bft)
28.10.2019 03:54 10,9 °C 93 % 1017,1 hPa 0,0 mm 0,0 km/h (0 Bft) W-NW 286 ° 0 min 0,000 mm 0,0 UV-I 0 W/m² 9,8 °C 10,9 °C 0,0 km/h (0 Bft)
28.10.2019 03:55 10,9 °C 93 % 1017,2 hPa 0,0 mm 0,0 km/h (0 Bft) W-NW 286 ° 0 min 0,000 mm 0,0 UV-I 0 W/m² 9,8 °C 10,9 °C 0,0 km/h (0 Bft)
28.10.2019 03:56 10,9 °C 93 % 1017,2 hPa 0,0 mm 0,0 km/h (0 Bft) W-NW 286 ° 0 min 0,000 mm 0,0 UV-I 0 W/m² 9,8 °C 10,9 °C 0,0 km/h (0 Bft)
28.10.2019 03:57 10,9 °C 93 % 1017,1 hPa 0,0 mm 0,0 km/h (0 Bft) W-NW 286 ° 0 min 0,000 mm 0,0 UV-I 0 W/m² 9,8 °C 10,9 °C 0,0 km/h (0 Bft)
28.10.2019 03:58 10,9 °C 93 % 1017,2 hPa 0,0 mm 0,0 km/h (0 Bft) W-NW 286 ° 0 min 0,000 mm 0,0 UV-I 0 W/m² 9,8 °C 10,9 °C 0,0 km/h (0 Bft)
28.10.2019 03:59 10,9 °C 93 % 1017,2 hPa 0,0 mm 0,0 km/h (0 Bft) W-NW 286 ° 0 min 0,000 mm 0,0 UV-I 0 W/m² 9,8 °C 10,9 °C 0,0 km/h (0 Bft)
28.10.2019 04:00 10,9 °C 93 % 1017,1 hPa 0,0 mm 0,0 km/h (0 Bft) W-NW 286 ° 0 min 0,000 mm 0,0 UV-I 0 W/m² 9,8 °C 10,9 °C 0,0 km/h (0 Bft)
28.10.2019 04:01 10,9 °C 93 % 1017,1 hPa 0,0 mm 0,0 km/h (0 Bft) W-NW 286 ° 0 min 0,000 mm 0,0 UV-I 0 W/m² 9,8 °C 10,9 °C 0,0 km/h (0 Bft)
28.10.2019 04:02 10,9 °C 93 % 1017,1 hPa 0,0 mm 0,0 km/h (0 Bft) W-NW 286 ° 0 min 0,000 mm 0,0 UV-I 0 W/m² 9,8 °C 10,9 °C 0,0 km/h (0 Bft)
28.10.2019 04:03 10,9 °C 93 % 1017,1 hPa 0,0 mm 0,0 km/h (0 Bft) W-NW 286 ° 0 min 0,000 mm 0,0 UV-I 0 W/m² 9,8 °C 10,9 °C 0,0 km/h (0 Bft)
28.10.2019 04:04 10,9 °C 93 % 1017,1 hPa 0,0 mm 0,0 km/h (0 Bft) W-NW 286 ° 0 min 0,000 mm 0,0 UV-I 0 W/m² 9,8 °C 10,9 °C 0,0 km/h (0 Bft)
28.10.2019 04:05 10,9 °C 93 % 1017,1 hPa 0,0 mm 0,0 km/h (0 Bft) W-NW 286 ° 0 min 0,000 mm 0,0 UV-I 0 W/m² 9,8 °C 10,9 °C 0,0 km/h (0 Bft)
28.10.2019 04:06 10,9 °C 93 % 1017,1 hPa 0,0 mm 0,0 km/h (0 Bft) W-NW 286 ° 0 min 0,000 mm 0,0 UV-I 0 W/m² 9,8 °C 10,9 °C 0,0 km/h (0 Bft)
28.10.2019 04:07 10,9 °C 93 % 1017,2 hPa 0,0 mm 0,0 km/h (0 Bft) W-NW 286 ° 0 min 0,000 mm 0,0 UV-I 0 W/m² 9,8 °C 10,9 °C 0,0 km/h (0 Bft)
28.10.2019 04:08 10,9 °C 93 % 1017,2 hPa 0,0 mm 0,0 km/h (0 Bft) W-NW 286 ° 0 min 0,000 mm 0,0 UV-I 0 W/m² 9,8 °C 10,9 °C 0,0 km/h (0 Bft)
28.10.2019 04:09 10,9 °C 93 % 1017,2 hPa 0,0 mm 0,0 km/h (0 Bft) W-NW 286 ° 0 min 0,000 mm 0,0 UV-I 0 W/m² 9,8 °C 10,9 °C 0,0 km/h (0 Bft)
28.10.2019 04:10 10,9 °C 93 % 1017,2 hPa 0,0 mm 0,0 km/h (0 Bft) W-NW 286 ° 0 min 0,000 mm 0,0 UV-I 0 W/m² 9,8 °C 10,9 °C 0,0 km/h (0 Bft)
28.10.2019 04:11 10,9 °C 93 % 1017,2 hPa 0,0 mm 0,0 km/h (0 Bft) W-NW 286 ° 0 min 0,000 mm 0,0 UV-I 0 W/m² 9,8 °C 10,9 °C 0,0 km/h (0 Bft)
28.10.2019 04:12 10,9 °C 93 % 1017,2 hPa 0,0 mm 0,0 km/h (0 Bft) W-NW 286 ° 0 min 0,000 mm 0,0 UV-I 0 W/m² 9,8 °C 10,9 °C 0,0 km/h (0 Bft)
28.10.2019 04:13 10,9 °C 93 % 1017,2 hPa 0,0 mm 0,0 km/h (0 Bft) W-NW 286 ° 0 min 0,000 mm 0,0 UV-I 0 W/m² 9,8 °C 10,9 °C 0,0 km/h (0 Bft)
28.10.2019 04:14 10,8 °C 93 % 1017,2 hPa 0,0 mm 0,0 km/h (0 Bft) W-NW 286 ° 0 min 0,000 mm 0,0 UV-I 0 W/m² 9,7 °C 10,8 °C 0,0 km/h (0 Bft)
28.10.2019 04:15 10,9 °C 93 % 1017,2 hPa 0,0 mm 0,0 km/h (0 Bft) W-NW 286 ° 0 min 0,000 mm 0,0 UV-I 0 W/m² 9,8 °C 10,9 °C 0,0 km/h (0 Bft)
28.10.2019 04:16 10,9 °C 93 % 1017,2 hPa 0,0 mm 0,0 km/h (0 Bft) W-NW 286 ° 0 min 0,000 mm 0,0 UV-I 0 W/m² 9,8 °C 10,9 °C 0,0 km/h (0 Bft)
28.10.2019 04:17 10,9 °C 93 % 1017,2 hPa 0,0 mm 0,0 km/h (0 Bft) W-NW 286 ° 0 min 0,000 mm 0,0 UV-I 0 W/m² 9,8 °C 10,9 °C 0,0 km/h (0 Bft)
28.10.2019 04:18 10,8 °C 93 % 1017,2 hPa 0,0 mm 0,0 km/h (0 Bft) W-NW 286 ° 0 min 0,000 mm 0,0 UV-I 0 W/m² 9,7 °C 10,8 °C 0,0 km/h (0 Bft)
28.10.2019 04:19 10,8 °C 93 % 1017,2 hPa 0,0 mm 0,0 km/h (0 Bft) W-NW 286 ° 0 min 0,000 mm 0,0 UV-I 0 W/m² 9,7 °C 10,8 °C 0,0 km/h (0 Bft)
28.10.2019 04:20 10,8 °C 93 % 1017,2 hPa 0,0 mm 0,0 km/h (0 Bft) W-NW 286 ° 0 min 0,000 mm 0,0 UV-I 0 W/m² 9,7 °C 10,8 °C 0,0 km/h (0 Bft)
28.10.2019 04:21 10,8 °C 93 % 1017,2 hPa 0,0 mm 0,0 km/h (0 Bft) W-NW 286 ° 0 min 0,000 mm 0,0 UV-I 0 W/m² 9,7 °C 10,8 °C 0,0 km/h (0 Bft)
28.10.2019 04:22 10,8 °C 93 % 1017,2 hPa 0,0 mm 0,0 km/h (0 Bft) W-NW 286 ° 0 min 0,000 mm 0,0 UV-I 0 W/m² 9,7 °C 10,8 °C 0,0 km/h (0 Bft)
28.10.2019 04:23 10,8 °C 93 % 1017,2 hPa 0,0 mm 0,0 km/h (0 Bft) W-NW 286 ° 0 min 0,000 mm 0,0 UV-I 0 W/m² 9,7 °C 10,8 °C 0,0 km/h (0 Bft)
28.10.2019 04:24 10,8 °C 93 % 1017,2 hPa 0,0 mm 0,0 km/h (0 Bft) W-NW 286 ° 0 min 0,000 mm 0,0 UV-I 0 W/m² 9,7 °C 10,8 °C 0,0 km/h (0 Bft)
28.10.2019 04:25 10,8 °C 93 % 1017,2 hPa 0,0 mm 0,0 km/h (0 Bft) W-NW 286 ° 0 min 0,000 mm 0,0 UV-I 0 W/m² 9,7 °C 10,8 °C 0,0 km/h (0 Bft)
28.10.2019 04:26 10,8 °C 93 % 1017,3 hPa 0,0 mm 0,0 km/h (0 Bft) W-NW 286 ° 0 min 0,000 mm 0,0 UV-I 0 W/m² 9,7 °C 10,8 °C 0,0 km/h (0 Bft)
28.10.2019 04:27 10,8 °C 93 % 1017,2 hPa 0,0 mm 0,0 km/h (0 Bft) W-NW 286 ° 0 min 0,000 mm 0,0 UV-I 0 W/m² 9,7 °C 10,8 °C 0,0 km/h (0 Bft)
28.10.2019 04:28 10,8 °C 93 % 1017,3 hPa 0,0 mm 0,0 km/h (0 Bft) W-NW 286 ° 0 min 0,000 mm 0,0 UV-I 0 W/m² 9,7 °C 10,8 °C 0,0 km/h (0 Bft)
28.10.2019 04:29 10,8 °C 93 % 1017,3 hPa 0,0 mm 0,0 km/h (0 Bft) W-NW 286 ° 0 min 0,000 mm 0,0 UV-I 0 W/m² 9,7 °C 10,8 °C 0,0 km/h (0 Bft)
28.10.2019 04:30 10,8 °C 93 % 1017,2 hPa 0,0 mm 0,0 km/h (0 Bft) W-NW 286 ° 0 min 0,000 mm 0,0 UV-I 0 W/m² 9,7 °C 10,8 °C 0,0 km/h (0 Bft)
28.10.2019 04:31 10,8 °C 93 % 1017,2 hPa 0,0 mm 0,0 km/h (0 Bft) W-NW 286 ° 0 min 0,000 mm 0,0 UV-I 0 W/m² 9,7 °C 10,8 °C 0,0 km/h (0 Bft)
28.10.2019 04:32 10,8 °C 93 % 1017,2 hPa 0,0 mm 0,0 km/h (0 Bft) W-NW 286 ° 0 min 0,000 mm 0,0 UV-I 0 W/m² 9,7 °C 10,8 °C 0,0 km/h (0 Bft)
28.10.2019 04:33 10,8 °C 93 % 1017,2 hPa 0,0 mm 0,0 km/h (0 Bft) W-NW 286 ° 0 min 0,000 mm 0,0 UV-I 0 W/m² 9,7 °C 10,8 °C 0,0 km/h (0 Bft)
28.10.2019 04:34 10,8 °C 93 % 1017,2 hPa 0,0 mm 0,0 km/h (0 Bft) W-NW 286 ° 0 min 0,000 mm 0,0 UV-I 0 W/m² 9,7 °C 10,8 °C 0,0 km/h (0 Bft)
28.10.2019 04:35 10,8 °C 93 % 1017,2 hPa 0,0 mm 0,0 km/h (0 Bft) W-NW 286 ° 0 min 0,000 mm 0,0 UV-I 0 W/m² 9,7 °C 10,8 °C 0,0 km/h (0 Bft)
28.10.2019 04:36 10,7 °C 93 % 1017,2 hPa 0,0 mm 0,0 km/h (0 Bft) W-NW 286 ° 0 min 0,000 mm 0,0 UV-I 0 W/m² 9,6 °C 10,7 °C 0,0 km/h (0 Bft)
28.10.2019 04:37 10,8 °C 93 % 1017,2 hPa 0,0 mm 0,0 km/h (0 Bft) W-NW 286 ° 0 min 0,000 mm 0,0 UV-I 0 W/m² 9,7 °C 10,8 °C 0,0 km/h (0 Bft)
28.10.2019 04:38 10,7 °C 93 % 1017,2 hPa 0,0 mm 0,0 km/h (0 Bft) W-NW 286 ° 0 min 0,000 mm 0,0 UV-I 0 W/m² 9,6 °C 10,7 °C 0,0 km/h (0 Bft)
28.10.2019 04:39 10,7 °C 93 % 1017,2 hPa 0,0 mm 0,0 km/h (0 Bft) W-NW 286 ° 0 min 0,000 mm 0,0 UV-I 0 W/m² 9,6 °C 10,7 °C 0,0 km/h (0 Bft)
28.10.2019 04:40 10,7 °C 93 % 1017,2 hPa 0,0 mm 0,0 km/h (0 Bft) W-NW 286 ° 0 min 0,000 mm 0,0 UV-I 0 W/m² 9,6 °C 10,7 °C 0,0 km/h (0 Bft)
28.10.2019 04:41 10,7 °C 93 % 1017,2 hPa 0,0 mm 0,0 km/h (0 Bft) W-NW 286 ° 0 min 0,000 mm 0,0 UV-I 0 W/m² 9,6 °C 10,7 °C 0,0 km/h (0 Bft)
28.10.2019 04:42 10,7 °C 93 % 1017,2 hPa 0,0 mm 0,0 km/h (0 Bft) W-NW 286 ° 0 min 0,000 mm 0,0 UV-I 0 W/m² 9,6 °C 10,7 °C 0,0 km/h (0 Bft)
28.10.2019 04:43 10,7 °C 93 % 1017,2 hPa 0,0 mm 0,0 km/h (0 Bft) W-NW 286 ° 0 min 0,000 mm 0,0 UV-I 0 W/m² 9,6 °C 10,7 °C 0,0 km/h (0 Bft)
28.10.2019 04:44 10,7 °C 93 % 1017,1 hPa 0,0 mm 0,0 km/h (0 Bft) W-NW 286 ° 0 min 0,000 mm 0,0 UV-I 0 W/m² 9,6 °C 10,7 °C 0,0 km/h (0 Bft)
28.10.2019 04:45 10,7 °C 93 % 1017,1 hPa 0,0 mm 0,0 km/h (0 Bft) W-NW 286 ° 0 min 0,000 mm 0,0 UV-I 0 W/m² 9,6 °C 10,7 °C 0,0 km/h (0 Bft)
28.10.2019 04:46 10,7 °C 93 % 1017,2 hPa 0,0 mm 0,0 km/h (0 Bft) W-NW 286 ° 0 min 0,000 mm 0,0 UV-I 0 W/m² 9,6 °C 10,7 °C 0,0 km/h (0 Bft)
28.10.2019 04:47 10,7 °C 93 % 1017,2 hPa 0,0 mm 0,0 km/h (0 Bft) W-NW 286 ° 0 min 0,000 mm 0,0 UV-I 0 W/m² 9,6 °C 10,7 °C 0,0 km/h (0 Bft)
28.10.2019 04:48 10,7 °C 93 % 1017,1 hPa 0,0 mm 0,0 km/h (0 Bft) W-NW 286 ° 0 min 0,000 mm 0,0 UV-I 0 W/m² 9,6 °C 10,7 °C 0,0 km/h (0 Bft)
28.10.2019 04:49 10,7 °C 93 % 1017,2 hPa 0,0 mm 0,0 km/h (0 Bft) W-NW 286 ° 0 min 0,000 mm 0,0 UV-I 0 W/m² 9,6 °C 10,7 °C 0,0 km/h (0 Bft)
28.10.2019 04:50 10,7 °C 93 % 1017,2 hPa 0,0 mm 0,0 km/h (0 Bft) W-NW 286 ° 0 min 0,000 mm 0,0 UV-I 0 W/m² 9,6 °C 10,7 °C 0,0 km/h (0 Bft)
28.10.2019 04:51 10,7 °C 93 % 1017,2 hPa 0,0 mm 0,0 km/h (0 Bft) W-NW 286 ° 0 min 0,000 mm 0,0 UV-I 0 W/m² 9,6 °C 10,7 °C 0,0 km/h (0 Bft)
28.10.2019 04:52 10,7 °C 93 % 1017,2 hPa 0,0 mm 0,0 km/h (0 Bft) W-NW 286 ° 0 min 0,000 mm 0,0 UV-I 0 W/m² 9,6 °C 10,7 °C 0,0 km/h (0 Bft)
28.10.2019 04:53 10,6 °C 93 % 1017,2 hPa 0,0 mm 0,0 km/h (0 Bft) W-NW 286 ° 0 min 0,000 mm 0,0 UV-I 0 W/m² 9,5 °C 10,6 °C 0,0 km/h (0 Bft)
28.10.2019 04:54 10,6 °C 93 % 1017,1 hPa 0,0 mm 0,0 km/h (0 Bft) W-NW 286 ° 0 min 0,000 mm 0,0 UV-I 0 W/m² 9,5 °C 10,6 °C 0,0 km/h (0 Bft)
28.10.2019 04:55 10,6 °C 93 % 1017,1 hPa 0,0 mm 0,0 km/h (0 Bft) W-NW 286 ° 0 min 0,000 mm 0,0 UV-I 0 W/m² 9,5 °C 10,6 °C 0,0 km/h (0 Bft)
28.10.2019 04:56 10,7 °C 93 % 1017,2 hPa 0,0 mm 0,0 km/h (0 Bft) W-NW 286 ° 0 min 0,000 mm 0,0 UV-I 0 W/m² 9,6 °C 10,7 °C 0,0 km/h (0 Bft)
28.10.2019 04:57 10,6 °C 93 % 1017,1 hPa 0,0 mm 0,0 km/h (0 Bft) W-NW 286 ° 0 min 0,000 mm 0,0 UV-I 0 W/m² 9,5 °C 10,6 °C 0,0 km/h (0 Bft)
28.10.2019 04:58 10,6 °C 93 % 1017,1 hPa 0,0 mm 0,0 km/h (0 Bft) W-NW 286 ° 0 min 0,000 mm 0,0 UV-I 0 W/m² 9,5 °C 10,6 °C 0,0 km/h (0 Bft)
28.10.2019 04:59 10,6 °C 93 % 1017,1 hPa 0,0 mm 0,0 km/h (0 Bft) W-NW 286 ° 0 min 0,000 mm 0,0 UV-I 0 W/m² 9,5 °C 10,6 °C 0,0 km/h (0 Bft)
28.10.2019 05:00 10,6 °C 93 % 1017,1 hPa 0,0 mm 0,0 km/h (0 Bft) W-NW 286 ° 0 min 0,000 mm 0,0 UV-I 0 W/m² 9,5 °C 10,6 °C 0,0 km/h (0 Bft)
28.10.2019 05:01 10,6 °C 93 % 1017,1 hPa 0,0 mm 0,0 km/h (0 Bft) W-NW 286 ° 0 min 0,000 mm 0,0 UV-I 0 W/m² 9,5 °C 10,6 °C 0,0 km/h (0 Bft)
28.10.2019 05:02 10,6 °C 93 % 1017,1 hPa 0,0 mm 0,0 km/h (0 Bft) W-NW 286 ° 0 min 0,000 mm 0,0 UV-I 0 W/m² 9,5 °C 10,6 °C 0,0 km/h (0 Bft)
28.10.2019 05:03 10,6 °C 93 % 1017,1 hPa 0,0 mm 0,0 km/h (0 Bft) W-NW 286 ° 0 min 0,000 mm 0,0 UV-I 0 W/m² 9,5 °C 10,6 °C 0,0 km/h (0 Bft)
28.10.2019 05:04 10,6 °C 93 % 1017,1 hPa 0,0 mm 0,0 km/h (0 Bft) W-NW 286 ° 0 min 0,000 mm 0,0 UV-I 0 W/m² 9,5 °C 10,6 °C 0,0 km/h (0 Bft)
28.10.2019 05:05 10,6 °C 93 % 1017,1 hPa 0,0 mm 0,0 km/h (0 Bft) W-NW 286 ° 0 min 0,000 mm 0,0 UV-I 0 W/m² 9,5 °C 10,6 °C 0,0 km/h (0 Bft)
28.10.2019 05:06 10,6 °C 93 % 1017,1 hPa 0,0 mm 0,0 km/h (0 Bft) W-NW 286 ° 0 min 0,000 mm 0,0 UV-I 0 W/m² 9,5 °C 10,6 °C 0,0 km/h (0 Bft)
28.10.2019 05:07 10,6 °C 93 % 1017,1 hPa 0,0 mm 0,5 km/h (0 Bft) W-NW 286 ° 0 min 0,000 mm 0,0 UV-I 0 W/m² 9,5 °C 10,6 °C 3,2 km/h (1 Bft)
28.10.2019 05:08 10,7 °C 93 % 1017,1 hPa 0,0 mm 1,1 km/h (1 Bft) W-NW 286 ° 0 min 0,000 mm 0,0 UV-I 0 W/m² 9,6 °C 10,7 °C 3,2 km/h (1 Bft)
28.10.2019 05:09 10,7 °C 93 % 1017,0 hPa 0,0 mm 0,0 km/h (0 Bft) W-NW 286 ° 0 min 0,000 mm 0,0 UV-I 0 W/m² 9,6 °C 10,7 °C 0,0 km/h (0 Bft)
28.10.2019 05:10 10,6 °C 93 % 1017,0 hPa 0,0 mm 0,0 km/h (0 Bft) W-NW 286 ° 0 min 0,000 mm 0,0 UV-I 0 W/m² 9,5 °C 10,6 °C 0,0 km/h (0 Bft)
28.10.2019 05:11 10,6 °C 93 % 1017,1 hPa 0,0 mm 0,0 km/h (0 Bft) W-NW 286 ° 0 min 0,000 mm 0,0 UV-I 0 W/m² 9,5 °C 10,6 °C 0,0 km/h (0 Bft)
28.10.2019 05:12 10,6 °C 93 % 1017,1 hPa 0,0 mm 0,0 km/h (0 Bft) W-NW 286 ° 0 min 0,000 mm 0,0 UV-I 0 W/m² 9,5 °C 10,6 °C 0,0 km/h (0 Bft)
28.10.2019 05:13 10,6 °C 93 % 1017,1 hPa 0,0 mm 0,0 km/h (0 Bft) W-NW 286 ° 0 min 0,000 mm 0,0 UV-I 0 W/m² 9,5 °C 10,6 °C 0,0 km/h (0 Bft)
28.10.2019 05:14 10,6 °C 93 % 1017,0 hPa 0,0 mm 0,0 km/h (0 Bft) W-NW 286 ° 0 min 0,000 mm 0,0 UV-I 0 W/m² 9,5 °C 10,6 °C 0,0 km/h (0 Bft)
28.10.2019 05:15 10,6 °C 93 % 1017,0 hPa 0,0 mm 0,0 km/h (0 Bft) W-NW 286 ° 0 min 0,000 mm 0,0 UV-I 0 W/m² 9,5 °C 10,6 °C 0,0 km/h (0 Bft)
28.10.2019 05:16 10,6 °C 93 % 1017,0 hPa 0,0 mm 0,0 km/h (0 Bft) W-NW 286 ° 0 min 0,000 mm 0,0 UV-I 0 W/m² 9,5 °C 10,6 °C 0,0 km/h (0 Bft)
28.10.2019 05:17 10,6 °C 93 % 1017,0 hPa 0,0 mm 0,9 km/h (0 Bft) W-NW 286 ° 0 min 0,000 mm 0,0 UV-I 0 W/m² 9,5 °C 10,6 °C 1,6 km/h (1 Bft)
28.10.2019 05:18 10,6 °C 93 % 1017,0 hPa 0,0 mm 0,5 km/h (0 Bft) W-NW 286 ° 0 min 0,000 mm 0,0 UV-I 0 W/m² 9,5 °C 10,6 °C 1,6 km/h (1 Bft)
28.10.2019 05:19 10,6 °C 93 % 1017,0 hPa 0,0 mm 0,0 km/h (0 Bft) W-NW 286 ° 0 min 0,000 mm 0,0 UV-I 0 W/m² 9,5 °C 10,6 °C 0,0 km/h (0 Bft)
28.10.2019 05:20 10,6 °C 94 % 1017,0 hPa 0,0 mm 0,0 km/h (0 Bft) W-NW 286 ° 0 min 0,000 mm 0,0 UV-I 0 W/m² 9,7 °C 10,6 °C 0,0 km/h (0 Bft)
28.10.2019 05:21 10,6 °C 94 % 1017,0 hPa 0,0 mm 0,0 km/h (0 Bft) W-NW 286 ° 0 min 0,000 mm 0,0 UV-I 0 W/m² 9,7 °C 10,6 °C 0,0 km/h (0 Bft)
28.10.2019 05:22 10,6 °C 94 % 1017,0 hPa 0,0 mm 0,0 km/h (0 Bft) W-NW 286 ° 0 min 0,000 mm 0,0 UV-I 0 W/m² 9,7 °C 10,6 °C 0,0 km/h (0 Bft)
28.10.2019 05:23 10,6 °C 94 % 1017,0 hPa 0,0 mm 0,0 km/h (0 Bft) W-NW 286 ° 0 min 0,000 mm 0,0 UV-I 0 W/m² 9,7 °C 10,6 °C 0,0 km/h (0 Bft)
28.10.2019 05:24 10,6 °C 94 % 1017,0 hPa 0,0 mm 0,0 km/h (0 Bft) W-NW 286 ° 0 min 0,000 mm 0,0 UV-I 0 W/m² 9,7 °C 10,6 °C 0,0 km/h (0 Bft)
28.10.2019 05:25 10,6 °C 94 % 1017,0 hPa 0,0 mm 0,0 km/h (0 Bft) W-NW 286 ° 0 min 0,000 mm 0,0 UV-I 0 W/m² 9,7 °C 10,6 °C 0,0 km/h (0 Bft)
28.10.2019 05:26 10,6 °C 94 % 1017,0 hPa 0,0 mm 0,0 km/h (0 Bft) W-NW 286 ° 0 min 0,000 mm 0,0 UV-I 0 W/m² 9,7 °C 10,6 °C 0,0 km/h (0 Bft)
28.10.2019 05:27 10,6 °C 94 % 1017,0 hPa 0,0 mm 0,0 km/h (0 Bft) W-NW 286 ° 0 min 0,000 mm 0,0 UV-I 0 W/m² 9,7 °C 10,6 °C 0,0 km/h (0 Bft)
28.10.2019 05:28 10,6 °C 94 % 1017,0 hPa 0,0 mm 0,0 km/h (0 Bft) W-NW 286 ° 0 min 0,000 mm 0,0 UV-I 0 W/m² 9,7 °C 10,6 °C 0,0 km/h (0 Bft)
28.10.2019 05:29 10,6 °C 94 % 1017,0 hPa 0,0 mm 0,0 km/h (0 Bft) W-NW 286 ° 0 min 0,000 mm 0,0 UV-I 0 W/m² 9,7 °C 10,6 °C 0,0 km/h (0 Bft)
28.10.2019 05:30 10,6 °C 94 % 1017,0 hPa 0,0 mm 0,0 km/h (0 Bft) W-NW 286 ° 0 min 0,000 mm 0,0 UV-I 0 W/m² 9,7 °C 10,6 °C 0,0 km/h (0 Bft)
28.10.2019 05:31 10,6 °C 94 % 1017,0 hPa 0,0 mm 0,0 km/h (0 Bft) W-NW 286 ° 0 min 0,000 mm 0,0 UV-I 0 W/m² 9,7 °C 10,6 °C 0,0 km/h (0 Bft)
28.10.2019 05:32 10,6 °C 94 % 1017,0 hPa 0,0 mm 0,0 km/h (0 Bft) W-NW 286 ° 0 min 0,000 mm 0,0 UV-I 0 W/m² 9,7 °C 10,6 °C 0,0 km/h (0 Bft)
28.10.2019 05:33 10,6 °C 94 % 1016,9 hPa 0,0 mm 0,0 km/h (0 Bft) W-NW 286 ° 0 min 0,000 mm 0,0 UV-I 0 W/m² 9,7 °C 10,6 °C 0,0 km/h (0 Bft)
28.10.2019 05:34 10,6 °C 94 % 1016,9 hPa 0,0 mm 0,0 km/h (0 Bft) W-NW 286 ° 0 min 0,000 mm 0,0 UV-I 0 W/m² 9,7 °C 10,6 °C 0,0 km/h (0 Bft)
28.10.2019 05:35 10,6 °C 94 % 1016,9 hPa 0,0 mm 0,0 km/h (0 Bft) W-NW 286 ° 0 min 0,000 mm 0,0 UV-I 0 W/m² 9,7 °C 10,6 °C 0,0 km/h (0 Bft)
28.10.2019 05:36 10,6 °C 94 % 1016,9 hPa 0,0 mm 0,0 km/h (0 Bft) W-NW 286 ° 0 min 0,000 mm 0,0 UV-I 0 W/m² 9,7 °C 10,6 °C 0,0 km/h (0 Bft)
28.10.2019 05:37 10,6 °C 94 % 1016,9 hPa 0,0 mm 0,0 km/h (0 Bft) W-NW 286 ° 0 min 0,000 mm 0,0 UV-I 0 W/m² 9,7 °C 10,6 °C 0,0 km/h (0 Bft)
28.10.2019 05:38 10,7 °C 94 % 1016,9 hPa 0,0 mm 0,0 km/h (0 Bft) W-NW 286 ° 0 min 0,000 mm 0,0 UV-I 0 W/m² 9,8 °C 10,7 °C 0,0 km/h (0 Bft)
28.10.2019 05:39 10,6 °C 94 % 1016,9 hPa 0,0 mm 0,0 km/h (0 Bft) W-NW 286 ° 0 min 0,000 mm 0,0 UV-I 0 W/m² 9,7 °C 10,6 °C 0,0 km/h (0 Bft)
28.10.2019 05:40 10,6 °C 94 % 1016,9 hPa 0,0 mm 0,0 km/h (0 Bft) W-NW 286 ° 0 min 0,000 mm 0,0 UV-I 0 W/m² 9,7 °C 10,6 °C 0,0 km/h (0 Bft)
28.10.2019 05:41 10,6 °C 94 % 1016,9 hPa 0,0 mm 0,0 km/h (0 Bft) W-NW 286 ° 0 min 0,000 mm 0,0 UV-I 0 W/m² 9,7 °C 10,6 °C 0,0 km/h (0 Bft)
28.10.2019 05:42 10,6 °C 94 % 1016,9 hPa 0,0 mm 0,0 km/h (0 Bft) W-NW 286 ° 0 min 0,000 mm 0,0 UV-I 0 W/m² 9,7 °C 10,6 °C 0,0 km/h (0 Bft)
28.10.2019 05:43 10,6 °C 94 % 1016,9 hPa 0,0 mm 0,0 km/h (0 Bft) W-NW 286 ° 0 min 0,000 mm 0,0 UV-I 0 W/m² 9,7 °C 10,6 °C 0,0 km/h (0 Bft)
28.10.2019 05:44 10,6 °C 94 % 1017,0 hPa 0,0 mm 0,0 km/h (0 Bft) W-NW 286 ° 0 min 0,000 mm 0,0 UV-I 0 W/m² 9,7 °C 10,6 °C 0,0 km/h (0 Bft)
28.10.2019 05:45 10,6 °C 94 % 1017,0 hPa 0,0 mm 0,0 km/h (0 Bft) W-NW 286 ° 0 min 0,000 mm 0,0 UV-I 0 W/m² 9,7 °C 10,6 °C 0,0 km/h (0 Bft)
28.10.2019 05:46 10,6 °C 94 % 1016,9 hPa 0,0 mm 0,0 km/h (0 Bft) W-NW 286 ° 0 min 0,000 mm 0,0 UV-I 0 W/m² 9,7 °C 10,6 °C 0,0 km/h (0 Bft)
28.10.2019 05:47 10,6 °C 94 % 1016,9 hPa 0,0 mm 0,0 km/h (0 Bft) W-NW 286 ° 0 min 0,000 mm 0,0 UV-I 0 W/m² 9,7 °C 10,6 °C 0,0 km/h (0 Bft)
28.10.2019 05:48 10,6 °C 94 % 1017,0 hPa 0,0 mm 0,0 km/h (0 Bft) W-NW 286 ° 0 min 0,000 mm 0,0 UV-I 0 W/m² 9,7 °C 10,6 °C 0,0 km/h (0 Bft)
28.10.2019 05:49 10,6 °C 94 % 1016,9 hPa 0,0 mm 0,0 km/h (0 Bft) W-NW 286 ° 0 min 0,000 mm 0,0 UV-I 0 W/m² 9,7 °C 10,6 °C 0,0 km/h (0 Bft)
28.10.2019 05:50 10,6 °C 94 % 1017,0 hPa 0,0 mm 0,0 km/h (0 Bft) W-NW 286 ° 0 min 0,000 mm 0,0 UV-I 0 W/m² 9,7 °C 10,6 °C 0,0 km/h (0 Bft)
28.10.2019 05:51 10,7 °C 94 % 1016,9 hPa 0,0 mm 0,0 km/h (0 Bft) W-NW 286 ° 0 min 0,000 mm 0,0 UV-I 0 W/m² 9,8 °C 10,7 °C 0,0 km/h (0 Bft)
28.10.2019 05:52 10,6 °C 94 % 1016,9 hPa 0,0 mm 0,0 km/h (0 Bft) W-NW 286 ° 0 min 0,000 mm 0,0 UV-I 0 W/m² 9,7 °C 10,6 °C 0,0 km/h (0 Bft)
28.10.2019 05:53 10,6 °C 94 % 1016,9 hPa 0,0 mm 0,0 km/h (0 Bft) W-NW 286 ° 0 min 0,000 mm 0,0 UV-I 0 W/m² 9,7 °C 10,6 °C 0,0 km/h (0 Bft)
28.10.2019 05:54 10,6 °C 94 % 1016,9 hPa 0,0 mm 0,0 km/h (0 Bft) W-NW 286 ° 0 min 0,000 mm 0,0 UV-I 0 W/m² 9,7 °C 10,6 °C 0,0 km/h (0 Bft)
28.10.2019 05:55 10,6 °C 94 % 1016,9 hPa 0,0 mm 0,0 km/h (0 Bft) W-NW 286 ° 0 min 0,000 mm 0,0 UV-I 0 W/m² 9,7 °C 10,6 °C 0,0 km/h (0 Bft)
28.10.2019 05:56 10,6 °C 94 % 1016,9 hPa 0,0 mm 0,0 km/h (0 Bft) W-NW 286 ° 0 min 0,000 mm 0,0 UV-I 0 W/m² 9,7 °C 10,6 °C 0,0 km/h (0 Bft)
28.10.2019 05:57 10,6 °C 94 % 1017,0 hPa 0,0 mm 0,0 km/h (0 Bft) W-NW 286 ° 0 min 0,000 mm 0,0 UV-I 0 W/m² 9,7 °C 10,6 °C 0,0 km/h (0 Bft)
28.10.2019 05:58 10,6 °C 94 % 1017,0 hPa 0,0 mm 0,0 km/h (0 Bft) W-NW 286 ° 0 min 0,000 mm 0,0 UV-I 0 W/m² 9,7 °C 10,6 °C 0,0 km/h (0 Bft)
28.10.2019 05:59 10,6 °C 94 % 1017,0 hPa 0,0 mm 0,0 km/h (0 Bft) W-NW 286 ° 0 min 0,000 mm 0,0 UV-I 0 W/m² 9,7 °C 10,6 °C 0,0 km/h (0 Bft)
28.10.2019 06:00 10,6 °C 94 % 1017,0 hPa 0,0 mm 0,0 km/h (0 Bft) W-NW 286 ° 0 min 0,000 mm 0,0 UV-I 0 W/m² 9,7 °C 10,6 °C 0,0 km/h (0 Bft)
28.10.2019 06:01 10,6 °C 94 % 1016,9 hPa 0,0 mm 0,0 km/h (0 Bft) W-NW 286 ° 0 min 0,000 mm 0,0 UV-I 0 W/m² 9,7 °C 10,6 °C 0,0 km/h (0 Bft)
28.10.2019 06:02 10,6 °C 94 % 1017,0 hPa 0,0 mm 0,0 km/h (0 Bft) W-NW 286 ° 0 min 0,000 mm 0,0 UV-I 0 W/m² 9,7 °C 10,6 °C 0,0 km/h (0 Bft)
28.10.2019 06:03 10,6 °C 94 % 1016,9 hPa 0,0 mm 0,0 km/h (0 Bft) W-NW 286 ° 0 min 0,000 mm 0,0 UV-I 0 W/m² 9,7 °C 10,6 °C 0,0 km/h (0 Bft)
28.10.2019 06:04 10,6 °C 94 % 1016,9 hPa 0,0 mm 0,0 km/h (0 Bft) W-NW 286 ° 0 min 0,000 mm 0,0 UV-I 0 W/m² 9,7 °C 10,6 °C 0,0 km/h (0 Bft)
28.10.2019 06:05 10,6 °C 94 % 1016,9 hPa 0,0 mm 0,0 km/h (0 Bft) W-NW 286 ° 0 min 0,000 mm 0,0 UV-I 0 W/m² 9,7 °C 10,6 °C 0,0 km/h (0 Bft)
28.10.2019 06:06 10,6 °C 94 % 1016,9 hPa 0,0 mm 0,0 km/h (0 Bft) W-NW 286 ° 0 min 0,000 mm 0,0 UV-I 0 W/m² 9,7 °C 10,6 °C 0,0 km/h (0 Bft)
28.10.2019 06:07 10,6 °C 94 % 1016,9 hPa 0,0 mm 0,0 km/h (0 Bft) W-NW 286 ° 0 min 0,000 mm 0,0 UV-I 0 W/m² 9,7 °C 10,6 °C 0,0 km/h (0 Bft)
28.10.2019 06:08 10,6 °C 94 % 1016,9 hPa 0,0 mm 0,0 km/h (0 Bft) W-NW 286 ° 0 min 0,000 mm 0,0 UV-I 0 W/m² 9,7 °C 10,6 °C 0,0 km/h (0 Bft)
28.10.2019 06:09 10,6 °C 94 % 1016,9 hPa 0,0 mm 0,0 km/h (0 Bft) W-NW 286 ° 0 min 0,000 mm 0,0 UV-I 0 W/m² 9,7 °C 10,6 °C 0,0 km/h (0 Bft)
28.10.2019 06:10 10,6 °C 94 % 1016,9 hPa 0,0 mm 0,0 km/h (0 Bft) W-NW 286 ° 0 min 0,000 mm 0,0 UV-I 0 W/m² 9,7 °C 10,6 °C 0,0 km/h (0 Bft)
28.10.2019 06:11 10,6 °C 94 % 1016,9 hPa 0,0 mm 0,0 km/h (0 Bft) W-NW 286 ° 0 min 0,000 mm 0,0 UV-I 0 W/m² 9,7 °C 10,6 °C 0,0 km/h (0 Bft)
28.10.2019 06:12 10,6 °C 94 % 1016,9 hPa 0,0 mm 0,0 km/h (0 Bft) W-NW 286 ° 0 min 0,000 mm 0,0 UV-I 0 W/m² 9,7 °C 10,6 °C 0,0 km/h (0 Bft)
28.10.2019 06:13 10,6 °C 94 % 1016,9 hPa 0,0 mm 0,0 km/h (0 Bft) W-NW 286 ° 0 min 0,000 mm 0,0 UV-I 0 W/m² 9,7 °C 10,6 °C 0,0 km/h (0 Bft)
28.10.2019 06:14 10,6 °C 94 % 1016,9 hPa 0,0 mm 0,0 km/h (0 Bft) W-NW 286 ° 0 min 0,000 mm 0,0 UV-I 0 W/m² 9,7 °C 10,6 °C 0,0 km/h (0 Bft)
28.10.2019 06:15 10,6 °C 94 % 1016,9 hPa 0,0 mm 0,0 km/h (0 Bft) W-NW 286 ° 0 min 0,000 mm 0,0 UV-I 0 W/m² 9,7 °C 10,6 °C 0,0 km/h (0 Bft)
28.10.2019 06:16 10,7 °C 94 % 1016,9 hPa 0,0 mm 0,0 km/h (0 Bft) W-NW 286 ° 0 min 0,000 mm 0,0 UV-I 0 W/m² 9,8 °C 10,7 °C 0,0 km/h (0 Bft)
28.10.2019 06:17 10,6 °C 94 % 1016,9 hPa 0,0 mm 0,0 km/h (0 Bft) W-NW 286 ° 0 min 0,000 mm 0,0 UV-I 0 W/m² 9,7 °C 10,6 °C 0,0 km/h (0 Bft)
28.10.2019 06:18 10,7 °C 94 % 1016,9 hPa 0,0 mm 0,0 km/h (0 Bft) W-NW 286 ° 0 min 0,000 mm 0,0 UV-I 0 W/m² 9,8 °C 10,7 °C 0,0 km/h (0 Bft)
28.10.2019 06:19 10,6 °C 94 % 1017,0 hPa 0,0 mm 0,0 km/h (0 Bft) W-NW 286 ° 0 min 0,000 mm 0,0 UV-I 0 W/m² 9,7 °C 10,6 °C 0,0 km/h (0 Bft)
28.10.2019 06:20 10,6 °C 94 % 1016,9 hPa 0,0 mm 0,0 km/h (0 Bft) W-NW 286 ° 0 min 0,000 mm 0,0 UV-I 0 W/m² 9,7 °C 10,6 °C 0,0 km/h (0 Bft)
28.10.2019 06:21 10,6 °C 94 % 1016,9 hPa 0,0 mm 0,0 km/h (0 Bft) W-NW 286 ° 0 min 0,000 mm 0,0 UV-I 0 W/m² 9,7 °C 10,6 °C 0,0 km/h (0 Bft)
28.10.2019 06:22 10,6 °C 94 % 1016,9 hPa 0,0 mm 0,0 km/h (0 Bft) W-NW 286 ° 0 min 0,000 mm 0,0 UV-I 0 W/m² 9,7 °C 10,6 °C 0,0 km/h (0 Bft)
28.10.2019 06:23 10,6 °C 94 % 1016,9 hPa 0,0 mm 0,0 km/h (0 Bft) W-NW 286 ° 0 min 0,000 mm 0,0 UV-I 0 W/m² 9,7 °C 10,6 °C 0,0 km/h (0 Bft)
28.10.2019 06:24 10,6 °C 94 % 1016,9 hPa 0,0 mm 0,0 km/h (0 Bft) W-NW 286 ° 0 min 0,000 mm 0,0 UV-I 0 W/m² 9,7 °C 10,6 °C 0,0 km/h (0 Bft)
28.10.2019 06:25 10,7 °C 94 % 1016,9 hPa 0,0 mm 0,0 km/h (0 Bft) W-NW 286 ° 0 min 0,000 mm 0,0 UV-I 0 W/m² 9,8 °C 10,7 °C 0,0 km/h (0 Bft)
28.10.2019 06:26 10,6 °C 94 % 1016,9 hPa 0,0 mm 0,0 km/h (0 Bft) W-NW 286 ° 0 min 0,000 mm 0,0 UV-I 0 W/m² 9,7 °C 10,6 °C 0,0 km/h (0 Bft)
28.10.2019 06:27 10,6 °C 94 % 1017,0 hPa 0,0 mm 0,0 km/h (0 Bft) W-NW 286 ° 0 min 0,000 mm 0,0 UV-I 0 W/m² 9,7 °C 10,6 °C 0,0 km/h (0 Bft)
28.10.2019 06:28 10,6 °C 94 % 1017,0 hPa 0,0 mm 0,0 km/h (0 Bft) W-NW 286 ° 0 min 0,000 mm 0,0 UV-I 0 W/m² 9,7 °C 10,6 °C 0,0 km/h (0 Bft)
28.10.2019 06:29 10,6 °C 94 % 1016,9 hPa 0,0 mm 0,0 km/h (0 Bft) W-NW 286 ° 0 min 0,000 mm 0,0 UV-I 0 W/m² 9,7 °C 10,6 °C 0,0 km/h (0 Bft)
28.10.2019 06:30 10,6 °C 94 % 1017,0 hPa 0,0 mm 0,0 km/h (0 Bft) W-NW 286 ° 0 min 0,000 mm 0,0 UV-I 0 W/m² 9,7 °C 10,6 °C 0,0 km/h (0 Bft)
28.10.2019 06:31 10,6 °C 94 % 1016,9 hPa 0,0 mm 0,0 km/h (0 Bft) W-NW 286 ° 0 min 0,000 mm 0,0 UV-I 0 W/m² 9,7 °C 10,6 °C 0,0 km/h (0 Bft)
28.10.2019 06:32 10,6 °C 94 % 1016,9 hPa 0,0 mm 0,0 km/h (0 Bft) W-NW 286 ° 0 min 0,000 mm 0,0 UV-I 0 W/m² 9,7 °C 10,6 °C 0,0 km/h (0 Bft)
28.10.2019 06:33 10,6 °C 94 % 1016,9 hPa 0,0 mm 0,0 km/h (0 Bft) W-NW 286 ° 0 min 0,000 mm 0,0 UV-I 0 W/m² 9,7 °C 10,6 °C 0,0 km/h (0 Bft)
28.10.2019 06:34 10,6 °C 94 % 1016,9 hPa 0,0 mm 0,0 km/h (0 Bft) W-NW 286 ° 0 min 0,000 mm 0,0 UV-I 0 W/m² 9,7 °C 10,6 °C 0,0 km/h (0 Bft)
28.10.2019 06:35 10,6 °C 94 % 1016,9 hPa 0,0 mm 0,0 km/h (0 Bft) W-NW 286 ° 0 min 0,000 mm 0,0 UV-I 0 W/m² 9,7 °C 10,6 °C 0,0 km/h (0 Bft)
28.10.2019 06:36 10,6 °C 94 % 1016,9 hPa 0,0 mm 0,0 km/h (0 Bft) W-NW 286 ° 0 min 0,000 mm 0,0 UV-I 0 W/m² 9,7 °C 10,6 °C 0,0 km/h (0 Bft)
28.10.2019 06:37 10,6 °C 94 % 1016,9 hPa 0,0 mm 0,0 km/h (0 Bft) W-NW 286 ° 0 min 0,000 mm 0,0 UV-I 0 W/m² 9,7 °C 10,6 °C 0,0 km/h (0 Bft)
28.10.2019 06:38 10,6 °C 94 % 1016,9 hPa 0,0 mm 0,0 km/h (0 Bft) W-NW 286 ° 0 min 0,000 mm 0,0 UV-I 0 W/m² 9,7 °C 10,6 °C 0,0 km/h (0 Bft)
28.10.2019 06:39 10,6 °C 94 % 1016,9 hPa 0,0 mm 0,0 km/h (0 Bft) W-NW 286 ° 0 min 0,000 mm 0,0 UV-I 0 W/m² 9,7 °C 10,6 °C 0,0 km/h (0 Bft)
28.10.2019 06:40 10,6 °C 94 % 1016,9 hPa 0,0 mm 0,0 km/h (0 Bft) W-NW 286 ° 0 min 0,000 mm 0,0 UV-I 0 W/m² 9,7 °C 10,6 °C 0,0 km/h (0 Bft)
28.10.2019 06:41 10,6 °C 94 % 1016,9 hPa 0,0 mm 0,0 km/h (0 Bft) W-NW 286 ° 0 min 0,000 mm 0,0 UV-I 0 W/m² 9,7 °C 10,6 °C 0,0 km/h (0 Bft)
28.10.2019 06:42 10,6 °C 94 % 1017,0 hPa 0,0 mm 0,0 km/h (0 Bft) W-NW 286 ° 0 min 0,000 mm 0,0 UV-I 0 W/m² 9,7 °C 10,6 °C 0,0 km/h (0 Bft)
28.10.2019 06:43 10,6 °C 94 % 1016,9 hPa 0,0 mm 0,0 km/h (0 Bft) W-NW 286 ° 0 min 0,000 mm 0,0 UV-I 0 W/m² 9,7 °C 10,6 °C 0,0 km/h (0 Bft)
28.10.2019 06:44 10,6 °C 94 % 1016,9 hPa 0,0 mm 0,0 km/h (0 Bft) W-NW 286 ° 0 min 0,000 mm 0,0 UV-I 0 W/m² 9,7 °C 10,6 °C 0,0 km/h (0 Bft)
28.10.2019 06:45 10,6 °C 94 % 1016,9 hPa 0,0 mm 0,0 km/h (0 Bft) W-NW 286 ° 0 min 0,000 mm 0,0 UV-I 0 W/m² 9,7 °C 10,6 °C 0,0 km/h (0 Bft)
28.10.2019 06:46 10,6 °C 94 % 1016,9 hPa 0,0 mm 0,0 km/h (0 Bft) W-NW 286 ° 0 min 0,000 mm 0,0 UV-I 0 W/m² 9,7 °C 10,6 °C 0,0 km/h (0 Bft)
28.10.2019 06:47 10,6 °C 94 % 1016,9 hPa 0,0 mm 0,0 km/h (0 Bft) W-NW 286 ° 0 min 0,000 mm 0,0 UV-I 0 W/m² 9,7 °C 10,6 °C 0,0 km/h (0 Bft)
28.10.2019 06:48 10,6 °C 94 % 1017,0 hPa 0,0 mm 0,0 km/h (0 Bft) W-NW 286 ° 0 min 0,000 mm 0,0 UV-I 0 W/m² 9,7 °C 10,6 °C 0,0 km/h (0 Bft)
28.10.2019 06:49 10,6 °C 94 % 1016,9 hPa 0,0 mm 0,0 km/h (0 Bft) W-NW 286 ° 0 min 0,000 mm 0,0 UV-I 0 W/m² 9,7 °C 10,6 °C 0,0 km/h (0 Bft)
28.10.2019 06:50 10,6 °C 94 % 1017,0 hPa 0,0 mm 0,0 km/h (0 Bft) W-NW 286 ° 0 min 0,000 mm 0,0 UV-I 0 W/m² 9,7 °C 10,6 °C 0,0 km/h (0 Bft)
28.10.2019 06:51 10,6 °C 94 % 1017,0 hPa 0,0 mm 0,0 km/h (0 Bft) W-NW 286 ° 0 min 0,000 mm 0,0 UV-I 0 W/m² 9,7 °C 10,6 °C 0,0 km/h (0 Bft)
28.10.2019 06:52 10,5 °C 94 % 1016,9 hPa 0,0 mm 0,0 km/h (0 Bft) W-NW 286 ° 0 min 0,000 mm 0,0 UV-I 0 W/m² 9,6 °C 10,5 °C 0,0 km/h (0 Bft)
28.10.2019 06:53 10,6 °C 94 % 1016,9 hPa 0,0 mm 0,0 km/h (0 Bft) W-NW 286 ° 0 min 0,000 mm 0,0 UV-I 0 W/m² 9,7 °C 10,6 °C 0,0 km/h (0 Bft)
28.10.2019 06:54 10,5 °C 94 % 1016,9 hPa 0,0 mm 0,0 km/h (0 Bft) W-NW 286 ° 0 min 0,000 mm 0,0 UV-I 0 W/m² 9,6 °C 10,5 °C 0,0 km/h (0 Bft)
28.10.2019 06:55 10,5 °C 94 % 1016,9 hPa 0,0 mm 0,0 km/h (0 Bft) W-NW 286 ° 0 min 0,000 mm 0,0 UV-I 0 W/m² 9,6 °C 10,5 °C 0,0 km/h (0 Bft)
28.10.2019 06:56 10,5 °C 94 % 1017,0 hPa 0,0 mm 0,0 km/h (0 Bft) W-NW 286 ° 0 min 0,000 mm 0,0 UV-I 0 W/m² 9,6 °C 10,5 °C 0,0 km/h (0 Bft)
28.10.2019 06:57 10,4 °C 94 % 1017,0 hPa 0,0 mm 0,0 km/h (0 Bft) W-NW 286 ° 0 min 0,000 mm 0,0 UV-I 0 W/m² 9,5 °C 10,4 °C 0,0 km/h (0 Bft)
28.10.2019 06:58 10,4 °C 94 % 1016,9 hPa 0,0 mm 0,0 km/h (0 Bft) W-NW 286 ° 0 min 0,000 mm 0,0 UV-I 0 W/m² 9,5 °C 10,4 °C 0,0 km/h (0 Bft)
28.10.2019 06:59 10,4 °C 94 % 1016,9 hPa 0,0 mm 0,0 km/h (0 Bft) W-NW 286 ° 0 min 0,000 mm 0,0 UV-I 0 W/m² 9,5 °C 10,4 °C 0,0 km/h (0 Bft)
28.10.2019 07:00 10,4 °C 94 % 1016,8 hPa 0,0 mm 0,0 km/h (0 Bft) W-NW 286 ° 0 min 0,000 mm 0,0 UV-I 0 W/m² 9,5 °C 10,4 °C 0,0 km/h (0 Bft)
28.10.2019 07:01 10,4 °C 94 % 1016,9 hPa 0,0 mm 0,0 km/h (0 Bft) W-NW 286 ° 0 min 0,000 mm 0,0 UV-I 0 W/m² 9,5 °C 10,4 °C 0,0 km/h (0 Bft)
28.10.2019 07:02 10,4 °C 94 % 1016,9 hPa 0,0 mm 0,0 km/h (0 Bft) W-NW 286 ° 0 min 0,000 mm 0,0 UV-I 0 W/m² 9,5 °C 10,4 °C 0,0 km/h (0 Bft)
28.10.2019 07:03 10,4 °C 94 % 1016,9 hPa 0,0 mm 0,0 km/h (0 Bft) W-NW 286 ° 0 min 0,000 mm 0,0 UV-I 0 W/m² 9,5 °C 10,4 °C 0,0 km/h (0 Bft)
28.10.2019 07:04 10,4 °C 94 % 1016,9 hPa 0,0 mm 0,0 km/h (0 Bft) W-NW 286 ° 0 min 0,000 mm 0,0 UV-I 0 W/m² 9,5 °C 10,4 °C 0,0 km/h (0 Bft)
28.10.2019 07:05 10,4 °C 94 % 1016,9 hPa 0,0 mm 0,0 km/h (0 Bft) W-NW 286 ° 0 min 0,000 mm 0,0 UV-I 0 W/m² 9,5 °C 10,4 °C 0,0 km/h (0 Bft)
28.10.2019 07:06 10,4 °C 94 % 1017,0 hPa 0,0 mm 0,0 km/h (0 Bft) W-NW 286 ° 0 min 0,000 mm 0,0 UV-I 0 W/m² 9,5 °C 10,4 °C 0,0 km/h (0 Bft)
28.10.2019 07:07 10,4 °C 94 % 1017,0 hPa 0,0 mm 0,0 km/h (0 Bft) W-NW 286 ° 0 min 0,000 mm 0,0 UV-I 0 W/m² 9,5 °C 10,4 °C 0,0 km/h (0 Bft)
28.10.2019 07:08 10,4 °C 94 % 1017,0 hPa 0,0 mm 0,0 km/h (0 Bft) W-NW 286 ° 0 min 0,000 mm 0,0 UV-I 0 W/m² 9,5 °C 10,4 °C 0,0 km/h (0 Bft)
28.10.2019 07:09 10,4 °C 94 % 1017,0 hPa 0,0 mm 0,0 km/h (0 Bft) W-NW 286 ° 0 min 0,000 mm 0,0 UV-I 0 W/m² 9,5 °C 10,4 °C 0,0 km/h (0 Bft)
28.10.2019 07:10 10,4 °C 94 % 1017,0 hPa 0,0 mm 0,0 km/h (0 Bft) W-NW 286 ° 0 min 0,000 mm 0,0 UV-I 0 W/m² 9,5 °C 10,4 °C 0,0 km/h (0 Bft)
28.10.2019 07:11 10,4 °C 94 % 1017,0 hPa 0,0 mm 0,0 km/h (0 Bft) W-NW 286 ° 0 min 0,000 mm 0,0 UV-I 0 W/m² 9,5 °C 10,4 °C 0,0 km/h (0 Bft)
28.10.2019 07:12 10,4 °C 94 % 1017,0 hPa 0,0 mm 0,0 km/h (0 Bft) W-NW 286 ° 0 min 0,000 mm 0,0 UV-I 5 W/m² 9,5 °C 10,4 °C 0,0 km/h (0 Bft)
28.10.2019 07:13 10,3 °C 94 % 1017,0 hPa 0,0 mm 0,0 km/h (0 Bft) W-NW 286 ° 0 min 0,000 mm 0,0 UV-I 5 W/m² 9,4 °C 10,3 °C 0,0 km/h (0 Bft)
28.10.2019 07:14 10,3 °C 94 % 1017,0 hPa 0,0 mm 0,0 km/h (0 Bft) W-NW 286 ° 0 min 0,000 mm 0,0 UV-I 5 W/m² 9,4 °C 10,3 °C 0,0 km/h (0 Bft)
28.10.2019 07:15 10,3 °C 94 % 1017,0 hPa 0,0 mm 0,0 km/h (0 Bft) W-NW 286 ° 0 min 0,000 mm 0,0 UV-I 5 W/m² 9,4 °C 10,3 °C 0,0 km/h (0 Bft)
28.10.2019 07:16 10,3 °C 94 % 1017,0 hPa 0,0 mm 0,0 km/h (0 Bft) W-NW 286 ° 0 min 0,000 mm 0,0 UV-I 5 W/m² 9,4 °C 10,3 °C 0,0 km/h (0 Bft)
28.10.2019 07:17 10,3 °C 94 % 1017,0 hPa 0,0 mm 0,0 km/h (0 Bft) W-NW 286 ° 0 min 0,000 mm 0,0 UV-I 5 W/m² 9,4 °C 10,3 °C 0,0 km/h (0 Bft)
28.10.2019 07:18 10,3 °C 94 % 1017,0 hPa 0,0 mm 0,0 km/h (0 Bft) W-NW 286 ° 0 min 0,000 mm 0,0 UV-I 5 W/m² 9,4 °C 10,3 °C 0,0 km/h (0 Bft)
28.10.2019 07:19 10,3 °C 94 % 1017,0 hPa 0,0 mm 0,0 km/h (0 Bft) W-NW 286 ° 0 min 0,000 mm 0,0 UV-I 5 W/m² 9,4 °C 10,3 °C 0,0 km/h (0 Bft)
28.10.2019 07:20 10,3 °C 94 % 1017,0 hPa 0,0 mm 0,0 km/h (0 Bft) W-NW 286 ° 0 min 0,000 mm 0,0 UV-I 5 W/m² 9,4 °C 10,3 °C 0,0 km/h (0 Bft)
28.10.2019 07:21 10,3 °C 94 % 1017,1 hPa 0,0 mm 0,0 km/h (0 Bft) W-NW 286 ° 0 min 0,000 mm 0,0 UV-I 7 W/m² 9,4 °C 10,3 °C 0,0 km/h (0 Bft)
28.10.2019 07:22 10,3 °C 94 % 1017,1 hPa 0,0 mm 0,0 km/h (0 Bft) W-NW 286 ° 0 min 0,000 mm 0,0 UV-I 7 W/m² 9,4 °C 10,3 °C 0,0 km/h (0 Bft)
28.10.2019 07:23 10,3 °C 94 % 1017,1 hPa 0,0 mm 0,0 km/h (0 Bft) W-NW 286 ° 0 min 0,000 mm 0,0 UV-I 7 W/m² 9,4 °C 10,3 °C 0,0 km/h (0 Bft)
28.10.2019 07:24 10,3 °C 94 % 1017,1 hPa 0,0 mm 0,0 km/h (0 Bft) W-NW 286 ° 0 min 0,000 mm 0,0 UV-I 7 W/m² 9,4 °C 10,3 °C 0,0 km/h (0 Bft)
28.10.2019 07:25 10,3 °C 94 % 1017,1 hPa 0,0 mm 0,0 km/h (0 Bft) W-NW 286 ° 0 min 0,000 mm 0,0 UV-I 7 W/m² 9,4 °C 10,3 °C 0,0 km/h (0 Bft)
28.10.2019 07:26 10,3 °C 94 % 1017,1 hPa 0,0 mm 0,0 km/h (0 Bft) W-NW 286 ° 0 min 0,000 mm 0,0 UV-I 7 W/m² 9,4 °C 10,3 °C 0,0 km/h (0 Bft)
28.10.2019 07:27 10,3 °C 94 % 1017,1 hPa 0,0 mm 0,0 km/h (0 Bft) W-NW 286 ° 0 min 0,000 mm 0,0 UV-I 7 W/m² 9,4 °C 10,3 °C 0,0 km/h (0 Bft)
28.10.2019 07:28 10,3 °C 94 % 1017,1 hPa 0,0 mm 0,0 km/h (0 Bft) W-NW 286 ° 0 min 0,000 mm 0,0 UV-I 7 W/m² 9,4 °C 10,3 °C 0,0 km/h (0 Bft)
28.10.2019 07:29 10,3 °C 94 % 1017,2 hPa 0,0 mm 0,0 km/h (0 Bft) W-NW 286 ° 0 min 0,000 mm 0,0 UV-I 7 W/m² 9,4 °C 10,3 °C 0,0 km/h (0 Bft)
28.10.2019 07:30 10,3 °C 94 % 1017,1 hPa 0,0 mm 0,0 km/h (0 Bft) W-NW 286 ° 0 min 0,000 mm 0,0 UV-I 9 W/m² 9,4 °C 10,3 °C 0,0 km/h (0 Bft)
28.10.2019 07:31 10,2 °C 94 % 1017,1 hPa 0,0 mm 0,0 km/h (0 Bft) W-NW 286 ° 0 min 0,000 mm 0,0 UV-I 9 W/m² 9,3 °C 10,2 °C 0,0 km/h (0 Bft)
28.10.2019 07:32 10,2 °C 94 % 1017,1 hPa 0,0 mm 0,0 km/h (0 Bft) W-NW 286 ° 0 min 0,000 mm 0,0 UV-I 9 W/m² 9,3 °C 10,2 °C 0,0 km/h (0 Bft)
28.10.2019 07:33 10,3 °C 94 % 1017,2 hPa 0,0 mm 0,0 km/h (0 Bft) W-NW 286 ° 0 min 0,000 mm 0,0 UV-I 9 W/m² 9,4 °C 10,3 °C 0,0 km/h (0 Bft)
28.10.2019 07:34 10,2 °C 94 % 1017,2 hPa 0,0 mm 0,0 km/h (0 Bft) W-NW 286 ° 0 min 0,000 mm 0,0 UV-I 9 W/m² 9,3 °C 10,2 °C 0,0 km/h (0 Bft)
28.10.2019 07:35 10,2 °C 94 % 1017,2 hPa 0,0 mm 0,0 km/h (0 Bft) W-NW 286 ° 0 min 0,000 mm 0,0 UV-I 9 W/m² 9,3 °C 10,2 °C 0,0 km/h (0 Bft)
28.10.2019 07:36 10,2 °C 94 % 1017,2 hPa 0,0 mm 0,0 km/h (0 Bft) W-NW 286 ° 0 min 0,000 mm 0,0 UV-I 9 W/m² 9,3 °C 10,2 °C 0,0 km/h (0 Bft)
28.10.2019 07:37 10,2 °C 94 % 1017,2 hPa 0,0 mm 0,0 km/h (0 Bft) W-NW 286 ° 0 min 0,000 mm 0,0 UV-I 9 W/m² 9,3 °C 10,2 °C 0,0 km/h (0 Bft)
28.10.2019 07:38 10,2 °C 94 % 1017,2 hPa 0,0 mm 0,0 km/h (0 Bft) W-NW 286 ° 0 min 0,000 mm 0,0 UV-I 9 W/m² 9,3 °C 10,2 °C 0,0 km/h (0 Bft)
28.10.2019 07:39 10,2 °C 94 % 1017,2 hPa 0,0 mm 0,0 km/h (0 Bft) W-NW 286 ° 0 min 0,000 mm 0,0 UV-I 9 W/m² 9,3 °C 10,2 °C 0,0 km/h (0 Bft)
28.10.2019 07:40 10,2 °C 94 % 1017,2 hPa 0,0 mm 0,0 km/h (0 Bft) W-NW 286 ° 0 min 0,000 mm 0,0 UV-I 11 W/m² 9,3 °C 10,2 °C 0,0 km/h (0 Bft)
28.10.2019 07:41 10,2 °C 94 % 1017,2 hPa 0,0 mm 0,0 km/h (0 Bft) W-NW 286 ° 0 min 0,000 mm 0,0 UV-I 11 W/m² 9,3 °C 10,2 °C 0,0 km/h (0 Bft)
28.10.2019 07:42 10,2 °C 94 % 1017,2 hPa 0,0 mm 0,0 km/h (0 Bft) W-NW 286 ° 0 min 0,000 mm 0,0 UV-I 11 W/m² 9,3 °C 10,2 °C 0,0 km/h (0 Bft)
28.10.2019 07:43 10,2 °C 94 % 1017,2 hPa 0,0 mm 0,0 km/h (0 Bft) W-NW 286 ° 0 min 0,000 mm 0,0 UV-I 11 W/m² 9,3 °C 10,2 °C 0,0 km/h (0 Bft)
28.10.2019 07:44 10,2 °C 94 % 1017,2 hPa 0,0 mm 0,0 km/h (0 Bft) W-NW 286 ° 0 min 0,000 mm 0,0 UV-I 11 W/m² 9,3 °C 10,2 °C 0,0 km/h (0 Bft)
28.10.2019 07:45 10,2 °C 94 % 1017,3 hPa 0,0 mm 0,0 km/h (0 Bft) W-NW 286 ° 0 min 0,000 mm 0,0 UV-I 12 W/m² 9,3 °C 10,2 °C 0,0 km/h (0 Bft)
28.10.2019 07:46 10,2 °C 94 % 1017,2 hPa 0,0 mm 0,0 km/h (0 Bft) W-NW 286 ° 0 min 0,000 mm 0,0 UV-I 12 W/m² 9,3 °C 10,2 °C 0,0 km/h (0 Bft)
28.10.2019 07:47 10,2 °C 94 % 1017,3 hPa 0,0 mm 0,0 km/h (0 Bft) W-NW 286 ° 0 min 0,000 mm 0,0 UV-I 14 W/m² 9,3 °C 10,2 °C 0,0 km/h (0 Bft)
28.10.2019 07:48 10,2 °C 94 % 1017,2 hPa 0,0 mm 0,0 km/h (0 Bft) W-NW 286 ° 0 min 0,000 mm 0,0 UV-I 18 W/m² 9,3 °C 10,2 °C 0,0 km/h (0 Bft)
28.10.2019 07:49 10,2 °C 94 % 1017,2 hPa 0,0 mm 0,0 km/h (0 Bft) W-NW 286 ° 0 min 0,000 mm 0,0 UV-I 19 W/m² 9,3 °C 10,2 °C 0,0 km/h (0 Bft)
28.10.2019 07:50 10,2 °C 94 % 1017,3 hPa 0,0 mm 0,0 km/h (0 Bft) W-NW 286 ° 0 min 0,000 mm 0,0 UV-I 21 W/m² 9,3 °C 10,2 °C 0,0 km/h (0 Bft)
28.10.2019 07:51 10,2 °C 94 % 1017,3 hPa 0,0 mm 0,0 km/h (0 Bft) W-NW 286 ° 0 min 0,000 mm 0,0 UV-I 23 W/m² 9,3 °C 10,2 °C 0,0 km/h (0 Bft)
28.10.2019 07:52 10,2 °C 94 % 1017,2 hPa 0,0 mm 0,0 km/h (0 Bft) W-NW 286 ° 0 min 0,000 mm 0,0 UV-I 26 W/m² 9,3 °C 10,2 °C 0,0 km/h (0 Bft)
28.10.2019 07:53 10,2 °C 94 % 1017,3 hPa 0,0 mm 0,0 km/h (0 Bft) W-NW 286 ° 0 min 0,000 mm 0,0 UV-I 28 W/m² 9,3 °C 10,2 °C 0,0 km/h (0 Bft)
28.10.2019 07:54 10,2 °C 94 % 1017,3 hPa 0,0 mm 0,0 km/h (0 Bft) W-NW 286 ° 0 min 0,000 mm 0,0 UV-I 32 W/m² 9,3 °C 10,2 °C 0,0 km/h (0 Bft)
28.10.2019 07:55 10,2 °C 94 % 1017,2 hPa 0,0 mm 0,0 km/h (0 Bft) W-NW 286 ° 0 min 0,000 mm 0,0 UV-I 33 W/m² 9,3 °C 10,2 °C 0,0 km/h (0 Bft)
28.10.2019 07:56 10,2 °C 94 % 1017,2 hPa 0,0 mm 0,0 km/h (0 Bft) W-NW 286 ° 0 min 0,000 mm 0,0 UV-I 33 W/m² 9,3 °C 10,2 °C 0,0 km/h (0 Bft)
28.10.2019 07:57 10,2 °C 94 % 1017,3 hPa 0,0 mm 0,0 km/h (0 Bft) W-NW 286 ° 0 min 0,000 mm 0,0 UV-I 35 W/m² 9,3 °C 10,2 °C 0,0 km/h (0 Bft)
28.10.2019 07:58 10,2 °C 94 % 1017,3 hPa 0,0 mm 0,0 km/h (0 Bft) W-NW 286 ° 0 min 0,000 mm 0,0 UV-I 37 W/m² 9,3 °C 10,2 °C 0,0 km/h (0 Bft)
28.10.2019 07:59 10,2 °C 94 % 1017,3 hPa 0,0 mm 0,0 km/h (0 Bft) W-NW 286 ° 0 min 0,000 mm 0,0 UV-I 40 W/m² 9,3 °C 10,2 °C 0,0 km/h (0 Bft)
28.10.2019 08:00 10,2 °C 94 % 1017,3 hPa 0,0 mm 0,0 km/h (0 Bft) W-NW 286 ° 0 min 0,000 mm 0,0 UV-I 42 W/m² 9,3 °C 10,2 °C 0,0 km/h (0 Bft)
28.10.2019 08:01 10,3 °C 94 % 1017,3 hPa 0,0 mm 0,0 km/h (0 Bft) W-NW 286 ° 0 min 0,000 mm 0,0 UV-I 44 W/m² 9,4 °C 10,3 °C 0,0 km/h (0 Bft)
28.10.2019 08:02 10,3 °C 94 % 1017,3 hPa 0,0 mm 0,0 km/h (0 Bft) W-NW 286 ° 0 min 0,000 mm 0,0 UV-I 46 W/m² 9,4 °C 10,3 °C 0,0 km/h (0 Bft)
28.10.2019 08:03 10,3 °C 94 % 1017,3 hPa 0,0 mm 0,0 km/h (0 Bft) W-NW 286 ° 0 min 0,000 mm 0,0 UV-I 47 W/m² 9,4 °C 10,3 °C 0,0 km/h (0 Bft)
28.10.2019 08:04 10,3 °C 94 % 1017,3 hPa 0,0 mm 0,0 km/h (0 Bft) W-NW 286 ° 0 min 0,000 mm 0,0 UV-I 47 W/m² 9,4 °C 10,3 °C 0,0 km/h (0 Bft)
28.10.2019 08:05 10,3 °C 94 % 1017,3 hPa 0,0 mm 0,0 km/h (0 Bft) W-NW 286 ° 0 min 0,000 mm 0,0 UV-I 47 W/m² 9,4 °C 10,3 °C 0,0 km/h (0 Bft)
28.10.2019 08:06 10,3 °C 94 % 1017,3 hPa 0,0 mm 0,0 km/h (0 Bft) W-NW 286 ° 0 min 0,000 mm 0,0 UV-I 47 W/m² 9,4 °C 10,3 °C 0,0 km/h (0 Bft)
28.10.2019 08:07 10,3 °C 94 % 1017,3 hPa 0,0 mm 0,0 km/h (0 Bft) W-NW 286 ° 0 min 0,000 mm 0,0 UV-I 47 W/m² 9,4 °C 10,3 °C 0,0 km/h (0 Bft)
28.10.2019 08:08 10,3 °C 94 % 1017,3 hPa 0,0 mm 0,0 km/h (0 Bft) W-NW 286 ° 0 min 0,000 mm 0,0 UV-I 47 W/m² 9,4 °C 10,3 °C 0,0 km/h (0 Bft)
28.10.2019 08:09 10,3 °C 94 % 1017,3 hPa 0,0 mm 0,0 km/h (0 Bft) W-NW 286 ° 0 min 0,000 mm 0,0 UV-I 47 W/m² 9,4 °C 10,3 °C 0,0 km/h (0 Bft)
28.10.2019 08:10 10,3 °C 94 % 1017,3 hPa 0,0 mm 0,0 km/h (0 Bft) W-NW 286 ° 0 min 0,000 mm 0,0 UV-I 47 W/m² 9,4 °C 10,3 °C 0,0 km/h (0 Bft)
28.10.2019 08:11 10,3 °C 94 % 1017,3 hPa 0,0 mm 0,0 km/h (0 Bft) W-NW 286 ° 0 min 0,000 mm 0,0 UV-I 46 W/m² 9,4 °C 10,3 °C 0,0 km/h (0 Bft)
28.10.2019 08:12 10,3 °C 94 % 1017,3 hPa 0,0 mm 0,0 km/h (0 Bft) W-NW 286 ° 0 min 0,000 mm 0,0 UV-I 44 W/m² 9,4 °C 10,3 °C 0,0 km/h (0 Bft)
28.10.2019 08:13 10,3 °C 94 % 1017,3 hPa 0,0 mm 0,0 km/h (0 Bft) W-NW 286 ° 0 min 0,000 mm 0,0 UV-I 42 W/m² 9,4 °C 10,3 °C 0,0 km/h (0 Bft)
28.10.2019 08:14 10,3 °C 94 % 1017,3 hPa 0,0 mm 0,0 km/h (0 Bft) W-NW 286 ° 0 min 0,000 mm 0,0 UV-I 40 W/m² 9,4 °C 10,3 °C 0,0 km/h (0 Bft)
28.10.2019 08:15 10,3 °C 94 % 1017,3 hPa 0,0 mm 0,0 km/h (0 Bft) W-NW 286 ° 0 min 0,000 mm 0,0 UV-I 37 W/m² 9,4 °C 10,3 °C 0,0 km/h (0 Bft)
28.10.2019 08:16 10,3 °C 94 % 1017,3 hPa 0,0 mm 0,0 km/h (0 Bft) W-NW 286 ° 0 min 0,000 mm 0,0 UV-I 35 W/m² 9,4 °C 10,3 °C 0,0 km/h (0 Bft)
28.10.2019 08:17 10,4 °C 94 % 1017,3 hPa 0,0 mm 0,0 km/h (0 Bft) W-NW 286 ° 0 min 0,000 mm 0,0 UV-I 32 W/m² 9,5 °C 10,4 °C 0,0 km/h (0 Bft)
28.10.2019 08:18 10,3 °C 94 % 1017,3 hPa 0,0 mm 0,0 km/h (0 Bft) W-NW 286 ° 0 min 0,000 mm 0,0 UV-I 32 W/m² 9,4 °C 10,3 °C 0,0 km/h (0 Bft)
28.10.2019 08:19 10,3 °C 94 % 1017,4 hPa 0,0 mm 0,0 km/h (0 Bft) W-NW 286 ° 0 min 0,000 mm 0,0 UV-I 32 W/m² 9,4 °C 10,3 °C 0,0 km/h (0 Bft)
28.10.2019 08:20 10,3 °C 94 % 1017,3 hPa 0,0 mm 0,0 km/h (0 Bft) W-NW 286 ° 0 min 0,000 mm 0,0 UV-I 30 W/m² 9,4 °C 10,3 °C 0,0 km/h (0 Bft)
28.10.2019 08:21 10,4 °C 94 % 1017,3 hPa 0,0 mm 0,0 km/h (0 Bft) W-NW 286 ° 0 min 0,000 mm 0,0 UV-I 28 W/m² 9,5 °C 10,4 °C 0,0 km/h (0 Bft)
28.10.2019 08:22 10,4 °C 94 % 1017,4 hPa 0,0 mm 0,0 km/h (0 Bft) W-NW 286 ° 0 min 0,000 mm 0,0 UV-I 28 W/m² 9,5 °C 10,4 °C 0,0 km/h (0 Bft)
28.10.2019 08:23 10,4 °C 94 % 1017,4 hPa 0,0 mm 0,0 km/h (0 Bft) W-NW 286 ° 0 min 0,000 mm 0,0 UV-I 28 W/m² 9,5 °C 10,4 °C 0,0 km/h (0 Bft)
28.10.2019 08:24 10,4 °C 94 % 1017,4 hPa 0,0 mm 0,0 km/h (0 Bft) O-NO 57 ° 0 min 0,000 mm 0,0 UV-I 28 W/m² 9,5 °C 10,4 °C 0,0 km/h (0 Bft)
28.10.2019 08:25 10,4 °C 94 % 1017,4 hPa 0,0 mm 3,6 km/h (1 Bft) NO 50 ° 0 min 0,000 mm 0,0 UV-I 28 W/m² 9,5 °C 10,4 °C 6,4 km/h (2 Bft)
28.10.2019 08:26 10,4 °C 94 % 1017,4 hPa 0,0 mm 2,2 km/h (1 Bft) NO 51 ° 0 min 0,000 mm 0,0 UV-I 26 W/m² 9,5 °C 10,4 °C 3,2 km/h (1 Bft)
28.10.2019 08:27 10,4 °C 94 % 1017,4 hPa 0,0 mm 0,7 km/h (0 Bft) NO 51 ° 0 min 0,000 mm 0,0 UV-I 26 W/m² 9,5 °C 10,4 °C 1,6 km/h (1 Bft)
28.10.2019 08:28 10,4 °C 94 % 1017,4 hPa 0,0 mm 1,5 km/h (1 Bft) NO 51 ° 0 min 0,000 mm 0,0 UV-I 26 W/m² 9,5 °C 10,4 °C 4,8 km/h (1 Bft)
28.10.2019 08:29 10,4 °C 94 % 1017,4 hPa 0,0 mm 3,2 km/h (1 Bft) NO 51 ° 0 min 0,000 mm 0,0 UV-I 28 W/m² 9,5 °C 10,4 °C 4,8 km/h (1 Bft)
28.10.2019 08:30 10,4 °C 94 % 1017,4 hPa 0,0 mm 0,7 km/h (0 Bft) NO 51 ° 0 min 0,000 mm 0,0 UV-I 30 W/m² 9,5 °C 10,4 °C 3,2 km/h (1 Bft)
28.10.2019 08:31 10,4 °C 94 % 1017,4 hPa 0,0 mm 0,0 km/h (0 Bft) NO 51 ° 0 min 0,000 mm 0,0 UV-I 30 W/m² 9,5 °C 10,4 °C 0,0 km/h (0 Bft)
28.10.2019 08:32 10,4 °C 94 % 1017,4 hPa 0,0 mm 1,0 km/h (0 Bft) NO 51 ° 0 min 0,000 mm 0,0 UV-I 30 W/m² 9,5 °C 10,4 °C 3,2 km/h (1 Bft)
28.10.2019 08:33 10,4 °C 94 % 1017,4 hPa 0,0 mm 0,9 km/h (0 Bft) NO 51 ° 0 min 0,000 mm 0,0 UV-I 28 W/m² 9,5 °C 10,4 °C 3,2 km/h (1 Bft)
28.10.2019 08:34 10,4 °C 94 % 1017,4 hPa 0,0 mm 0,0 km/h (0 Bft) NO 51 ° 0 min 0,000 mm 0,0 UV-I 32 W/m² 9,5 °C 10,4 °C 0,0 km/h (0 Bft)
28.10.2019 08:35 10,4 °C 94 % 1017,4 hPa 0,0 mm 1,7 km/h (1 Bft) NO 51 ° 0 min 0,000 mm 0,0 UV-I 32 W/m² 9,5 °C 10,4 °C 3,2 km/h (1 Bft)
28.10.2019 08:36 10,3 °C 94 % 1017,4 hPa 0,0 mm 1,8 km/h (1 Bft) NO 51 ° 0 min 0,000 mm 0,0 UV-I 32 W/m² 9,4 °C 10,3 °C 3,2 km/h (1 Bft)
28.10.2019 08:37 10,3 °C 94 % 1017,4 hPa 0,0 mm 2,1 km/h (1 Bft) NO 51 ° 0 min 0,000 mm 0,0 UV-I 28 W/m² 9,4 °C 10,3 °C 3,2 km/h (1 Bft)
28.10.2019 08:38 10,3 °C 94 % 1017,4 hPa 0,0 mm 4,7 km/h (1 Bft) NO 38 ° 0 min 0,000 mm 0,0 UV-I 25 W/m² 9,4 °C 10,3 °C 6,4 km/h (2 Bft)
28.10.2019 08:39 10,3 °C 94 % 1017,4 hPa 0,0 mm 3,6 km/h (1 Bft) NO 38 ° 0 min 0,000 mm 0,0 UV-I 23 W/m² 9,4 °C 10,3 °C 4,8 km/h (1 Bft)
28.10.2019 08:40 10,3 °C 94 % 1017,4 hPa 0,0 mm 1,8 km/h (1 Bft) NO 38 ° 0 min 0,000 mm 0,0 UV-I 18 W/m² 9,4 °C 10,3 °C 3,2 km/h (1 Bft)
28.10.2019 08:41 10,3 °C 94 % 1017,4 hPa 0,0 mm 1,4 km/h (1 Bft) NO 38 ° 0 min 0,000 mm 0,0 UV-I 16 W/m² 9,4 °C 10,3 °C 3,2 km/h (1 Bft)
28.10.2019 08:42 10,2 °C 94 % 1017,4 hPa 0,0 mm 0,7 km/h (0 Bft) NO 36 ° 0 min 0,000 mm 0,0 UV-I 14 W/m² 9,3 °C 10,2 °C 3,2 km/h (1 Bft)
28.10.2019 08:43 10,2 °C 94 % 1017,4 hPa 0,0 mm 4,7 km/h (1 Bft) N-NW 348 ° 0 min 0,000 mm 0,0 UV-I 14 W/m² 9,3 °C 10,2 °C 6,4 km/h (2 Bft)
28.10.2019 08:44 10,2 °C 94 % 1017,5 hPa 0,0 mm 4,2 km/h (1 Bft) N 355 ° 0 min 0,000 mm 0,0 UV-I 14 W/m² 9,3 °C 10,2 °C 4,8 km/h (1 Bft)
28.10.2019 08:45 10,1 °C 94 % 1017,5 hPa 0,0 mm 3,0 km/h (1 Bft) N-NO 17 ° 0 min 0,000 mm 0,0 UV-I 16 W/m² 9,2 °C 10,1 °C 4,8 km/h (1 Bft)
28.10.2019 08:46 10,1 °C 94 % 1017,5 hPa 0,0 mm 4,0 km/h (1 Bft) NO 47 ° 0 min 0,000 mm 0,0 UV-I 16 W/m² 9,2 °C 10,1 °C 6,4 km/h (2 Bft)
28.10.2019 08:47 10,0 °C 94 % 1017,5 hPa 0,0 mm 1,5 km/h (1 Bft) NO 54 ° 0 min 0,000 mm 0,0 UV-I 16 W/m² 9,1 °C 10,0 °C 3,2 km/h (1 Bft)
28.10.2019 08:48 9,9 °C 94 % 1017,5 hPa 0,0 mm 4,4 km/h (1 Bft) O-NO 63 ° 0 min 0,000 mm 0,0 UV-I 16 W/m² 9,0 °C 9,9 °C 6,4 km/h (2 Bft)
28.10.2019 08:49 9,9 °C 94 % 1017,6 hPa 0,0 mm 4,2 km/h (1 Bft) O-NO 64 ° 0 min 0,000 mm 0,0 UV-I 16 W/m² 9,0 °C 9,9 °C 6,4 km/h (2 Bft)
28.10.2019 08:50 9,8 °C 94 % 1017,6 hPa 0,0 mm 4,7 km/h (1 Bft) O-NO 59 ° 0 min 0,000 mm 0,0 UV-I 18 W/m² 8,9 °C 9,6 °C 6,4 km/h (2 Bft)
28.10.2019 08:51 9,8 °C 94 % 1017,6 hPa 0,0 mm 2,9 km/h (1 Bft) O-NO 60 ° 0 min 0,000 mm 0,0 UV-I 21 W/m² 8,9 °C 9,8 °C 4,8 km/h (1 Bft)
28.10.2019 08:52 9,8 °C 94 % 1017,6 hPa 0,0 mm 3,5 km/h (1 Bft) O-NO 59 ° 0 min 0,000 mm 0,0 UV-I 26 W/m² 8,9 °C 9,8 °C 4,8 km/h (1 Bft)
28.10.2019 08:53 9,7 °C 94 % 1017,6 hPa 0,0 mm 2,7 km/h (1 Bft) O-NO 59 ° 0 min 0,000 mm 0,0 UV-I 30 W/m² 8,8 °C 9,7 °C 4,8 km/h (1 Bft)
28.10.2019 08:54 9,7 °C 94 % 1017,6 hPa 0,0 mm 3,2 km/h (1 Bft) O 80 ° 0 min 0,000 mm 0,0 UV-I 32 W/m² 8,8 °C 9,7 °C 4,8 km/h (1 Bft)
28.10.2019 08:55 9,7 °C 94 % 1017,6 hPa 0,0 mm 3,4 km/h (1 Bft) O-SO 112 ° 0 min 0,000 mm 0,0 UV-I 32 W/m² 8,8 °C 9,7 °C 4,8 km/h (1 Bft)
28.10.2019 08:56 9,6 °C 94 % 1017,6 hPa 0,0 mm 3,8 km/h (1 Bft) O-NO 59 ° 0 min 0,000 mm 0,0 UV-I 32 W/m² 8,7 °C 9,6 °C 6,4 km/h (2 Bft)
28.10.2019 08:57 9,6 °C 94 % 1017,6 hPa 0,0 mm 2,9 km/h (1 Bft) O-NO 59 ° 0 min 0,000 mm 0,0 UV-I 32 W/m² 8,7 °C 9,6 °C 4,8 km/h (1 Bft)
28.10.2019 08:58 9,5 °C 94 % 1017,7 hPa 0,0 mm 0,7 km/h (0 Bft) O-NO 59 ° 0 min 0,000 mm 0,0 UV-I 30 W/m² 8,6 °C 9,5 °C 3,2 km/h (1 Bft)
28.10.2019 08:59 9,5 °C 94 % 1017,7 hPa 0,0 mm 2,3 km/h (1 Bft) O-NO 59 ° 0 min 0,000 mm 0,0 UV-I 30 W/m² 8,6 °C 9,5 °C 4,8 km/h (1 Bft)
28.10.2019 09:00 9,4 °C 94 % 1017,6 hPa 0,0 mm 2,1 km/h (1 Bft) O-NO 59 ° 0 min 0,026 mm 0,0 UV-I 30 W/m² 8,5 °C 9,4 °C 3,2 km/h (1 Bft)
28.10.2019 09:01 9,4 °C 94 % 1017,6 hPa 0,0 mm 1,7 km/h (1 Bft) O 89 ° 0 min 0,000 mm 0,0 UV-I 30 W/m² 8,5 °C 9,4 °C 4,8 km/h (1 Bft)
28.10.2019 09:02 9,4 °C 94 % 1017,6 hPa 0,0 mm 2,8 km/h (1 Bft) O-NO 74 ° 0 min 0,000 mm 0,0 UV-I 32 W/m² 8,5 °C 9,4 °C 4,8 km/h (1 Bft)
28.10.2019 09:03 9,4 °C 94 % 1017,7 hPa 0,0 mm 3,0 km/h (1 Bft) O 79 ° 0 min 0,000 mm 0,0 UV-I 33 W/m² 8,5 °C 9,4 °C 6,4 km/h (2 Bft)
28.10.2019 09:04 9,3 °C 94 % 1017,6 hPa 0,0 mm 5,8 km/h (2 Bft) O-NO 62 ° 0 min 0,000 mm 0,0 UV-I 33 W/m² 8,4 °C 8,7 °C 9,7 km/h (2 Bft)
28.10.2019 09:05 9,3 °C 94 % 1017,6 hPa 0,0 mm 6,8 km/h (2 Bft) O-NO 65 ° 0 min 0,000 mm 0,0 UV-I 35 W/m² 8,4 °C 8,5 °C 9,7 km/h (2 Bft)
28.10.2019 09:06 9,2 °C 94 % 1017,6 hPa 0,0 mm 5,2 km/h (1 Bft) O-NO 58 ° 0 min 0,000 mm 0,0 UV-I 35 W/m² 8,3 °C 8,8 °C 8,0 km/h (2 Bft)
28.10.2019 09:07 9,1 °C 94 % 1017,6 hPa 0,0 mm 6,4 km/h (2 Bft) O-NO 58 ° 0 min 0,000 mm 0,0 UV-I 37 W/m² 8,2 °C 8,3 °C 11,3 km/h (2 Bft)
28.10.2019 09:08 9,1 °C 94 % 1017,6 hPa 0,0 mm 3,2 km/h (1 Bft) O-NO 77 ° 0 min 0,000 mm 0,0 UV-I 37 W/m² 8,2 °C 9,1 °C 4,8 km/h (1 Bft)
28.10.2019 09:09 9,0 °C 94 % 1017,6 hPa 0,0 mm 3,0 km/h (1 Bft) O-NO 77 ° 0 min 0,000 mm 0,0 UV-I 35 W/m² 8,1 °C 9,0 °C 4,8 km/h (1 Bft)
28.10.2019 09:10 8,9 °C 94 % 1017,7 hPa 0,0 mm 3,4 km/h (1 Bft) O-NO 77 ° 0 min 0,000 mm 0,0 UV-I 33 W/m² 8,0 °C 8,9 °C 4,8 km/h (1 Bft)
28.10.2019 09:11 8,9 °C 94 % 1017,7 hPa 0,0 mm 4,0 km/h (1 Bft) O-NO 78 ° 0 min 0,000 mm 0,0 UV-I 35 W/m² 8,0 °C 8,9 °C 4,8 km/h (1 Bft)
28.10.2019 09:12 8,9 °C 94 % 1017,7 hPa 0,0 mm 5,6 km/h (1 Bft) O-NO 61 ° 0 min 0,000 mm 0,0 UV-I 35 W/m² 8,0 °C 8,3 °C 8,0 km/h (2 Bft)
28.10.2019 09:13 8,8 °C 94 % 1017,6 hPa 0,0 mm 6,6 km/h (2 Bft) O-NO 63 ° 0 min 0,000 mm 0,0 UV-I 35 W/m² 7,9 °C 7,9 °C 9,7 km/h (2 Bft)
28.10.2019 09:14 8,8 °C 94 % 1017,7 hPa 0,0 mm 5,4 km/h (1 Bft) O-NO 76 ° 0 min 0,000 mm 0,0 UV-I 37 W/m² 7,9 °C 8,3 °C 6,4 km/h (2 Bft)
28.10.2019 09:15 8,8 °C 94 % 1017,7 hPa 0,0 mm 6,7 km/h (2 Bft) O-NO 63 ° 0 min 0,000 mm 0,0 UV-I 39 W/m² 7,9 °C 7,9 °C 9,7 km/h (2 Bft)
28.10.2019 09:16 8,7 °C 94 % 1017,7 hPa 0,0 mm 5,8 km/h (2 Bft) O-NO 76 ° 0 min 0,000 mm 0,0 UV-I 40 W/m² 7,8 °C 8,0 °C 6,4 km/h (2 Bft)
28.10.2019 09:17 8,7 °C 94 % 1017,7 hPa 0,0 mm 3,8 km/h (1 Bft) O-NO 62 ° 0 min 0,000 mm 0,0 UV-I 42 W/m² 7,8 °C 8,7 °C 6,4 km/h (2 Bft)
28.10.2019 09:18 8,6 °C 94 % 1017,7 hPa 0,0 mm 3,4 km/h (1 Bft) NO 53 ° 0 min 0,000 mm 0,0 UV-I 42 W/m² 7,7 °C 8,6 °C 6,4 km/h (2 Bft)
28.10.2019 09:19 8,6 °C 94 % 1017,7 hPa 0,0 mm 1,7 km/h (1 Bft) NO 53 ° 0 min 0,000 mm 0,0 UV-I 44 W/m² 7,7 °C 8,6 °C 3,2 km/h (1 Bft)
28.10.2019 09:20 8,6 °C 94 % 1017,7 hPa 0,0 mm 4,0 km/h (1 Bft) NO 53 ° 0 min 0,000 mm 0,0 UV-I 46 W/m² 7,7 °C 8,6 °C 6,4 km/h (2 Bft)
28.10.2019 09:21 8,6 °C 94 % 1017,7 hPa 0,0 mm 5,6 km/h (1 Bft) O-NO 59 ° 0 min 0,000 mm 0,0 UV-I 47 W/m² 7,7 °C 8,0 °C 9,7 km/h (2 Bft)
28.10.2019 09:22 8,5 °C 94 % 1017,7 hPa 0,0 mm 6,1 km/h (2 Bft) O-NO 57 ° 0 min 0,000 mm 0,0 UV-I 49 W/m² 7,6 °C 7,7 °C 8,0 km/h (2 Bft)
28.10.2019 09:23 8,4 °C 94 % 1017,7 hPa 0,0 mm 5,1 km/h (1 Bft) NO 50 ° 0 min 0,000 mm 0,0 UV-I 49 W/m² 7,5 °C 7,9 °C 6,4 km/h (2 Bft)
28.10.2019 09:24 8,4 °C 94 % 1017,7 hPa 0,0 mm 4,3 km/h (1 Bft) O 81 ° 0 min 0,000 mm 0,0 UV-I 49 W/m² 7,5 °C 8,4 °C 6,4 km/h (2 Bft)
28.10.2019 09:25 8,4 °C 94 % 1017,7 hPa 0,0 mm 6,8 km/h (2 Bft) O-NO 67 ° 0 min 0,000 mm 0,0 UV-I 49 W/m² 7,5 °C 7,4 °C 8,0 km/h (2 Bft)
28.10.2019 09:26 8,4 °C 94 % 1017,7 hPa 0,0 mm 2,6 km/h (1 Bft) O-NO 67 ° 0 min 0,000 mm 0,0 UV-I 51 W/m² 7,5 °C 8,4 °C 4,8 km/h (1 Bft)
28.10.2019 09:27 8,3 °C 94 % 1017,7 hPa 0,0 mm 5,1 km/h (1 Bft) NO 49 ° 0 min 0,000 mm 0,0 UV-I 53 W/m² 7,4 °C 7,8 °C 6,4 km/h (2 Bft)
28.10.2019 09:28 8,3 °C 94 % 1017,6 hPa 0,0 mm 5,6 km/h (1 Bft) NO 36 ° 0 min 0,000 mm 0,0 UV-I 54 W/m² 7,4 °C 7,6 °C 6,4 km/h (2 Bft)
28.10.2019 09:29 8,3 °C 94 % 1017,7 hPa 0,0 mm 5,6 km/h (1 Bft) NO 54 ° 0 min 0,000 mm 0,0 UV-I 54 W/m² 7,4 °C 7,6 °C 8,0 km/h (2 Bft)
28.10.2019 09:30 8,3 °C 94 % 1017,7 hPa 0,0 mm 4,6 km/h (1 Bft) NO 43 ° 0 min 0,000 mm 0,5 UV-I 56 W/m² 7,4 °C 8,0 °C 6,4 km/h (2 Bft)
28.10.2019 09:31 8,3 °C 94 % 1017,7 hPa 0,0 mm 4,6 km/h (1 Bft) NO 37 ° 0 min 0,000 mm 0,5 UV-I 56 W/m² 7,4 °C 8,0 °C 6,4 km/h (2 Bft)
28.10.2019 09:32 8,2 °C 94 % 1017,7 hPa 0,0 mm 4,7 km/h (1 Bft) NO 48 ° 0 min 0,000 mm 0,5 UV-I 56 W/m² 7,3 °C 7,8 °C 6,4 km/h (2 Bft)
28.10.2019 09:33 8,2 °C 94 % 1017,7 hPa 0,0 mm 5,5 km/h (1 Bft) NO 38 ° 0 min 0,000 mm 0,5 UV-I 60 W/m² 7,3 °C 7,6 °C 9,7 km/h (2 Bft)
28.10.2019 09:34 8,1 °C 94 % 1017,7 hPa 0,0 mm 5,2 km/h (1 Bft) O 81 ° 0 min 0,000 mm 0,5 UV-I 62 W/m² 7,2 °C 7,5 °C 6,4 km/h (2 Bft)
28.10.2019 09:35 8,1 °C 94 % 1017,7 hPa 0,0 mm 2,2 km/h (1 Bft) O 81 ° 0 min 0,000 mm 0,5 UV-I 63 W/m² 7,2 °C 8,1 °C 3,2 km/h (1 Bft)
28.10.2019 09:36 8,1 °C 94 % 1017,7 hPa 0,0 mm 2,3 km/h (1 Bft) O 81 ° 0 min 0,000 mm 0,5 UV-I 63 W/m² 7,2 °C 8,1 °C 4,8 km/h (1 Bft)
28.10.2019 09:37 8,1 °C 94 % 1017,7 hPa 0,0 mm 2,8 km/h (1 Bft) O-NO 77 ° 0 min 0,000 mm 0,5 UV-I 65 W/m² 7,2 °C 8,1 °C 6,4 km/h (2 Bft)
28.10.2019 09:38 8,0 °C 94 % 1017,7 hPa 0,0 mm 4,5 km/h (1 Bft) O-NO 59 ° 0 min 0,000 mm 0,6 UV-I 67 W/m² 7,1 °C 8,0 °C 6,4 km/h (2 Bft)
28.10.2019 09:39 7,9 °C 94 % 1017,7 hPa 0,0 mm 2,6 km/h (1 Bft) O-NO 59 ° 0 min 0,000 mm 0,6 UV-I 67 W/m² 7,0 °C 7,9 °C 4,8 km/h (1 Bft)
28.10.2019 09:40 7,8 °C 94 % 1017,7 hPa 0,0 mm 3,2 km/h (1 Bft) O-NO 58 ° 0 min 0,000 mm 0,5 UV-I 67 W/m² 6,9 °C 7,8 °C 6,4 km/h (2 Bft)
28.10.2019 09:41 7,8 °C 94 % 1017,7 hPa 0,0 mm 2,9 km/h (1 Bft) O 80 ° 0 min 0,000 mm 0,6 UV-I 69 W/m² 6,9 °C 7,8 °C 6,4 km/h (2 Bft)
28.10.2019 09:42 7,8 °C 94 % 1017,7 hPa 0,0 mm 7,5 km/h (2 Bft) NO 55 ° 0 min 0,000 mm 0,6 UV-I 72 W/m² 6,9 °C 6,5 °C 11,3 km/h (2 Bft)
28.10.2019 09:43 7,8 °C 94 % 1017,7 hPa 0,0 mm 4,6 km/h (1 Bft) NO 56 ° 0 min 0,000 mm 0,6 UV-I 74 W/m² 6,9 °C 7,4 °C 6,4 km/h (2 Bft)
28.10.2019 09:44 7,8 °C 94 % 1017,7 hPa 0,0 mm 1,5 km/h (1 Bft) NO 56 ° 0 min 0,000 mm 0,6 UV-I 72 W/m² 6,9 °C 7,8 °C 3,2 km/h (1 Bft)
28.10.2019 09:45 7,8 °C 94 % 1017,7 hPa 0,0 mm 3,3 km/h (1 Bft) NO 56 ° 0 min 0,000 mm 0,6 UV-I 70 W/m² 6,9 °C 7,8 °C 4,8 km/h (1 Bft)
28.10.2019 09:46 7,7 °C 94 % 1017,7 hPa 0,0 mm 3,6 km/h (1 Bft) O-NO 75 ° 0 min 0,000 mm 0,6 UV-I 72 W/m² 6,8 °C 7,7 °C 6,4 km/h (2 Bft)
28.10.2019 09:47 7,7 °C 94 % 1017,7 hPa 0,0 mm 4,9 km/h (1 Bft) O-NO 74 ° 0 min 0,000 mm 0,6 UV-I 74 W/m² 6,8 °C 7,2 °C 6,4 km/h (2 Bft)
28.10.2019 09:48 7,7 °C 94 % 1017,7 hPa 0,0 mm 4,5 km/h (1 Bft) O 87 ° 0 min 0,000 mm 0,6 UV-I 74 W/m² 6,8 °C 7,7 °C 6,4 km/h (2 Bft)
28.10.2019 09:49 7,7 °C 94 % 1017,7 hPa 0,0 mm 6,2 km/h (2 Bft) O-NO 63 ° 0 min 0,000 mm 0,6 UV-I 74 W/m² 6,8 °C 6,8 °C 8,0 km/h (2 Bft)
28.10.2019 09:50 7,7 °C 94 % 1017,7 hPa 0,0 mm 5,9 km/h (2 Bft) O 95 ° 0 min 0,000 mm 0,6 UV-I 74 W/m² 6,8 °C 6,9 °C 8,0 km/h (2 Bft)
28.10.2019 09:51 7,7 °C 94 % 1017,7 hPa 0,0 mm 4,6 km/h (1 Bft) O-NO 77 ° 0 min 0,000 mm 0,6 UV-I 77 W/m² 6,8 °C 7,3 °C 6,4 km/h (2 Bft)
28.10.2019 09:52 7,7 °C 94 % 1017,7 hPa 0,0 mm 3,8 km/h (1 Bft) O 80 ° 0 min 0,000 mm 0,7 UV-I 81 W/m² 6,8 °C 7,7 °C 6,4 km/h (2 Bft)
28.10.2019 09:53 7,7 °C 94 % 1017,7 hPa 0,0 mm 5,2 km/h (1 Bft) O 83 ° 0 min 0,000 mm 0,7 UV-I 83 W/m² 6,8 °C 7,1 °C 6,4 km/h (2 Bft)
28.10.2019 09:54 7,7 °C 94 % 1017,7 hPa 0,0 mm 3,4 km/h (1 Bft) O 82 ° 0 min 0,000 mm 0,7 UV-I 84 W/m² 6,8 °C 7,7 °C 4,8 km/h (1 Bft)
28.10.2019 09:55 7,7 °C 94 % 1017,7 hPa 0,0 mm 4,3 km/h (1 Bft) NO 49 ° 0 min 0,000 mm 0,7 UV-I 84 W/m² 6,8 °C 7,7 °C 8,0 km/h (2 Bft)
28.10.2019 09:56 7,7 °C 94 % 1017,7 hPa 0,0 mm 3,6 km/h (1 Bft) N-NO 17 ° 0 min 0,000 mm 0,7 UV-I 88 W/m² 6,8 °C 7,7 °C 8,0 km/h (2 Bft)
28.10.2019 09:57 7,7 °C 94 % 1017,7 hPa 0,0 mm 4,5 km/h (1 Bft) NO 45 ° 0 min 0,000 mm 0,7 UV-I 91 W/m² 6,8 °C 7,7 °C 6,4 km/h (2 Bft)
28.10.2019 09:58 7,8 °C 94 % 1017,7 hPa 0,0 mm 4,4 km/h (1 Bft) O-NO 61 ° 0 min 0,000 mm 0,8 UV-I 95 W/m² 6,9 °C 7,8 °C 6,4 km/h (2 Bft)
28.10.2019 09:59 7,8 °C 94 % 1017,6 hPa 0,0 mm 3,6 km/h (1 Bft) O-NO 61 ° 0 min 0,000 mm 0,8 UV-I 97 W/m² 6,9 °C 7,8 °C 4,8 km/h (1 Bft)
28.10.2019 10:00 7,8 °C 94 % 1017,6 hPa 0,0 mm 4,9 km/h (1 Bft) NO 56 ° 0 min 0,000 mm 0,8 UV-I 100 W/m² 6,9 °C 7,3 °C 8,0 km/h (2 Bft)
28.10.2019 10:01 7,8 °C 94 % 1017,6 hPa 0,0 mm 6,5 km/h (2 Bft) O 94 ° 0 min 0,025 mm 0,8 UV-I 104 W/m² 6,9 °C 6,8 °C 9,7 km/h (2 Bft)
28.10.2019 10:02 7,8 °C 94 % 1017,7 hPa 0,0 mm 4,5 km/h (1 Bft) O-NO 78 ° 0 min 0,000 mm 0,8 UV-I 104 W/m² 6,9 °C 7,8 °C 8,0 km/h (2 Bft)
28.10.2019 10:03 7,8 °C 94 % 1017,6 hPa 0,0 mm 5,6 km/h (1 Bft) SO 126 ° 0 min 0,000 mm 0,8 UV-I 102 W/m² 6,9 °C 7,1 °C 6,4 km/h (2 Bft)
28.10.2019 10:04 7,7 °C 94 % 1017,7 hPa 0,0 mm 4,4 km/h (1 Bft) O-NO 64 ° 0 min 0,000 mm 0,8 UV-I 98 W/m² 6,8 °C 7,7 °C 4,8 km/h (1 Bft)
28.10.2019 10:05 7,7 °C 94 % 1017,7 hPa 0,0 mm 3,1 km/h (1 Bft) O-NO 62 ° 0 min 0,000 mm 0,8 UV-I 95 W/m² 6,8 °C 7,7 °C 6,4 km/h (2 Bft)
28.10.2019 10:06 7,7 °C 94 % 1017,6 hPa 0,0 mm 2,5 km/h (1 Bft) O-NO 62 ° 0 min 0,000 mm 0,8 UV-I 90 W/m² 6,8 °C 7,7 °C 4,8 km/h (1 Bft)
28.10.2019 10:07 7,8 °C 94 % 1017,7 hPa 0,0 mm 2,6 km/h (1 Bft) O-NO 62 ° 0 min 0,000 mm 0,7 UV-I 86 W/m² 6,9 °C 7,8 °C 3,2 km/h (1 Bft)
28.10.2019 10:08 7,8 °C 95 % 1017,7 hPa 0,0 mm 5,4 km/h (1 Bft) O-NO 77 ° 0 min 0,000 mm 0,8 UV-I 83 W/m² 7,0 °C 7,1 °C 8,0 km/h (2 Bft)
28.10.2019 10:09 7,8 °C 94 % 1017,6 hPa 0,0 mm 4,2 km/h (1 Bft) O-NO 57 ° 0 min 0,000 mm 0,8 UV-I 83 W/m² 6,9 °C 7,8 °C 8,0 km/h (2 Bft)
28.10.2019 10:10 7,7 °C 94 % 1017,6 hPa 0,0 mm 4,8 km/h (1 Bft) O-NO 64 ° 0 min 0,000 mm 0,8 UV-I 81 W/m² 6,8 °C 7,2 °C 6,4 km/h (2 Bft)
28.10.2019 10:11 7,7 °C 94 % 1017,6 hPa 0,0 mm 5,6 km/h (1 Bft) O-NO 63 ° 0 min 0,000 mm 0,8 UV-I 84 W/m² 6,8 °C 6,9 °C 6,4 km/h (2 Bft)
28.10.2019 10:12 7,7 °C 94 % 1017,6 hPa 0,0 mm 3,3 km/h (1 Bft) O-NO 76 ° 0 min 0,000 mm 0,8 UV-I 86 W/m² 6,8 °C 7,7 °C 6,4 km/h (2 Bft)
28.10.2019 10:13 7,7 °C 94 % 1017,6 hPa 0,0 mm 3,1 km/h (1 Bft) O 81 ° 0 min 0,000 mm 0,8 UV-I 90 W/m² 6,8 °C 7,7 °C 4,8 km/h (1 Bft)
28.10.2019 10:14 7,7 °C 94 % 1017,6 hPa 0,0 mm 3,4 km/h (1 Bft) O 81 ° 0 min 0,000 mm 0,8 UV-I 93 W/m² 6,8 °C 7,7 °C 4,8 km/h (1 Bft)
28.10.2019 10:15 7,7 °C 94 % 1017,6 hPa 0,0 mm 2,6 km/h (1 Bft) O 81 ° 0 min 0,000 mm 0,8 UV-I 90 W/m² 6,8 °C 7,7 °C 3,2 km/h (1 Bft)
28.10.2019 10:16 7,7 °C 95 % 1017,6 hPa 0,0 mm 3,2 km/h (1 Bft) O 81 ° 0 min 0,000 mm 0,8 UV-I 88 W/m² 7,0 °C 7,7 °C 4,8 km/h (1 Bft)
28.10.2019 10:17 7,7 °C 95 % 1017,6 hPa 0,0 mm 3,9 km/h (1 Bft) O 80 ° 0 min 0,000 mm 0,7 UV-I 83 W/m² 7,0 °C 7,7 °C 4,8 km/h (1 Bft)
28.10.2019 10:18 7,7 °C 95 % 1017,6 hPa 0,0 mm 5,6 km/h (1 Bft) O-NO 61 ° 0 min 0,000 mm 0,7 UV-I 77 W/m² 7,0 °C 6,9 °C 8,0 km/h (2 Bft)
28.10.2019 10:19 7,7 °C 95 % 1017,6 hPa 0,0 mm 3,7 km/h (1 Bft) O-NO 61 ° 0 min 0,000 mm 0,7 UV-I 76 W/m² 7,0 °C 7,7 °C 6,4 km/h (2 Bft)
28.10.2019 10:20 7,7 °C 95 % 1017,7 hPa 0,0 mm 2,7 km/h (1 Bft) NO 40 ° 0 min 0,000 mm 0,6 UV-I 70 W/m² 7,0 °C 7,7 °C 4,8 km/h (1 Bft)
28.10.2019 10:21 7,7 °C 94 % 1017,6 hPa 0,0 mm 2,8 km/h (1 Bft) O-NO 74 ° 0 min 0,000 mm 0,6 UV-I 70 W/m² 6,8 °C 7,7 °C 4,8 km/h (1 Bft)
28.10.2019 10:22 7,7 °C 95 % 1017,6 hPa 0,0 mm 4,8 km/h (1 Bft) NO 51 ° 0 min 0,000 mm 0,6 UV-I 69 W/m² 7,0 °C 7,2 °C 8,0 km/h (2 Bft)
28.10.2019 10:23 7,7 °C 95 % 1017,6 hPa 0,0 mm 4,8 km/h (1 Bft) NO 49 ° 0 min 0,000 mm 0,6 UV-I 69 W/m² 7,0 °C 7,2 °C 8,0 km/h (2 Bft)
28.10.2019 10:24 7,7 °C 95 % 1017,6 hPa 0,0 mm 5,0 km/h (1 Bft) N-NO 30 ° 0 min 0,000 mm 0,7 UV-I 70 W/m² 7,0 °C 7,1 °C 8,0 km/h (2 Bft)
28.10.2019 10:25 7,7 °C 95 % 1017,6 hPa 0,0 mm 5,7 km/h (1 Bft) NO 38 ° 0 min 0,000 mm 0,7 UV-I 74 W/m² 7,0 °C 6,9 °C 8,0 km/h (2 Bft)
28.10.2019 10:26 7,7 °C 95 % 1017,6 hPa 0,0 mm 5,1 km/h (1 Bft) O 98 ° 0 min 0,000 mm 0,7 UV-I 86 W/m² 7,0 °C 7,1 °C 11,3 km/h (2 Bft)
28.10.2019 10:27 7,6 °C 95 % 1017,6 hPa 0,0 mm 2,3 km/h (1 Bft) O 86 ° 0 min 0,000 mm 0,8 UV-I 90 W/m² 6,9 °C 7,6 °C 6,4 km/h (2 Bft)
28.10.2019 10:28 7,6 °C 95 % 1017,6 hPa 0,0 mm 5,3 km/h (1 Bft) O-NO 59 ° 0 min 0,000 mm 0,8 UV-I 86 W/m² 6,9 °C 6,9 °C 8,0 km/h (2 Bft)
28.10.2019 10:29 7,6 °C 95 % 1017,6 hPa 0,0 mm 6,6 km/h (2 Bft) O-NO 71 ° 0 min 0,000 mm 0,8 UV-I 84 W/m² 6,9 °C 6,5 °C 9,7 km/h (2 Bft)
28.10.2019 10:30 7,6 °C 94 % 1017,6 hPa 0,0 mm 5,3 km/h (1 Bft) O-NO 74 ° 0 min 0,000 mm 0,7 UV-I 83 W/m² 6,7 °C 6,9 °C 6,4 km/h (2 Bft)
28.10.2019 10:31 7,5 °C 95 % 1017,6 hPa 0,0 mm 4,7 km/h (1 Bft) O-NO 76 ° 0 min 0,000 mm 0,7 UV-I 81 W/m² 6,8 °C 7,0 °C 6,4 km/h (2 Bft)
28.10.2019 10:32 7,6 °C 94 % 1017,6 hPa 0,0 mm 4,1 km/h (1 Bft) NO 52 ° 0 min 0,000 mm 0,7 UV-I 83 W/m² 6,7 °C 7,6 °C 6,4 km/h (2 Bft)
28.10.2019 10:33 7,6 °C 95 % 1017,6 hPa 0,0 mm 5,0 km/h (1 Bft) NO 52 ° 0 min 0,000 mm 0,7 UV-I 83 W/m² 6,9 °C 7,0 °C 6,4 km/h (2 Bft)
28.10.2019 10:34 7,6 °C 95 % 1017,6 hPa 0,0 mm 4,4 km/h (1 Bft) O-NO 77 ° 0 min 0,000 mm 0,7 UV-I 83 W/m² 6,9 °C 7,6 °C 6,4 km/h (2 Bft)
28.10.2019 10:35 7,6 °C 95 % 1017,6 hPa 0,0 mm 4,4 km/h (1 Bft) O-NO 65 ° 0 min 0,000 mm 0,7 UV-I 79 W/m² 6,9 °C 7,6 °C 6,4 km/h (2 Bft)
28.10.2019 10:36 7,6 °C 95 % 1017,6 hPa 0,0 mm 5,4 km/h (1 Bft) O-NO 78 ° 0 min 0,000 mm 0,7 UV-I 77 W/m² 6,9 °C 6,9 °C 6,4 km/h (2 Bft)
28.10.2019 10:37 7,6 °C 95 % 1017,6 hPa 0,0 mm 2,2 km/h (1 Bft) O-NO 73 ° 0 min 0,000 mm 0,7 UV-I 77 W/m² 6,9 °C 7,6 °C 3,2 km/h (1 Bft)
28.10.2019 10:38 7,5 °C 95 % 1017,6 hPa 0,0 mm 4,1 km/h (1 Bft) O-NO 73 ° 0 min 0,000 mm 0,7 UV-I 76 W/m² 6,8 °C 7,5 °C 6,4 km/h (2 Bft)
28.10.2019 10:39 7,4 °C 95 % 1017,6 hPa 0,0 mm 3,4 km/h (1 Bft) O-NO 67 ° 0 min 0,000 mm 0,7 UV-I 74 W/m² 6,7 °C 7,4 °C 4,8 km/h (1 Bft)
28.10.2019 10:40 7,5 °C 95 % 1017,5 hPa 0,0 mm 5,7 km/h (1 Bft) NO 54 ° 0 min 0,000 mm 0,7 UV-I 76 W/m² 6,8 °C 6,7 °C 8,0 km/h (2 Bft)
28.10.2019 10:41 7,5 °C 95 % 1017,6 hPa 0,0 mm 5,1 km/h (1 Bft) NO 53 ° 0 min 0,000 mm 0,7 UV-I 76 W/m² 6,8 °C 6,9 °C 6,4 km/h (2 Bft)
28.10.2019 10:42 7,4 °C 95 % 1017,6 hPa 0,0 mm 3,8 km/h (1 Bft) NO 52 ° 0 min 0,000 mm 0,7 UV-I 77 W/m² 6,7 °C 7,4 °C 4,8 km/h (1 Bft)
28.10.2019 10:43 7,5 °C 95 % 1017,6 hPa 0,0 mm 3,0 km/h (1 Bft) NO 40 ° 0 min 0,000 mm 0,7 UV-I 83 W/m² 6,8 °C 7,5 °C 6,4 km/h (2 Bft)
28.10.2019 10:44 7,5 °C 95 % 1017,6 hPa 0,0 mm 2,1 km/h (1 Bft) NO 40 ° 0 min 0,000 mm 0,7 UV-I 88 W/m² 6,8 °C 7,5 °C 4,8 km/h (1 Bft)
28.10.2019 10:45 7,5 °C 95 % 1017,6 hPa 0,0 mm 4,3 km/h (1 Bft) O 82 ° 0 min 0,000 mm 0,8 UV-I 90 W/m² 6,8 °C 7,5 °C 4,8 km/h (1 Bft)
28.10.2019 10:46 7,4 °C 95 % 1017,6 hPa 0,0 mm 5,8 km/h (2 Bft) N-NO 22 ° 0 min 0,000 mm 0,8 UV-I 95 W/m² 6,7 °C 6,5 °C 8,0 km/h (2 Bft)
28.10.2019 10:47 7,5 °C 95 % 1017,6 hPa 0,0 mm 4,4 km/h (1 Bft) O 88 ° 0 min 0,000 mm 0,8 UV-I 98 W/m² 6,8 °C 7,5 °C 9,7 km/h (2 Bft)
28.10.2019 10:48 7,5 °C 95 % 1017,6 hPa 0,0 mm 4,9 km/h (1 Bft) O 79 ° 0 min 0,000 mm 0,8 UV-I 100 W/m² 6,8 °C 7,0 °C 8,0 km/h (2 Bft)
28.10.2019 10:49 7,4 °C 95 % 1017,6 hPa 0,0 mm 1,0 km/h (0 Bft) O 79 ° 0 min 0,000 mm 0,9 UV-I 102 W/m² 6,7 °C 7,4 °C 3,2 km/h (1 Bft)
28.10.2019 10:50 7,4 °C 95 % 1017,6 hPa 0,0 mm 4,0 km/h (1 Bft) O 79 ° 0 min 0,000 mm 0,8 UV-I 104 W/m² 6,7 °C 7,4 °C 6,4 km/h (2 Bft)
28.10.2019 10:51 7,4 °C 95 % 1017,6 hPa 0,0 mm 3,9 km/h (1 Bft) NO 53 ° 0 min 0,000 mm 0,9 UV-I 105 W/m² 6,7 °C 7,4 °C 6,4 km/h (2 Bft)
28.10.2019 10:52 7,4 °C 95 % 1017,6 hPa 0,0 mm 3,8 km/h (1 Bft) NO 53 ° 0 min 0,000 mm 0,8 UV-I 104 W/m² 6,7 °C 7,4 °C 6,4 km/h (2 Bft)
28.10.2019 10:53 7,4 °C 95 % 1017,6 hPa 0,0 mm 3,7 km/h (1 Bft) NO 53 ° 0 min 0,000 mm 0,8 UV-I 104 W/m² 6,7 °C 7,4 °C 4,8 km/h (1 Bft)
28.10.2019 10:54 7,5 °C 95 % 1017,6 hPa 0,0 mm 1,4 km/h (1 Bft) NO 53 ° 0 min 0,000 mm 0,8 UV-I 98 W/m² 6,8 °C 7,5 °C 3,2 km/h (1 Bft)
28.10.2019 10:55 7,5 °C 95 % 1017,6 hPa 0,0 mm 3,7 km/h (1 Bft) NO 53 ° 0 min 0,000 mm 0,8 UV-I 97 W/m² 6,8 °C 7,5 °C 4,8 km/h (1 Bft)
28.10.2019 10:56 7,6 °C 95 % 1017,6 hPa 0,0 mm 0,1 km/h (0 Bft) NO 53 ° 0 min 0,000 mm 0,7 UV-I 91 W/m² 6,9 °C 7,6 °C 1,6 km/h (1 Bft)
28.10.2019 10:57 7,6 °C 95 % 1017,6 hPa 0,0 mm 1,3 km/h (1 Bft) N-NO 30 ° 0 min 0,000 mm 0,7 UV-I 86 W/m² 6,9 °C 7,6 °C 6,4 km/h (2 Bft)
28.10.2019 10:58 7,6 °C 95 % 1017,6 hPa 0,0 mm 2,9 km/h (1 Bft) NO 40 ° 0 min 0,000 mm 0,7 UV-I 86 W/m² 6,9 °C 7,6 °C 6,4 km/h (2 Bft)
28.10.2019 10:59 7,7 °C 95 % 1017,6 hPa 0,0 mm 4,7 km/h (1 Bft) NO 37 ° 0 min 0,000 mm 0,7 UV-I 84 W/m² 7,0 °C 7,3 °C 8,0 km/h (2 Bft)
28.10.2019 11:00 7,7 °C 95 % 1017,6 hPa 0,0 mm 5,3 km/h (1 Bft) NO 49 ° 0 min 0,000 mm 0,7 UV-I 83 W/m² 7,0 °C 7,0 °C 8,0 km/h (2 Bft)
28.10.2019 11:01 7,6 °C 95 % 1017,7 hPa 0,0 mm 4,2 km/h (1 Bft) N-NO 30 ° 0 min 0,051 mm 0,7 UV-I 84 W/m² 6,9 °C 7,6 °C 6,4 km/h (2 Bft)
28.10.2019 11:02 7,6 °C 95 % 1017,6 hPa 0,0 mm 4,6 km/h (1 Bft) NO 53 ° 0 min 0,000 mm 0,7 UV-I 84 W/m² 6,9 °C 7,2 °C 6,4 km/h (2 Bft)
28.10.2019 11:03 7,6 °C 95 % 1017,7 hPa 0,0 mm 4,4 km/h (1 Bft) N-NW 330 ° 0 min 0,000 mm 0,7 UV-I 84 W/m² 6,9 °C 7,6 °C 4,8 km/h (1 Bft)
28.10.2019 11:04 7,6 °C 95 % 1017,7 hPa 0,0 mm 0,6 km/h (0 Bft) N-NW 331 ° 0 min 0,000 mm 0,7 UV-I 84 W/m² 6,9 °C 7,6 °C 3,2 km/h (1 Bft)
28.10.2019 11:05 7,6 °C 95 % 1017,7 hPa 0,0 mm 2,1 km/h (1 Bft) N-NW 331 ° 0 min 0,000 mm 0,7 UV-I 88 W/m² 6,9 °C 7,6 °C 3,2 km/h (1 Bft)
28.10.2019 11:06 7,6 °C 95 % 1017,7 hPa 0,0 mm 1,9 km/h (1 Bft) N-NW 336 ° 0 min 0,000 mm 0,7 UV-I 90 W/m² 6,9 °C 7,6 °C 4,8 km/h (1 Bft)
28.10.2019 11:07 7,6 °C 95 % 1017,7 hPa 0,0 mm 3,4 km/h (1 Bft) N-NO 22 ° 0 min 0,000 mm 0,7 UV-I 93 W/m² 6,9 °C 7,6 °C 6,4 km/h (2 Bft)
28.10.2019 11:08 7,7 °C 95 % 1017,7 hPa 0,0 mm 3,5 km/h (1 Bft) N 355 ° 0 min 0,000 mm 0,7 UV-I 93 W/m² 7,0 °C 7,7 °C 6,4 km/h (2 Bft)
28.10.2019 11:09 7,7 °C 95 % 1017,7 hPa 0,0 mm 3,0 km/h (1 Bft) N-NO 16 ° 0 min 0,000 mm 0,7 UV-I 95 W/m² 7,0 °C 7,7 °C 6,4 km/h (2 Bft)
28.10.2019 11:10 7,7 °C 95 % 1017,8 hPa 0,0 mm 3,7 km/h (1 Bft) N-NO 33 ° 0 min 0,000 mm 0,7 UV-I 97 W/m² 7,0 °C 7,7 °C 6,4 km/h (2 Bft)
28.10.2019 11:11 7,7 °C 95 % 1017,8 hPa 0,0 mm 5,0 km/h (1 Bft) NO 49 ° 0 min 0,000 mm 0,7 UV-I 98 W/m² 7,0 °C 7,1 °C 6,4 km/h (2 Bft)
28.10.2019 11:12 7,7 °C 95 % 1017,7 hPa 0,0 mm 3,2 km/h (1 Bft) O-NO 62 ° 0 min 0,000 mm 0,7 UV-I 102 W/m² 7,0 °C 7,7 °C 4,8 km/h (1 Bft)
28.10.2019 11:13 7,7 °C 95 % 1017,7 hPa 0,0 mm 1,6 km/h (1 Bft) O-NO 61 ° 0 min 0,000 mm 0,7 UV-I 100 W/m² 7,0 °C 7,7 °C 3,2 km/h (1 Bft)
28.10.2019 11:14 7,6 °C 95 % 1017,7 hPa 0,0 mm 4,4 km/h (1 Bft) N-NO 20 ° 0 min 0,000 mm 0,7 UV-I 98 W/m² 6,9 °C 7,6 °C 6,4 km/h (2 Bft)
28.10.2019 11:15 7,6 °C 95 % 1017,7 hPa 0,0 mm 3,8 km/h (1 Bft) N-NO 20 ° 0 min 0,000 mm 0,7 UV-I 95 W/m² 6,9 °C 7,6 °C 8,0 km/h (2 Bft)
28.10.2019 11:16 7,7 °C 95 % 1017,7 hPa 0,0 mm 4,8 km/h (1 Bft) O-NO 78 ° 0 min 0,000 mm 0,7 UV-I 95 W/m² 7,0 °C 7,2 °C 8,0 km/h (2 Bft)
28.10.2019 11:17 7,7 °C 95 % 1017,7 hPa 0,0 mm 3,3 km/h (1 Bft) O-NO 78 ° 0 min 0,000 mm 0,7 UV-I 95 W/m² 7,0 °C 7,7 °C 6,4 km/h (2 Bft)
28.10.2019 11:18 7,7 °C 95 % 1017,7 hPa 0,0 mm 3,6 km/h (1 Bft) O-NO 78 ° 0 min 0,000 mm 0,8 UV-I 95 W/m² 7,0 °C 7,7 °C 4,8 km/h (1 Bft)
28.10.2019 11:19 7,7 °C 95 % 1017,7 hPa 0,0 mm 1,7 km/h (1 Bft) O-NO 78 ° 0 min 0,000 mm 0,7 UV-I 91 W/m² 7,0 °C 7,7 °C 3,2 km/h (1 Bft)
28.10.2019 11:20 7,6 °C 95 % 1017,7 hPa 0,0 mm 3,2 km/h (1 Bft) NO 34 ° 0 min 0,000 mm 0,7 UV-I 91 W/m² 6,9 °C 7,6 °C 6,4 km/h (2 Bft)
28.10.2019 11:21 7,6 °C 95 % 1017,7 hPa 0,0 mm 3,9 km/h (1 Bft) NO 55 ° 0 min 0,000 mm 0,7 UV-I 91 W/m² 6,9 °C 7,6 °C 6,4 km/h (2 Bft)
28.10.2019 11:22 7,6 °C 95 % 1017,7 hPa 0,0 mm 2,5 km/h (1 Bft) NO 55 ° 0 min 0,000 mm 0,8 UV-I 97 W/m² 6,9 °C 7,6 °C 4,8 km/h (1 Bft)
28.10.2019 11:23 7,6 °C 95 % 1017,7 hPa 0,0 mm 4,1 km/h (1 Bft) O-NO 57 ° 0 min 0,000 mm 0,8 UV-I 104 W/m² 6,9 °C 7,6 °C 6,4 km/h (2 Bft)
28.10.2019 11:24 7,6 °C 95 % 1017,6 hPa 0,0 mm 3,2 km/h (1 Bft) O-NO 57 ° 0 min 0,000 mm 0,8 UV-I 107 W/m² 6,9 °C 7,6 °C 4,8 km/h (1 Bft)
28.10.2019 11:25 7,7 °C 95 % 1017,6 hPa 0,0 mm 1,9 km/h (1 Bft) O-NO 57 ° 0 min 0,000 mm 0,8 UV-I 109 W/m² 7,0 °C 7,7 °C 4,8 km/h (1 Bft)
28.10.2019 11:26 7,7 °C 95 % 1017,6 hPa 0,0 mm 2,5 km/h (1 Bft) O-NO 57 ° 0 min 0,000 mm 0,9 UV-I 111 W/m² 7,0 °C 7,7 °C 4,8 km/h (1 Bft)
28.10.2019 11:27 7,6 °C 95 % 1017,6 hPa 0,0 mm 3,7 km/h (1 Bft) O-NO 57 ° 0 min 0,000 mm 0,9 UV-I 114 W/m² 6,9 °C 7,6 °C 4,8 km/h (1 Bft)
28.10.2019 11:28 7,7 °C 95 % 1017,6 hPa 0,0 mm 2,0 km/h (1 Bft) O-NO 57 ° 0 min 0,000 mm 0,9 UV-I 116 W/m² 7,0 °C 7,7 °C 3,2 km/h (1 Bft)
28.10.2019 11:29 7,7 °C 95 % 1017,5 hPa 0,0 mm 1,7 km/h (1 Bft) O-NO 57 ° 0 min 0,000 mm 0,9 UV-I 113 W/m² 7,0 °C 7,7 °C 3,2 km/h (1 Bft)
28.10.2019 11:30 7,7 °C 95 % 1017,5 hPa 0,0 mm 3,0 km/h (1 Bft) O-NO 71 ° 0 min 0,000 mm 0,9 UV-I 107 W/m² 7,0 °C 7,7 °C 6,4 km/h (2 Bft)
28.10.2019 11:31 7,7 °C 95 % 1017,5 hPa 0,0 mm 4,4 km/h (1 Bft) NO 51 ° 0 min 0,000 mm 0,9 UV-I 105 W/m² 7,0 °C 7,7 °C 6,4 km/h (2 Bft)
28.10.2019 11:32 7,6 °C 95 % 1017,5 hPa 0,0 mm 3,6 km/h (1 Bft) NO 51 ° 0 min 0,000 mm 0,8 UV-I 102 W/m² 6,9 °C 7,6 °C 4,8 km/h (1 Bft)
28.10.2019 11:33 7,6 °C 95 % 1017,5 hPa 0,0 mm 2,0 km/h (1 Bft) NO 53 ° 0 min 0,000 mm 0,8 UV-I 102 W/m² 6,9 °C 7,6 °C 4,8 km/h (1 Bft)
28.10.2019 11:34 7,6 °C 95 % 1017,5 hPa 0,0 mm 3,1 km/h (1 Bft) NO 53 ° 0 min 0,000 mm 0,8 UV-I 98 W/m² 6,9 °C 7,6 °C 4,8 km/h (1 Bft)
28.10.2019 11:35 7,7 °C 95 % 1017,5 hPa 0,0 mm 5,2 km/h (1 Bft) N 360 ° 0 min 0,000 mm 0,8 UV-I 100 W/m² 7,0 °C 7,1 °C 9,7 km/h (2 Bft)
28.10.2019 11:36 7,7 °C 95 % 1017,5 hPa 0,0 mm 4,6 km/h (1 Bft) NO 44 ° 0 min 0,000 mm 0,8 UV-I 100 W/m² 7,0 °C 7,3 °C 6,4 km/h (2 Bft)
28.10.2019 11:37 7,6 °C 95 % 1017,5 hPa 0,0 mm 5,3 km/h (1 Bft) NO 42 ° 0 min 0,000 mm 0,8 UV-I 98 W/m² 6,9 °C 6,9 °C 6,4 km/h (2 Bft)
28.10.2019 11:38 7,5 °C 95 % 1017,5 hPa 0,0 mm 2,9 km/h (1 Bft) O-NO 58 ° 0 min 0,000 mm 0,7 UV-I 95 W/m² 6,8 °C 7,5 °C 4,8 km/h (1 Bft)
28.10.2019 11:39 7,4 °C 95 % 1017,4 hPa 0,0 mm 2,9 km/h (1 Bft) O-NO 57 ° 0 min 0,000 mm 0,7 UV-I 95 W/m² 6,7 °C 7,4 °C 4,8 km/h (1 Bft)
28.10.2019 11:40 7,5 °C 95 % 1017,4 hPa 0,0 mm 4,7 km/h (1 Bft) NO 38 ° 0 min 0,000 mm 0,7 UV-I 93 W/m² 6,8 °C 7,0 °C 8,0 km/h (2 Bft)
28.10.2019 11:41 7,5 °C 95 % 1017,4 hPa 0,0 mm 2,1 km/h (1 Bft) NO 38 ° 0 min 0,000 mm 0,7 UV-I 91 W/m² 6,8 °C 7,5 °C 4,8 km/h (1 Bft)
28.10.2019 11:42 7,6 °C 95 % 1017,4 hPa 0,0 mm 1,0 km/h (0 Bft) NO 38 ° 0 min 0,000 mm 0,7 UV-I 88 W/m² 6,9 °C 7,6 °C 3,2 km/h (1 Bft)
28.10.2019 11:43 7,6 °C 95 % 1017,5 hPa 0,0 mm 3,3 km/h (1 Bft) O-SO 102 ° 0 min 0,000 mm 0,7 UV-I 84 W/m² 6,9 °C 7,6 °C 6,4 km/h (2 Bft)
28.10.2019 11:44 7,6 °C 95 % 1017,4 hPa 0,0 mm 3,6 km/h (1 Bft) O 98 ° 0 min 0,000 mm 0,7 UV-I 83 W/m² 6,9 °C 7,6 °C 6,4 km/h (2 Bft)
28.10.2019 11:45 7,6 °C 95 % 1017,5 hPa 0,0 mm 2,6 km/h (1 Bft) O 98 ° 0 min 0,000 mm 0,7 UV-I 81 W/m² 6,9 °C 7,6 °C 4,8 km/h (1 Bft)
28.10.2019 11:46 7,5 °C 95 % 1017,4 hPa 0,0 mm 0,4 km/h (0 Bft) O 98 ° 0 min 0,000 mm 0,7 UV-I 81 W/m² 6,8 °C 7,5 °C 1,6 km/h (1 Bft)
28.10.2019 11:47 7,5 °C 95 % 1017,5 hPa 0,0 mm 2,5 km/h (1 Bft) O 98 ° 0 min 0,000 mm 0,7 UV-I 83 W/m² 6,8 °C 7,5 °C 4,8 km/h (1 Bft)
28.10.2019 11:48 7,5 °C 95 % 1017,5 hPa 0,0 mm 2,0 km/h (1 Bft) O 98 ° 0 min 0,000 mm 0,7 UV-I 83 W/m² 6,8 °C 7,5 °C 3,2 km/h (1 Bft)
28.10.2019 11:49 7,5 °C 95 % 1017,4 hPa 0,0 mm 2,1 km/h (1 Bft) O 98 ° 0 min 0,000 mm 0,7 UV-I 84 W/m² 6,8 °C 7,5 °C 3,2 km/h (1 Bft)
28.10.2019 11:50 7,6 °C 95 % 1017,4 hPa 0,0 mm 0,3 km/h (0 Bft) O 98 ° 0 min 0,000 mm 0,7 UV-I 84 W/m² 6,9 °C 7,6 °C 1,6 km/h (1 Bft)
28.10.2019 11:51 7,6 °C 95 % 1017,4 hPa 0,0 mm 1,1 km/h (1 Bft) O-NO 67 ° 0 min 0,000 mm 0,7 UV-I 83 W/m² 6,9 °C 7,6 °C 4,8 km/h (1 Bft)
28.10.2019 11:52 7,6 °C 95 % 1017,4 hPa 0,0 mm 5,0 km/h (1 Bft) O 86 ° 0 min 0,000 mm 0,7 UV-I 81 W/m² 6,9 °C 7,0 °C 6,4 km/h (2 Bft)
28.10.2019 11:53 7,6 °C 95 % 1017,4 hPa 0,0 mm 3,8 km/h (1 Bft) O 86 ° 0 min 0,000 mm 0,7 UV-I 79 W/m² 6,9 °C 7,6 °C 4,8 km/h (1 Bft)
28.10.2019 11:54 7,5 °C 95 % 1017,4 hPa 0,0 mm 3,2 km/h (1 Bft) O 88 ° 0 min 0,000 mm 0,7 UV-I 81 W/m² 6,8 °C 7,5 °C 4,8 km/h (1 Bft)
28.10.2019 11:55 7,4 °C 95 % 1017,4 hPa 0,0 mm 1,8 km/h (1 Bft) O 91 ° 0 min 0,000 mm 0,7 UV-I 81 W/m² 6,7 °C 7,4 °C 4,8 km/h (1 Bft)
28.10.2019 11:56 7,4 °C 95 % 1017,4 hPa 0,0 mm 3,9 km/h (1 Bft) NO 42 ° 0 min 0,000 mm 0,7 UV-I 79 W/m² 6,7 °C 7,4 °C 6,4 km/h (2 Bft)
28.10.2019 11:57 7,6 °C 95 % 1017,4 hPa 0,0 mm 4,0 km/h (1 Bft) NO 51 ° 0 min 0,000 mm 0,7 UV-I 77 W/m² 6,9 °C 7,6 °C 6,4 km/h (2 Bft)
28.10.2019 11:58 7,6 °C 95 % 1017,3 hPa 0,0 mm 3,1 km/h (1 Bft) NO 51 ° 0 min 0,000 mm 0,7 UV-I 77 W/m² 6,9 °C 7,6 °C 4,8 km/h (1 Bft)
28.10.2019 11:59 7,6 °C 95 % 1017,3 hPa 0,0 mm 3,1 km/h (1 Bft) NO 51 ° 0 min 0,000 mm 0,7 UV-I 77 W/m² 6,9 °C 7,6 °C 4,8 km/h (1 Bft)
28.10.2019 12:00 7,6 °C 95 % 1017,3 hPa 0,0 mm 4,1 km/h (1 Bft) NO 51 ° 0 min 0,000 mm 0,7 UV-I 77 W/m² 6,9 °C 7,6 °C 6,4 km/h (2 Bft)
28.10.2019 12:01 7,6 °C 95 % 1017,3 hPa 0,0 mm 3,4 km/h (1 Bft) NO 51 ° 0 min 0,051 mm 0,7 UV-I 79 W/m² 6,9 °C 7,6 °C 6,4 km/h (2 Bft)
28.10.2019 12:02 7,6 °C 95 % 1017,3 hPa 0,0 mm 5,5 km/h (1 Bft) O-NO 77 ° 0 min 0,000 mm 0,7 UV-I 79 W/m² 6,9 °C 6,9 °C 6,4 km/h (2 Bft)
28.10.2019 12:03 7,6 °C 95 % 1017,3 hPa 0,0 mm 5,6 km/h (1 Bft) O-NO 58 ° 0 min 0,000 mm 0,7 UV-I 79 W/m² 6,9 °C 6,8 °C 8,0 km/h (2 Bft)
28.10.2019 12:04 7,6 °C 95 % 1017,3 hPa 0,0 mm 3,5 km/h (1 Bft) NO 46 ° 0 min 0,000 mm 0,8 UV-I 81 W/m² 6,9 °C 7,6 °C 6,4 km/h (2 Bft)
28.10.2019 12:05 7,6 °C 95 % 1017,3 hPa 0,0 mm 4,9 km/h (1 Bft) O 80 ° 0 min 0,000 mm 0,8 UV-I 83 W/m² 6,9 °C 7,1 °C 6,4 km/h (2 Bft)
28.10.2019 12:06 7,6 °C 95 % 1017,3 hPa 0,0 mm 4,0 km/h (1 Bft) O 82 ° 0 min 0,000 mm 0,8 UV-I 83 W/m² 6,9 °C 7,6 °C 6,4 km/h (2 Bft)
28.10.2019 12:07 7,6 °C 95 % 1017,3 hPa 0,0 mm 4,0 km/h (1 Bft) O-NO 70 ° 0 min 0,000 mm 0,8 UV-I 84 W/m² 6,9 °C 7,6 °C 6,4 km/h (2 Bft)
28.10.2019 12:08 7,6 °C 95 % 1017,3 hPa 0,0 mm 2,3 km/h (1 Bft) NO 44 ° 0 min 0,000 mm 0,8 UV-I 84 W/m² 6,9 °C 7,6 °C 6,4 km/h (2 Bft)
28.10.2019 12:09 7,6 °C 95 % 1017,3 hPa 0,0 mm 4,6 km/h (1 Bft) NO 42 ° 0 min 0,000 mm 0,8 UV-I 86 W/m² 6,9 °C 7,2 °C 8,0 km/h (2 Bft)
28.10.2019 12:10 7,6 °C 95 % 1017,3 hPa 0,0 mm 6,0 km/h (2 Bft) O-NO 66 ° 0 min 0,000 mm 0,8 UV-I 88 W/m² 6,9 °C 6,7 °C 8,0 km/h (2 Bft)
28.10.2019 12:11 7,6 °C 95 % 1017,3 hPa 0,0 mm 2,5 km/h (1 Bft) O-NO 69 ° 0 min 0,000 mm 0,8 UV-I 86 W/m² 6,9 °C 7,6 °C 4,8 km/h (1 Bft)
28.10.2019 12:12 7,6 °C 95 % 1017,3 hPa 0,0 mm 1,5 km/h (1 Bft) NO 48 ° 0 min 0,000 mm 0,7 UV-I 84 W/m² 6,9 °C 7,6 °C 3,2 km/h (1 Bft)
28.10.2019 12:13 7,7 °C 95 % 1017,4 hPa 0,0 mm 2,9 km/h (1 Bft) NO 50 ° 0 min 0,000 mm 0,7 UV-I 83 W/m² 7,0 °C 7,7 °C 6,4 km/h (2 Bft)
28.10.2019 12:14 7,6 °C 95 % 1017,3 hPa 0,0 mm 6,1 km/h (2 Bft) NO 43 ° 0 min 0,000 mm 0,7 UV-I 81 W/m² 6,9 °C 6,7 °C 8,0 km/h (2 Bft)
28.10.2019 12:15 7,6 °C 95 % 1017,4 hPa 0,0 mm 3,9 km/h (1 Bft) NO 39 ° 0 min 0,000 mm 0,7 UV-I 77 W/m² 6,9 °C 7,6 °C 6,4 km/h (2 Bft)
28.10.2019 12:16 7,6 °C 95 % 1017,4 hPa 0,0 mm 3,4 km/h (1 Bft) NO 39 ° 0 min 0,000 mm 0,7 UV-I 76 W/m² 6,9 °C 7,6 °C 6,4 km/h (2 Bft)
28.10.2019 12:17 7,6 °C 95 % 1017,4 hPa 0,0 mm 2,8 km/h (1 Bft) NO 39 ° 0 min 0,000 mm 0,7 UV-I 72 W/m² 6,9 °C 7,6 °C 4,8 km/h (1 Bft)
28.10.2019 12:18 7,6 °C 95 % 1017,4 hPa 0,0 mm 3,2 km/h (1 Bft) NO 55 ° 0 min 0,000 mm 0,6 UV-I 70 W/m² 6,9 °C 7,6 °C 6,4 km/h (2 Bft)
28.10.2019 12:19 7,6 °C 95 % 1017,4 hPa 0,0 mm 3,2 km/h (1 Bft) N 9 ° 0 min 0,000 mm 0,6 UV-I 70 W/m² 6,9 °C 7,6 °C 8,0 km/h (2 Bft)
28.10.2019 12:20 7,6 °C 95 % 1017,3 hPa 0,0 mm 4,1 km/h (1 Bft) O 84 ° 0 min 0,000 mm 0,6 UV-I 72 W/m² 6,9 °C 7,6 °C 9,7 km/h (2 Bft)
28.10.2019 12:21 7,6 °C 95 % 1017,3 hPa 0,0 mm 4,8 km/h (1 Bft) NO 51 ° 0 min 0,000 mm 0,7 UV-I 72 W/m² 6,9 °C 7,1 °C 6,4 km/h (2 Bft)
28.10.2019 12:22 7,6 °C 95 % 1017,3 hPa 0,0 mm 4,8 km/h (1 Bft) NO 49 ° 0 min 0,000 mm 0,7 UV-I 77 W/m² 6,9 °C 7,1 °C 6,4 km/h (2 Bft)
28.10.2019 12:23 7,6 °C 95 % 1017,3 hPa 0,0 mm 3,5 km/h (1 Bft) O-NO 60 ° 0 min 0,000 mm 0,7 UV-I 79 W/m² 6,9 °C 7,6 °C 4,8 km/h (1 Bft)
28.10.2019 12:24 7,6 °C 95 % 1017,3 hPa 0,0 mm 4,8 km/h (1 Bft) N-NO 16 ° 0 min 0,000 mm 0,7 UV-I 77 W/m² 6,9 °C 7,1 °C 6,4 km/h (2 Bft)
28.10.2019 12:25 7,6 °C 95 % 1017,3 hPa 0,0 mm 4,8 km/h (1 Bft) NO 44 ° 0 min 0,000 mm 0,7 UV-I 79 W/m² 6,9 °C 7,1 °C 6,4 km/h (2 Bft)
28.10.2019 12:26 7,5 °C 95 % 1017,3 hPa 0,0 mm 3,4 km/h (1 Bft) NO 44 ° 0 min 0,000 mm 0,7 UV-I 83 W/m² 6,8 °C 7,5 °C 6,4 km/h (2 Bft)
28.10.2019 12:27 7,4 °C 95 % 1017,2 hPa 0,0 mm 4,5 km/h (1 Bft) NO 39 ° 0 min 0,000 mm 0,7 UV-I 84 W/m² 6,7 °C 7,4 °C 9,7 km/h (2 Bft)
28.10.2019 12:28 7,4 °C 95 % 1017,2 hPa 0,0 mm 5,1 km/h (1 Bft) NO 43 ° 0 min 0,000 mm 0,7 UV-I 83 W/m² 6,7 °C 6,8 °C 6,4 km/h (2 Bft)
28.10.2019 12:29 7,5 °C 95 % 1017,2 hPa 0,0 mm 1,7 km/h (1 Bft) NO 43 ° 0 min 0,000 mm 0,7 UV-I 79 W/m² 6,8 °C 7,5 °C 3,2 km/h (1 Bft)
28.10.2019 12:30 7,4 °C 95 % 1017,2 hPa 0,0 mm 4,1 km/h (1 Bft) N-NO 32 ° 0 min 0,000 mm 0,7 UV-I 81 W/m² 6,7 °C 7,4 °C 6,4 km/h (2 Bft)
28.10.2019 12:31 7,4 °C 95 % 1017,2 hPa 0,0 mm 5,4 km/h (1 Bft) O 96 ° 0 min 0,000 mm 0,7 UV-I 83 W/m² 6,7 °C 6,7 °C 8,0 km/h (2 Bft)
28.10.2019 12:32 7,4 °C 95 % 1017,2 hPa 0,0 mm 4,4 km/h (1 Bft) NO 50 ° 0 min 0,000 mm 0,7 UV-I 83 W/m² 6,7 °C 7,4 °C 8,0 km/h (2 Bft)
28.10.2019 12:33 7,4 °C 95 % 1017,2 hPa 0,0 mm 1,3 km/h (1 Bft) NO 50 ° 0 min 0,000 mm 0,7 UV-I 86 W/m² 6,7 °C 7,4 °C 3,2 km/h (1 Bft)
28.10.2019 12:34 7,5 °C 96 % 1017,2 hPa 0,0 mm 5,4 km/h (1 Bft) O-NO 73 ° 0 min 0,000 mm 0,7 UV-I 84 W/m² 6,9 °C 6,8 °C 6,4 km/h (2 Bft)
28.10.2019 12:35 7,5 °C 96 % 1017,2 hPa 0,0 mm 3,4 km/h (1 Bft) O-NO 73 ° 0 min 0,000 mm 0,7 UV-I 79 W/m² 6,9 °C 7,5 °C 4,8 km/h (1 Bft)
28.10.2019 12:36 7,5 °C 95 % 1017,2 hPa 0,0 mm 1,6 km/h (1 Bft) O-NO 73 ° 0 min 0,000 mm 0,6 UV-I 77 W/m² 6,8 °C 7,5 °C 3,2 km/h (1 Bft)
28.10.2019 12:37 7,6 °C 95 % 1017,1 hPa 0,0 mm 4,6 km/h (1 Bft) O-NO 78 ° 0 min 0,000 mm 0,6 UV-I 76 W/m² 6,9 °C 7,2 °C 11,3 km/h (2 Bft)
28.10.2019 12:38 7,6 °C 96 % 1017,2 hPa 0,0 mm 4,5 km/h (1 Bft) O 80 ° 0 min 0,000 mm 0,6 UV-I 74 W/m² 7,0 °C 7,6 °C 6,4 km/h (2 Bft)
28.10.2019 12:39 7,5 °C 96 % 1017,2 hPa 0,0 mm 4,5 km/h (1 Bft) O 84 ° 0 min 0,000 mm 0,6 UV-I 74 W/m² 6,9 °C 7,5 °C 6,4 km/h (2 Bft)
28.10.2019 12:40 7,5 °C 95 % 1017,1 hPa 0,0 mm 4,2 km/h (1 Bft) O 79 ° 0 min 0,000 mm 0,6 UV-I 72 W/m² 6,8 °C 7,5 °C 4,8 km/h (1 Bft)
28.10.2019 12:41 7,5 °C 96 % 1017,1 hPa 0,0 mm 5,8 km/h (2 Bft) O-NO 68 ° 0 min 0,000 mm 0,6 UV-I 72 W/m² 6,9 °C 6,7 °C 11,3 km/h (2 Bft)
28.10.2019 12:42 7,5 °C 96 % 1017,1 hPa 0,0 mm 3,3 km/h (1 Bft) O-NO 67 ° 0 min 0,000 mm 0,6 UV-I 74 W/m² 6,9 °C 7,5 °C 4,8 km/h (1 Bft)
28.10.2019 12:43 7,6 °C 96 % 1017,1 hPa 0,0 mm 4,4 km/h (1 Bft) O-SO 106 ° 0 min 0,000 mm 0,6 UV-I 76 W/m² 7,0 °C 7,6 °C 4,8 km/h (1 Bft)
28.10.2019 12:44 7,6 °C 96 % 1017,1 hPa 0,0 mm 4,5 km/h (1 Bft) O-NO 72 ° 0 min 0,000 mm 0,6 UV-I 76 W/m² 7,0 °C 7,6 °C 8,0 km/h (2 Bft)
28.10.2019 12:45 7,5 °C 96 % 1017,0 hPa 0,0 mm 4,3 km/h (1 Bft) O-NO 72 ° 0 min 0,000 mm 0,6 UV-I 77 W/m² 6,9 °C 7,5 °C 4,8 km/h (1 Bft)
28.10.2019 12:46 7,6 °C 96 % 1017,1 hPa 0,0 mm 3,4 km/h (1 Bft) O-SO 113 ° 0 min 0,000 mm 0,6 UV-I 81 W/m² 7,0 °C 7,6 °C 4,8 km/h (1 Bft)
28.10.2019 12:47 7,6 °C 96 % 1017,0 hPa 0,0 mm 3,5 km/h (1 Bft) O-NO 67 ° 0 min 0,000 mm 0,6 UV-I 83 W/m² 7,0 °C 7,6 °C 4,8 km/h (1 Bft)
28.10.2019 12:48 7,6 °C 96 % 1017,0 hPa 0,0 mm 3,6 km/h (1 Bft) O-NO 67 ° 0 min 0,000 mm 0,6 UV-I 81 W/m² 7,0 °C 7,6 °C 6,4 km/h (2 Bft)
28.10.2019 12:49 7,6 °C 96 % 1017,0 hPa 0,0 mm 5,1 km/h (1 Bft) NO 48 ° 0 min 0,000 mm 0,6 UV-I 76 W/m² 7,0 °C 7,0 °C 8,0 km/h (2 Bft)
28.10.2019 12:50 7,6 °C 96 % 1017,0 hPa 0,0 mm 4,2 km/h (1 Bft) O-NO 57 ° 0 min 0,000 mm 0,6 UV-I 74 W/m² 7,0 °C 7,6 °C 6,4 km/h (2 Bft)
28.10.2019 12:51 7,5 °C 96 % 1016,9 hPa 0,0 mm 4,3 km/h (1 Bft) O-NO 62 ° 0 min 0,000 mm 0,6 UV-I 72 W/m² 6,9 °C 7,5 °C 6,4 km/h (2 Bft)
28.10.2019 12:52 7,4 °C 96 % 1016,9 hPa 0,0 mm 3,7 km/h (1 Bft) O 79 ° 0 min 0,000 mm 0,6 UV-I 74 W/m² 6,8 °C 7,4 °C 6,4 km/h (2 Bft)
28.10.2019 12:53 7,5 °C 96 % 1016,9 hPa 0,0 mm 1,9 km/h (1 Bft) O 79 ° 0 min 0,000 mm 0,6 UV-I 77 W/m² 6,9 °C 7,5 °C 3,2 km/h (1 Bft)
28.10.2019 12:54 7,5 °C 96 % 1016,8 hPa 0,0 mm 2,7 km/h (1 Bft) O 79 ° 0 min 0,000 mm 0,7 UV-I 83 W/m² 6,9 °C 7,5 °C 4,8 km/h (1 Bft)
28.10.2019 12:55 7,6 °C 96 % 1016,9 hPa 0,0 mm 4,2 km/h (1 Bft) O-NO 65 ° 0 min 0,000 mm 0,7 UV-I 86 W/m² 7,0 °C 7,6 °C 9,7 km/h (2 Bft)
28.10.2019 12:56 7,6 °C 96 % 1016,9 hPa 0,0 mm 5,6 km/h (1 Bft) O-NO 65 ° 0 min 0,000 mm 0,7 UV-I 84 W/m² 7,0 °C 6,8 °C 8,0 km/h (2 Bft)
28.10.2019 12:57 7,6 °C 96 % 1016,9 hPa 0,0 mm 4,4 km/h (1 Bft) O-NO 58 ° 0 min 0,000 mm 0,6 UV-I 83 W/m² 7,0 °C 7,6 °C 6,4 km/h (2 Bft)
28.10.2019 12:58 7,6 °C 96 % 1016,9 hPa 0,0 mm 3,2 km/h (1 Bft) O-NO 58 ° 0 min 0,000 mm 0,6 UV-I 76 W/m² 7,0 °C 7,6 °C 4,8 km/h (1 Bft)
28.10.2019 12:59 7,6 °C 96 % 1016,9 hPa 0,0 mm 1,9 km/h (1 Bft) O-NO 58 ° 0 min 0,000 mm 0,6 UV-I 70 W/m² 7,0 °C 7,6 °C 4,8 km/h (1 Bft)
28.10.2019 13:00 7,6 °C 96 % 1016,9 hPa 0,0 mm 5,2 km/h (1 Bft) O-NO 76 ° 0 min 0,000 mm 0,5 UV-I 63 W/m² 7,0 °C 7,0 °C 6,4 km/h (2 Bft)
28.10.2019 13:01 7,6 °C 96 % 1016,9 hPa 0,0 mm 1,9 km/h (1 Bft) O-NO 76 ° 0 min 0,025 mm 0,5 UV-I 62 W/m² 7,0 °C 7,6 °C 3,2 km/h (1 Bft)
28.10.2019 13:02 7,6 °C 96 % 1016,9 hPa 0,0 mm 4,9 km/h (1 Bft) O 88 ° 0 min 0,000 mm 0,5 UV-I 60 W/m² 7,0 °C 7,1 °C 6,4 km/h (2 Bft)
28.10.2019 13:03 7,6 °C 96 % 1017,0 hPa 0,0 mm 4,0 km/h (1 Bft) NO 53 ° 0 min 0,000 mm 0,5 UV-I 58 W/m² 7,0 °C 7,6 °C 6,4 km/h (2 Bft)
28.10.2019 13:04 7,6 °C 96 % 1016,9 hPa 0,0 mm 3,3 km/h (1 Bft) NO 53 ° 0 min 0,000 mm 0,5 UV-I 54 W/m² 7,0 °C 7,6 °C 4,8 km/h (1 Bft)
28.10.2019 13:05 7,5 °C 96 % 1017,0 hPa 0,0 mm 3,4 km/h (1 Bft) O 89 ° 0 min 0,000 mm 0,0 UV-I 53 W/m² 6,9 °C 7,5 °C 6,4 km/h (2 Bft)
28.10.2019 13:06 7,5 °C 96 % 1017,0 hPa 0,0 mm 5,9 km/h (2 Bft) O 98 ° 0 min 0,000 mm 0,0 UV-I 51 W/m² 6,9 °C 6,6 °C 9,7 km/h (2 Bft)
28.10.2019 13:07 7,5 °C 96 % 1017,0 hPa 0,0 mm 5,4 km/h (1 Bft) NO 55 ° 0 min 0,000 mm 0,0 UV-I 51 W/m² 6,9 °C 6,8 °C 11,3 km/h (2 Bft)
28.10.2019 13:08 7,4 °C 96 % 1016,9 hPa 0,0 mm 3,4 km/h (1 Bft) O-NO 77 ° 0 min 0,000 mm 0,0 UV-I 49 W/m² 6,8 °C 7,4 °C 4,8 km/h (1 Bft)
28.10.2019 13:09 7,4 °C 96 % 1016,9 hPa 0,0 mm 5,2 km/h (1 Bft) O-NO 69 ° 0 min 0,000 mm 0,0 UV-I 49 W/m² 6,8 °C 6,7 °C 8,0 km/h (2 Bft)
28.10.2019 13:10 7,4 °C 96 % 1016,9 hPa 0,0 mm 4,4 km/h (1 Bft) O-NO 71 ° 0 min 0,000 mm 0,0 UV-I 47 W/m² 6,8 °C 7,4 °C 6,4 km/h (2 Bft)
28.10.2019 13:11 7,4 °C 96 % 1016,9 hPa 0,0 mm 4,5 km/h (1 Bft) O-NO 67 ° 0 min 0,000 mm 0,0 UV-I 47 W/m² 6,8 °C 7,4 °C 4,8 km/h (1 Bft)
28.10.2019 13:12 7,4 °C 96 % 1016,9 hPa 0,0 mm 2,5 km/h (1 Bft) O 101 ° 0 min 0,000 mm 0,0 UV-I 47 W/m² 6,8 °C 7,4 °C 6,4 km/h (2 Bft)
28.10.2019 13:13 7,4 °C 96 % 1016,9 hPa 0,0 mm 5,7 km/h (1 Bft) O 92 ° 0 min 0,000 mm 0,0 UV-I 47 W/m² 6,8 °C 6,6 °C 9,7 km/h (2 Bft)
28.10.2019 13:14 7,4 °C 96 % 1016,9 hPa 0,0 mm 5,0 km/h (1 Bft) O-NO 74 ° 0 min 0,000 mm 0,0 UV-I 47 W/m² 6,8 °C 6,8 °C 6,4 km/h (2 Bft)
28.10.2019 13:15 7,4 °C 95 % 1016,9 hPa 0,0 mm 3,8 km/h (1 Bft) O-NO 73 ° 0 min 0,000 mm 0,0 UV-I 46 W/m² 6,7 °C 7,4 °C 6,4 km/h (2 Bft)
28.10.2019 13:16 7,4 °C 95 % 1016,9 hPa 0,0 mm 2,3 km/h (1 Bft) O-NO 73 ° 0 min 0,000 mm 0,0 UV-I 44 W/m² 6,7 °C 7,4 °C 3,2 km/h (1 Bft)
28.10.2019 13:17 7,4 °C 96 % 1016,9 hPa 0,0 mm 4,4 km/h (1 Bft) NO 42 ° 0 min 0,000 mm 0,0 UV-I 46 W/m² 6,8 °C 7,4 °C 6,4 km/h (2 Bft)
28.10.2019 13:18 7,4 °C 95 % 1016,9 hPa 0,0 mm 3,4 km/h (1 Bft) NO 46 ° 0 min 0,000 mm 0,0 UV-I 47 W/m² 6,7 °C 7,4 °C 6,4 km/h (2 Bft)
28.10.2019 13:19 7,4 °C 96 % 1016,9 hPa 0,0 mm 1,7 km/h (1 Bft) NO 46 ° 0 min 0,000 mm 0,0 UV-I 51 W/m² 6,8 °C 7,4 °C 3,2 km/h (1 Bft)
28.10.2019 13:20 7,4 °C 96 % 1016,9 hPa 0,0 mm 1,7 km/h (1 Bft) NO 45 ° 0 min 0,000 mm 0,0 UV-I 54 W/m² 6,8 °C 7,4 °C 3,2 km/h (1 Bft)
28.10.2019 13:21 7,5 °C 96 % 1016,8 hPa 0,0 mm 2,6 km/h (1 Bft) NO 46 ° 0 min 0,000 mm 0,0 UV-I 58 W/m² 6,9 °C 7,5 °C 3,2 km/h (1 Bft)
28.10.2019 13:22 7,5 °C 96 % 1016,8 hPa 0,0 mm 3,6 km/h (1 Bft) O-NO 62 ° 0 min 0,000 mm 0,0 UV-I 58 W/m² 6,9 °C 7,5 °C 6,4 km/h (2 Bft)
28.10.2019 13:23 7,6 °C 96 % 1016,8 hPa 0,0 mm 4,0 km/h (1 Bft) O-NO 61 ° 0 min 0,000 mm 0,0 UV-I 58 W/m² 7,0 °C 7,6 °C 6,4 km/h (2 Bft)
28.10.2019 13:24 7,5 °C 96 % 1016,8 hPa 0,0 mm 4,6 km/h (1 Bft) O-NO 58 ° 0 min 0,000 mm 0,5 UV-I 58 W/m² 6,9 °C 7,1 °C 4,8 km/h (1 Bft)
28.10.2019 13:25 7,6 °C 96 % 1016,9 hPa 0,0 mm 6,7 km/h (2 Bft) NO 52 ° 0 min 0,000 mm 0,5 UV-I 58 W/m² 7,0 °C 6,5 °C 9,7 km/h (2 Bft)
28.10.2019 13:26 7,6 °C 96 % 1016,8 hPa 0,0 mm 4,7 km/h (1 Bft) NO 52 ° 0 min 0,000 mm 0,5 UV-I 56 W/m² 7,0 °C 7,1 °C 6,4 km/h (2 Bft)
28.10.2019 13:27 7,5 °C 96 % 1016,8 hPa 0,0 mm 3,5 km/h (1 Bft) NO 53 ° 0 min 0,000 mm 0,0 UV-I 56 W/m² 6,9 °C 7,5 °C 4,8 km/h (1 Bft)
28.10.2019 13:28 7,5 °C 96 % 1016,8 hPa 0,0 mm 5,6 km/h (1 Bft) NO 48 ° 0 min 0,000 mm 0,5 UV-I 56 W/m² 6,9 °C 6,7 °C 9,7 km/h (2 Bft)
28.10.2019 13:29 7,5 °C 96 % 1016,7 hPa 0,0 mm 6,2 km/h (2 Bft) NO 53 ° 0 min 0,000 mm 0,5 UV-I 58 W/m² 6,9 °C 6,5 °C 8,0 km/h (2 Bft)
28.10.2019 13:30 7,5 °C 96 % 1016,7 hPa 0,0 mm 5,9 km/h (2 Bft) O-NO 57 ° 0 min 0,000 mm 0,5 UV-I 56 W/m² 6,9 °C 6,6 °C 8,0 km/h (2 Bft)
28.10.2019 13:31 7,5 °C 96 % 1016,7 hPa 0,0 mm 4,8 km/h (1 Bft) NO 51 ° 0 min 0,000 mm 0,5 UV-I 56 W/m² 6,9 °C 7,0 °C 8,0 km/h (2 Bft)
28.10.2019 13:32 7,5 °C 96 % 1016,7 hPa 0,0 mm 2,3 km/h (1 Bft) NO 55 ° 0 min 0,000 mm 0,0 UV-I 54 W/m² 6,9 °C 7,5 °C 3,2 km/h (1 Bft)
28.10.2019 13:33 7,5 °C 96 % 1016,7 hPa 0,0 mm 3,0 km/h (1 Bft) O 84 ° 0 min 0,000 mm 0,0 UV-I 54 W/m² 6,9 °C 7,5 °C 4,8 km/h (1 Bft)
28.10.2019 13:34 7,5 °C 96 % 1016,7 hPa 0,0 mm 4,0 km/h (1 Bft) O 86 ° 0 min 0,000 mm 0,0 UV-I 54 W/m² 6,9 °C 7,5 °C 6,4 km/h (2 Bft)
28.10.2019 13:35 7,5 °C 96 % 1016,7 hPa 0,0 mm 6,6 km/h (2 Bft) NO 46 ° 0 min 0,000 mm 0,0 UV-I 53 W/m² 6,9 °C 6,4 °C 8,0 km/h (2 Bft)
28.10.2019 13:36 7,5 °C 96 % 1016,7 hPa 0,0 mm 5,4 km/h (1 Bft) NO 42 ° 0 min 0,000 mm 0,0 UV-I 53 W/m² 6,9 °C 6,8 °C 6,4 km/h (2 Bft)
28.10.2019 13:37 7,4 °C 96 % 1016,7 hPa 0,0 mm 3,0 km/h (1 Bft) NO 42 ° 0 min 0,000 mm 0,0 UV-I 53 W/m² 6,8 °C 7,4 °C 4,8 km/h (1 Bft)
28.10.2019 13:38 7,4 °C 96 % 1016,7 hPa 0,0 mm 1,9 km/h (1 Bft) NO 42 ° 0 min 0,000 mm 0,0 UV-I 53 W/m² 6,8 °C 7,4 °C 4,8 km/h (1 Bft)
28.10.2019 13:39 7,4 °C 96 % 1016,7 hPa 0,0 mm 5,5 km/h (1 Bft) NO 50 ° 0 min 0,000 mm 0,0 UV-I 53 W/m² 6,8 °C 6,6 °C 9,7 km/h (2 Bft)
28.10.2019 13:40 7,4 °C 95 % 1016,6 hPa 0,0 mm 5,2 km/h (1 Bft) NO 51 ° 0 min 0,000 mm 0,0 UV-I 51 W/m² 6,7 °C 6,7 °C 8,0 km/h (2 Bft)
28.10.2019 13:41 7,3 °C 95 % 1016,6 hPa 0,0 mm 4,6 km/h (1 Bft) NO 56 ° 0 min 0,000 mm 0,0 UV-I 49 W/m² 6,6 °C 6,8 °C 6,4 km/h (2 Bft)
28.10.2019 13:42 7,4 °C 95 % 1016,6 hPa 0,0 mm 4,8 km/h (1 Bft) NO 39 ° 0 min 0,000 mm 0,0 UV-I 49 W/m² 6,7 °C 6,9 °C 6,4 km/h (2 Bft)
28.10.2019 13:43 7,4 °C 96 % 1016,6 hPa 0,0 mm 5,2 km/h (1 Bft) NO 55 ° 0 min 0,000 mm 0,0 UV-I 47 W/m² 6,8 °C 6,7 °C 8,0 km/h (2 Bft)
28.10.2019 13:44 7,4 °C 96 % 1016,6 hPa 0,0 mm 3,8 km/h (1 Bft) NO 44 ° 0 min 0,000 mm 0,0 UV-I 47 W/m² 6,8 °C 7,4 °C 6,4 km/h (2 Bft)
28.10.2019 13:45 7,3 °C 96 % 1016,7 hPa 0,0 mm 4,9 km/h (1 Bft) NO 51 ° 0 min 0,000 mm 0,0 UV-I 44 W/m² 6,7 °C 6,7 °C 8,0 km/h (2 Bft)
28.10.2019 13:46 7,4 °C 96 % 1016,7 hPa 0,0 mm 4,0 km/h (1 Bft) NO 43 ° 0 min 0,000 mm 0,0 UV-I 42 W/m² 6,8 °C 7,4 °C 4,8 km/h (1 Bft)
28.10.2019 13:47 7,4 °C 96 % 1016,6 hPa 0,0 mm 3,2 km/h (1 Bft) O-NO 74 ° 0 min 0,000 mm 0,0 UV-I 40 W/m² 6,8 °C 7,4 °C 4,8 km/h (1 Bft)
28.10.2019 13:48 7,4 °C 96 % 1016,7 hPa 0,0 mm 4,5 km/h (1 Bft) NO 34 ° 0 min 0,000 mm 0,0 UV-I 40 W/m² 6,8 °C 7,4 °C 6,4 km/h (2 Bft)
28.10.2019 13:49 7,3 °C 96 % 1016,6 hPa 0,0 mm 2,8 km/h (1 Bft) NO 34 ° 0 min 0,000 mm 0,0 UV-I 39 W/m² 6,7 °C 7,3 °C 4,8 km/h (1 Bft)
28.10.2019 13:50 7,3 °C 96 % 1016,7 hPa 0,0 mm 2,2 km/h (1 Bft) NO 34 ° 0 min 0,000 mm 0,0 UV-I 39 W/m² 6,7 °C 7,3 °C 3,2 km/h (1 Bft)
28.10.2019 13:51 7,3 °C 96 % 1016,7 hPa 0,0 mm 3,0 km/h (1 Bft) O-NO 72 ° 0 min 0,000 mm 0,0 UV-I 39 W/m² 6,7 °C 7,3 °C 4,8 km/h (1 Bft)
28.10.2019 13:52 7,3 °C 96 % 1016,7 hPa 0,0 mm 5,4 km/h (1 Bft) O-NO 63 ° 0 min 0,000 mm 0,0 UV-I 37 W/m² 6,7 °C 6,6 °C 8,0 km/h (2 Bft)
28.10.2019 13:53 7,3 °C 96 % 1016,7 hPa 0,0 mm 5,8 km/h (2 Bft) O-NO 65 ° 0 min 0,000 mm 0,0 UV-I 37 W/m² 6,7 °C 6,4 °C 8,0 km/h (2 Bft)
28.10.2019 13:54 7,3 °C 96 % 1016,7 hPa 0,0 mm 3,0 km/h (1 Bft) O-NO 65 ° 0 min 0,000 mm 0,0 UV-I 37 W/m² 6,7 °C 7,3 °C 4,8 km/h (1 Bft)
28.10.2019 13:55 7,3 °C 96 % 1016,7 hPa 0,0 mm 3,8 km/h (1 Bft) NO 52 ° 0 min 0,000 mm 0,0 UV-I 37 W/m² 6,7 °C 7,3 °C 4,8 km/h (1 Bft)
28.10.2019 13:56 7,3 °C 96 % 1016,6 hPa 0,0 mm 5,8 km/h (2 Bft) O 85 ° 0 min 0,000 mm 0,0 UV-I 37 W/m² 6,7 °C 6,4 °C 8,0 km/h (2 Bft)
28.10.2019 13:57 7,3 °C 96 % 1016,7 hPa 0,0 mm 4,7 km/h (1 Bft) O 88 ° 0 min 0,000 mm 0,0 UV-I 37 W/m² 6,7 °C 6,8 °C 6,4 km/h (2 Bft)
28.10.2019 13:58 7,3 °C 96 % 1016,6 hPa 0,0 mm 3,3 km/h (1 Bft) N-NO 15 ° 0 min 0,000 mm 0,0 UV-I 37 W/m² 6,7 °C 7,3 °C 4,8 km/h (1 Bft)
28.10.2019 13:59 7,3 °C 96 % 1016,7 hPa 0,0 mm 2,1 km/h (1 Bft) N-NO 26 ° 0 min 0,000 mm 0,0 UV-I 37 W/m² 6,7 °C 7,3 °C 4,8 km/h (1 Bft)
28.10.2019 14:00 7,3 °C 96 % 1016,7 hPa 0,0 mm 2,6 km/h (1 Bft) N-NO 28 ° 0 min 0,026 mm 0,0 UV-I 35 W/m² 6,7 °C 7,3 °C 4,8 km/h (1 Bft)
28.10.2019 14:01 7,3 °C 96 % 1016,6 hPa 0,0 mm 2,0 km/h (1 Bft) N-NO 29 ° 0 min 0,000 mm 0,0 UV-I 35 W/m² 6,7 °C 7,3 °C 4,8 km/h (1 Bft)
28.10.2019 14:02 7,3 °C 96 % 1016,7 hPa 0,0 mm 5,9 km/h (2 Bft) NO 53 ° 0 min 0,000 mm 0,0 UV-I 33 W/m² 6,7 °C 6,4 °C 9,7 km/h (2 Bft)
28.10.2019 14:03 7,4 °C 96 % 1016,7 hPa 0,0 mm 6,7 km/h (2 Bft) NO 36 ° 0 min 0,000 mm 0,0 UV-I 32 W/m² 6,8 °C 6,3 °C 8,0 km/h (2 Bft)
28.10.2019 14:04 7,4 °C 96 % 1016,7 hPa 0,0 mm 3,9 km/h (1 Bft) O 91 ° 0 min 0,000 mm 0,0 UV-I 32 W/m² 6,8 °C 7,4 °C 4,8 km/h (1 Bft)
28.10.2019 14:05 7,3 °C 96 % 1016,6 hPa 0,0 mm 3,3 km/h (1 Bft) O-NO 62 ° 0 min 0,000 mm 0,0 UV-I 30 W/m² 6,7 °C 7,3 °C 4,8 km/h (1 Bft)
28.10.2019 14:06 7,3 °C 96 % 1016,6 hPa 0,0 mm 2,5 km/h (1 Bft) O-NO 62 ° 0 min 0,000 mm 0,0 UV-I 30 W/m² 6,7 °C 7,3 °C 6,4 km/h (2 Bft)
28.10.2019 14:07 7,3 °C 96 % 1016,6 hPa 0,0 mm 1,5 km/h (1 Bft) O-NO 62 ° 0 min 0,000 mm 0,0 UV-I 30 W/m² 6,7 °C 7,3 °C 6,4 km/h (2 Bft)
28.10.2019 14:08 7,3 °C 96 % 1016,7 hPa 0,0 mm 3,6 km/h (1 Bft) O-NO 63 ° 0 min 0,000 mm 0,0 UV-I 30 W/m² 6,7 °C 7,3 °C 6,4 km/h (2 Bft)
28.10.2019 14:09 7,4 °C 96 % 1016,6 hPa 0,0 mm 4,2 km/h (1 Bft) O-NO 63 ° 0 min 0,000 mm 0,0 UV-I 30 W/m² 6,8 °C 7,4 °C 4,8 km/h (1 Bft)
28.10.2019 14:10 7,3 °C 96 % 1016,7 hPa 0,0 mm 5,7 km/h (1 Bft) NO 46 ° 0 min 0,000 mm 0,0 UV-I 30 W/m² 6,7 °C 6,5 °C 8,0 km/h (2 Bft)
28.10.2019 14:11 7,3 °C 96 % 1016,7 hPa 0,0 mm 4,2 km/h (1 Bft) N-NO 32 ° 0 min 0,000 mm 0,0 UV-I 28 W/m² 6,7 °C 7,3 °C 6,4 km/h (2 Bft)
28.10.2019 14:12 7,4 °C 96 % 1016,7 hPa 0,0 mm 4,6 km/h (1 Bft) NO 34 ° 0 min 0,000 mm 0,0 UV-I 28 W/m² 6,8 °C 7,0 °C 6,4 km/h (2 Bft)
28.10.2019 14:13 7,3 °C 96 % 1016,7 hPa 0,0 mm 2,6 km/h (1 Bft) NO 34 ° 0 min 0,000 mm 0,0 UV-I 28 W/m² 6,7 °C 7,3 °C 3,2 km/h (1 Bft)
28.10.2019 14:14 7,3 °C 96 % 1016,7 hPa 0,0 mm 5,2 km/h (1 Bft) NO 42 ° 0 min 0,000 mm 0,0 UV-I 26 W/m² 6,7 °C 6,6 °C 8,0 km/h (2 Bft)
28.10.2019 14:15 7,3 °C 96 % 1016,7 hPa 0,0 mm 4,3 km/h (1 Bft) NO 42 ° 0 min 0,000 mm 0,0 UV-I 26 W/m² 6,7 °C 7,3 °C 6,4 km/h (2 Bft)
28.10.2019 14:16 7,3 °C 96 % 1016,6 hPa 0,0 mm 5,0 km/h (1 Bft) NO 51 ° 0 min 0,000 mm 0,0 UV-I 25 W/m² 6,7 °C 6,7 °C 8,0 km/h (2 Bft)
28.10.2019 14:17 7,3 °C 96 % 1016,7 hPa 0,0 mm 5,1 km/h (1 Bft) NO 48 ° 0 min 0,000 mm 0,0 UV-I 25 W/m² 6,7 °C 6,7 °C 8,0 km/h (2 Bft)
28.10.2019 14:18 7,3 °C 96 % 1016,7 hPa 0,0 mm 4,2 km/h (1 Bft) NO 46 ° 0 min 0,000 mm 0,0 UV-I 25 W/m² 6,7 °C 7,3 °C 6,4 km/h (2 Bft)
28.10.2019 14:19 7,3 °C 96 % 1016,7 hPa 0,0 mm 1,7 km/h (1 Bft) NO 46 ° 0 min 0,000 mm 0,0 UV-I 25 W/m² 6,7 °C 7,3 °C 3,2 km/h (1 Bft)
28.10.2019 14:20 7,3 °C 96 % 1016,7 hPa 0,0 mm 2,5 km/h (1 Bft) NO 46 ° 0 min 0,000 mm 0,0 UV-I 25 W/m² 6,7 °C 7,3 °C 4,8 km/h (1 Bft)
28.10.2019 14:21 7,3 °C 96 % 1016,7 hPa 0,0 mm 2,4 km/h (1 Bft) NO 46 ° 0 min 0,000 mm 0,0 UV-I 25 W/m² 6,7 °C 7,3 °C 3,2 km/h (1 Bft)
28.10.2019 14:22 7,3 °C 96 % 1016,7 hPa 0,0 mm 2,9 km/h (1 Bft) O 90 ° 0 min 0,000 mm 0,0 UV-I 25 W/m² 6,7 °C 7,3 °C 4,8 km/h (1 Bft)
28.10.2019 14:23 7,3 °C 96 % 1016,7 hPa 0,0 mm 2,5 km/h (1 Bft) O 90 ° 0 min 0,000 mm 0,0 UV-I 25 W/m² 6,7 °C 7,3 °C 4,8 km/h (1 Bft)
28.10.2019 14:24 7,3 °C 96 % 1016,6 hPa 0,0 mm 4,7 km/h (1 Bft) O-NO 74 ° 0 min 0,000 mm 0,0 UV-I 25 W/m² 6,7 °C 6,8 °C 6,4 km/h (2 Bft)
28.10.2019 14:25 7,3 °C 96 % 1016,7 hPa 0,0 mm 5,0 km/h (1 Bft) O-NO 68 ° 0 min 0,000 mm 0,0 UV-I 26 W/m² 6,7 °C 6,7 °C 9,7 km/h (2 Bft)
28.10.2019 14:26 7,3 °C 96 % 1016,7 hPa 0,0 mm 5,2 km/h (1 Bft) O-NO 68 ° 0 min 0,000 mm 0,0 UV-I 28 W/m² 6,7 °C 6,6 °C 8,0 km/h (2 Bft)
28.10.2019 14:27 7,3 °C 96 % 1016,6 hPa 0,0 mm 5,8 km/h (2 Bft) O-NO 61 ° 0 min 0,000 mm 0,0 UV-I 30 W/m² 6,7 °C 6,4 °C 8,0 km/h (2 Bft)
28.10.2019 14:28 7,3 °C 96 % 1016,7 hPa 0,0 mm 4,6 km/h (1 Bft) O-NO 61 ° 0 min 0,000 mm 0,0 UV-I 32 W/m² 6,7 °C 6,8 °C 6,4 km/h (2 Bft)
28.10.2019 14:29 7,3 °C 96 % 1016,7 hPa 0,0 mm 1,1 km/h (1 Bft) O-NO 61 ° 0 min 0,000 mm 0,0 UV-I 32 W/m² 6,7 °C 7,3 °C 3,2 km/h (1 Bft)
28.10.2019 14:30 7,3 °C 96 % 1016,7 hPa 0,0 mm 2,1 km/h (1 Bft) O-NO 61 ° 0 min 0,000 mm 0,0 UV-I 32 W/m² 6,7 °C 7,3 °C 3,2 km/h (1 Bft)
28.10.2019 14:31 7,3 °C 96 % 1016,7 hPa 0,0 mm 2,1 km/h (1 Bft) O-NO 61 ° 0 min 0,000 mm 0,0 UV-I 32 W/m² 6,7 °C 7,3 °C 3,2 km/h (1 Bft)
28.10.2019 14:32 7,3 °C 96 % 1016,7 hPa 0,0 mm 3,2 km/h (1 Bft) O-NO 61 ° 0 min 0,000 mm 0,0 UV-I 33 W/m² 6,7 °C 7,3 °C 6,4 km/h (2 Bft)
28.10.2019 14:33 7,3 °C 96 % 1016,7 hPa 0,0 mm 3,1 km/h (1 Bft) O-NO 61 ° 0 min 0,000 mm 0,0 UV-I 33 W/m² 6,7 °C 7,3 °C 4,8 km/h (1 Bft)
28.10.2019 14:34 7,3 °C 96 % 1016,7 hPa 0,0 mm 3,5 km/h (1 Bft) O-NO 61 ° 0 min 0,000 mm 0,0 UV-I 33 W/m² 6,7 °C 7,3 °C 4,8 km/h (1 Bft)
28.10.2019 14:35 7,3 °C 96 % 1016,7 hPa 0,0 mm 2,6 km/h (1 Bft) O-NO 61 ° 0 min 0,000 mm 0,0 UV-I 33 W/m² 6,7 °C 7,3 °C 3,2 km/h (1 Bft)
28.10.2019 14:36 7,3 °C 96 % 1016,7 hPa 0,0 mm 2,3 km/h (1 Bft) O-NO 61 ° 0 min 0,000 mm 0,0 UV-I 33 W/m² 6,7 °C 7,3 °C 3,2 km/h (1 Bft)
28.10.2019 14:37 7,3 °C 96 % 1016,7 hPa 0,0 mm 1,9 km/h (1 Bft) O-NO 61 ° 0 min 0,000 mm 0,0 UV-I 33 W/m² 6,7 °C 7,3 °C 3,2 km/h (1 Bft)
28.10.2019 14:38 7,3 °C 96 % 1016,7 hPa 0,0 mm 3,0 km/h (1 Bft) O 93 ° 0 min 0,000 mm 0,0 UV-I 33 W/m² 6,7 °C 7,3 °C 6,4 km/h (2 Bft)
28.10.2019 14:39 7,3 °C 96 % 1016,6 hPa 0,0 mm 3,3 km/h (1 Bft) O 84 ° 0 min 0,000 mm 0,0 UV-I 33 W/m² 6,7 °C 7,3 °C 4,8 km/h (1 Bft)
28.10.2019 14:40 7,3 °C 96 % 1016,7 hPa 0,0 mm 4,0 km/h (1 Bft) O 84 ° 0 min 0,000 mm 0,0 UV-I 33 W/m² 6,7 °C 7,3 °C 6,4 km/h (2 Bft)
28.10.2019 14:41 7,4 °C 96 % 1016,6 hPa 0,0 mm 3,5 km/h (1 Bft) O-NO 73 ° 0 min 0,000 mm 0,0 UV-I 33 W/m² 6,8 °C 7,4 °C 4,8 km/h (1 Bft)
28.10.2019 14:42 7,3 °C 96 % 1016,7 hPa 0,0 mm 1,9 km/h (1 Bft) O 85 ° 0 min 0,000 mm 0,0 UV-I 33 W/m² 6,7 °C 7,3 °C 6,4 km/h (2 Bft)
28.10.2019 14:43 7,4 °C 96 % 1016,7 hPa 0,0 mm 5,8 km/h (2 Bft) O-SO 103 ° 0 min 0,000 mm 0,0 UV-I 33 W/m² 6,8 °C 6,5 °C 9,7 km/h (2 Bft)
28.10.2019 14:44 7,3 °C 96 % 1016,7 hPa 0,0 mm 3,8 km/h (1 Bft) O-NO 65 ° 0 min 0,000 mm 0,0 UV-I 33 W/m² 6,7 °C 7,3 °C 6,4 km/h (2 Bft)
28.10.2019 14:45 7,4 °C 96 % 1016,7 hPa 0,0 mm 4,3 km/h (1 Bft) O-NO 65 ° 0 min 0,000 mm 0,0 UV-I 35 W/m² 6,8 °C 7,4 °C 4,8 km/h (1 Bft)
28.10.2019 14:46 7,3 °C 96 % 1016,7 hPa 0,0 mm 3,3 km/h (1 Bft) O-NO 65 ° 0 min 0,000 mm 0,0 UV-I 37 W/m² 6,7 °C 7,3 °C 4,8 km/h (1 Bft)
28.10.2019 14:47 7,4 °C 96 % 1016,7 hPa 0,0 mm 1,9 km/h (1 Bft) O-NO 65 ° 0 min 0,000 mm 0,0 UV-I 37 W/m² 6,8 °C 7,4 °C 4,8 km/h (1 Bft)
28.10.2019 14:48 7,4 °C 96 % 1016,7 hPa 0,0 mm 1,9 km/h (1 Bft) O-NO 65 ° 0 min 0,000 mm 0,0 UV-I 37 W/m² 6,8 °C 7,4 °C 3,2 km/h (1 Bft)
28.10.2019 14:49 7,4 °C 96 % 1016,7 hPa 0,0 mm 5,7 km/h (1 Bft) O-NO 78 ° 0 min 0,000 mm 0,0 UV-I 35 W/m² 6,8 °C 6,6 °C 8,0 km/h (2 Bft)
28.10.2019 14:50 7,4 °C 96 % 1016,7 hPa 0,0 mm 1,6 km/h (1 Bft) O-NO 78 ° 0 min 0,000 mm 0,0 UV-I 37 W/m² 6,8 °C 7,4 °C 4,8 km/h (1 Bft)
28.10.2019 14:51 7,3 °C 96 % 1016,6 hPa 0,0 mm 5,4 km/h (1 Bft) NO 55 ° 0 min 0,000 mm 0,0 UV-I 37 W/m² 6,7 °C 6,6 °C 8,0 km/h (2 Bft)
28.10.2019 14:52 7,3 °C 96 % 1016,7 hPa 0,0 mm 3,1 km/h (1 Bft) NO 55 ° 0 min 0,000 mm 0,0 UV-I 37 W/m² 6,7 °C 7,3 °C 6,4 km/h (2 Bft)
28.10.2019 14:53 7,3 °C 96 % 1016,7 hPa 0,0 mm 0,1 km/h (0 Bft) NO 55 ° 0 min 0,000 mm 0,0 UV-I 37 W/m² 6,7 °C 7,3 °C 1,6 km/h (1 Bft)
28.10.2019 14:54 7,4 °C 96 % 1016,6 hPa 0,0 mm 4,0 km/h (1 Bft) NO 55 ° 0 min 0,000 mm 0,0 UV-I 37 W/m² 6,8 °C 7,4 °C 6,4 km/h (2 Bft)
28.10.2019 14:55 7,3 °C 96 % 1016,6 hPa 0,0 mm 6,5 km/h (2 Bft) O 82 ° 0 min 0,000 mm 0,0 UV-I 35 W/m² 6,7 °C 6,2 °C 8,0 km/h (2 Bft)
28.10.2019 14:56 7,3 °C 96 % 1016,6 hPa 0,0 mm 2,7 km/h (1 Bft) O 82 ° 0 min 0,000 mm 0,0 UV-I 35 W/m² 6,7 °C 7,3 °C 4,8 km/h (1 Bft)
28.10.2019 14:57 7,3 °C 96 % 1016,6 hPa 0,0 mm 2,8 km/h (1 Bft) O 82 ° 0 min 0,000 mm 0,0 UV-I 35 W/m² 6,7 °C 7,3 °C 4,8 km/h (1 Bft)
28.10.2019 14:58 7,3 °C 96 % 1016,7 hPa 0,0 mm 4,1 km/h (1 Bft) O 82 ° 0 min 0,000 mm 0,0 UV-I 33 W/m² 6,7 °C 7,3 °C 6,4 km/h (2 Bft)
28.10.2019 14:59 7,3 °C 96 % 1016,7 hPa 0,0 mm 4,6 km/h (1 Bft) O-NO 68 ° 0 min 0,000 mm 0,0 UV-I 33 W/m² 6,7 °C 6,8 °C 6,4 km/h (2 Bft)
28.10.2019 15:00 7,3 °C 96 % 1016,6 hPa 0,0 mm 4,9 km/h (1 Bft) O 84 ° 0 min 0,000 mm 0,0 UV-I 33 W/m² 6,7 °C 6,7 °C 6,4 km/h (2 Bft)
28.10.2019 15:01 7,3 °C 96 % 1016,7 hPa 0,0 mm 5,1 km/h (1 Bft) O-NO 58 ° 0 min 0,025 mm 0,0 UV-I 32 W/m² 6,7 °C 6,7 °C 8,0 km/h (2 Bft)
28.10.2019 15:02 7,3 °C 96 % 1016,7 hPa 0,0 mm 5,7 km/h (1 Bft) O-NO 72 ° 0 min 0,000 mm 0,0 UV-I 32 W/m² 6,7 °C 6,5 °C 8,0 km/h (2 Bft)
28.10.2019 15:03 7,3 °C 96 % 1016,7 hPa 0,0 mm 2,4 km/h (1 Bft) O-NO 72 ° 0 min 0,000 mm 0,0 UV-I 30 W/m² 6,7 °C 7,3 °C 4,8 km/h (1 Bft)
28.10.2019 15:04 7,3 °C 96 % 1016,7 hPa 0,0 mm 4,1 km/h (1 Bft) NO 40 ° 0 min 0,000 mm 0,0 UV-I 30 W/m² 6,7 °C 7,3 °C 6,4 km/h (2 Bft)
28.10.2019 15:05 7,3 °C 96 % 1016,7 hPa 0,0 mm 3,3 km/h (1 Bft) NO 46 ° 0 min 0,000 mm 0,0 UV-I 28 W/m² 6,7 °C 7,3 °C 4,8 km/h (1 Bft)
28.10.2019 15:06 7,3 °C 96 % 1016,7 hPa 0,0 mm 2,4 km/h (1 Bft) NO 46 ° 0 min 0,000 mm 0,0 UV-I 28 W/m² 6,7 °C 7,3 °C 4,8 km/h (1 Bft)
28.10.2019 15:07 7,3 °C 96 % 1016,7 hPa 0,0 mm 3,7 km/h (1 Bft) O-NO 76 ° 0 min 0,000 mm 0,0 UV-I 26 W/m² 6,7 °C 7,3 °C 4,8 km/h (1 Bft)
28.10.2019 15:08 7,3 °C 96 % 1016,7 hPa 0,0 mm 3,2 km/h (1 Bft) O-NO 75 ° 0 min 0,000 mm 0,0 UV-I 26 W/m² 6,7 °C 7,3 °C 4,8 km/h (1 Bft)
28.10.2019 15:09 7,3 °C 96 % 1016,8 hPa 0,0 mm 4,2 km/h (1 Bft) O-NO 76 ° 0 min 0,000 mm 0,0 UV-I 26 W/m² 6,7 °C 7,3 °C 6,4 km/h (2 Bft)
28.10.2019 15:10 7,3 °C 96 % 1016,8 hPa 0,0 mm 5,5 km/h (1 Bft) NO 52 ° 0 min 0,000 mm 0,0 UV-I 26 W/m² 6,7 °C 6,5 °C 8,0 km/h (2 Bft)
28.10.2019 15:11 7,3 °C 96 % 1016,8 hPa 0,0 mm 4,7 km/h (1 Bft) O 86 ° 0 min 0,000 mm 0,0 UV-I 25 W/m² 6,7 °C 6,8 °C 6,4 km/h (2 Bft)
28.10.2019 15:12 7,3 °C 96 % 1016,7 hPa 0,0 mm 4,2 km/h (1 Bft) O-NO 63 ° 0 min 0,000 mm 0,0 UV-I 25 W/m² 6,7 °C 7,3 °C 6,4 km/h (2 Bft)
28.10.2019 15:13 7,3 °C 96 % 1016,8 hPa 0,0 mm 3,8 km/h (1 Bft) O-NO 68 ° 0 min 0,000 mm 0,0 UV-I 23 W/m² 6,7 °C 7,3 °C 4,8 km/h (1 Bft)
28.10.2019 15:14 7,3 °C 96 % 1016,8 hPa 0,0 mm 5,1 km/h (1 Bft) NO 42 ° 0 min 0,000 mm 0,0 UV-I 25 W/m² 6,7 °C 6,7 °C 6,4 km/h (2 Bft)
28.10.2019 15:15 7,3 °C 96 % 1016,8 hPa 0,0 mm 2,9 km/h (1 Bft) O-NO 78 ° 0 min 0,000 mm 0,0 UV-I 23 W/m² 6,7 °C 7,3 °C 6,4 km/h (2 Bft)
28.10.2019 15:16 7,3 °C 96 % 1016,7 hPa 0,0 mm 4,4 km/h (1 Bft) NO 50 ° 0 min 0,000 mm 0,0 UV-I 25 W/m² 6,7 °C 7,3 °C 8,0 km/h (2 Bft)
28.10.2019 15:17 7,3 °C 96 % 1016,8 hPa 0,0 mm 3,6 km/h (1 Bft) NO 50 ° 0 min 0,000 mm 0,0 UV-I 25 W/m² 6,7 °C 7,3 °C 4,8 km/h (1 Bft)
28.10.2019 15:18 7,3 °C 96 % 1016,8 hPa 0,0 mm 4,2 km/h (1 Bft) O-NO 71 ° 0 min 0,000 mm 0,0 UV-I 25 W/m² 6,7 °C 7,3 °C 8,0 km/h (2 Bft)
28.10.2019 15:19 7,3 °C 96 % 1016,8 hPa 0,0 mm 5,7 km/h (1 Bft) O 81 ° 0 min 0,000 mm 0,0 UV-I 23 W/m² 6,7 °C 6,5 °C 9,7 km/h (2 Bft)
28.10.2019 15:20 7,3 °C 96 % 1016,7 hPa 0,0 mm 4,2 km/h (1 Bft) O-NO 76 ° 0 min 0,000 mm 0,0 UV-I 23 W/m² 6,7 °C 7,3 °C 8,0 km/h (2 Bft)
28.10.2019 15:21 7,3 °C 96 % 1016,8 hPa 0,0 mm 5,6 km/h (1 Bft) NO 55 ° 0 min 0,000 mm 0,0 UV-I 23 W/m² 6,7 °C 6,5 °C 8,0 km/h (2 Bft)
28.10.2019 15:22 7,3 °C 96 % 1016,7 hPa 0,0 mm 3,4 km/h (1 Bft) NO 55 ° 0 min 0,000 mm 0,0 UV-I 23 W/m² 6,7 °C 7,3 °C 6,4 km/h (2 Bft)
28.10.2019 15:23 7,3 °C 96 % 1016,8 hPa 0,0 mm 3,0 km/h (1 Bft) O-NO 71 ° 0 min 0,000 mm 0,0 UV-I 21 W/m² 6,7 °C 7,3 °C 6,4 km/h (2 Bft)
28.10.2019 15:24 7,3 °C 96 % 1016,7 hPa 0,0 mm 5,5 km/h (1 Bft) O-NO 70 ° 0 min 0,000 mm 0,0 UV-I 21 W/m² 6,7 °C 6,5 °C 8,0 km/h (2 Bft)
28.10.2019 15:25 7,3 °C 96 % 1016,7 hPa 0,0 mm 6,6 km/h (2 Bft) NO 43 ° 0 min 0,000 mm 0,0 UV-I 21 W/m² 6,7 °C 6,2 °C 14,5 km/h (3 Bft)
28.10.2019 15:26 7,3 °C 96 % 1016,7 hPa 0,0 mm 3,4 km/h (1 Bft) NO 43 ° 0 min 0,000 mm 0,0 UV-I 21 W/m² 6,7 °C 7,3 °C 4,8 km/h (1 Bft)
28.10.2019 15:27 7,3 °C 96 % 1016,7 hPa 0,0 mm 4,0 km/h (1 Bft) NO 47 ° 0 min 0,000 mm 0,0 UV-I 21 W/m² 6,7 °C 7,3 °C 9,7 km/h (2 Bft)
28.10.2019 15:28 7,3 °C 96 % 1016,8 hPa 0,0 mm 6,0 km/h (2 Bft) O-NO 67 ° 0 min 0,000 mm 0,0 UV-I 21 W/m² 6,7 °C 6,4 °C 12,9 km/h (3 Bft)
28.10.2019 15:29 7,3 °C 96 % 1016,7 hPa 0,0 mm 4,5 km/h (1 Bft) NO 42 ° 0 min 0,000 mm 0,0 UV-I 21 W/m² 6,7 °C 7,3 °C 6,4 km/h (2 Bft)
28.10.2019 15:30 7,3 °C 96 % 1016,8 hPa 0,0 mm 3,0 km/h (1 Bft) NO 42 ° 0 min 0,000 mm 0,0 UV-I 21 W/m² 6,7 °C 7,3 °C 4,8 km/h (1 Bft)
28.10.2019 15:31 7,3 °C 96 % 1016,8 hPa 0,0 mm 1,1 km/h (1 Bft) N-NW 348 ° 0 min 0,000 mm 0,0 UV-I 21 W/m² 6,7 °C 7,3 °C 4,8 km/h (1 Bft)
28.10.2019 15:32 7,3 °C 96 % 1016,7 hPa 0,0 mm 1,4 km/h (1 Bft) N 355 ° 0 min 0,000 mm 0,0 UV-I 21 W/m² 6,7 °C 7,3 °C 4,8 km/h (1 Bft)
28.10.2019 15:33 7,3 °C 96 % 1016,7 hPa 0,0 mm 6,5 km/h (2 Bft) NO 39 ° 0 min 0,000 mm 0,0 UV-I 21 W/m² 6,7 °C 6,2 °C 8,0 km/h (2 Bft)
28.10.2019 15:34 7,3 °C 96 % 1016,7 hPa 0,0 mm 4,2 km/h (1 Bft) O-NO 65 ° 0 min 0,000 mm 0,0 UV-I 21 W/m² 6,7 °C 7,3 °C 6,4 km/h (2 Bft)
28.10.2019 15:35 7,3 °C 96 % 1016,7 hPa 0,0 mm 2,7 km/h (1 Bft) O-NO 65 ° 0 min 0,000 mm 0,0 UV-I 19 W/m² 6,7 °C 7,3 °C 6,4 km/h (2 Bft)
28.10.2019 15:36 7,3 °C 96 % 1016,7 hPa 0,0 mm 0,5 km/h (0 Bft) O-NO 65 ° 0 min 0,000 mm 0,0 UV-I 19 W/m² 6,7 °C 7,3 °C 3,2 km/h (1 Bft)
28.10.2019 15:37 7,3 °C 96 % 1016,7 hPa 0,0 mm 2,2 km/h (1 Bft) O-NO 65 ° 0 min 0,000 mm 0,0 UV-I 18 W/m² 6,7 °C 7,3 °C 3,2 km/h (1 Bft)
28.10.2019 15:38 7,3 °C 96 % 1016,7 hPa 0,0 mm 3,4 km/h (1 Bft) NO 44 ° 0 min 0,000 mm 0,0 UV-I 18 W/m² 6,7 °C 7,3 °C 6,4 km/h (2 Bft)
28.10.2019 15:39 7,3 °C 96 % 1016,7 hPa 0,0 mm 4,7 km/h (1 Bft) NO 49 ° 0 min 0,000 mm 0,0 UV-I 16 W/m² 6,7 °C 6,8 °C 6,4 km/h (2 Bft)
28.10.2019 15:40 7,3 °C 96 % 1016,7 hPa 0,0 mm 2,1 km/h (1 Bft) NO 49 ° 0 min 0,000 mm 0,0 UV-I 16 W/m² 6,7 °C 7,3 °C 3,2 km/h (1 Bft)
28.10.2019 15:41 7,3 °C 96 % 1016,7 hPa 0,0 mm 3,2 km/h (1 Bft) NO 49 ° 0 min 0,000 mm 0,0 UV-I 16 W/m² 6,7 °C 7,3 °C 4,8 km/h (1 Bft)
28.10.2019 15:42 7,3 °C 96 % 1016,7 hPa 0,0 mm 3,2 km/h (1 Bft) NO 49 ° 0 min 0,000 mm 0,0 UV-I 14 W/m² 6,7 °C 7,3 °C 4,8 km/h (1 Bft)
28.10.2019 15:43 7,3 °C 96 % 1016,7 hPa 0,0 mm 1,9 km/h (1 Bft) O 92 ° 0 min 0,000 mm 0,0 UV-I 14 W/m² 6,7 °C 7,3 °C 6,4 km/h (2 Bft)
28.10.2019 15:44 7,3 °C 96 % 1016,7 hPa 0,0 mm 5,3 km/h (1 Bft) O-NO 63 ° 0 min 0,000 mm 0,0 UV-I 12 W/m² 6,7 °C 6,6 °C 11,3 km/h (2 Bft)
28.10.2019 15:45 7,3 °C 96 % 1016,7 hPa 0,0 mm 4,9 km/h (1 Bft) O 101 ° 0 min 0,000 mm 0,0 UV-I 12 W/m² 6,7 °C 6,7 °C 6,4 km/h (2 Bft)
28.10.2019 15:46 7,3 °C 96 % 1016,7 hPa 0,0 mm 4,2 km/h (1 Bft) O-NO 60 ° 0 min 0,000 mm 0,0 UV-I 12 W/m² 6,7 °C 7,3 °C 6,4 km/h (2 Bft)
28.10.2019 15:47 7,2 °C 96 % 1016,7 hPa 0,0 mm 3,6 km/h (1 Bft) NO 44 ° 0 min 0,000 mm 0,0 UV-I 12 W/m² 6,6 °C 7,2 °C 8,0 km/h (2 Bft)
28.10.2019 15:48 7,2 °C 96 % 1016,7 hPa 0,0 mm 3,7 km/h (1 Bft) NO 47 ° 0 min 0,000 mm 0,0 UV-I 12 W/m² 6,6 °C 7,2 °C 4,8 km/h (1 Bft)
28.10.2019 15:49 7,2 °C 96 % 1016,7 hPa 0,0 mm 4,0 km/h (1 Bft) NO 55 ° 0 min 0,000 mm 0,0 UV-I 11 W/m² 6,6 °C 7,2 °C 6,4 km/h (2 Bft)
28.10.2019 15:50 7,2 °C 96 % 1016,7 hPa 0,0 mm 4,6 km/h (1 Bft) O-NO 73 ° 0 min 0,000 mm 0,0 UV-I 11 W/m² 6,6 °C 6,7 °C 8,0 km/h (2 Bft)
28.10.2019 15:51 7,2 °C 96 % 1016,6 hPa 0,0 mm 5,6 km/h (1 Bft) NO 49 ° 0 min 0,000 mm 0,0 UV-I 11 W/m² 6,6 °C 6,4 °C 8,0 km/h (2 Bft)
28.10.2019 15:52 7,2 °C 96 % 1016,6 hPa 0,2 mm 5,8 km/h (2 Bft) N-NO 26 ° 0 min 0,000 mm 0,0 UV-I 11 W/m² 6,6 °C 6,3 °C 12,9 km/h (3 Bft)
28.10.2019 15:53 7,2 °C 96 % 1016,6 hPa 0,0 mm 5,3 km/h (1 Bft) NO 53 ° 0 min 0,000 mm 0,0 UV-I 9 W/m² 6,6 °C 6,5 °C 8,0 km/h (2 Bft)
28.10.2019 15:54 7,2 °C 96 % 1016,6 hPa 0,0 mm 4,9 km/h (1 Bft) NO 55 ° 0 min 0,000 mm 0,0 UV-I 9 W/m² 6,6 °C 6,6 °C 6,4 km/h (2 Bft)
28.10.2019 15:55 7,2 °C 96 % 1016,6 hPa 0,0 mm 4,6 km/h (1 Bft) O-NO 76 ° 0 min 0,000 mm 0,0 UV-I 9 W/m² 6,6 °C 6,7 °C 6,4 km/h (2 Bft)
28.10.2019 15:56 7,2 °C 96 % 1016,6 hPa 0,0 mm 4,8 km/h (1 Bft) NO 53 ° 0 min 0,000 mm 0,0 UV-I 9 W/m² 6,6 °C 6,7 °C 6,4 km/h (2 Bft)
28.10.2019 15:57 7,2 °C 96 % 1016,6 hPa 0,0 mm 6,1 km/h (2 Bft) NO 54 ° 0 min 0,000 mm 0,0 UV-I 9 W/m² 6,6 °C 6,2 °C 9,7 km/h (2 Bft)
28.10.2019 15:58 7,2 °C 96 % 1016,5 hPa 0,0 mm 5,8 km/h (2 Bft) NO 35 ° 0 min 0,000 mm 0,0 UV-I 9 W/m² 6,6 °C 6,3 °C 8,0 km/h (2 Bft)
28.10.2019 15:59 7,2 °C 96 % 1016,6 hPa 0,0 mm 4,6 km/h (1 Bft) O-NO 64 ° 0 min 0,000 mm 0,0 UV-I 9 W/m² 6,6 °C 6,7 °C 6,4 km/h (2 Bft)
28.10.2019 16:00 7,1 °C 96 % 1016,5 hPa 0,0 mm 4,0 km/h (1 Bft) NO 51 ° 0 min 0,000 mm 0,0 UV-I 7 W/m² 6,5 °C 7,1 °C 6,4 km/h (2 Bft)
28.10.2019 16:01 7,2 °C 96 % 1016,5 hPa 0,0 mm 5,4 km/h (1 Bft) O-NO 73 ° 0 min 0,000 mm 0,0 UV-I 7 W/m² 6,6 °C 6,4 °C 8,0 km/h (2 Bft)
28.10.2019 16:02 7,2 °C 96 % 1016,6 hPa 0,0 mm 3,8 km/h (1 Bft) NO 48 ° 0 min 0,000 mm 0,0 UV-I 7 W/m² 6,6 °C 7,2 °C 6,4 km/h (2 Bft)
28.10.2019 16:03 7,1 °C 96 % 1016,6 hPa 0,0 mm 3,2 km/h (1 Bft) NO 48 ° 0 min 0,000 mm 0,0 UV-I 7 W/m² 6,5 °C 7,1 °C 4,8 km/h (1 Bft)
28.10.2019 16:04 7,2 °C 96 % 1016,6 hPa 0,0 mm 3,6 km/h (1 Bft) NO 50 ° 0 min 0,000 mm 0,0 UV-I 7 W/m² 6,6 °C 7,2 °C 4,8 km/h (1 Bft)
28.10.2019 16:05 7,1 °C 96 % 1016,6 hPa 0,0 mm 4,8 km/h (1 Bft) NO 41 ° 0 min 0,000 mm 0,0 UV-I 7 W/m² 6,5 °C 6,5 °C 6,4 km/h (2 Bft)
28.10.2019 16:06 7,1 °C 96 % 1016,6 hPa 0,0 mm 4,4 km/h (1 Bft) O-NO 68 ° 0 min 0,000 mm 0,0 UV-I 9 W/m² 6,5 °C 7,1 °C 4,8 km/h (1 Bft)
28.10.2019 16:07 7,1 °C 96 % 1016,6 hPa 0,0 mm 3,3 km/h (1 Bft) O-NO 68 ° 0 min 0,000 mm 0,0 UV-I 9 W/m² 6,5 °C 7,1 °C 4,8 km/h (1 Bft)
28.10.2019 16:08 7,1 °C 96 % 1016,6 hPa 0,0 mm 4,5 km/h (1 Bft) O-NO 69 ° 0 min 0,000 mm 0,0 UV-I 9 W/m² 6,5 °C 7,1 °C 6,4 km/h (2 Bft)
28.10.2019 16:09 7,1 °C 96 % 1016,5 hPa 0,0 mm 4,0 km/h (1 Bft) NO 34 ° 0 min 0,000 mm 0,0 UV-I 9 W/m² 6,5 °C 7,1 °C 4,8 km/h (1 Bft)
28.10.2019 16:10 7,1 °C 96 % 1016,5 hPa 0,0 mm 2,1 km/h (1 Bft) NO 34 ° 0 min 0,000 mm 0,0 UV-I 9 W/m² 6,5 °C 7,1 °C 4,8 km/h (1 Bft)
28.10.2019 16:11 7,1 °C 96 % 1016,5 hPa 0,0 mm 3,9 km/h (1 Bft) O-NO 77 ° 0 min 0,000 mm 0,0 UV-I 9 W/m² 6,5 °C 7,1 °C 6,4 km/h (2 Bft)
28.10.2019 16:12 7,1 °C 96 % 1016,5 hPa 0,0 mm 3,3 km/h (1 Bft) O 80 ° 0 min 0,000 mm 0,0 UV-I 9 W/m² 6,5 °C 7,1 °C 4,8 km/h (1 Bft)
28.10.2019 16:13 7,1 °C 96 % 1016,6 hPa 0,0 mm 2,3 km/h (1 Bft) O 80 ° 0 min 0,000 mm 0,0 UV-I 9 W/m² 6,5 °C 7,1 °C 3,2 km/h (1 Bft)
28.10.2019 16:14 7,1 °C 96 % 1016,5 hPa 0,0 mm 3,6 km/h (1 Bft) O 92 ° 0 min 0,000 mm 0,0 UV-I 9 W/m² 6,5 °C 7,1 °C 6,4 km/h (2 Bft)
28.10.2019 16:15 7,1 °C 96 % 1016,5 hPa 0,0 mm 3,6 km/h (1 Bft) O 84 ° 0 min 0,000 mm 0,0 UV-I 9 W/m² 6,5 °C 7,1 °C 6,4 km/h (2 Bft)
28.10.2019 16:16 7,1 °C 96 % 1016,5 hPa 0,0 mm 2,9 km/h (1 Bft) O 84 ° 0 min 0,000 mm 0,0 UV-I 9 W/m² 6,5 °C 7,1 °C 4,8 km/h (1 Bft)
28.10.2019 16:17 7,1 °C 96 % 1016,5 hPa 0,0 mm 3,4 km/h (1 Bft) O-NO 74 ° 0 min 0,000 mm 0,0 UV-I 9 W/m² 6,5 °C 7,1 °C 4,8 km/h (1 Bft)
28.10.2019 16:18 7,1 °C 96 % 1016,5 hPa 0,0 mm 0,3 km/h (0 Bft) O-NO 74 ° 0 min 0,000 mm 0,0 UV-I 9 W/m² 6,5 °C 7,1 °C 1,6 km/h (1 Bft)
28.10.2019 16:19 7,1 °C 96 % 1016,5 hPa 0,0 mm 3,4 km/h (1 Bft) O 79 ° 0 min 0,000 mm 0,0 UV-I 7 W/m² 6,5 °C 7,1 °C 4,8 km/h (1 Bft)
28.10.2019 16:20 7,1 °C 96 % 1016,5 hPa 0,0 mm 2,3 km/h (1 Bft) NO 45 ° 0 min 0,000 mm 0,0 UV-I 7 W/m² 6,5 °C 7,1 °C 4,8 km/h (1 Bft)
28.10.2019 16:21 7,1 °C 96 % 1016,5 hPa 0,0 mm 6,2 km/h (2 Bft) O 92 ° 0 min 0,000 mm 0,0 UV-I 7 W/m² 6,5 °C 6,1 °C 9,7 km/h (2 Bft)
28.10.2019 16:22 7,1 °C 96 % 1016,6 hPa 0,0 mm 6,0 km/h (2 Bft) O 82 ° 0 min 0,000 mm 0,0 UV-I 7 W/m² 6,5 °C 6,1 °C 9,7 km/h (2 Bft)
28.10.2019 16:23 7,1 °C 96 % 1016,6 hPa 0,0 mm 5,0 km/h (1 Bft) NO 55 ° 0 min 0,000 mm 0,0 UV-I 7 W/m² 6,5 °C 6,5 °C 6,4 km/h (2 Bft)
28.10.2019 16:24 7,1 °C 96 % 1016,5 hPa 0,0 mm 4,8 km/h (1 Bft) N-NW 335 ° 0 min 0,000 mm 0,0 UV-I 7 W/m² 6,5 °C 6,5 °C 8,0 km/h (2 Bft)
28.10.2019 16:25 7,1 °C 96 % 1016,5 hPa 0,0 mm 2,3 km/h (1 Bft) N-NW 336 ° 0 min 0,000 mm 0,0 UV-I 7 W/m² 6,5 °C 7,1 °C 4,8 km/h (1 Bft)
28.10.2019 16:26 7,1 °C 96 % 1016,6 hPa 0,0 mm 3,9 km/h (1 Bft) O-NO 66 ° 0 min 0,000 mm 0,0 UV-I 7 W/m² 6,5 °C 7,1 °C 6,4 km/h (2 Bft)
28.10.2019 16:27 7,1 °C 96 % 1016,5 hPa 0,0 mm 3,6 km/h (1 Bft) N-NO 19 ° 0 min 0,000 mm 0,0 UV-I 7 W/m² 6,5 °C 7,1 °C 4,8 km/h (1 Bft)
28.10.2019 16:28 7,1 °C 96 % 1016,5 hPa 0,0 mm 1,3 km/h (1 Bft) N-NO 19 ° 0 min 0,000 mm 0,0 UV-I 7 W/m² 6,5 °C 7,1 °C 4,8 km/h (1 Bft)
28.10.2019 16:29 7,1 °C 96 % 1016,5 hPa 0,0 mm 0,8 km/h (0 Bft) N-NO 19 ° 0 min 0,000 mm 0,0 UV-I 5 W/m² 6,5 °C 7,1 °C 1,6 km/h (1 Bft)
28.10.2019 16:30 7,1 °C 96 % 1016,5 hPa 0,0 mm 2,3 km/h (1 Bft) N-NO 30 ° 0 min 0,000 mm 0,0 UV-I 5 W/m² 6,5 °C 7,1 °C 3,2 km/h (1 Bft)
28.10.2019 16:31 7,1 °C 96 % 1016,5 hPa 0,0 mm 5,2 km/h (1 Bft) O-NO 77 ° 0 min 0,000 mm 0,0 UV-I 5 W/m² 6,5 °C 6,4 °C 8,0 km/h (2 Bft)
28.10.2019 16:32 7,1 °C 96 % 1016,5 hPa 0,0 mm 5,2 km/h (1 Bft) O-NO 66 ° 0 min 0,000 mm 0,0 UV-I 5 W/m² 6,5 °C 6,4 °C 8,0 km/h (2 Bft)
28.10.2019 16:33 7,1 °C 96 % 1016,5 hPa 0,0 mm 3,4 km/h (1 Bft) N-NO 25 ° 0 min 0,000 mm 0,0 UV-I 5 W/m² 6,5 °C 7,1 °C 4,8 km/h (1 Bft)
28.10.2019 16:34 7,1 °C 96 % 1016,5 hPa 0,0 mm 3,7 km/h (1 Bft) NO 40 ° 0 min 0,000 mm 0,0 UV-I 5 W/m² 6,5 °C 7,1 °C 6,4 km/h (2 Bft)
28.10.2019 16:35 7,1 °C 96 % 1016,6 hPa 0,0 mm 1,9 km/h (1 Bft) O-NO 64 ° 0 min 0,000 mm 0,0 UV-I 5 W/m² 6,5 °C 7,1 °C 4,8 km/h (1 Bft)
28.10.2019 16:36 7,1 °C 96 % 1016,6 hPa 0,0 mm 5,2 km/h (1 Bft) O-NO 63 ° 0 min 0,000 mm 0,0 UV-I 5 W/m² 6,5 °C 6,4 °C 8,0 km/h (2 Bft)
28.10.2019 16:37 7,0 °C 96 % 1016,5 hPa 0,0 mm 3,7 km/h (1 Bft) O-NO 63 ° 0 min 0,000 mm 0,0 UV-I 5 W/m² 6,4 °C 7,0 °C 4,8 km/h (1 Bft)
28.10.2019 16:38 7,0 °C 96 % 1016,5 hPa 0,0 mm 1,3 km/h (1 Bft) O-NO 63 ° 0 min 0,000 mm 0,0 UV-I 5 W/m² 6,4 °C 7,0 °C 3,2 km/h (1 Bft)
28.10.2019 16:39 7,0 °C 96 % 1016,6 hPa 0,0 mm 2,2 km/h (1 Bft) O-NO 63 ° 0 min 0,000 mm 0,0 UV-I 5 W/m² 6,4 °C 7,0 °C 4,8 km/h (1 Bft)
28.10.2019 16:40 6,9 °C 96 % 1016,6 hPa 0,0 mm 1,9 km/h (1 Bft) O-NO 63 ° 0 min 0,000 mm 0,0 UV-I 5 W/m² 6,3 °C 6,9 °C 4,8 km/h (1 Bft)
28.10.2019 16:41 6,9 °C 96 % 1016,6 hPa 0,0 mm 5,0 km/h (1 Bft) O-NO 63 ° 0 min 0,000 mm 0,0 UV-I 0 W/m² 6,3 °C 6,2 °C 8,0 km/h (2 Bft)
28.10.2019 16:42 6,9 °C 96 % 1016,6 hPa 0,0 mm 3,8 km/h (1 Bft) O-NO 63 ° 0 min 0,000 mm 0,0 UV-I 0 W/m² 6,3 °C 6,9 °C 6,4 km/h (2 Bft)
28.10.2019 16:43 6,9 °C 96 % 1016,6 hPa 0,0 mm 2,3 km/h (1 Bft) O-NO 63 ° 0 min 0,000 mm 0,0 UV-I 0 W/m² 6,3 °C 6,9 °C 4,8 km/h (1 Bft)
28.10.2019 16:44 6,9 °C 96 % 1016,5 hPa 0,0 mm 3,5 km/h (1 Bft) O-NO 63 ° 0 min 0,000 mm 0,0 UV-I 0 W/m² 6,3 °C 6,9 °C 6,4 km/h (2 Bft)
28.10.2019 16:45 6,9 °C 96 % 1016,5 hPa 0,0 mm 3,2 km/h (1 Bft) O-NO 63 ° 0 min 0,000 mm 0,0 UV-I 0 W/m² 6,3 °C 6,9 °C 4,8 km/h (1 Bft)
28.10.2019 16:46 6,9 °C 96 % 1016,5 hPa 0,0 mm 3,2 km/h (1 Bft) O-NO 63 ° 0 min 0,000 mm 0,0 UV-I 0 W/m² 6,3 °C 6,9 °C 3,2 km/h (1 Bft)
28.10.2019 16:47 6,9 °C 96 % 1016,6 hPa 0,0 mm 1,1 km/h (1 Bft) O-NO 63 ° 0 min 0,000 mm 0,0 UV-I 0 W/m² 6,3 °C 6,9 °C 4,8 km/h (1 Bft)
28.10.2019 16:48 6,9 °C 96 % 1016,5 hPa 0,0 mm 3,6 km/h (1 Bft) O-NO 63 ° 0 min 0,000 mm 0,0 UV-I 0 W/m² 6,3 °C 6,9 °C 6,4 km/h (2 Bft)
28.10.2019 16:49 6,9 °C 96 % 1016,5 hPa 0,0 mm 4,5 km/h (1 Bft) O-NO 63 ° 0 min 0,000 mm 0,0 UV-I 0 W/m² 6,3 °C 6,9 °C 8,0 km/h (2 Bft)
28.10.2019 16:50 6,9 °C 96 % 1016,5 hPa 0,0 mm 2,3 km/h (1 Bft) O-NO 63 ° 0 min 0,000 mm 0,0 UV-I 0 W/m² 6,3 °C 6,9 °C 4,8 km/h (1 Bft)
28.10.2019 16:51 6,9 °C 96 % 1016,5 hPa 0,0 mm 4,1 km/h (1 Bft) O-NO 63 ° 0 min 0,000 mm 0,0 UV-I 0 W/m² 6,3 °C 6,9 °C 6,4 km/h (2 Bft)
28.10.2019 16:52 6,9 °C 96 % 1016,4 hPa 0,0 mm 2,6 km/h (1 Bft) O-NO 63 ° 0 min 0,000 mm 0,0 UV-I 0 W/m² 6,3 °C 6,9 °C 4,8 km/h (1 Bft)
28.10.2019 16:53 6,9 °C 96 % 1016,5 hPa 0,0 mm 2,2 km/h (1 Bft) O-NO 63 ° 0 min 0,000 mm 0,0 UV-I 0 W/m² 6,3 °C 6,9 °C 4,8 km/h (1 Bft)
28.10.2019 16:54 6,9 °C 96 % 1016,5 hPa 0,0 mm 3,2 km/h (1 Bft) O 82 ° 0 min 0,000 mm 0,0 UV-I 0 W/m² 6,3 °C 6,9 °C 6,4 km/h (2 Bft)
28.10.2019 16:55 6,9 °C 96 % 1016,5 hPa 0,0 mm 7,4 km/h (2 Bft) O-NO 76 ° 0 min 0,000 mm 0,0 UV-I 0 W/m² 6,3 °C 5,5 °C 11,3 km/h (2 Bft)
28.10.2019 16:56 6,9 °C 96 % 1016,5 hPa 0,0 mm 6,1 km/h (2 Bft) O-NO 69 ° 0 min 0,000 mm 0,0 UV-I 0 W/m² 6,3 °C 5,9 °C 8,0 km/h (2 Bft)
28.10.2019 16:57 6,9 °C 96 % 1016,5 hPa 0,0 mm 7,6 km/h (2 Bft) O-NO 76 ° 0 min 0,000 mm 0,0 UV-I 0 W/m² 6,3 °C 5,5 °C 12,9 km/h (3 Bft)
28.10.2019 16:58 6,9 °C 96 % 1016,5 hPa 0,0 mm 4,5 km/h (1 Bft) O-SO 121 ° 0 min 0,000 mm 0,0 UV-I 0 W/m² 6,3 °C 6,9 °C 8,0 km/h (2 Bft)
28.10.2019 16:59 6,8 °C 96 % 1016,5 hPa 0,0 mm 3,6 km/h (1 Bft) NO 44 ° 0 min 0,000 mm 0,0 UV-I 0 W/m² 6,2 °C 6,8 °C 4,8 km/h (1 Bft)
28.10.2019 17:00 6,8 °C 96 % 1016,5 hPa 0,0 mm 5,5 km/h (1 Bft) N-NO 32 ° 0 min 0,000 mm 0,0 UV-I 0 W/m² 6,2 °C 6,0 °C 8,0 km/h (2 Bft)
28.10.2019 17:01 6,8 °C 96 % 1016,5 hPa 0,0 mm 5,4 km/h (1 Bft) O-NO 58 ° 0 min 0,000 mm 0,0 UV-I 0 W/m² 6,2 °C 6,0 °C 8,0 km/h (2 Bft)
28.10.2019 17:02 6,8 °C 96 % 1016,5 hPa 0,0 mm 7,1 km/h (2 Bft) NO 55 ° 0 min 0,000 mm 0,0 UV-I 0 W/m² 6,2 °C 5,5 °C 9,7 km/h (2 Bft)
28.10.2019 17:03 6,8 °C 96 % 1016,6 hPa 0,0 mm 3,2 km/h (1 Bft) O-NO 63 ° 0 min 0,000 mm 0,0 UV-I 0 W/m² 6,2 °C 6,8 °C 4,8 km/h (1 Bft)
28.10.2019 17:04 6,8 °C 96 % 1016,5 hPa 0,0 mm 3,3 km/h (1 Bft) O-NO 63 ° 0 min 0,000 mm 0,0 UV-I 0 W/m² 6,2 °C 6,8 °C 6,4 km/h (2 Bft)
28.10.2019 17:05 6,8 °C 96 % 1016,4 hPa 0,0 mm 4,0 km/h (1 Bft) O-NO 78 ° 0 min 0,000 mm 0,0 UV-I 0 W/m² 6,2 °C 6,8 °C 6,4 km/h (2 Bft)
28.10.2019 17:06 6,8 °C 96 % 1016,5 hPa 0,0 mm 4,8 km/h (1 Bft) O-NO 67 ° 0 min 0,000 mm 0,0 UV-I 0 W/m² 6,2 °C 6,2 °C 6,4 km/h (2 Bft)
28.10.2019 17:07 6,8 °C 96 % 1016,5 hPa 0,0 mm 4,4 km/h (1 Bft) O-NO 65 ° 0 min 0,000 mm 0,0 UV-I 0 W/m² 6,2 °C 6,8 °C 6,4 km/h (2 Bft)
28.10.2019 17:08 6,8 °C 96 % 1016,5 hPa 0,0 mm 4,6 km/h (1 Bft) O 79 ° 0 min 0,000 mm 0,0 UV-I 0 W/m² 6,2 °C 6,3 °C 6,4 km/h (2 Bft)
28.10.2019 17:09 6,8 °C 96 % 1016,5 hPa 0,0 mm 4,2 km/h (1 Bft) O-NO 67 ° 0 min 0,000 mm 0,0 UV-I 0 W/m² 6,2 °C 6,8 °C 6,4 km/h (2 Bft)
28.10.2019 17:10 6,8 °C 96 % 1016,5 hPa 0,0 mm 4,4 km/h (1 Bft) O 83 ° 0 min 0,000 mm 0,0 UV-I 0 W/m² 6,2 °C 6,8 °C 6,4 km/h (2 Bft)
28.10.2019 17:11 6,8 °C 96 % 1016,5 hPa 0,0 mm 5,1 km/h (1 Bft) O 89 ° 0 min 0,000 mm 0,0 UV-I 0 W/m² 6,2 °C 6,1 °C 6,4 km/h (2 Bft)
28.10.2019 17:12 6,8 °C 96 % 1016,5 hPa 0,0 mm 3,4 km/h (1 Bft) O 88 ° 0 min 0,000 mm 0,0 UV-I 0 W/m² 6,2 °C 6,8 °C 4,8 km/h (1 Bft)
28.10.2019 17:13 6,7 °C 96 % 1016,5 hPa 0,0 mm 3,4 km/h (1 Bft) O-NO 65 ° 0 min 0,000 mm 0,0 UV-I 0 W/m² 6,1 °C 6,7 °C 4,8 km/h (1 Bft)
28.10.2019 17:14 6,8 °C 96 % 1016,5 hPa 0,0 mm 3,4 km/h (1 Bft) O-NO 74 ° 0 min 0,000 mm 0,0 UV-I 0 W/m² 6,2 °C 6,8 °C 4,8 km/h (1 Bft)
28.10.2019 17:15 6,8 °C 96 % 1016,4 hPa 0,0 mm 4,2 km/h (1 Bft) NO 49 ° 0 min 0,000 mm 0,0 UV-I 0 W/m² 6,2 °C 6,8 °C 6,4 km/h (2 Bft)
28.10.2019 17:16 6,7 °C 96 % 1016,5 hPa 0,0 mm 4,7 km/h (1 Bft) O 100 ° 0 min 0,000 mm 0,0 UV-I 0 W/m² 6,1 °C 6,1 °C 6,4 km/h (2 Bft)
28.10.2019 17:17 6,7 °C 96 % 1016,5 hPa 0,0 mm 5,6 km/h (1 Bft) O-NO 78 ° 0 min 0,000 mm 0,0 UV-I 0 W/m² 6,1 °C 5,8 °C 9,7 km/h (2 Bft)
28.10.2019 17:18 6,7 °C 96 % 1016,5 hPa 0,0 mm 3,8 km/h (1 Bft) O-NO 76 ° 0 min 0,000 mm 0,0 UV-I 0 W/m² 6,1 °C 6,7 °C 4,8 km/h (1 Bft)
28.10.2019 17:19 6,7 °C 96 % 1016,5 hPa 0,0 mm 3,3 km/h (1 Bft) O 101 ° 0 min 0,000 mm 0,0 UV-I 0 W/m² 6,1 °C 6,7 °C 6,4 km/h (2 Bft)
28.10.2019 17:20 6,7 °C 96 % 1016,4 hPa 0,0 mm 3,7 km/h (1 Bft) O 84 ° 0 min 0,000 mm 0,0 UV-I 0 W/m² 6,1 °C 6,7 °C 6,4 km/h (2 Bft)
28.10.2019 17:21 6,7 °C 96 % 1016,5 hPa 0,0 mm 5,4 km/h (1 Bft) O-NO 65 ° 0 min 0,000 mm 0,0 UV-I 0 W/m² 6,1 °C 5,9 °C 8,0 km/h (2 Bft)
28.10.2019 17:22 6,7 °C 96 % 1016,5 hPa 0,0 mm 5,8 km/h (2 Bft) O-NO 71 ° 0 min 0,000 mm 0,0 UV-I 0 W/m² 6,1 °C 5,7 °C 8,0 km/h (2 Bft)
28.10.2019 17:23 6,7 °C 96 % 1016,4 hPa 0,0 mm 4,9 km/h (1 Bft) O-NO 70 ° 0 min 0,000 mm 0,0 UV-I 0 W/m² 6,1 °C 6,0 °C 8,0 km/h (2 Bft)
28.10.2019 17:24 6,7 °C 96 % 1016,4 hPa 0,0 mm 5,2 km/h (1 Bft) N-NO 32 ° 0 min 0,000 mm 0,0 UV-I 0 W/m² 6,1 °C 5,9 °C 8,0 km/h (2 Bft)
28.10.2019 17:25 6,7 °C 96 % 1016,5 hPa 0,0 mm 3,9 km/h (1 Bft) NO 55 ° 0 min 0,000 mm 0,0 UV-I 0 W/m² 6,1 °C 6,7 °C 6,4 km/h (2 Bft)
28.10.2019 17:26 6,7 °C 96 % 1016,5 hPa 0,0 mm 3,6 km/h (1 Bft) NO 55 ° 0 min 0,000 mm 0,0 UV-I 0 W/m² 6,1 °C 6,7 °C 6,4 km/h (2 Bft)
28.10.2019 17:27 6,7 °C 96 % 1016,6 hPa 0,0 mm 3,2 km/h (1 Bft) NO 54 ° 0 min 0,000 mm 0,0 UV-I 0 W/m² 6,1 °C 6,7 °C 6,4 km/h (2 Bft)
28.10.2019 17:28 6,7 °C 96 % 1016,6 hPa 0,0 mm 0,0 km/h (0 Bft) NO 54 ° 0 min 0,000 mm 0,0 UV-I 0 W/m² 6,1 °C 6,7 °C 0,0 km/h (0 Bft)
28.10.2019 17:29 6,7 °C 96 % 1016,6 hPa 0,0 mm 3,2 km/h (1 Bft) O 90 ° 0 min 0,000 mm 0,0 UV-I 0 W/m² 6,1 °C 6,7 °C 4,8 km/h (1 Bft)
28.10.2019 17:30 6,7 °C 96 % 1016,5 hPa 0,0 mm 3,5 km/h (1 Bft) O-NO 65 ° 0 min 0,000 mm 0,0 UV-I 0 W/m² 6,1 °C 6,7 °C 4,8 km/h (1 Bft)
28.10.2019 17:31 6,7 °C 96 % 1016,6 hPa 0,0 mm 3,3 km/h (1 Bft) NO 49 ° 0 min 0,000 mm 0,0 UV-I 0 W/m² 6,1 °C 6,7 °C 4,8 km/h (1 Bft)
28.10.2019 17:32 6,7 °C 96 % 1016,6 hPa 0,0 mm 2,7 km/h (1 Bft) NO 49 ° 0 min 0,000 mm 0,0 UV-I 0 W/m² 6,1 °C 6,7 °C 4,8 km/h (1 Bft)
28.10.2019 17:33 6,7 °C 96 % 1016,6 hPa 0,0 mm 4,2 km/h (1 Bft) O-NO 63 ° 0 min 0,000 mm 0,0 UV-I 0 W/m² 6,1 °C 6,7 °C 4,8 km/h (1 Bft)
28.10.2019 17:34 6,7 °C 96 % 1016,6 hPa 0,0 mm 4,5 km/h (1 Bft) NO 54 ° 0 min 0,000 mm 0,0 UV-I 0 W/m² 6,1 °C 6,7 °C 6,4 km/h (2 Bft)
28.10.2019 17:35 6,7 °C 96 % 1016,6 hPa 0,0 mm 3,4 km/h (1 Bft) O-NO 61 ° 0 min 0,000 mm 0,0 UV-I 0 W/m² 6,1 °C 6,7 °C 6,4 km/h (2 Bft)
28.10.2019 17:36 6,7 °C 96 % 1016,6 hPa 0,0 mm 3,0 km/h (1 Bft) O-NO 69 ° 0 min 0,000 mm 0,0 UV-I 0 W/m² 6,1 °C 6,7 °C 4,8 km/h (1 Bft)
28.10.2019 17:37 6,7 °C 96 % 1016,7 hPa 0,0 mm 4,7 km/h (1 Bft) O-NO 65 ° 0 min 0,000 mm 0,0 UV-I 0 W/m² 6,1 °C 6,1 °C 6,4 km/h (2 Bft)
28.10.2019 17:38 6,7 °C 96 % 1016,6 hPa 0,0 mm 3,5 km/h (1 Bft) NO 56 ° 0 min 0,000 mm 0,0 UV-I 0 W/m² 6,1 °C 6,7 °C 4,8 km/h (1 Bft)
28.10.2019 17:39 6,7 °C 96 % 1016,7 hPa 0,0 mm 3,0 km/h (1 Bft) O-NO 58 ° 0 min 0,000 mm 0,0 UV-I 0 W/m² 6,1 °C 6,7 °C 6,4 km/h (2 Bft)
28.10.2019 17:40 6,7 °C 96 % 1016,6 hPa 0,0 mm 3,2 km/h (1 Bft) O-NO 58 ° 0 min 0,000 mm 0,0 UV-I 0 W/m² 6,1 °C 6,7 °C 4,8 km/h (1 Bft)
28.10.2019 17:41 6,7 °C 96 % 1016,7 hPa 0,0 mm 4,2 km/h (1 Bft) N-NO 26 ° 0 min 0,000 mm 0,0 UV-I 0 W/m² 6,1 °C 6,7 °C 6,4 km/h (2 Bft)
28.10.2019 17:42 6,7 °C 96 % 1016,7 hPa 0,0 mm 5,0 km/h (1 Bft) O-NO 78 ° 0 min 0,000 mm 0,0 UV-I 0 W/m² 6,1 °C 6,0 °C 8,0 km/h (2 Bft)
28.10.2019 17:43 6,7 °C 96 % 1016,7 hPa 0,0 mm 4,0 km/h (1 Bft) O-NO 77 ° 0 min 0,000 mm 0,0 UV-I 0 W/m² 6,1 °C 6,7 °C 4,8 km/h (1 Bft)
28.10.2019 17:44 6,7 °C 96 % 1016,6 hPa 0,0 mm 1,1 km/h (1 Bft) O-NO 77 ° 0 min 0,000 mm 0,0 UV-I 0 W/m² 6,1 °C 6,7 °C 4,8 km/h (1 Bft)
28.10.2019 17:45 6,7 °C 96 % 1016,6 hPa 0,0 mm 4,5 km/h (1 Bft) NO 54 ° 0 min 0,000 mm 0,0 UV-I 0 W/m² 6,1 °C 6,7 °C 6,4 km/h (2 Bft)
28.10.2019 17:46 6,7 °C 96 % 1016,6 hPa 0,0 mm 2,2 km/h (1 Bft) NO 54 ° 0 min 0,000 mm 0,0 UV-I 0 W/m² 6,1 °C 6,7 °C 3,2 km/h (1 Bft)
28.10.2019 17:47 6,7 °C 96 % 1016,7 hPa 0,0 mm 0,1 km/h (0 Bft) NO 54 ° 0 min 0,000 mm 0,0 UV-I 0 W/m² 6,1 °C 6,7 °C 1,6 km/h (1 Bft)
28.10.2019 17:48 6,7 °C 96 % 1016,7 hPa 0,0 mm 0,0 km/h (0 Bft) NO 54 ° 0 min 0,000 mm 0,0 UV-I 0 W/m² 6,1 °C 6,7 °C 0,0 km/h (0 Bft)
28.10.2019 17:49 6,7 °C 96 % 1016,7 hPa 0,0 mm 0,0 km/h (0 Bft) NO 54 ° 0 min 0,000 mm 0,0 UV-I 0 W/m² 6,1 °C 6,7 °C 0,0 km/h (0 Bft)
28.10.2019 17:50 6,7 °C 96 % 1016,7 hPa 0,0 mm 2,6 km/h (1 Bft) NO 37 ° 0 min 0,000 mm 0,0 UV-I 0 W/m² 6,1 °C 6,7 °C 4,8 km/h (1 Bft)
28.10.2019 17:51 6,7 °C 96 % 1016,7 hPa 0,0 mm 3,3 km/h (1 Bft) NO 37 ° 0 min 0,000 mm 0,0 UV-I 0 W/m² 6,1 °C 6,7 °C 4,8 km/h (1 Bft)
28.10.2019 17:52 6,7 °C 96 % 1016,7 hPa 0,0 mm 6,3 km/h (2 Bft) NO 51 ° 0 min 0,000 mm 0,0 UV-I 0 W/m² 6,1 °C 5,6 °C 9,7 km/h (2 Bft)
28.10.2019 17:53 6,7 °C 96 % 1016,7 hPa 0,0 mm 4,8 km/h (1 Bft) NO 47 ° 0 min 0,000 mm 0,0 UV-I 0 W/m² 6,1 °C 6,1 °C 6,4 km/h (2 Bft)
28.10.2019 17:54 6,7 °C 96 % 1016,7 hPa 0,0 mm 5,7 km/h (1 Bft) O-NO 62 ° 0 min 0,000 mm 0,0 UV-I 0 W/m² 6,1 °C 5,8 °C 8,0 km/h (2 Bft)
28.10.2019 17:55 6,7 °C 96 % 1016,7 hPa 0,0 mm 5,5 km/h (1 Bft) O-NO 57 ° 0 min 0,000 mm 0,0 UV-I 0 W/m² 6,1 °C 5,8 °C 8,0 km/h (2 Bft)
28.10.2019 17:56 6,7 °C 96 % 1016,7 hPa 0,0 mm 4,3 km/h (1 Bft) NO 51 ° 0 min 0,000 mm 0,0 UV-I 0 W/m² 6,1 °C 6,7 °C 6,4 km/h (2 Bft)
28.10.2019 17:57 6,7 °C 96 % 1016,7 hPa 0,0 mm 4,4 km/h (1 Bft) O 82 ° 0 min 0,000 mm 0,0 UV-I 0 W/m² 6,1 °C 6,7 °C 6,4 km/h (2 Bft)
28.10.2019 17:58 6,7 °C 96 % 1016,8 hPa 0,0 mm 5,2 km/h (1 Bft) O-NO 68 ° 0 min 0,000 mm 0,0 UV-I 0 W/m² 6,1 °C 5,9 °C 6,4 km/h (2 Bft)
28.10.2019 17:59 6,7 °C 96 % 1016,8 hPa 0,0 mm 3,7 km/h (1 Bft) O-NO 69 ° 0 min 0,000 mm 0,0 UV-I 0 W/m² 6,1 °C 6,7 °C 4,8 km/h (1 Bft)
28.10.2019 18:00 6,7 °C 96 % 1016,8 hPa 0,0 mm 2,6 km/h (1 Bft) O-NO 69 ° 0 min 0,000 mm 0,0 UV-I 0 W/m² 6,1 °C 6,7 °C 3,2 km/h (1 Bft)
28.10.2019 18:01 6,7 °C 96 % 1016,7 hPa 0,0 mm 3,4 km/h (1 Bft) O-NO 69 ° 0 min 0,000 mm 0,0 UV-I 0 W/m² 6,1 °C 6,7 °C 4,8 km/h (1 Bft)
28.10.2019 18:02 6,7 °C 96 % 1016,7 hPa 0,0 mm 3,4 km/h (1 Bft) O-NO 69 ° 0 min 0,000 mm 0,0 UV-I 0 W/m² 6,1 °C 6,7 °C 4,8 km/h (1 Bft)
28.10.2019 18:03 6,7 °C 96 % 1016,7 hPa 0,0 mm 0,6 km/h (0 Bft) O-NO 69 ° 0 min 0,000 mm 0,0 UV-I 0 W/m² 6,1 °C 6,7 °C 3,2 km/h (1 Bft)
28.10.2019 18:04 6,7 °C 96 % 1016,7 hPa 0,0 mm 3,8 km/h (1 Bft) O-NO 72 ° 0 min 0,000 mm 0,0 UV-I 0 W/m² 6,1 °C 6,7 °C 4,8 km/h (1 Bft)
28.10.2019 18:05 6,7 °C 96 % 1016,7 hPa 0,0 mm 4,1 km/h (1 Bft) O-NO 63 ° 0 min 0,000 mm 0,0 UV-I 0 W/m² 6,1 °C 6,7 °C 6,4 km/h (2 Bft)
28.10.2019 18:06 6,7 °C 96 % 1016,7 hPa 0,0 mm 3,2 km/h (1 Bft) O-NO 63 ° 0 min 0,000 mm 0,0 UV-I 0 W/m² 6,1 °C 6,7 °C 4,8 km/h (1 Bft)
28.10.2019 18:07 6,7 °C 96 % 1016,7 hPa 0,0 mm 0,1 km/h (0 Bft) O-NO 63 ° 0 min 0,000 mm 0,0 UV-I 0 W/m² 6,1 °C 6,7 °C 1,6 km/h (1 Bft)
28.10.2019 18:08 6,7 °C 96 % 1016,7 hPa 0,0 mm 0,7 km/h (0 Bft) O-NO 63 ° 0 min 0,000 mm 0,0 UV-I 0 W/m² 6,1 °C 6,7 °C 3,2 km/h (1 Bft)
28.10.2019 18:09 6,7 °C 96 % 1016,7 hPa 0,0 mm 2,7 km/h (1 Bft) O-NO 63 ° 0 min 0,000 mm 0,0 UV-I 0 W/m² 6,1 °C 6,7 °C 4,8 km/h (1 Bft)
28.10.2019 18:10 6,7 °C 96 % 1016,7 hPa 0,0 mm 1,4 km/h (1 Bft) O-NO 63 ° 0 min 0,000 mm 0,0 UV-I 0 W/m² 6,1 °C 6,7 °C 3,2 km/h (1 Bft)
28.10.2019 18:11 6,7 °C 96 % 1016,7 hPa 0,0 mm 1,5 km/h (1 Bft) O-NO 63 ° 0 min 0,000 mm 0,0 UV-I 0 W/m² 6,1 °C 6,7 °C 4,8 km/h (1 Bft)
28.10.2019 18:12 6,7 °C 96 % 1016,8 hPa 0,0 mm 2,2 km/h (1 Bft) O-NO 63 ° 0 min 0,000 mm 0,0 UV-I 0 W/m² 6,1 °C 6,7 °C 4,8 km/h (1 Bft)
28.10.2019 18:13 6,7 °C 96 % 1016,8 hPa 0,0 mm 3,0 km/h (1 Bft) O-NO 63 ° 0 min 0,000 mm 0,0 UV-I 0 W/m² 6,1 °C 6,7 °C 4,8 km/h (1 Bft)
28.10.2019 18:14 6,7 °C 96 % 1016,8 hPa 0,0 mm 3,6 km/h (1 Bft) O-NO 63 ° 0 min 0,000 mm 0,0 UV-I 0 W/m² 6,1 °C 6,7 °C 4,8 km/h (1 Bft)
28.10.2019 18:15 6,7 °C 96 % 1016,8 hPa 0,0 mm 2,9 km/h (1 Bft) O-NO 63 ° 0 min 0,000 mm 0,0 UV-I 0 W/m² 6,1 °C 6,7 °C 4,8 km/h (1 Bft)
28.10.2019 18:16 6,7 °C 96 % 1016,8 hPa 0,0 mm 2,4 km/h (1 Bft) O-NO 63 ° 0 min 0,000 mm 0,0 UV-I 0 W/m² 6,1 °C 6,7 °C 3,2 km/h (1 Bft)
28.10.2019 18:17 6,7 °C 96 % 1016,8 hPa 0,0 mm 0,0 km/h (0 Bft) O-NO 63 ° 0 min 0,000 mm 0,0 UV-I 0 W/m² 6,1 °C 6,7 °C 0,0 km/h (0 Bft)
28.10.2019 18:18 6,7 °C 96 % 1016,7 hPa 0,0 mm 0,8 km/h (0 Bft) O-NO 63 ° 0 min 0,000 mm 0,0 UV-I 0 W/m² 6,1 °C 6,7 °C 1,6 km/h (1 Bft)
28.10.2019 18:19 6,7 °C 96 % 1016,7 hPa 0,0 mm 2,8 km/h (1 Bft) O-NO 63 ° 0 min 0,000 mm 0,0 UV-I 0 W/m² 6,1 °C 6,7 °C 4,8 km/h (1 Bft)
28.10.2019 18:20 6,7 °C 96 % 1016,7 hPa 0,0 mm 2,8 km/h (1 Bft) O-NO 63 ° 0 min 0,000 mm 0,0 UV-I 0 W/m² 6,1 °C 6,7 °C 4,8 km/h (1 Bft)
28.10.2019 18:21 6,7 °C 96 % 1016,8 hPa 0,0 mm 3,7 km/h (1 Bft) O-NO 63 ° 0 min 0,000 mm 0,0 UV-I 0 W/m² 6,1 °C 6,7 °C 4,8 km/h (1 Bft)
28.10.2019 18:22 6,7 °C 96 % 1016,8 hPa 0,0 mm 4,1 km/h (1 Bft) O-NO 63 ° 0 min 0,000 mm 0,0 UV-I 0 W/m² 6,1 °C 6,7 °C 6,4 km/h (2 Bft)
28.10.2019 18:23 6,7 °C 96 % 1016,7 hPa 0,0 mm 3,8 km/h (1 Bft) O-NO 63 ° 0 min 0,000 mm 0,0 UV-I 0 W/m² 6,1 °C 6,7 °C 4,8 km/h (1 Bft)
28.10.2019 18:24 6,7 °C 96 % 1016,8 hPa 0,0 mm 2,1 km/h (1 Bft) O-NO 63 ° 0 min 0,000 mm 0,0 UV-I 0 W/m² 6,1 °C 6,7 °C 3,2 km/h (1 Bft)
28.10.2019 18:25 6,7 °C 96 % 1016,8 hPa 0,0 mm 1,8 km/h (1 Bft) O-NO 63 ° 0 min 0,000 mm 0,0 UV-I 0 W/m² 6,1 °C 6,7 °C 3,2 km/h (1 Bft)
28.10.2019 18:26 6,7 °C 96 % 1016,8 hPa 0,0 mm 2,2 km/h (1 Bft) O-NO 62 ° 0 min 0,000 mm 0,0 UV-I 0 W/m² 6,1 °C 6,7 °C 4,8 km/h (1 Bft)
28.10.2019 18:27 6,7 °C 96 % 1016,8 hPa 0,0 mm 0,7 km/h (0 Bft) O-NO 63 ° 0 min 0,000 mm 0,0 UV-I 0 W/m² 6,1 °C 6,7 °C 1,6 km/h (1 Bft)
28.10.2019 18:28 6,7 °C 96 % 1016,8 hPa 0,0 mm 1,3 km/h (1 Bft) O-NO 62 ° 0 min 0,000 mm 0,0 UV-I 0 W/m² 6,1 °C 6,7 °C 4,8 km/h (1 Bft)
28.10.2019 18:29 6,7 °C 96 % 1016,8 hPa 0,0 mm 2,5 km/h (1 Bft) O-NO 59 ° 0 min 0,000 mm 0,0 UV-I 0 W/m² 6,1 °C 6,7 °C 4,8 km/h (1 Bft)
28.10.2019 18:30 6,7 °C 96 % 1016,8 hPa 0,0 mm 4,6 km/h (1 Bft) O-NO 64 ° 0 min 0,000 mm 0,0 UV-I 0 W/m² 6,1 °C 6,2 °C 6,4 km/h (2 Bft)
28.10.2019 18:31 6,7 °C 96 % 1016,8 hPa 0,0 mm 2,3 km/h (1 Bft) O 83 ° 0 min 0,000 mm 0,0 UV-I 0 W/m² 6,1 °C 6,7 °C 6,4 km/h (2 Bft)
28.10.2019 18:32 6,7 °C 96 % 1016,8 hPa 0,0 mm 3,8 km/h (1 Bft) NO 36 ° 0 min 0,000 mm 0,0 UV-I 0 W/m² 6,1 °C 6,7 °C 4,8 km/h (1 Bft)
28.10.2019 18:33 6,7 °C 96 % 1016,7 hPa 0,0 mm 5,3 km/h (1 Bft) NO 36 ° 0 min 0,000 mm 0,0 UV-I 0 W/m² 6,1 °C 5,9 °C 6,4 km/h (2 Bft)
28.10.2019 18:34 6,7 °C 96 % 1016,8 hPa 0,0 mm 3,6 km/h (1 Bft) NO 36 ° 0 min 0,000 mm 0,0 UV-I 0 W/m² 6,1 °C 6,7 °C 4,8 km/h (1 Bft)
28.10.2019 18:35 6,7 °C 96 % 1016,8 hPa 0,0 mm 4,2 km/h (1 Bft) NO 36 ° 0 min 0,000 mm 0,0 UV-I 0 W/m² 6,1 °C 6,7 °C 6,4 km/h (2 Bft)
28.10.2019 18:36 6,7 °C 96 % 1016,8 hPa 0,0 mm 2,3 km/h (1 Bft) NO 36 ° 0 min 0,000 mm 0,0 UV-I 0 W/m² 6,1 °C 6,7 °C 3,2 km/h (1 Bft)
28.10.2019 18:37 6,7 °C 96 % 1016,8 hPa 0,0 mm 3,8 km/h (1 Bft) NO 37 ° 0 min 0,000 mm 0,0 UV-I 0 W/m² 6,1 °C 6,7 °C 4,8 km/h (1 Bft)
28.10.2019 18:38 6,7 °C 96 % 1016,8 hPa 0,0 mm 3,1 km/h (1 Bft) NO 37 ° 0 min 0,000 mm 0,0 UV-I 0 W/m² 6,1 °C 6,7 °C 4,8 km/h (1 Bft)
28.10.2019 18:39 6,7 °C 96 % 1016,8 hPa 0,0 mm 3,2 km/h (1 Bft) O-NO 76 ° 0 min 0,000 mm 0,0 UV-I 0 W/m² 6,1 °C 6,7 °C 4,8 km/h (1 Bft)
28.10.2019 18:40 6,7 °C 96 % 1016,8 hPa 0,0 mm 2,8 km/h (1 Bft) O-NO 76 ° 0 min 0,000 mm 0,0 UV-I 0 W/m² 6,1 °C 6,7 °C 4,8 km/h (1 Bft)
28.10.2019 18:41 6,7 °C 96 % 1016,8 hPa 0,0 mm 1,5 km/h (1 Bft) O-NO 76 ° 0 min 0,000 mm 0,0 UV-I 0 W/m² 6,1 °C 6,7 °C 3,2 km/h (1 Bft)
28.10.2019 18:42 6,7 °C 96 % 1016,8 hPa 0,0 mm 1,2 km/h (1 Bft) O-NO 76 ° 0 min 0,000 mm 0,0 UV-I 0 W/m² 6,1 °C 6,7 °C 3,2 km/h (1 Bft)
28.10.2019 18:43 6,7 °C 96 % 1016,8 hPa 0,0 mm 1,1 km/h (1 Bft) O-NO 76 ° 0 min 0,000 mm 0,0 UV-I 0 W/m² 6,1 °C 6,7 °C 3,2 km/h (1 Bft)
28.10.2019 18:44 6,7 °C 96 % 1016,8 hPa 0,0 mm 3,8 km/h (1 Bft) O-NO 63 ° 0 min 0,000 mm 0,0 UV-I 0 W/m² 6,1 °C 6,7 °C 6,4 km/h (2 Bft)
28.10.2019 18:45 6,8 °C 96 % 1016,8 hPa 0,0 mm 2,4 km/h (1 Bft) O-NO 63 ° 0 min 0,000 mm 0,0 UV-I 0 W/m² 6,2 °C 6,8 °C 4,8 km/h (1 Bft)
28.10.2019 18:46 6,7 °C 96 % 1016,9 hPa 0,0 mm 4,4 km/h (1 Bft) O-NO 63 ° 0 min 0,000 mm 0,0 UV-I 0 W/m² 6,1 °C 6,7 °C 6,4 km/h (2 Bft)
28.10.2019 18:47 6,7 °C 96 % 1016,9 hPa 0,0 mm 3,4 km/h (1 Bft) O-NO 61 ° 0 min 0,000 mm 0,0 UV-I 0 W/m² 6,1 °C 6,7 °C 4,8 km/h (1 Bft)
28.10.2019 18:48 6,7 °C 96 % 1016,9 hPa 0,0 mm 4,0 km/h (1 Bft) O-NO 61 ° 0 min 0,000 mm 0,0 UV-I 0 W/m² 6,1 °C 6,7 °C 6,4 km/h (2 Bft)
28.10.2019 18:49 6,7 °C 96 % 1016,9 hPa 0,0 mm 1,7 km/h (1 Bft) O-NO 61 ° 0 min 0,000 mm 0,0 UV-I 0 W/m² 6,1 °C 6,7 °C 3,2 km/h (1 Bft)
28.10.2019 18:50 6,7 °C 96 % 1016,9 hPa 0,0 mm 1,9 km/h (1 Bft) O-NO 61 ° 0 min 0,000 mm 0,0 UV-I 0 W/m² 6,1 °C 6,7 °C 3,2 km/h (1 Bft)
28.10.2019 18:51 6,7 °C 96 % 1016,9 hPa 0,0 mm 4,2 km/h (1 Bft) O-NO 61 ° 0 min 0,000 mm 0,0 UV-I 0 W/m² 6,1 °C 6,7 °C 8,0 km/h (2 Bft)
28.10.2019 18:52 6,7 °C 96 % 1016,9 hPa 0,0 mm 5,2 km/h (1 Bft) O-NO 61 ° 0 min 0,000 mm 0,0 UV-I 0 W/m² 6,1 °C 5,9 °C 6,4 km/h (2 Bft)
28.10.2019 18:53 6,7 °C 96 % 1017,0 hPa 0,0 mm 3,4 km/h (1 Bft) O-NO 61 ° 0 min 0,000 mm 0,0 UV-I 0 W/m² 6,1 °C 6,7 °C 6,4 km/h (2 Bft)
28.10.2019 18:54 6,7 °C 96 % 1016,9 hPa 0,0 mm 3,4 km/h (1 Bft) O-NO 61 ° 0 min 0,000 mm 0,0 UV-I 0 W/m² 6,1 °C 6,7 °C 6,4 km/h (2 Bft)
28.10.2019 18:55 6,7 °C 96 % 1016,9 hPa 0,0 mm 5,3 km/h (1 Bft) O-NO 57 ° 0 min 0,000 mm 0,0 UV-I 0 W/m² 6,1 °C 5,9 °C 6,4 km/h (2 Bft)
28.10.2019 18:56 6,7 °C 96 % 1016,9 hPa 0,0 mm 3,8 km/h (1 Bft) O-NO 57 ° 0 min 0,000 mm 0,0 UV-I 0 W/m² 6,1 °C 6,7 °C 6,4 km/h (2 Bft)
28.10.2019 18:57 6,7 °C 96 % 1016,9 hPa 0,0 mm 5,0 km/h (1 Bft) O-NO 57 ° 0 min 0,000 mm 0,0 UV-I 0 W/m² 6,1 °C 6,0 °C 6,4 km/h (2 Bft)
28.10.2019 18:58 6,7 °C 96 % 1016,9 hPa 0,0 mm 2,4 km/h (1 Bft) O-NO 57 ° 0 min 0,000 mm 0,0 UV-I 0 W/m² 6,1 °C 6,7 °C 3,2 km/h (1 Bft)
28.10.2019 18:59 6,7 °C 96 % 1016,9 hPa 0,0 mm 2,7 km/h (1 Bft) O 82 ° 0 min 0,000 mm 0,0 UV-I 0 W/m² 6,1 °C 6,7 °C 6,4 km/h (2 Bft)
28.10.2019 19:00 6,7 °C 96 % 1016,9 hPa 0,0 mm 3,0 km/h (1 Bft) O 82 ° 0 min 0,000 mm 0,0 UV-I 0 W/m² 6,1 °C 6,7 °C 6,4 km/h (2 Bft)
28.10.2019 19:01 6,7 °C 96 % 1016,9 hPa 0,0 mm 3,3 km/h (1 Bft) O 82 ° 0 min 0,000 mm 0,0 UV-I 0 W/m² 6,1 °C 6,7 °C 4,8 km/h (1 Bft)
28.10.2019 19:02 6,7 °C 96 % 1016,9 hPa 0,0 mm 3,6 km/h (1 Bft) O-NO 72 ° 0 min 0,000 mm 0,0 UV-I 0 W/m² 6,1 °C 6,7 °C 4,8 km/h (1 Bft)
28.10.2019 19:03 6,7 °C 96 % 1016,9 hPa 0,0 mm 2,8 km/h (1 Bft) O-NO 72 ° 0 min 0,000 mm 0,0 UV-I 0 W/m² 6,1 °C 6,7 °C 4,8 km/h (1 Bft)
28.10.2019 19:04 6,7 °C 96 % 1016,9 hPa 0,0 mm 4,1 km/h (1 Bft) O-NO 73 ° 0 min 0,000 mm 0,0 UV-I 0 W/m² 6,1 °C 6,7 °C 4,8 km/h (1 Bft)
28.10.2019 19:05 6,7 °C 96 % 1016,9 hPa 0,0 mm 4,5 km/h (1 Bft) NO 51 ° 0 min 0,000 mm 0,0 UV-I 0 W/m² 6,1 °C 6,7 °C 6,4 km/h (2 Bft)
28.10.2019 19:06 6,7 °C 96 % 1016,9 hPa 0,0 mm 5,0 km/h (1 Bft) O-NO 75 ° 0 min 0,000 mm 0,0 UV-I 0 W/m² 6,1 °C 6,0 °C 6,4 km/h (2 Bft)
28.10.2019 19:07 6,7 °C 96 % 1016,9 hPa 0,0 mm 4,5 km/h (1 Bft) O-NO 74 ° 0 min 0,000 mm 0,0 UV-I 0 W/m² 6,1 °C 6,7 °C 6,4 km/h (2 Bft)
28.10.2019 19:08 6,6 °C 96 % 1016,9 hPa 0,0 mm 4,2 km/h (1 Bft) O 92 ° 0 min 0,000 mm 0,0 UV-I 0 W/m² 6,0 °C 6,6 °C 6,4 km/h (2 Bft)
28.10.2019 19:09 6,6 °C 96 % 1016,9 hPa 0,0 mm 4,2 km/h (1 Bft) O 92 ° 0 min 0,000 mm 0,0 UV-I 0 W/m² 6,0 °C 6,6 °C 6,4 km/h (2 Bft)
28.10.2019 19:10 6,6 °C 96 % 1016,8 hPa 0,0 mm 4,4 km/h (1 Bft) O-NO 57 ° 0 min 0,000 mm 0,0 UV-I 0 W/m² 6,0 °C 6,6 °C 6,4 km/h (2 Bft)
28.10.2019 19:11 6,6 °C 96 % 1016,9 hPa 0,0 mm 3,5 km/h (1 Bft) O 94 ° 0 min 0,000 mm 0,0 UV-I 0 W/m² 6,0 °C 6,6 °C 4,8 km/h (1 Bft)
28.10.2019 19:12 6,6 °C 96 % 1016,9 hPa 0,0 mm 0,6 km/h (0 Bft) O 94 ° 0 min 0,000 mm 0,0 UV-I 0 W/m² 6,0 °C 6,6 °C 3,2 km/h (1 Bft)
28.10.2019 19:13 6,6 °C 96 % 1016,9 hPa 0,0 mm 2,7 km/h (1 Bft) O 94 ° 0 min 0,000 mm 0,0 UV-I 0 W/m² 6,0 °C 6,6 °C 4,8 km/h (1 Bft)
28.10.2019 19:14 6,6 °C 96 % 1016,9 hPa 0,0 mm 4,2 km/h (1 Bft) NO 51 ° 0 min 0,000 mm 0,0 UV-I 0 W/m² 6,0 °C 6,6 °C 6,4 km/h (2 Bft)
28.10.2019 19:15 6,6 °C 96 % 1016,9 hPa 0,0 mm 2,9 km/h (1 Bft) NO 51 ° 0 min 0,000 mm 0,0 UV-I 0 W/m² 6,0 °C 6,6 °C 4,8 km/h (1 Bft)
28.10.2019 19:16 6,5 °C 96 % 1016,9 hPa 0,0 mm 1,9 km/h (1 Bft) NO 51 ° 0 min 0,000 mm 0,0 UV-I 0 W/m² 5,9 °C 6,5 °C 3,2 km/h (1 Bft)
28.10.2019 19:17 6,6 °C 96 % 1016,9 hPa 0,0 mm 4,1 km/h (1 Bft) NO 51 ° 0 min 0,000 mm 0,0 UV-I 0 W/m² 6,0 °C 6,6 °C 6,4 km/h (2 Bft)
28.10.2019 19:18 6,5 °C 96 % 1016,9 hPa 0,0 mm 3,9 km/h (1 Bft) O 93 ° 0 min 0,000 mm 0,0 UV-I 0 W/m² 5,9 °C 6,5 °C 4,8 km/h (1 Bft)
28.10.2019 19:19 6,5 °C 96 % 1016,9 hPa 0,0 mm 2,4 km/h (1 Bft) O 93 ° 0 min 0,000 mm 0,0 UV-I 0 W/m² 5,9 °C 6,5 °C 4,8 km/h (1 Bft)
28.10.2019 19:20 6,5 °C 96 % 1016,9 hPa 0,0 mm 2,5 km/h (1 Bft) O 93 ° 0 min 0,000 mm 0,0 UV-I 0 W/m² 5,9 °C 6,5 °C 4,8 km/h (1 Bft)
28.10.2019 19:21 6,4 °C 96 % 1016,9 hPa 0,0 mm 2,0 km/h (1 Bft) O 93 ° 0 min 0,000 mm 0,0 UV-I 0 W/m² 5,8 °C 6,4 °C 4,8 km/h (1 Bft)
28.10.2019 19:22 6,5 °C 96 % 1016,9 hPa 0,0 mm 3,2 km/h (1 Bft) O 93 ° 0 min 0,000 mm 0,0 UV-I 0 W/m² 5,9 °C 6,5 °C 4,8 km/h (1 Bft)
28.10.2019 19:23 6,4 °C 96 % 1016,9 hPa 0,0 mm 2,3 km/h (1 Bft) O 93 ° 0 min 0,000 mm 0,0 UV-I 0 W/m² 5,8 °C 6,4 °C 4,8 km/h (1 Bft)
28.10.2019 19:24 6,4 °C 96 % 1016,9 hPa 0,0 mm 1,9 km/h (1 Bft) O 93 ° 0 min 0,000 mm 0,0 UV-I 0 W/m² 5,8 °C 6,4 °C 3,2 km/h (1 Bft)
28.10.2019 19:25 6,4 °C 96 % 1016,9 hPa 0,0 mm 3,3 km/h (1 Bft) O 93 ° 0 min 0,000 mm 0,0 UV-I 0 W/m² 5,8 °C 6,4 °C 4,8 km/h (1 Bft)
28.10.2019 19:26 6,4 °C 96 % 1016,9 hPa 0,0 mm 3,9 km/h (1 Bft) O 92 ° 0 min 0,000 mm 0,0 UV-I 0 W/m² 5,8 °C 6,4 °C 6,4 km/h (2 Bft)
28.10.2019 19:27 6,4 °C 96 % 1016,9 hPa 0,0 mm 2,7 km/h (1 Bft) O 79 ° 0 min 0,000 mm 0,0 UV-I 0 W/m² 5,8 °C 6,4 °C 4,8 km/h (1 Bft)
28.10.2019 19:28 6,4 °C 96 % 1016,9 hPa 0,0 mm 4,7 km/h (1 Bft) O-NO 67 ° 0 min 0,000 mm 0,0 UV-I 0 W/m² 5,8 °C 5,8 °C 4,8 km/h (1 Bft)
28.10.2019 19:29 6,4 °C 96 % 1016,9 hPa 0,0 mm 3,4 km/h (1 Bft) O-NO 71 ° 0 min 0,000 mm 0,0 UV-I 0 W/m² 5,8 °C 6,4 °C 4,8 km/h (1 Bft)
28.10.2019 19:30 6,4 °C 96 % 1016,9 hPa 0,0 mm 3,4 km/h (1 Bft) O-NO 64 ° 0 min 0,000 mm 0,0 UV-I 0 W/m² 5,8 °C 6,4 °C 6,4 km/h (2 Bft)
28.10.2019 19:31 6,4 °C 96 % 1016,9 hPa 0,0 mm 3,0 km/h (1 Bft) O-NO 63 ° 0 min 0,000 mm 0,0 UV-I 0 W/m² 5,8 °C 6,4 °C 4,8 km/h (1 Bft)
28.10.2019 19:32 6,4 °C 96 % 1016,9 hPa 0,0 mm 4,4 km/h (1 Bft) O-NO 69 ° 0 min 0,000 mm 0,0 UV-I 0 W/m² 5,8 °C 6,4 °C 6,4 km/h (2 Bft)
28.10.2019 19:33 6,4 °C 96 % 1016,9 hPa 0,0 mm 4,1 km/h (1 Bft) O-NO 69 ° 0 min 0,000 mm 0,0 UV-I 0 W/m² 5,8 °C 6,4 °C 4,8 km/h (1 Bft)
28.10.2019 19:34 6,4 °C 96 % 1016,9 hPa 0,0 mm 2,8 km/h (1 Bft) O-NO 69 ° 0 min 0,000 mm 0,0 UV-I 0 W/m² 5,8 °C 6,4 °C 3,2 km/h (1 Bft)
28.10.2019 19:35 6,4 °C 96 % 1016,9 hPa 0,0 mm 4,2 km/h (1 Bft) O-NO 73 ° 0 min 0,000 mm 0,0 UV-I 0 W/m² 5,8 °C 6,4 °C 6,4 km/h (2 Bft)
28.10.2019 19:36 6,4 °C 96 % 1016,9 hPa 0,0 mm 4,9 km/h (1 Bft) O-NO 65 ° 0 min 0,000 mm 0,0 UV-I 0 W/m² 5,8 °C 5,7 °C 6,4 km/h (2 Bft)
28.10.2019 19:37 6,4 °C 96 % 1016,9 hPa 0,0 mm 3,3 km/h (1 Bft) O-NO 65 ° 0 min 0,000 mm 0,0 UV-I 0 W/m² 5,8 °C 6,4 °C 6,4 km/h (2 Bft)
28.10.2019 19:38 6,3 °C 96 % 1016,9 hPa 0,0 mm 1,5 km/h (1 Bft) O-NO 65 ° 0 min 0,000 mm 0,0 UV-I 0 W/m² 5,7 °C 6,3 °C 4,8 km/h (1 Bft)
28.10.2019 19:39 6,4 °C 96 % 1016,9 hPa 0,0 mm 1,1 km/h (1 Bft) O-NO 65 ° 0 min 0,000 mm 0,0 UV-I 0 W/m² 5,8 °C 6,4 °C 4,8 km/h (1 Bft)
28.10.2019 19:40 6,3 °C 96 % 1016,8 hPa 0,0 mm 3,4 km/h (1 Bft) O-NO 65 ° 0 min 0,000 mm 0,0 UV-I 0 W/m² 5,7 °C 6,3 °C 4,8 km/h (1 Bft)
28.10.2019 19:41 6,4 °C 96 % 1016,8 hPa 0,0 mm 5,6 km/h (1 Bft) O-SO 103 ° 0 min 0,000 mm 0,0 UV-I 0 W/m² 5,8 °C 5,5 °C 6,4 km/h (2 Bft)
28.10.2019 19:42 6,3 °C 96 % 1016,8 hPa 0,0 mm 3,9 km/h (1 Bft) O-NO 65 ° 0 min 0,000 mm 0,0 UV-I 0 W/m² 5,7 °C 6,3 °C 6,4 km/h (2 Bft)
28.10.2019 19:43 6,3 °C 96 % 1016,8 hPa 0,0 mm 3,6 km/h (1 Bft) O 84 ° 0 min 0,000 mm 0,0 UV-I 0 W/m² 5,7 °C 6,3 °C 6,4 km/h (2 Bft)
28.10.2019 19:44 6,3 °C 96 % 1016,8 hPa 0,0 mm 5,1 km/h (1 Bft) O 80 ° 0 min 0,000 mm 0,0 UV-I 0 W/m² 5,7 °C 5,5 °C 6,4 km/h (2 Bft)
28.10.2019 19:45 6,3 °C 96 % 1016,8 hPa 0,0 mm 5,4 km/h (1 Bft) O-NO 73 ° 0 min 0,000 mm 0,0 UV-I 0 W/m² 5,7 °C 5,4 °C 8,0 km/h (2 Bft)
28.10.2019 19:46 6,3 °C 96 % 1016,8 hPa 0,0 mm 5,6 km/h (1 Bft) NO 48 ° 0 min 0,000 mm 0,0 UV-I 0 W/m² 5,7 °C 5,3 °C 9,7 km/h (2 Bft)
28.10.2019 19:47 6,3 °C 96 % 1016,8 hPa 0,0 mm 3,7 km/h (1 Bft) O 80 ° 0 min 0,000 mm 0,0 UV-I 0 W/m² 5,7 °C 6,3 °C 4,8 km/h (1 Bft)
28.10.2019 19:48 6,3 °C 96 % 1016,8 hPa 0,0 mm 4,6 km/h (1 Bft) O-NO 78 ° 0 min 0,000 mm 0,0 UV-I 0 W/m² 5,7 °C 5,7 °C 6,4 km/h (2 Bft)
28.10.2019 19:49 6,2 °C 96 % 1016,8 hPa 0,0 mm 4,0 km/h (1 Bft) O-NO 71 ° 0 min 0,000 mm 0,0 UV-I 0 W/m² 5,6 °C 6,2 °C 6,4 km/h (2 Bft)
28.10.2019 19:50 6,2 °C 96 % 1016,8 hPa 0,0 mm 1,5 km/h (1 Bft) O-NO 71 ° 0 min 0,000 mm 0,0 UV-I 0 W/m² 5,6 °C 6,2 °C 4,8 km/h (1 Bft)
28.10.2019 19:51 6,2 °C 96 % 1016,8 hPa 0,0 mm 2,5 km/h (1 Bft) O-NO 71 ° 0 min 0,000 mm 0,0 UV-I 0 W/m² 5,6 °C 6,2 °C 4,8 km/h (1 Bft)
28.10.2019 19:52 6,2 °C 96 % 1016,8 hPa 0,0 mm 2,0 km/h (1 Bft) O-NO 71 ° 0 min 0,000 mm 0,0 UV-I 0 W/m² 5,6 °C 6,2 °C 3,2 km/h (1 Bft)
28.10.2019 19:53 6,2 °C 96 % 1016,8 hPa 0,0 mm 4,2 km/h (1 Bft) O-NO 63 ° 0 min 0,000 mm 0,0 UV-I 0 W/m² 5,6 °C 6,2 °C 8,0 km/h (2 Bft)
28.10.2019 19:54 6,2 °C 96 % 1016,8 hPa 0,0 mm 1,0 km/h (0 Bft) O-NO 63 ° 0 min 0,000 mm 0,0 UV-I 0 W/m² 5,6 °C 6,2 °C 3,2 km/h (1 Bft)
28.10.2019 19:55 6,2 °C 96 % 1016,8 hPa 0,0 mm 1,7 km/h (1 Bft) O-NO 63 ° 0 min 0,000 mm 0,0 UV-I 0 W/m² 5,6 °C 6,2 °C 3,2 km/h (1 Bft)
28.10.2019 19:56 6,2 °C 96 % 1016,8 hPa 0,0 mm 1,9 km/h (1 Bft) O-NO 63 ° 0 min 0,000 mm 0,0 UV-I 0 W/m² 5,6 °C 6,2 °C 3,2 km/h (1 Bft)
28.10.2019 19:57 6,2 °C 96 % 1016,8 hPa 0,0 mm 1,4 km/h (1 Bft) O-NO 63 ° 0 min 0,000 mm 0,0 UV-I 0 W/m² 5,6 °C 6,2 °C 4,8 km/h (1 Bft)
28.10.2019 19:58 6,2 °C 96 % 1016,7 hPa 0,0 mm 1,2 km/h (1 Bft) O-NO 63 ° 0 min 0,000 mm 0,0 UV-I 0 W/m² 5,6 °C 6,2 °C 4,8 km/h (1 Bft)
28.10.2019 19:59 6,2 °C 96 % 1016,8 hPa 0,0 mm 4,2 km/h (1 Bft) O-NO 61 ° 0 min 0,000 mm 0,0 UV-I 0 W/m² 5,6 °C 6,2 °C 8,0 km/h (2 Bft)
28.10.2019 20:00 6,2 °C 96 % 1016,8 hPa 0,0 mm 5,2 km/h (1 Bft) NO 49 ° 0 min 0,000 mm 0,0 UV-I 0 W/m² 5,6 °C 5,4 °C 6,4 km/h (2 Bft)
28.10.2019 20:01 6,2 °C 96 % 1016,8 hPa 0,0 mm 5,4 km/h (1 Bft) NO 53 ° 0 min 0,000 mm 0,0 UV-I 0 W/m² 5,6 °C 5,3 °C 8,0 km/h (2 Bft)
28.10.2019 20:02 6,1 °C 96 % 1016,8 hPa 0,0 mm 5,2 km/h (1 Bft) O-NO 58 ° 0 min 0,000 mm 0,0 UV-I 0 W/m² 5,5 °C 5,3 °C 6,4 km/h (2 Bft)
28.10.2019 20:03 6,1 °C 96 % 1016,8 hPa 0,0 mm 6,6 km/h (2 Bft) O 101 ° 0 min 0,000 mm 0,0 UV-I 0 W/m² 5,5 °C 4,8 °C 11,3 km/h (2 Bft)
28.10.2019 20:04 6,1 °C 96 % 1016,9 hPa 0,0 mm 7,2 km/h (2 Bft) O-NO 68 ° 0 min 0,000 mm 0,0 UV-I 0 W/m² 5,5 °C 4,6 °C 11,3 km/h (2 Bft)
28.10.2019 20:05 6,0 °C 96 % 1016,8 hPa 0,0 mm 8,6 km/h (2 Bft) O 84 ° 0 min 0,000 mm 0,0 UV-I 0 W/m² 5,4 °C 4,2 °C 12,9 km/h (3 Bft)
28.10.2019 20:06 5,9 °C 96 % 1016,9 hPa 0,0 mm 7,2 km/h (2 Bft) O 94 ° 0 min 0,000 mm 0,0 UV-I 0 W/m² 5,3 °C 4,4 °C 9,7 km/h (2 Bft)
28.10.2019 20:07 5,9 °C 96 % 1016,9 hPa 0,0 mm 3,9 km/h (1 Bft) O 85 ° 0 min 0,000 mm 0,0 UV-I 0 W/m² 5,3 °C 5,9 °C 6,4 km/h (2 Bft)
28.10.2019 20:08 5,9 °C 96 % 1016,9 hPa 0,0 mm 3,6 km/h (1 Bft) O-NO 77 ° 0 min 0,000 mm 0,0 UV-I 0 W/m² 5,3 °C 5,9 °C 4,8 km/h (1 Bft)
28.10.2019 20:09 5,9 °C 96 % 1016,9 hPa 0,0 mm 5,4 km/h (1 Bft) O-NO 67 ° 0 min 0,000 mm 0,0 UV-I 0 W/m² 5,3 °C 5,0 °C 9,7 km/h (2 Bft)
28.10.2019 20:10 5,8 °C 96 % 1017,0 hPa 0,0 mm 3,1 km/h (1 Bft) O-NO 69 ° 0 min 0,000 mm 0,0 UV-I 0 W/m² 5,2 °C 5,8 °C 4,8 km/h (1 Bft)
28.10.2019 20:11 5,8 °C 96 % 1016,9 hPa 0,0 mm 4,5 km/h (1 Bft) O-NO 66 ° 0 min 0,000 mm 0,0 UV-I 0 W/m² 5,2 °C 5,8 °C 6,4 km/h (2 Bft)
28.10.2019 20:12 5,8 °C 96 % 1016,9 hPa 0,0 mm 3,6 km/h (1 Bft) O-NO 68 ° 0 min 0,000 mm 0,0 UV-I 0 W/m² 5,2 °C 5,8 °C 4,8 km/h (1 Bft)
28.10.2019 20:13 5,8 °C 96 % 1016,9 hPa 0,0 mm 4,3 km/h (1 Bft) O 95 ° 0 min 0,000 mm 0,0 UV-I 0 W/m² 5,2 °C 5,8 °C 6,4 km/h (2 Bft)
28.10.2019 20:14 5,8 °C 96 % 1016,9 hPa 0,0 mm 3,9 km/h (1 Bft) O 83 ° 0 min 0,000 mm 0,0 UV-I 0 W/m² 5,2 °C 5,8 °C 4,8 km/h (1 Bft)
28.10.2019 20:15 5,8 °C 96 % 1016,9 hPa 0,0 mm 3,4 km/h (1 Bft) O-NO 57 ° 0 min 0,000 mm 0,0 UV-I 0 W/m² 5,2 °C 5,8 °C 4,8 km/h (1 Bft)
28.10.2019 20:16 5,8 °C 96 % 1016,9 hPa 0,0 mm 3,2 km/h (1 Bft) O-NO 57 ° 0 min 0,000 mm 0,0 UV-I 0 W/m² 5,2 °C 5,8 °C 6,4 km/h (2 Bft)
28.10.2019 20:17 5,8 °C 96 % 1016,9 hPa 0,0 mm 4,3 km/h (1 Bft) O-NO 57 ° 0 min 0,000 mm 0,0 UV-I 0 W/m² 5,2 °C 5,8 °C 6,4 km/h (2 Bft)
28.10.2019 20:18 5,8 °C 96 % 1016,9 hPa 0,0 mm 4,5 km/h (1 Bft) O 94 ° 0 min 0,000 mm 0,0 UV-I 0 W/m² 5,2 °C 5,8 °C 6,4 km/h (2 Bft)
28.10.2019 20:19 5,7 °C 96 % 1016,9 hPa 0,0 mm 3,9 km/h (1 Bft) O-NO 66 ° 0 min 0,000 mm 0,0 UV-I 0 W/m² 5,1 °C 5,7 °C 9,7 km/h (2 Bft)
28.10.2019 20:20 5,7 °C 96 % 1016,9 hPa 0,0 mm 1,5 km/h (1 Bft) O-NO 66 ° 0 min 0,000 mm 0,0 UV-I 0 W/m² 5,1 °C 5,7 °C 3,2 km/h (1 Bft)
28.10.2019 20:21 5,7 °C 96 % 1016,9 hPa 0,0 mm 4,3 km/h (1 Bft) O-NO 65 ° 0 min 0,000 mm 0,0 UV-I 0 W/m² 5,1 °C 5,7 °C 4,8 km/h (1 Bft)
28.10.2019 20:22 5,7 °C 96 % 1016,9 hPa 0,0 mm 3,6 km/h (1 Bft) O-NO 65 ° 0 min 0,000 mm 0,0 UV-I 0 W/m² 5,1 °C 5,7 °C 4,8 km/h (1 Bft)
28.10.2019 20:23 5,7 °C 96 % 1016,9 hPa 0,0 mm 1,9 km/h (1 Bft) O-NO 65 ° 0 min 0,000 mm 0,0 UV-I 0 W/m² 5,1 °C 5,7 °C 3,2 km/h (1 Bft)
28.10.2019 20:24 5,7 °C 96 % 1016,9 hPa 0,0 mm 3,3 km/h (1 Bft) O-NO 65 ° 0 min 0,000 mm 0,0 UV-I 0 W/m² 5,1 °C 5,7 °C 4,8 km/h (1 Bft)
28.10.2019 20:25 5,7 °C 96 % 1016,9 hPa 0,0 mm 3,2 km/h (1 Bft) O-NO 65 ° 0 min 0,000 mm 0,0 UV-I 0 W/m² 5,1 °C 5,7 °C 4,8 km/h (1 Bft)
28.10.2019 20:26 5,6 °C 96 % 1016,9 hPa 0,0 mm 5,0 km/h (1 Bft) O-NO 65 ° 0 min 0,000 mm 0,0 UV-I 0 W/m² 5,0 °C 4,8 °C 6,4 km/h (2 Bft)
28.10.2019 20:27 5,6 °C 96 % 1016,9 hPa 0,0 mm 3,2 km/h (1 Bft) O-NO 65 ° 0 min 0,000 mm 0,0 UV-I 0 W/m² 5,0 °C 5,6 °C 4,8 km/h (1 Bft)
28.10.2019 20:28 5,6 °C 96 % 1016,9 hPa 0,0 mm 3,6 km/h (1 Bft) O-NO 65 ° 0 min 0,000 mm 0,0 UV-I 0 W/m² 5,0 °C 5,6 °C 4,8 km/h (1 Bft)
28.10.2019 20:29 5,6 °C 96 % 1016,9 hPa 0,0 mm 2,9 km/h (1 Bft) O-NO 65 ° 0 min 0,000 mm 0,0 UV-I 0 W/m² 5,0 °C 5,6 °C 4,8 km/h (1 Bft)
28.10.2019 20:30 5,6 °C 96 % 1016,9 hPa 0,0 mm 2,9 km/h (1 Bft) O-NO 65 ° 0 min 0,000 mm 0,0 UV-I 0 W/m² 5,0 °C 5,6 °C 4,8 km/h (1 Bft)
28.10.2019 20:31 5,6 °C 96 % 1016,9 hPa 0,0 mm 2,7 km/h (1 Bft) O-NO 65 ° 0 min 0,000 mm 0,0 UV-I 0 W/m² 5,0 °C 5,6 °C 4,8 km/h (1 Bft)
28.10.2019 20:32 5,6 °C 96 % 1016,9 hPa 0,0 mm 2,9 km/h (1 Bft) O-NO 65 ° 0 min 0,000 mm 0,0 UV-I 0 W/m² 5,0 °C 5,6 °C 4,8 km/h (1 Bft)
28.10.2019 20:33 5,6 °C 96 % 1016,9 hPa 0,0 mm 2,5 km/h (1 Bft) O-NO 65 ° 0 min 0,000 mm 0,0 UV-I 0 W/m² 5,0 °C 5,6 °C 4,8 km/h (1 Bft)
28.10.2019 20:34 5,6 °C 96 % 1016,9 hPa 0,0 mm 0,0 km/h (0 Bft) O-NO 65 ° 0 min 0,000 mm 0,0 UV-I 0 W/m² 5,0 °C 5,6 °C 0,0 km/h (0 Bft)
28.10.2019 20:35 5,6 °C 96 % 1016,9 hPa 0,0 mm 3,2 km/h (1 Bft) O-NO 65 ° 0 min 0,000 mm 0,0 UV-I 0 W/m² 5,0 °C 5,6 °C 4,8 km/h (1 Bft)
28.10.2019 20:36 5,6 °C 96 % 1016,9 hPa 0,0 mm 4,4 km/h (1 Bft) O-NO 64 ° 0 min 0,000 mm 0,0 UV-I 0 W/m² 5,0 °C 5,6 °C 6,4 km/h (2 Bft)
28.10.2019 20:37 5,5 °C 96 % 1016,9 hPa 0,0 mm 2,9 km/h (1 Bft) O-NO 67 ° 0 min 0,000 mm 0,0 UV-I 0 W/m² 4,9 °C 5,5 °C 4,8 km/h (1 Bft)
28.10.2019 20:38 5,5 °C 96 % 1016,9 hPa 0,0 mm 2,3 km/h (1 Bft) O-NO 67 ° 0 min 0,000 mm 0,0 UV-I 0 W/m² 4,9 °C 5,5 °C 3,2 km/h (1 Bft)
28.10.2019 20:39 5,5 °C 96 % 1016,9 hPa 0,0 mm 3,9 km/h (1 Bft) O 80 ° 0 min 0,000 mm 0,0 UV-I 0 W/m² 4,9 °C 5,5 °C 6,4 km/h (2 Bft)
28.10.2019 20:40 5,5 °C 96 % 1016,9 hPa 0,0 mm 3,2 km/h (1 Bft) O 80 ° 0 min 0,000 mm 0,0 UV-I 0 W/m² 4,9 °C 5,5 °C 4,8 km/h (1 Bft)
28.10.2019 20:41 5,6 °C 96 % 1017,0 hPa 0,0 mm 2,4 km/h (1 Bft) O-NO 59 ° 0 min 0,000 mm 0,0 UV-I 0 W/m² 5,0 °C 5,6 °C 4,8 km/h (1 Bft)
28.10.2019 20:42 5,5 °C 96 % 1016,9 hPa 0,0 mm 2,3 km/h (1 Bft) O 87 ° 0 min 0,000 mm 0,0 UV-I 0 W/m² 4,9 °C 5,5 °C 4,8 km/h (1 Bft)
28.10.2019 20:43 5,5 °C 96 % 1016,9 hPa 0,0 mm 3,3 km/h (1 Bft) O-NO 63 ° 0 min 0,000 mm 0,0 UV-I 0 W/m² 4,9 °C 5,5 °C 6,4 km/h (2 Bft)
28.10.2019 20:44 5,5 °C 96 % 1016,9 hPa 0,0 mm 5,2 km/h (1 Bft) NO 53 ° 0 min 0,000 mm 0,0 UV-I 0 W/m² 4,9 °C 4,6 °C 8,0 km/h (2 Bft)
28.10.2019 20:45 5,5 °C 96 % 1017,0 hPa 0,0 mm 4,7 km/h (1 Bft) NO 46 ° 0 min 0,000 mm 0,0 UV-I 0 W/m² 4,9 °C 4,8 °C 8,0 km/h (2 Bft)
28.10.2019 20:46 5,5 °C 96 % 1016,9 hPa 0,0 mm 4,6 km/h (1 Bft) O-NO 61 ° 0 min 0,000 mm 0,0 UV-I 0 W/m² 4,9 °C 4,8 °C 8,0 km/h (2 Bft)
28.10.2019 20:47 5,5 °C 96 % 1016,9 hPa 0,0 mm 1,7 km/h (1 Bft) O-NO 61 ° 0 min 0,000 mm 0,0 UV-I 0 W/m² 4,9 °C 5,5 °C 3,2 km/h (1 Bft)
28.10.2019 20:48 5,5 °C 96 % 1016,9 hPa 0,0 mm 1,4 km/h (1 Bft) O-NO 61 ° 0 min 0,000 mm 0,0 UV-I 0 W/m² 4,9 °C 5,5 °C 3,2 km/h (1 Bft)
28.10.2019 20:49 5,5 °C 96 % 1017,0 hPa 0,0 mm 3,9 km/h (1 Bft) O-NO 60 ° 0 min 0,000 mm 0,0 UV-I 0 W/m² 4,9 °C 5,5 °C 4,8 km/h (1 Bft)
28.10.2019 20:50 5,5 °C 96 % 1017,0 hPa 0,0 mm 3,1 km/h (1 Bft) O-NO 60 ° 0 min 0,000 mm 0,0 UV-I 0 W/m² 4,9 °C 5,5 °C 4,8 km/h (1 Bft)
28.10.2019 20:51 5,4 °C 96 % 1017,0 hPa 0,0 mm 2,1 km/h (1 Bft) O-NO 59 ° 0 min 0,000 mm 0,0 UV-I 0 W/m² 4,8 °C 5,4 °C 3,2 km/h (1 Bft)
28.10.2019 20:52 5,4 °C 96 % 1017,0 hPa 0,0 mm 5,1 km/h (1 Bft) O-NO 59 ° 0 min 0,000 mm 0,0 UV-I 0 W/m² 4,8 °C 4,5 °C 6,4 km/h (2 Bft)
28.10.2019 20:53 5,4 °C 96 % 1017,0 hPa 0,0 mm 5,2 km/h (1 Bft) O-NO 66 ° 0 min 0,000 mm 0,0 UV-I 0 W/m² 4,8 °C 4,5 °C 6,4 km/h (2 Bft)
28.10.2019 20:54 5,4 °C 96 % 1017,0 hPa 0,0 mm 4,7 km/h (1 Bft) O-SO 106 ° 0 min 0,000 mm 0,0 UV-I 0 W/m² 4,8 °C 4,7 °C 6,4 km/h (2 Bft)
28.10.2019 20:55 5,4 °C 96 % 1017,0 hPa 0,0 mm 3,4 km/h (1 Bft) O-SO 113 ° 0 min 0,000 mm 0,0 UV-I 0 W/m² 4,8 °C 5,4 °C 9,7 km/h (2 Bft)
28.10.2019 20:56 5,4 °C 96 % 1017,0 hPa 0,0 mm 3,7 km/h (1 Bft) O-NO 78 ° 0 min 0,000 mm 0,0 UV-I 0 W/m² 4,8 °C 5,4 °C 9,7 km/h (2 Bft)
28.10.2019 20:57 5,4 °C 96 % 1017,0 hPa 0,0 mm 4,4 km/h (1 Bft) O-NO 67 ° 0 min 0,000 mm 0,0 UV-I 0 W/m² 4,8 °C 5,4 °C 6,4 km/h (2 Bft)
28.10.2019 20:58 5,4 °C 96 % 1017,0 hPa 0,0 mm 1,5 km/h (1 Bft) O-NO 67 ° 0 min 0,000 mm 0,0 UV-I 0 W/m² 4,8 °C 5,4 °C 3,2 km/h (1 Bft)
28.10.2019 20:59 5,4 °C 96 % 1016,9 hPa 0,0 mm 2,1 km/h (1 Bft) O-NO 67 ° 0 min 0,000 mm 0,0 UV-I 0 W/m² 4,8 °C 5,4 °C 4,8 km/h (1 Bft)
28.10.2019 21:00 5,4 °C 96 % 1016,9 hPa 0,0 mm 0,3 km/h (0 Bft) O-NO 67 ° 0 min 0,000 mm 0,0 UV-I 0 W/m² 4,8 °C 5,4 °C 1,6 km/h (1 Bft)
28.10.2019 21:01 5,4 °C 96 % 1016,9 hPa 0,0 mm 3,5 km/h (1 Bft) O-NO 67 ° 0 min 0,000 mm 0,0 UV-I 0 W/m² 4,8 °C 5,4 °C 6,4 km/h (2 Bft)
28.10.2019 21:02 5,4 °C 96 % 1017,0 hPa 0,0 mm 4,7 km/h (1 Bft) O-NO 59 ° 0 min 0,000 mm 0,0 UV-I 0 W/m² 4,8 °C 4,7 °C 6,4 km/h (2 Bft)
28.10.2019 21:03 5,4 °C 96 % 1017,0 hPa 0,0 mm 4,3 km/h (1 Bft) O-NO 71 ° 0 min 0,000 mm 0,0 UV-I 0 W/m² 4,8 °C 5,4 °C 6,4 km/h (2 Bft)
28.10.2019 21:04 5,4 °C 96 % 1017,0 hPa 0,0 mm 7,2 km/h (2 Bft) O 99 ° 0 min 0,000 mm 0,0 UV-I 0 W/m² 4,8 °C 3,8 °C 11,3 km/h (2 Bft)
28.10.2019 21:05 5,4 °C 96 % 1017,0 hPa 0,0 mm 3,5 km/h (1 Bft) O 98 ° 0 min 0,000 mm 0,0 UV-I 0 W/m² 4,8 °C 5,4 °C 4,8 km/h (1 Bft)
28.10.2019 21:06 5,4 °C 96 % 1017,0 hPa 0,0 mm 3,7 km/h (1 Bft) O 98 ° 0 min 0,000 mm 0,0 UV-I 0 W/m² 4,8 °C 5,4 °C 4,8 km/h (1 Bft)
28.10.2019 21:07 5,4 °C 96 % 1017,0 hPa 0,0 mm 2,7 km/h (1 Bft) O 98 ° 0 min 0,000 mm 0,0 UV-I 0 W/m² 4,8 °C 5,4 °C 3,2 km/h (1 Bft)
28.10.2019 21:08 5,4 °C 96 % 1017,0 hPa 0,0 mm 3,9 km/h (1 Bft) O 98 ° 0 min 0,000 mm 0,0 UV-I 0 W/m² 4,8 °C 5,4 °C 4,8 km/h (1 Bft)
28.10.2019 21:09 5,4 °C 96 % 1016,9 hPa 0,0 mm 2,9 km/h (1 Bft) NO 36 ° 0 min 0,000 mm 0,0 UV-I 0 W/m² 4,8 °C 5,4 °C 4,8 km/h (1 Bft)
28.10.2019 21:10 5,4 °C 96 % 1016,9 hPa 0,0 mm 4,8 km/h (1 Bft) NO 51 ° 0 min 0,000 mm 0,0 UV-I 0 W/m² 4,8 °C 4,6 °C 6,4 km/h (2 Bft)
28.10.2019 21:11 5,4 °C 96 % 1017,0 hPa 0,0 mm 2,4 km/h (1 Bft) NO 51 ° 0 min 0,000 mm 0,0 UV-I 0 W/m² 4,8 °C 5,4 °C 4,8 km/h (1 Bft)
28.10.2019 21:12 5,4 °C 96 % 1017,0 hPa 0,0 mm 2,4 km/h (1 Bft) NO 51 ° 0 min 0,000 mm 0,0 UV-I 0 W/m² 4,8 °C 5,4 °C 4,8 km/h (1 Bft)
28.10.2019 21:13 5,4 °C 96 % 1017,0 hPa 0,0 mm 0,3 km/h (0 Bft) NO 51 ° 0 min 0,000 mm 0,0 UV-I 0 W/m² 4,8 °C 5,4 °C 1,6 km/h (1 Bft)
28.10.2019 21:14 5,4 °C 96 % 1017,0 hPa 0,0 mm 3,1 km/h (1 Bft) NO 51 ° 0 min 0,000 mm 0,0 UV-I 0 W/m² 4,8 °C 5,4 °C 4,8 km/h (1 Bft)
28.10.2019 21:15 5,4 °C 96 % 1017,0 hPa 0,0 mm 3,9 km/h (1 Bft) NO 51 ° 0 min 0,000 mm 0,0 UV-I 0 W/m² 4,8 °C 5,4 °C 6,4 km/h (2 Bft)
28.10.2019 21:16 5,4 °C 96 % 1016,9 hPa 0,0 mm 4,1 km/h (1 Bft) NO 51 ° 0 min 0,000 mm 0,0 UV-I 0 W/m² 4,8 °C 5,4 °C 6,4 km/h (2 Bft)
28.10.2019 21:17 5,4 °C 96 % 1016,9 hPa 0,0 mm 3,0 km/h (1 Bft) NO 51 ° 0 min 0,000 mm 0,0 UV-I 0 W/m² 4,8 °C 5,4 °C 6,4 km/h (2 Bft)
28.10.2019 21:18 5,4 °C 96 % 1016,9 hPa 0,0 mm 5,1 km/h (1 Bft) O-NO 69 ° 0 min 0,000 mm 0,0 UV-I 0 W/m² 4,8 °C 4,5 °C 8,0 km/h (2 Bft)
28.10.2019 21:19 5,4 °C 96 % 1016,9 hPa 0,0 mm 5,5 km/h (1 Bft) O-NO 69 ° 0 min 0,000 mm 0,0 UV-I 0 W/m² 4,8 °C 4,4 °C 6,4 km/h (2 Bft)
28.10.2019 21:20 5,4 °C 96 % 1016,9 hPa 0,0 mm 5,0 km/h (1 Bft) O-NO 69 ° 0 min 0,000 mm 0,0 UV-I 0 W/m² 4,8 °C 4,5 °C 8,0 km/h (2 Bft)
28.10.2019 21:21 5,4 °C 96 % 1016,9 hPa 0,0 mm 3,3 km/h (1 Bft) O-NO 69 ° 0 min 0,000 mm 0,0 UV-I 0 W/m² 4,8 °C 5,4 °C 4,8 km/h (1 Bft)
28.10.2019 21:22 5,4 °C 96 % 1016,8 hPa 0,0 mm 1,6 km/h (1 Bft) O-NO 69 ° 0 min 0,000 mm 0,0 UV-I 0 W/m² 4,8 °C 5,4 °C 3,2 km/h (1 Bft)
28.10.2019 21:23 5,4 °C 96 % 1016,9 hPa 0,0 mm 2,6 km/h (1 Bft) O-NO 69 ° 0 min 0,000 mm 0,0 UV-I 0 W/m² 4,8 °C 5,4 °C 3,2 km/h (1 Bft)
28.10.2019 21:24 5,4 °C 96 % 1016,9 hPa 0,0 mm 3,6 km/h (1 Bft) O-NO 69 ° 0 min 0,000 mm 0,0 UV-I 0 W/m² 4,8 °C 5,4 °C 6,4 km/h (2 Bft)
28.10.2019 21:25 5,4 °C 96 % 1016,9 hPa 0,0 mm 2,5 km/h (1 Bft) O-NO 69 ° 0 min 0,000 mm 0,0 UV-I 0 W/m² 4,8 °C 5,4 °C 4,8 km/h (1 Bft)
28.10.2019 21:26 5,4 °C 96 % 1016,9 hPa 0,0 mm 4,4 km/h (1 Bft) O-NO 69 ° 0 min 0,000 mm 0,0 UV-I 0 W/m² 4,8 °C 5,4 °C 6,4 km/h (2 Bft)
28.10.2019 21:27 5,4 °C 96 % 1016,9 hPa 0,0 mm 2,5 km/h (1 Bft) O-NO 69 ° 0 min 0,000 mm 0,0 UV-I 0 W/m² 4,8 °C 5,4 °C 3,2 km/h (1 Bft)
28.10.2019 21:28 5,4 °C 96 % 1016,8 hPa 0,0 mm 3,0 km/h (1 Bft) O-NO 69 ° 0 min 0,000 mm 0,0 UV-I 0 W/m² 4,8 °C 5,4 °C 4,8 km/h (1 Bft)
28.10.2019 21:29 5,4 °C 96 % 1016,8 hPa 0,0 mm 3,4 km/h (1 Bft) O-NO 69 ° 0 min 0,000 mm 0,0 UV-I 0 W/m² 4,8 °C 5,4 °C 4,8 km/h (1 Bft)
28.10.2019 21:30 5,4 °C 96 % 1016,8 hPa 0,0 mm 4,1 km/h (1 Bft) O-NO 69 ° 0 min 0,000 mm 0,0 UV-I 0 W/m² 4,8 °C 5,4 °C 4,8 km/h (1 Bft)
28.10.2019 21:31 5,4 °C 96 % 1016,9 hPa 0,0 mm 6,2 km/h (2 Bft) O 86 ° 0 min 0,000 mm 0,0 UV-I 0 W/m² 4,8 °C 4,1 °C 8,0 km/h (2 Bft)
28.10.2019 21:32 5,4 °C 96 % 1016,9 hPa 0,0 mm 2,8 km/h (1 Bft) O 86 ° 0 min 0,000 mm 0,0 UV-I 0 W/m² 4,8 °C 5,4 °C 4,8 km/h (1 Bft)
28.10.2019 21:33 5,4 °C 96 % 1016,8 hPa 0,0 mm 2,7 km/h (1 Bft) O 86 ° 0 min 0,000 mm 0,0 UV-I 0 W/m² 4,8 °C 5,4 °C 4,8 km/h (1 Bft)
28.10.2019 21:34 5,4 °C 96 % 1016,8 hPa 0,0 mm 4,8 km/h (1 Bft) O-NO 67 ° 0 min 0,000 mm 0,0 UV-I 0 W/m² 4,8 °C 4,6 °C 8,0 km/h (2 Bft)
28.10.2019 21:35 5,4 °C 96 % 1016,8 hPa 0,0 mm 3,5 km/h (1 Bft) O-NO 67 ° 0 min 0,000 mm 0,0 UV-I 0 W/m² 4,8 °C 5,4 °C 4,8 km/h (1 Bft)
28.10.2019 21:36 5,4 °C 96 % 1016,8 hPa 0,0 mm 4,4 km/h (1 Bft) O-NO 71 ° 0 min 0,000 mm 0,0 UV-I 0 W/m² 4,8 °C 5,4 °C 6,4 km/h (2 Bft)
28.10.2019 21:37 5,4 °C 96 % 1016,8 hPa 0,0 mm 2,9 km/h (1 Bft) O-NO 71 ° 0 min 0,000 mm 0,0 UV-I 0 W/m² 4,8 °C 5,4 °C 4,8 km/h (1 Bft)
28.10.2019 21:38 5,4 °C 96 % 1016,9 hPa 0,0 mm 3,6 km/h (1 Bft) O-NO 71 ° 0 min 0,000 mm 0,0 UV-I 0 W/m² 4,8 °C 5,4 °C 4,8 km/h (1 Bft)
28.10.2019 21:39 5,4 °C 96 % 1016,8 hPa 0,0 mm 3,6 km/h (1 Bft) O-NO 71 ° 0 min 0,000 mm 0,0 UV-I 0 W/m² 4,8 °C 5,4 °C 6,4 km/h (2 Bft)
28.10.2019 21:40 5,4 °C 96 % 1016,8 hPa 0,0 mm 2,3 km/h (1 Bft) O-NO 71 ° 0 min 0,000 mm 0,0 UV-I 0 W/m² 4,8 °C 5,4 °C 3,2 km/h (1 Bft)
28.10.2019 21:41 5,4 °C 96 % 1016,8 hPa 0,0 mm 1,1 km/h (1 Bft) O-NO 71 ° 0 min 0,000 mm 0,0 UV-I 0 W/m² 4,8 °C 5,4 °C 3,2 km/h (1 Bft)
28.10.2019 21:42 5,4 °C 96 % 1016,8 hPa 0,0 mm 4,4 km/h (1 Bft) O-NO 71 ° 0 min 0,000 mm 0,0 UV-I 0 W/m² 4,8 °C 5,4 °C 6,4 km/h (2 Bft)
28.10.2019 21:43 5,4 °C 96 % 1016,9 hPa 0,0 mm 3,0 km/h (1 Bft) O-NO 71 ° 0 min 0,000 mm 0,0 UV-I 0 W/m² 4,8 °C 5,4 °C 4,8 km/h (1 Bft)
28.10.2019 21:44 5,4 °C 96 % 1016,9 hPa 0,0 mm 4,1 km/h (1 Bft) O-NO 71 ° 0 min 0,000 mm 0,0 UV-I 0 W/m² 4,8 °C 5,4 °C 4,8 km/h (1 Bft)
28.10.2019 21:45 5,4 °C 96 % 1016,9 hPa 0,0 mm 1,5 km/h (1 Bft) O-NO 71 ° 0 min 0,000 mm 0,0 UV-I 0 W/m² 4,8 °C 5,4 °C 3,2 km/h (1 Bft)
28.10.2019 21:46 5,4 °C 96 % 1016,9 hPa 0,0 mm 1,3 km/h (1 Bft) O-NO 71 ° 0 min 0,000 mm 0,0 UV-I 0 W/m² 4,8 °C 5,4 °C 3,2 km/h (1 Bft)
28.10.2019 21:47 5,4 °C 96 % 1016,9 hPa 0,0 mm 4,1 km/h (1 Bft) O-NO 70 ° 0 min 0,000 mm 0,0 UV-I 0 W/m² 4,8 °C 5,4 °C 6,4 km/h (2 Bft)
28.10.2019 21:48 5,4 °C 96 % 1016,9 hPa 0,0 mm 2,2 km/h (1 Bft) O-NO 70 ° 0 min 0,000 mm 0,0 UV-I 0 W/m² 4,8 °C 5,4 °C 3,2 km/h (1 Bft)
28.10.2019 21:49 5,4 °C 96 % 1016,8 hPa 0,0 mm 3,2 km/h (1 Bft) O-NO 70 ° 0 min 0,000 mm 0,0 UV-I 0 W/m² 4,8 °C 5,4 °C 4,8 km/h (1 Bft)
28.10.2019 21:50 5,4 °C 96 % 1016,8 hPa 0,0 mm 3,1 km/h (1 Bft) O-NO 65 ° 0 min 0,000 mm 0,0 UV-I 0 W/m² 4,8 °C 5,4 °C 8,0 km/h (2 Bft)
28.10.2019 21:51 5,4 °C 96 % 1016,8 hPa 0,0 mm 4,1 km/h (1 Bft) O-NO 57 ° 0 min 0,000 mm 0,0 UV-I 0 W/m² 4,8 °C 5,4 °C 4,8 km/h (1 Bft)
28.10.2019 21:52 5,4 °C 96 % 1016,8 hPa 0,0 mm 3,4 km/h (1 Bft) O-NO 57 ° 0 min 0,000 mm 0,0 UV-I 0 W/m² 4,8 °C 5,4 °C 4,8 km/h (1 Bft)
28.10.2019 21:53 5,4 °C 96 % 1016,8 hPa 0,0 mm 5,2 km/h (1 Bft) O-NO 61 ° 0 min 0,000 mm 0,0 UV-I 0 W/m² 4,8 °C 4,5 °C 6,4 km/h (2 Bft)
28.10.2019 21:54 5,4 °C 96 % 1016,8 hPa 0,0 mm 5,4 km/h (1 Bft) NO 56 ° 0 min 0,000 mm 0,0 UV-I 0 W/m² 4,8 °C 4,4 °C 8,0 km/h (2 Bft)
28.10.2019 21:55 5,4 °C 96 % 1016,9 hPa 0,0 mm 3,9 km/h (1 Bft) O-NO 57 ° 0 min 0,000 mm 0,0 UV-I 0 W/m² 4,8 °C 5,4 °C 6,4 km/h (2 Bft)
28.10.2019 21:56 5,4 °C 96 % 1016,8 hPa 0,0 mm 4,5 km/h (1 Bft) O-NO 73 ° 0 min 0,000 mm 0,0 UV-I 0 W/m² 4,8 °C 5,4 °C 6,4 km/h (2 Bft)
28.10.2019 21:57 5,4 °C 96 % 1016,7 hPa 0,0 mm 3,6 km/h (1 Bft) O-NO 73 ° 0 min 0,000 mm 0,0 UV-I 0 W/m² 4,8 °C 5,4 °C 6,4 km/h (2 Bft)
28.10.2019 21:58 5,4 °C 96 % 1016,7 hPa 0,0 mm 3,9 km/h (1 Bft) NO 47 ° 0 min 0,000 mm 0,0 UV-I 0 W/m² 4,8 °C 5,4 °C 6,4 km/h (2 Bft)
28.10.2019 21:59 5,4 °C 96 % 1016,8 hPa 0,0 mm 3,1 km/h (1 Bft) NO 47 ° 0 min 0,000 mm 0,0 UV-I 0 W/m² 4,8 °C 5,4 °C 4,8 km/h (1 Bft)
28.10.2019 22:00 5,4 °C 96 % 1016,8 hPa 0,0 mm 1,1 km/h (1 Bft) NO 47 ° 0 min 0,000 mm 0,0 UV-I 0 W/m² 4,8 °C 5,4 °C 1,6 km/h (1 Bft)
28.10.2019 22:01 5,4 °C 96 % 1016,7 hPa 0,0 mm 2,5 km/h (1 Bft) O-NO 65 ° 0 min 0,000 mm 0,0 UV-I 0 W/m² 4,8 °C 5,4 °C 4,8 km/h (1 Bft)
28.10.2019 22:02 5,4 °C 96 % 1016,8 hPa 0,0 mm 0,9 km/h (0 Bft) O-NO 65 ° 0 min 0,000 mm 0,0 UV-I 0 W/m² 4,8 °C 5,4 °C 3,2 km/h (1 Bft)
28.10.2019 22:03 5,4 °C 96 % 1016,7 hPa 0,0 mm 0,3 km/h (0 Bft) NO 55 ° 0 min 0,000 mm 0,0 UV-I 0 W/m² 4,8 °C 5,4 °C 3,2 km/h (1 Bft)
28.10.2019 22:04 5,4 °C 96 % 1016,7 hPa 0,0 mm 5,0 km/h (1 Bft) O-NO 69 ° 0 min 0,000 mm 0,0 UV-I 0 W/m² 4,8 °C 4,5 °C 6,4 km/h (2 Bft)
28.10.2019 22:05 5,4 °C 96 % 1016,7 hPa 0,0 mm 3,7 km/h (1 Bft) O-NO 69 ° 0 min 0,000 mm 0,0 UV-I 0 W/m² 4,8 °C 5,4 °C 4,8 km/h (1 Bft)
28.10.2019 22:06 5,4 °C 96 % 1016,7 hPa 0,0 mm 2,1 km/h (1 Bft) O-NO 69 ° 0 min 0,000 mm 0,0 UV-I 0 W/m² 4,8 °C 5,4 °C 3,2 km/h (1 Bft)
28.10.2019 22:07 5,4 °C 96 % 1016,7 hPa 0,0 mm 2,3 km/h (1 Bft) O-NO 69 ° 0 min 0,000 mm 0,0 UV-I 0 W/m² 4,8 °C 5,4 °C 3,2 km/h (1 Bft)
28.10.2019 22:08 5,4 °C 96 % 1016,7 hPa 0,0 mm 3,6 km/h (1 Bft) O-NO 69 ° 0 min 0,000 mm 0,0 UV-I 0 W/m² 4,8 °C 5,4 °C 4,8 km/h (1 Bft)
28.10.2019 22:09 5,4 °C 96 % 1016,7 hPa 0,0 mm 2,8 km/h (1 Bft) O-NO 69 ° 0 min 0,000 mm 0,0 UV-I 0 W/m² 4,8 °C 5,4 °C 4,8 km/h (1 Bft)
28.10.2019 22:10 5,4 °C 96 % 1016,8 hPa 0,0 mm 0,5 km/h (0 Bft) O-NO 69 ° 0 min 0,000 mm 0,0 UV-I 0 W/m² 4,8 °C 5,4 °C 1,6 km/h (1 Bft)
28.10.2019 22:11 5,4 °C 96 % 1016,8 hPa 0,0 mm 0,0 km/h (0 Bft) O-NO 69 ° 0 min 0,000 mm 0,0 UV-I 0 W/m² 4,8 °C 5,4 °C 0,0 km/h (0 Bft)
28.10.2019 22:12 5,4 °C 96 % 1016,7 hPa 0,0 mm 0,0 km/h (0 Bft) O-NO 69 ° 0 min 0,000 mm 0,0 UV-I 0 W/m² 4,8 °C 5,4 °C 0,0 km/h (0 Bft)
28.10.2019 22:13 5,4 °C 96 % 1016,7 hPa 0,0 mm 0,7 km/h (0 Bft) O-NO 69 ° 0 min 0,000 mm 0,0 UV-I 0 W/m² 4,8 °C 5,4 °C 4,8 km/h (1 Bft)
28.10.2019 22:14 5,4 °C 96 % 1016,7 hPa 0,0 mm 3,8 km/h (1 Bft) O-NO 72 ° 0 min 0,000 mm 0,0 UV-I 0 W/m² 4,8 °C 5,4 °C 4,8 km/h (1 Bft)
28.10.2019 22:15 5,4 °C 96 % 1016,7 hPa 0,0 mm 3,7 km/h (1 Bft) O-NO 72 ° 0 min 0,000 mm 0,0 UV-I 0 W/m² 4,8 °C 5,4 °C 4,8 km/h (1 Bft)
28.10.2019 22:16 5,4 °C 96 % 1016,7 hPa 0,0 mm 1,9 km/h (1 Bft) O-NO 72 ° 0 min 0,000 mm 0,0 UV-I 0 W/m² 4,8 °C 5,4 °C 3,2 km/h (1 Bft)
28.10.2019 22:17 5,4 °C 96 % 1016,7 hPa 0,0 mm 0,0 km/h (0 Bft) O-NO 72 ° 0 min 0,000 mm 0,0 UV-I 0 W/m² 4,8 °C 5,4 °C 0,0 km/h (0 Bft)
28.10.2019 22:18 5,4 °C 96 % 1016,7 hPa 0,0 mm 0,0 km/h (0 Bft) O-NO 72 ° 0 min 0,000 mm 0,0 UV-I 0 W/m² 4,8 °C 5,4 °C 0,0 km/h (0 Bft)
28.10.2019 22:19 5,4 °C 96 % 1016,7 hPa 0,0 mm 0,0 km/h (0 Bft) O-NO 72 ° 0 min 0,000 mm 0,0 UV-I 0 W/m² 4,8 °C 5,4 °C 0,0 km/h (0 Bft)
28.10.2019 22:20 5,4 °C 96 % 1016,7 hPa 0,0 mm 0,8 km/h (0 Bft) O-NO 72 ° 0 min 0,000 mm 0,0 UV-I 0 W/m² 4,8 °C 5,4 °C 1,6 km/h (1 Bft)
28.10.2019 22:21 5,4 °C 96 % 1016,7 hPa 0,0 mm 1,3 km/h (1 Bft) O-NO 72 ° 0 min 0,000 mm 0,0 UV-I 0 W/m² 4,8 °C 5,4 °C 1,6 km/h (1 Bft)
28.10.2019 22:22 5,4 °C 96 % 1016,7 hPa 0,0 mm 1,5 km/h (1 Bft) O-NO 72 ° 0 min 0,000 mm 0,0 UV-I 0 W/m² 4,8 °C 5,4 °C 3,2 km/h (1 Bft)
28.10.2019 22:23 5,4 °C 96 % 1016,7 hPa 0,0 mm 1,6 km/h (1 Bft) O-NO 72 ° 0 min 0,000 mm 0,0 UV-I 0 W/m² 4,8 °C 5,4 °C 4,8 km/h (1 Bft)
28.10.2019 22:24 5,4 °C 96 % 1016,7 hPa 0,0 mm 1,4 km/h (1 Bft) O-NO 72 ° 0 min 0,000 mm 0,0 UV-I 0 W/m² 4,8 °C 5,4 °C 3,2 km/h (1 Bft)
28.10.2019 22:25 5,4 °C 96 % 1016,7 hPa 0,0 mm 2,9 km/h (1 Bft) O-NO 72 ° 0 min 0,000 mm 0,0 UV-I 0 W/m² 4,8 °C 5,4 °C 4,8 km/h (1 Bft)
28.10.2019 22:26 5,4 °C 96 % 1016,6 hPa 0,0 mm 1,8 km/h (1 Bft) O-NO 72 ° 0 min 0,000 mm 0,0 UV-I 0 W/m² 4,8 °C 5,4 °C 3,2 km/h (1 Bft)
28.10.2019 22:27 5,4 °C 96 % 1016,6 hPa 0,0 mm 1,3 km/h (1 Bft) O-NO 72 ° 0 min 0,000 mm 0,0 UV-I 0 W/m² 4,8 °C 5,4 °C 3,2 km/h (1 Bft)
28.10.2019 22:28 5,4 °C 96 % 1016,6 hPa 0,0 mm 1,5 km/h (1 Bft) O-NO 72 ° 0 min 0,000 mm 0,0 UV-I 0 W/m² 4,8 °C 5,4 °C 4,8 km/h (1 Bft)
28.10.2019 22:29 5,4 °C 96 % 1016,6 hPa 0,0 mm 4,6 km/h (1 Bft) O-NO 72 ° 0 min 0,000 mm 0,0 UV-I 0 W/m² 4,8 °C 4,7 °C 6,4 km/h (2 Bft)
28.10.2019 22:30 5,4 °C 96 % 1016,6 hPa 0,0 mm 3,5 km/h (1 Bft) NO 54 ° 0 min 0,000 mm 0,0 UV-I 0 W/m² 4,8 °C 5,4 °C 4,8 km/h (1 Bft)
28.10.2019 22:31 5,4 °C 96 % 1016,6 hPa 0,0 mm 4,3 km/h (1 Bft) O-NO 57 ° 0 min 0,000 mm 0,0 UV-I 0 W/m² 4,8 °C 5,4 °C 8,0 km/h (2 Bft)
28.10.2019 22:32 5,4 °C 96 % 1016,6 hPa 0,0 mm 5,8 km/h (2 Bft) NO 48 ° 0 min 0,000 mm 0,0 UV-I 0 W/m² 4,8 °C 4,2 °C 8,0 km/h (2 Bft)
28.10.2019 22:33 5,4 °C 96 % 1016,6 hPa 0,0 mm 5,0 km/h (1 Bft) NO 52 ° 0 min 0,000 mm 0,0 UV-I 0 W/m² 4,8 °C 4,5 °C 6,4 km/h (2 Bft)
28.10.2019 22:34 5,4 °C 96 % 1016,6 hPa 0,0 mm 4,2 km/h (1 Bft) O-NO 68 ° 0 min 0,000 mm 0,0 UV-I 0 W/m² 4,8 °C 5,4 °C 4,8 km/h (1 Bft)
28.10.2019 22:35 5,4 °C 96 % 1016,6 hPa 0,0 mm 5,0 km/h (1 Bft) O-SO 103 ° 0 min 0,000 mm 0,0 UV-I 0 W/m² 4,8 °C 4,5 °C 6,4 km/h (2 Bft)
28.10.2019 22:36 5,4 °C 96 % 1016,5 hPa 0,0 mm 4,5 km/h (1 Bft) O-NO 63 ° 0 min 0,000 mm 0,0 UV-I 0 W/m² 4,8 °C 5,4 °C 6,4 km/h (2 Bft)
28.10.2019 22:37 5,3 °C 96 % 1016,6 hPa 0,0 mm 4,7 km/h (1 Bft) NO 41 ° 0 min 0,000 mm 0,0 UV-I 0 W/m² 4,7 °C 4,5 °C 6,4 km/h (2 Bft)
28.10.2019 22:38 5,4 °C 96 % 1016,6 hPa 0,0 mm 5,0 km/h (1 Bft) NO 41 ° 0 min 0,000 mm 0,0 UV-I 0 W/m² 4,8 °C 4,5 °C 6,4 km/h (2 Bft)
28.10.2019 22:39 5,4 °C 96 % 1016,6 hPa 0,0 mm 6,2 km/h (2 Bft) NO 35 ° 0 min 0,000 mm 0,0 UV-I 0 W/m² 4,8 °C 4,1 °C 9,7 km/h (2 Bft)
28.10.2019 22:40 5,4 °C 96 % 1016,5 hPa 0,0 mm 1,1 km/h (1 Bft) O-NO 64 ° 0 min 0,000 mm 0,0 UV-I 0 W/m² 4,8 °C 5,4 °C 4,8 km/h (1 Bft)
28.10.2019 22:41 5,4 °C 96 % 1016,6 hPa 0,0 mm 4,8 km/h (1 Bft) O-NO 60 ° 0 min 0,000 mm 0,0 UV-I 0 W/m² 4,8 °C 4,6 °C 6,4 km/h (2 Bft)
28.10.2019 22:42 5,3 °C 96 % 1016,6 hPa 0,0 mm 3,6 km/h (1 Bft) N-NO 27 ° 0 min 0,000 mm 0,0 UV-I 0 W/m² 4,7 °C 5,3 °C 4,8 km/h (1 Bft)
28.10.2019 22:43 5,4 °C 96 % 1016,5 hPa 0,0 mm 5,1 km/h (1 Bft) O-NO 74 ° 0 min 0,000 mm 0,0 UV-I 0 W/m² 4,8 °C 4,5 °C 6,4 km/h (2 Bft)
28.10.2019 22:44 5,4 °C 96 % 1016,5 hPa 0,0 mm 5,4 km/h (1 Bft) O-NO 71 ° 0 min 0,000 mm 0,0 UV-I 0 W/m² 4,8 °C 4,4 °C 6,4 km/h (2 Bft)
28.10.2019 22:45 5,3 °C 96 % 1016,5 hPa 0,0 mm 2,3 km/h (1 Bft) O-NO 71 ° 0 min 0,000 mm 0,0 UV-I 0 W/m² 4,7 °C 5,3 °C 3,2 km/h (1 Bft)
28.10.2019 22:46 5,4 °C 96 % 1016,5 hPa 0,0 mm 2,6 km/h (1 Bft) NO 54 ° 0 min 0,000 mm 0,0 UV-I 0 W/m² 4,8 °C 5,4 °C 6,4 km/h (2 Bft)
28.10.2019 22:47 5,4 °C 96 % 1016,4 hPa 0,0 mm 3,5 km/h (1 Bft) NO 54 ° 0 min 0,000 mm 0,0 UV-I 0 W/m² 4,8 °C 5,4 °C 4,8 km/h (1 Bft)
28.10.2019 22:48 5,4 °C 96 % 1016,5 hPa 0,0 mm 4,2 km/h (1 Bft) O-NO 61 ° 0 min 0,000 mm 0,0 UV-I 0 W/m² 4,8 °C 5,4 °C 4,8 km/h (1 Bft)
28.10.2019 22:49 5,4 °C 96 % 1016,5 hPa 0,0 mm 3,6 km/h (1 Bft) O-NO 61 ° 0 min 0,000 mm 0,0 UV-I 0 W/m² 4,8 °C 5,4 °C 6,4 km/h (2 Bft)
28.10.2019 22:50 5,4 °C 96 % 1016,5 hPa 0,0 mm 2,4 km/h (1 Bft) O 80 ° 0 min 0,000 mm 0,0 UV-I 0 W/m² 4,8 °C 5,4 °C 4,8 km/h (1 Bft)
28.10.2019 22:51 5,4 °C 96 % 1016,4 hPa 0,0 mm 4,2 km/h (1 Bft) O-NO 76 ° 0 min 0,000 mm 0,0 UV-I 0 W/m² 4,8 °C 5,4 °C 6,4 km/h (2 Bft)
28.10.2019 22:52 5,4 °C 96 % 1016,4 hPa 0,0 mm 5,9 km/h (2 Bft) O-NO 72 ° 0 min 0,000 mm 0,0 UV-I 0 W/m² 4,8 °C 4,2 °C 8,0 km/h (2 Bft)
28.10.2019 22:53 5,4 °C 96 % 1016,4 hPa 0,0 mm 5,8 km/h (2 Bft) O-NO 67 ° 0 min 0,000 mm 0,0 UV-I 0 W/m² 4,8 °C 4,2 °C 6,4 km/h (2 Bft)
28.10.2019 22:54 5,4 °C 96 % 1016,4 hPa 0,0 mm 5,2 km/h (1 Bft) O-NO 76 ° 0 min 0,000 mm 0,0 UV-I 0 W/m² 4,8 °C 4,5 °C 6,4 km/h (2 Bft)
28.10.2019 22:55 5,4 °C 96 % 1016,4 hPa 0,0 mm 4,2 km/h (1 Bft) O-NO 78 ° 0 min 0,000 mm 0,0 UV-I 0 W/m² 4,8 °C 5,4 °C 6,4 km/h (2 Bft)
28.10.2019 22:56 5,4 °C 96 % 1016,4 hPa 0,0 mm 3,4 km/h (1 Bft) O-NO 76 ° 0 min 0,000 mm 0,0 UV-I 0 W/m² 4,8 °C 5,4 °C 4,8 km/h (1 Bft)
28.10.2019 22:57 5,4 °C 96 % 1016,4 hPa 0,0 mm 3,1 km/h (1 Bft) O 88 ° 0 min 0,000 mm 0,0 UV-I 0 W/m² 4,8 °C 5,4 °C 6,4 km/h (2 Bft)
28.10.2019 22:58 5,3 °C 96 % 1016,4 hPa 0,0 mm 0,6 km/h (0 Bft) O 88 ° 0 min 0,000 mm 0,0 UV-I 0 W/m² 4,7 °C 5,3 °C 3,2 km/h (1 Bft)
28.10.2019 22:59 5,4 °C 96 % 1016,4 hPa 0,0 mm 0,0 km/h (0 Bft) O 88 ° 0 min 0,000 mm 0,0 UV-I 0 W/m² 4,8 °C 5,4 °C 0,0 km/h (0 Bft)
28.10.2019 23:00 5,3 °C 96 % 1016,4 hPa 0,0 mm 0,7 km/h (0 Bft) O 88 ° 0 min 0,000 mm 0,0 UV-I 0 W/m² 4,7 °C 5,3 °C 3,2 km/h (1 Bft)
28.10.2019 23:01 5,4 °C 96 % 1016,4 hPa 0,0 mm 1,6 km/h (1 Bft) O-NO 75 ° 0 min 0,000 mm 0,0 UV-I 0 W/m² 4,8 °C 5,4 °C 4,8 km/h (1 Bft)
28.10.2019 23:02 5,4 °C 96 % 1016,4 hPa 0,0 mm 0,1 km/h (0 Bft) O-NO 75 ° 0 min 0,000 mm 0,0 UV-I 0 W/m² 4,8 °C 5,4 °C 1,6 km/h (1 Bft)
28.10.2019 23:03 5,4 °C 96 % 1016,5 hPa 0,0 mm 3,4 km/h (1 Bft) O 82 ° 0 min 0,000 mm 0,0 UV-I 0 W/m² 4,8 °C 5,4 °C 6,4 km/h (2 Bft)
28.10.2019 23:04 5,4 °C 96 % 1016,4 hPa 0,0 mm 4,8 km/h (1 Bft) O 79 ° 0 min 0,000 mm 0,0 UV-I 0 W/m² 4,8 °C 4,6 °C 6,4 km/h (2 Bft)
28.10.2019 23:05 5,4 °C 96 % 1016,4 hPa 0,0 mm 4,1 km/h (1 Bft) O 80 ° 0 min 0,000 mm 0,0 UV-I 0 W/m² 4,8 °C 5,4 °C 6,4 km/h (2 Bft)
28.10.2019 23:06 5,4 °C 96 % 1016,4 hPa 0,0 mm 3,2 km/h (1 Bft) O 94 ° 0 min 0,000 mm 0,0 UV-I 0 W/m² 4,8 °C 5,4 °C 6,4 km/h (2 Bft)
28.10.2019 23:07 5,4 °C 96 % 1016,4 hPa 0,0 mm 3,5 km/h (1 Bft) O 86 ° 0 min 0,000 mm 0,0 UV-I 0 W/m² 4,8 °C 5,4 °C 4,8 km/h (1 Bft)
28.10.2019 23:08 5,4 °C 96 % 1016,4 hPa 0,0 mm 2,6 km/h (1 Bft) NO 50 ° 0 min 0,000 mm 0,0 UV-I 0 W/m² 4,8 °C 5,4 °C 4,8 km/h (1 Bft)
28.10.2019 23:09 5,4 °C 96 % 1016,4 hPa 0,0 mm 4,8 km/h (1 Bft) NO 49 ° 0 min 0,000 mm 0,0 UV-I 0 W/m² 4,8 °C 4,6 °C 6,4 km/h (2 Bft)
28.10.2019 23:10 5,4 °C 96 % 1016,4 hPa 0,0 mm 3,2 km/h (1 Bft) NO 49 ° 0 min 0,000 mm 0,0 UV-I 0 W/m² 4,8 °C 5,4 °C 4,8 km/h (1 Bft)
28.10.2019 23:11 5,4 °C 96 % 1016,4 hPa 0,0 mm 3,5 km/h (1 Bft) O-NO 65 ° 0 min 0,000 mm 0,0 UV-I 0 W/m² 4,8 °C 5,4 °C 4,8 km/h (1 Bft)
28.10.2019 23:12 5,4 °C 96 % 1016,4 hPa 0,0 mm 3,6 km/h (1 Bft) NO 49 ° 0 min 0,000 mm 0,0 UV-I 0 W/m² 4,8 °C 5,4 °C 6,4 km/h (2 Bft)
28.10.2019 23:13 5,3 °C 96 % 1016,4 hPa 0,0 mm 1,0 km/h (0 Bft) NO 49 ° 0 min 0,000 mm 0,0 UV-I 0 W/m² 4,7 °C 5,3 °C 3,2 km/h (1 Bft)
28.10.2019 23:14 5,4 °C 96 % 1016,4 hPa 0,0 mm 2,8 km/h (1 Bft) NO 49 ° 0 min 0,000 mm 0,0 UV-I 0 W/m² 4,8 °C 5,4 °C 4,8 km/h (1 Bft)
28.10.2019 23:15 5,3 °C 96 % 1016,4 hPa 0,0 mm 3,3 km/h (1 Bft) NO 49 ° 0 min 0,000 mm 0,0 UV-I 0 W/m² 4,7 °C 5,3 °C 4,8 km/h (1 Bft)
28.10.2019 23:16 5,3 °C 96 % 1016,4 hPa 0,0 mm 2,4 km/h (1 Bft) NO 49 ° 0 min 0,000 mm 0,0 UV-I 0 W/m² 4,7 °C 5,3 °C 3,2 km/h (1 Bft)
28.10.2019 23:17 5,4 °C 96 % 1016,4 hPa 0,0 mm 1,8 km/h (1 Bft) NO 49 ° 0 min 0,000 mm 0,0 UV-I 0 W/m² 4,8 °C 5,4 °C 4,8 km/h (1 Bft)
28.10.2019 23:18 5,4 °C 96 % 1016,4 hPa 0,0 mm 3,0 km/h (1 Bft) NO 49 ° 0 min 0,000 mm 0,0 UV-I 0 W/m² 4,8 °C 5,4 °C 4,8 km/h (1 Bft)
28.10.2019 23:19 5,4 °C 96 % 1016,4 hPa 0,0 mm 2,4 km/h (1 Bft) NO 49 ° 0 min 0,000 mm 0,0 UV-I 0 W/m² 4,8 °C 5,4 °C 4,8 km/h (1 Bft)
28.10.2019 23:20 5,4 °C 96 % 1016,4 hPa 0,0 mm 3,4 km/h (1 Bft) NO 43 ° 0 min 0,000 mm 0,0 UV-I 0 W/m² 4,8 °C 5,4 °C 6,4 km/h (2 Bft)
28.10.2019 23:21 5,4 °C 96 % 1016,4 hPa 0,0 mm 3,6 km/h (1 Bft) NO 43 ° 0 min 0,000 mm 0,0 UV-I 0 W/m² 4,8 °C 5,4 °C 4,8 km/h (1 Bft)
28.10.2019 23:22 5,4 °C 96 % 1016,3 hPa 0,0 mm 4,7 km/h (1 Bft) O-NO 78 ° 0 min 0,000 mm 0,0 UV-I 0 W/m² 4,8 °C 4,7 °C 6,4 km/h (2 Bft)
28.10.2019 23:23 5,3 °C 96 % 1016,4 hPa 0,0 mm 4,1 km/h (1 Bft) NO 43 ° 0 min 0,000 mm 0,0 UV-I 0 W/m² 4,7 °C 5,3 °C 6,4 km/h (2 Bft)
28.10.2019 23:24 5,3 °C 96 % 1016,4 hPa 0,0 mm 3,4 km/h (1 Bft) O-NO 62 ° 0 min 0,000 mm 0,0 UV-I 0 W/m² 4,7 °C 5,3 °C 4,8 km/h (1 Bft)
28.10.2019 23:25 5,4 °C 96 % 1016,3 hPa 0,0 mm 3,6 km/h (1 Bft) O-NO 62 ° 0 min 0,000 mm 0,0 UV-I 0 W/m² 4,8 °C 5,4 °C 4,8 km/h (1 Bft)
28.10.2019 23:26 5,4 °C 96 % 1016,3 hPa 0,0 mm 3,5 km/h (1 Bft) O-NO 62 ° 0 min 0,000 mm 0,0 UV-I 0 W/m² 4,8 °C 5,4 °C 4,8 km/h (1 Bft)
28.10.2019 23:27 5,3 °C 96 % 1016,4 hPa 0,0 mm 1,0 km/h (0 Bft) O-NO 62 ° 0 min 0,000 mm 0,0 UV-I 0 W/m² 4,7 °C 5,3 °C 3,2 km/h (1 Bft)
28.10.2019 23:28 5,4 °C 96 % 1016,3 hPa 0,0 mm 4,0 km/h (1 Bft) O-NO 62 ° 0 min 0,000 mm 0,0 UV-I 0 W/m² 4,8 °C 5,4 °C 6,4 km/h (2 Bft)
28.10.2019 23:29 5,3 °C 96 % 1016,4 hPa 0,0 mm 1,2 km/h (1 Bft) O-NO 62 ° 0 min 0,000 mm 0,0 UV-I 0 W/m² 4,7 °C 5,3 °C 4,8 km/h (1 Bft)
28.10.2019 23:30 5,4 °C 96 % 1016,3 hPa 0,0 mm 0,0 km/h (0 Bft) O-NO 62 ° 0 min 0,000 mm 0,0 UV-I 0 W/m² 4,8 °C 5,4 °C 0,0 km/h (0 Bft)
28.10.2019 23:31 5,4 °C 96 % 1016,3 hPa 0,0 mm 0,0 km/h (0 Bft) O-NO 62 ° 0 min 0,000 mm 0,0 UV-I 0 W/m² 4,8 °C 5,4 °C 0,0 km/h (0 Bft)
28.10.2019 23:32 5,4 °C 96 % 1016,3 hPa 0,0 mm 2,3 km/h (1 Bft) O-NO 62 ° 0 min 0,000 mm 0,0 UV-I 0 W/m² 4,8 °C 5,4 °C 4,8 km/h (1 Bft)
28.10.2019 23:33 5,3 °C 96 % 1016,3 hPa 0,0 mm 3,4 km/h (1 Bft) O 91 ° 0 min 0,000 mm 0,0 UV-I 0 W/m² 4,7 °C 5,3 °C 6,4 km/h (2 Bft)
28.10.2019 23:34 5,4 °C 96 % 1016,3 hPa 0,0 mm 2,9 km/h (1 Bft) O 91 ° 0 min 0,000 mm 0,0 UV-I 0 W/m² 4,8 °C 5,4 °C 4,8 km/h (1 Bft)
28.10.2019 23:35 5,4 °C 96 % 1016,3 hPa 0,0 mm 2,1 km/h (1 Bft) O 91 ° 0 min 0,000 mm 0,0 UV-I 0 W/m² 4,8 °C 5,4 °C 4,8 km/h (1 Bft)
28.10.2019 23:36 5,4 °C 96 % 1016,3 hPa 0,0 mm 2,7 km/h (1 Bft) O 91 ° 0 min 0,000 mm 0,0 UV-I 0 W/m² 4,8 °C 5,4 °C 4,8 km/h (1 Bft)
28.10.2019 23:37 5,4 °C 96 % 1016,3 hPa 0,0 mm 3,4 km/h (1 Bft) O 91 ° 0 min 0,000 mm 0,0 UV-I 0 W/m² 4,8 °C 5,4 °C 4,8 km/h (1 Bft)
28.10.2019 23:38 5,4 °C 96 % 1016,3 hPa 0,0 mm 2,5 km/h (1 Bft) O 91 ° 0 min 0,000 mm 0,0 UV-I 0 W/m² 4,8 °C 5,4 °C 4,8 km/h (1 Bft)
28.10.2019 23:39 5,4 °C 96 % 1016,3 hPa 0,0 mm 2,2 km/h (1 Bft) O 91 ° 0 min 0,000 mm 0,0 UV-I 0 W/m² 4,8 °C 5,4 °C 3,2 km/h (1 Bft)
28.10.2019 23:40 5,4 °C 96 % 1016,3 hPa 0,0 mm 1,2 km/h (1 Bft) O 91 ° 0 min 0,000 mm 0,0 UV-I 0 W/m² 4,8 °C 5,4 °C 3,2 km/h (1 Bft)
28.10.2019 23:41 5,4 °C 96 % 1016,3 hPa 0,0 mm 1,0 km/h (0 Bft) O 91 ° 0 min 0,000 mm 0,0 UV-I 0 W/m² 4,8 °C 5,4 °C 3,2 km/h (1 Bft)
28.10.2019 23:42 5,4 °C 96 % 1016,3 hPa 0,0 mm 3,1 km/h (1 Bft) O 91 ° 0 min 0,000 mm 0,0 UV-I 0 W/m² 4,8 °C 5,4 °C 4,8 km/h (1 Bft)
28.10.2019 23:43 5,4 °C 96 % 1016,3 hPa 0,0 mm 2,4 km/h (1 Bft) O 90 ° 0 min 0,000 mm 0,0 UV-I 0 W/m² 4,8 °C 5,4 °C 4,8 km/h (1 Bft)
28.10.2019 23:44 5,4 °C 96 % 1016,3 hPa 0,0 mm 3,6 km/h (1 Bft) O 82 ° 0 min 0,000 mm 0,0 UV-I 0 W/m² 4,8 °C 5,4 °C 6,4 km/h (2 Bft)
28.10.2019 23:45 5,4 °C 96 % 1016,3 hPa 0,0 mm 2,3 km/h (1 Bft) O-NO 74 ° 0 min 0,000 mm 0,0 UV-I 0 W/m² 4,8 °C 5,4 °C 4,8 km/h (1 Bft)
28.10.2019 23:46 5,4 °C 96 % 1016,3 hPa 0,0 mm 3,7 km/h (1 Bft) O-NO 74 ° 0 min 0,000 mm 0,0 UV-I 0 W/m² 4,8 °C 5,4 °C 6,4 km/h (2 Bft)
28.10.2019 23:47 5,4 °C 96 % 1016,3 hPa 0,0 mm 4,1 km/h (1 Bft) O-NO 74 ° 0 min 0,000 mm 0,0 UV-I 0 W/m² 4,8 °C 5,4 °C 4,8 km/h (1 Bft)
28.10.2019 23:48 5,4 °C 96 % 1016,3 hPa 0,0 mm 4,6 km/h (1 Bft) O-NO 74 ° 0 min 0,000 mm 0,0 UV-I 0 W/m² 4,8 °C 4,7 °C 6,4 km/h (2 Bft)
28.10.2019 23:49 5,4 °C 96 % 1016,3 hPa 0,0 mm 4,1 km/h (1 Bft) O-NO 74 ° 0 min 0,000 mm 0,0 UV-I 0 W/m² 4,8 °C 5,4 °C 6,4 km/h (2 Bft)
28.10.2019 23:50 5,4 °C 96 % 1016,3 hPa 0,0 mm 2,2 km/h (1 Bft) O-NO 74 ° 0 min 0,000 mm 0,0 UV-I 0 W/m² 4,8 °C 5,4 °C 3,2 km/h (1 Bft)
28.10.2019 23:51 5,4 °C 96 % 1016,3 hPa 0,0 mm 2,5 km/h (1 Bft) O-NO 74 ° 0 min 0,000 mm 0,0 UV-I 0 W/m² 4,8 °C 5,4 °C 4,8 km/h (1 Bft)
28.10.2019 23:52 5,4 °C 96 % 1016,2 hPa 0,0 mm 3,8 km/h (1 Bft) O-NO 74 ° 0 min 0,000 mm 0,0 UV-I 0 W/m² 4,8 °C 5,4 °C 6,4 km/h (2 Bft)
28.10.2019 23:53 5,4 °C 96 % 1016,3 hPa 0,0 mm 3,6 km/h (1 Bft) O-NO 74 ° 0 min 0,000 mm 0,0 UV-I 0 W/m² 4,8 °C 5,4 °C 4,8 km/h (1 Bft)
28.10.2019 23:54 5,4 °C 96 % 1016,3 hPa 0,0 mm 2,8 km/h (1 Bft) O-NO 74 ° 0 min 0,000 mm 0,0 UV-I 0 W/m² 4,8 °C 5,4 °C 4,8 km/h (1 Bft)
28.10.2019 23:55 5,4 °C 96 % 1016,2 hPa 0,0 mm 3,4 km/h (1 Bft) O-NO 74 ° 0 min 0,000 mm 0,0 UV-I 0 W/m² 4,8 °C 5,4 °C 4,8 km/h (1 Bft)
28.10.2019 23:56 5,4 °C 96 % 1016,3 hPa 0,0 mm 2,4 km/h (1 Bft) O-NO 74 ° 0 min 0,000 mm 0,0 UV-I 0 W/m² 4,8 °C 5,4 °C 4,8 km/h (1 Bft)
28.10.2019 23:57 5,4 °C 96 % 1016,3 hPa 0,0 mm 3,7 km/h (1 Bft) O-NO 74 ° 0 min 0,000 mm 0,0 UV-I 0 W/m² 4,8 °C 5,4 °C 6,4 km/h (2 Bft)
28.10.2019 23:58 5,4 °C 96 % 1016,3 hPa 0,0 mm 2,8 km/h (1 Bft) O-NO 74 ° 0 min 0,000 mm 0,0 UV-I 0 W/m² 4,8 °C 5,4 °C 4,8 km/h (1 Bft)
28.10.2019 23:59 5,4 °C 96 % 1016,3 hPa 0,0 mm 1,6 km/h (1 Bft) O-NO 74 ° 0 min 0,000 mm 0,0 UV-I 0 W/m² 4,8 °C 5,4 °C 3,2 km/h (1 Bft)
_ Min-Zeit 23:33 00:00 23:55 - 23:31 - - - - - - 23:33 21:04 23:31
Minimum _ 5,3 °C 79 % 1016,2 hPa - 0,0 km/h (0 Bft) - - - - - - 4,7 °C 3,8 °C 0,0 km/h (0 Bft)
_ Max-Zeit 00:00 23:59 00:06 15:52 20:05 - - 23:59 12:01 11:31 11:28 01:04 00:00 15:25
Maximum _ 13,6 °C 96 % 1018,5 hPa 0,2 mm 8,6 km/h
O (2 Bft)
- - 0 min 0,051 mm 0,9 UV-I 116 W/m² 10,2 °C 13,6 °C 14,5 km/h
O-SO (3 Bft)
Durchschnitt _ 8,4 °C 94 % 1017,1 hPa #0,2 mm 2,3 km/h (1 Bft) O-NO - #0 min. #0,254 mm 0,7 UV-I 19 W/m² 7,5 °C 8,3 °C 3,8 km/h (1 Bft)